ENHM 051620Z 31016KT 9999 FEW015 BKN030 08/07 Q1024 W09/S4 UUOK 051600Z 23009G14MPS 7000 -SN BLSN OVC007 M06/M09 Q1013 R30/490055 NOSIG RMK QFE741/0989 KIWI 051621Z AUTO 07004KT 1 1/4SM -SN BR BKN022 OVC036 M02/M04 A3002 RMK AO2 P0000 T10171039 KJMR 051555Z AUTO 00000KT 1/4SM FZFG OVC001 M02/M03 A2979 RMK AO2 KIXA 051605Z AUTO 32005KT 10SM BKN008 10/08 A3003 RMK AO2 PPIT 051556Z AUTO 06026KT 10SM BKN100 M21/M24 A3024 RMK AO2 PK WND 06034/1508 SLP239 T12111244 FZRANO KJMS 051556Z AUTO 09008KT 10SM BKN120 M03/M04 A2957 RMK AO2 SLP036 T10331044 UUOO 051600Z 23006G11MPS 4500 BLSN OVC024 M07/M11 Q1013 R30/850242 TEMPO 0700 +SN VV003 RMK QFE746 KIXD 051613Z 17011KT 2SM BR BKN004 04/03 A2988 RMK AO2 T00440033 ENHV 051550Z VRB01KT CAVOK M08/M13 Q1011 KM63 051558Z AUTO 18007KT 8SM CLR 05/02 A2993 RMK AO2 SLP116 T00460015 PPIZ 051556Z AUTO 08005KT 10SM CLR M30/M33 A3066 RMK AO2 SLP388 T13001333 FZRANO TSNO KIYA 051618Z AUTO 05005KT 3SM RA SCT004 BKN039 OVC070 11/11 A2984 RMK AO2 LTG DSNT E P0014 FDSK 051500Z 16016KT 120V190 9999 BKN035 26/18 Q1018 NOSIG ENKB 051620Z 31007KT 270V350 9999 SCT022TCU BKN039 04/01 Q1022 RMK WIND 745FT 31015KT KJNX 051610Z AUTO 36003KT 10SM CLR 12/08 A3002 RMK AO2 VLPS 051300Z 04004KT 9999 SCT020 FEW050 26/21 Q1013 NOSIG KIZA 051615Z AUTO RMK AO2 TSNO PWINO ENLA 051620Z AUTO 28009KT 9999NDV OVC027/// 07/02 Q1025 W///S/ KJOT 051615Z AUTO 18009KT 7SM OVC004 01/00 A3006 RMK AO2 T00080001 FDST 051500Z AUTO 18014KT //// // ////// 21/17 Q1019 KJQF 051553Z 00000KT 8SM BKN008 09/07 A3008 LBGO 051600Z AUTO 00000KT 9999 NCD M02/M05 Q1033 NOSIG KIZG 051554Z AUTO 34003KT 1/2SM SN FZFG FEW006 OVC011 M04/M06 A2999 RMK AO2 SLP164 P0003 T10441056 ENKR 051620Z 19003KT 9999 IC NSC M21/M23 Q1009 RMK WIND 731FT 27010KT KJRB 051615Z AUTO 26012G17KT OVC011 07/04 A2998 RMK AO2 SLP300 P0999 PWINO FZRANO RVRNO ENLK 051550Z 33017KT 9999 -SHSN FEW003 SCT040 BKN050 02/M03 Q1013 KM91 051615Z AUTO VRB04KT 10SM OVC009 04/03 A3006 RMK A01 KN03 051615Z AUTO 28008KT 10SM SCT014 BKN028 OVC035 03/02 A2990 RMK AO2 VLSK 051300Z 09006KT 1000 BR SCT040 BKN100 23/18 Q1016 NOSIG ENMH 051350Z 18007KT 9999 -SHSN FEW008 SCT011 BKN024 M07/M10 Q1009 OYMT 051500Z 00000KT 9999 FEW020 18/12 Q//// KLAA 051453Z AUTO 00000KT 9SM UP CLR M06/M09 A2960 RMK AO2 SLP038 P0000 60000 T10611094 58002 TSNO FDUS 051200Z AUTO 09010KT //// // ////// 25/18 Q1021 ENNA 051620Z 19005KT CAVOK M20/M23 Q1013 RMK WIND 1800FT 28005KT ENML 051620Z 35005KT 320V030 9999 VCSH FEW021 SCT037 03/01 Q1022 ENNE 051620Z 35017KT 9999 SCT040 04/M03 Q1019 W///S5 KLAF 051554Z 18008KT 10SM OVC011 01/M01 A3010 RMK AO2 SLP198 T00111006 KLBB 051553Z 20010KT 9SM FEW150 FEW260 07/02 A2981 RMK AO2 SLP088 BR ALQDS T00720017 ENOA 051620Z 36012KT 9999 SCT010 BKN020 BKN050 08/04 Q1024 W///S4 ENMS 051620Z 35002KT 9999 -RESHSN FEW016 SCT020 BKN033 01/M02 Q1014 RMK WIND 412FT 33005KT 290V020 KJSL 051600Z AUTO 16018KT 5SM BR SCT019 BKN024 BKN070 26/25 A2981 RMK A01 ENNK 051550Z 33014KT 9999 FEW040 BKN055 03/M04 Q1010 KLAL 051650Z 17012G18KT 10SM BKN018 27/22 A3002 KJTC 051615Z AUTO 30010G15KT 10SM CLR 10/M12 A2998 RMK AO2 KLAM 051615Z AUTO 00000KT 10SM CLR 00/M09 A2990 RMK AO2 T00021087 KLAN 051553Z 23009KT 9SM OVC026 02/00 A3002 RMK AO2 SLP174 T00220000 ENNM 051620Z 26007KT 220V290 9999 -SHRA FEW010 SCT012 BKN020 02/00 Q1018 KLBE 051550Z 32010G18KT 15SM SCT026 BKN030 04/00 A3007 KLBF 051553Z AUTO 18004KT 10SM OVC095 02/M06 A2960 RMK AO2 SLP035 T00221056 KJSO 051615Z AUTO 06008KT 10SM OVC005 07/07 A2988 RMK AO2 T00770077 KLAR 051551Z AUTO 26024G33KT 7SM -SN BKN035 BKN043 OVC050 M03/M07 A2963 RMK AO2 PK WND 26033/1549 SNB07 P0000 $ LATI 051620Z 17003KT 130V190 9999 BKN090 13/03 Q1027 NOSIG VMMC 051600Z 36012KT 8000 FEW045 23/19 Q1020 NOSIG KLAS 051556Z 21003KT 10SM FEW200 SCT250 07/M09 A2994 RMK AO2 SLP137 T00721089 KJST 051626Z AUTO VRB06KT 10SM BKN016 OVC021 02/M01 A2999 RMK AO2 T00221011 TSNO KLBL 051615Z 20014KT 10SM CLR 06/M01 A2963 RMK AO1 ENOL 051620Z 32014KT 9999 FEW018TCU SCT060 04/M02 Q1020 NOSIG KJSV 051615Z AUTO 10007KT 5SM BR OVC004 05/03 A2997 RMK AO2 KLAW 051553Z AUTO 15005KT M1/4SM FG VV002 03/02 A2990 RMK AO2 SLP132 T00280022 KLAX 051608Z 10003KT 3SM BR SCT005 BKN140 BKN160 BKN200 12/12 A2997 RMK AO2 T01220122 KLCG 051615Z AUTO 19012G19KT 10SM SCT120 05/M01 A2961 RMK AO2 T00451006 KLCH 051610Z 02010KT 5SM RA BR OVC006 10/10 A2983 RMK AO2 P0003 T01000100 KLCI 051620Z AUTO 00000KT 3/4SM -SN BR BKN012 OVC017 M01/M02 A2995 RMK AO2 P0003 FZRANO KN38 051615Z AUTO 29016G24KT 240V320 10SM BKN025 BKN030 03/M01 A2992 RMK AO2 KLBT 051554Z AUTO 36004KT 10SM CLR 13/09 A3002 RMK AO2 SLP166 T01280094 ENQA 051620Z AUTO 01017KT 9999NDV BKN027/// 07/02 Q1023 W06/S4 KLCK 051615Z AUTO 00000KT 10SM OVC023 03/M01 A3013 RMK AO2 T00301015 ENQC 051620Z AUTO 35014KT 9999NDV BKN028/// 07/01 Q1023 W///S4 ENOV 051550Z VRB03KT 9999 VCSH FEW025 BKN035 04/01 Q1022 RMK WIND 2175FT 33017KT KLBX 051553Z AUTO 04005KT 10SM OVC015 12/11 A2981 RMK AO2 RAB1457E16 SLP095 P0001 T01220111 KLCQ 051615Z AUTO 21011KT 10SM BKN018 BKN024 25/21 A2998 RMK AO2 VLVT 051600Z 09004KT 3000 BR BKN050 25/18 Q1016 NOSIG KLDJ 051555Z AUTO 29013G18KT 10SM BKN012 OVC055 07/04 A2999 RMK AO2 T00650040 KKLS 051556Z AUTO 14011G16KT 10SM UP OVC010 03/02 A3012 RMK AO2 RAE50UPB55 SLP204 P0003 T00280017 KLEB 051553Z 00000KT 1SM -SN BR BKN017 OVC024 M02/M03 A2993 RMK AO2 SLP147 P0003 T10221033 ENRA 051550Z 25002KT 9999 FEW010 SCT050 M02/M03 Q1013 OYSD 051500Z 28010KT 9999 FEW030 17/M04 Q//// KJVL 051545Z 20007KT 2SM BR OVC003 01/01 A2997 KLDM 051614Z AUTO 28004KT 10SM OVC022 04/00 A2996 RMK AO2 T00390001 KLEE 051620Z 19009KT 10SM BKN023 27/21 A3001 RMK AO2 T02720206 KJWG 051615Z AUTO 18009KT 10SM CLR 09/06 A2984 RMK AO2 T00860059 ENQR 051620Z AUTO 03010KT 9999NDV FEW032/// OVC085/// 07/01 Q1024 W///S4 KN60 051552Z AUTO 28009KT 01/M01 A2955 RMK AO1 SLP032 T00061011 UUWW 051600Z 23010MPS 1100 0800SW R24/P2000D +SHSN BLSN VV008 M03/M04 Q0994 WS R24 R24/450340 TEMPO 0600 +SHSN BLSN BKN008CB ENSB 051620Z 30016KT 9999 FEW030 M14/M20 Q1012 RMK WIND 1400FT 30012KT OYSN 051400Z 01006KT 9999 FEW030 19/01 Q1027 ENRM 051620Z 34011KT 9999 -SHRA SCT020 BKN035 02/00 Q1018 UWGG 051600Z 20006MPS 1300 1200NE R18R/P2000D SN BLSN OVC004 M07/M09 Q0995 R18R/490336 NOSIG RMK QFE739 ENSD 051620Z 30010KT 9999 VCSH FEW028 SCT034 SCT040 05/01 Q1022 RMK WIND 1138FT VRB05KT KJVW 051615Z AUTO 00000KT 3SM -DZ FEW003 BKN012 BKN019 11/10 A2993 RMK AO2 KJWN 051615Z AUTO 04005KT 10SM OVC009 05/04 A3007 RMK LCEN 051550Z 24005KT 9999 SCT025 SCT100 14/11 Q1023 NOSIG ENSE 051620Z AUTO 04010KT 9999NDV FEW027/// BKN086/// 07/02 Q1024 W///S4 OYSQ 051000Z 08025KT 9999 SCT018 31/23 Q1013 ENSF 051620Z AUTO 03010KT 9999NDV BKN023/// 11/02 Q1024 W///S4 ENRO 051620Z 32012KT 9999 -SHSN FEW021 OVC031 M01/M04 Q1016 ENSG 051550Z 26009KT 9999 FEW018 03/00 Q1018 RMK WIND 3806FT 28019KT ENSH 051550Z 36008KT 320V040 9999 -SHSN FEW005 FEW015CB SCT025 01/M01 Q1013 KLFI 051613Z 33007KT 10SM BKN005 09/09 A3001 RMK AO2A $ KJXI 051615Z AUTO 01005KT 10SM TS OVC010 08/06 A2991 RMK AO2 LTG DSNT NW T00820062 KLGA 051551Z 25007KT 10SM BKN017 BKN022 08/04 A2998 RMK AO2 SLP151 T00780039 ENRS 051620Z 34022KT 9999 SCT045 04/M02 Q1015 KLFK 051553Z AUTO 04008G15KT 10SM OVC006 08/08 A2985 RMK AO2 RAE52 CIG 005V009 SLP105 P0005 T00830078 KLGB 051623Z 00000KT 8SM FEW009 BKN014 12/07 A2998 RMK AO2 T01170072 ENSK 051550Z VRB02KT 3000 -SHSN VV012 00/M01 Q1012 RESHSN KLGC 051615Z AUTO 04003KT 10SM OVC005 10/10 A3000 RMK AO2 T00990099 ENSL 051620Z 31010KT 280V040 9999 FEW030 08/03 Q1025 W07/S3 ENTC 051620Z 02006KT 360V060 9999 BKN044 M01/M05 Q1011 NOSIG RMK WIND 2600FT 01023KT KLGD 051615Z AUTO 19008KT 10SM BKN042 OVC050 M03/M11 A3009 RMK AO1 LBPD 051600Z AUTO 18004KT 9999 NCD 00/M05 Q1034 NOSIG KLEW 051613Z AUTO 01004KT 3/4SM -SN BR FEW007 BKN015 OVC021 M03/M06 A3000 RMK AO2 VIS 1/2V1 1/2 P0000 FZRANO KJXN 051556Z 22008KT 10SM OVC023 02/M01 A3003 RMK AO2 SLP179 T00221006 OYSY 051400Z 04008KT CAVOK 29/04 Q1017 KLEX 051554Z 10007KT 10SM OVC017 06/01 A3012 RMK AO2 SLP201 T00560006 ENSO 051620Z 32012KT 9999 -DZ FEW006 BKN025 07/06 Q1022 KJYG 051555Z AUTO 15015G21KT 10SM SCT044 SCT050 BKN070 03/00 A2967 RMK AO2 KJWY 051615Z AUTO 00000KT 7SM OVC007 09/08 A2991 RMK AO2 T00850080 ENRY 051620Z 03004KT CAVOK 03/M01 Q1018 ENSR 051620Z 16010KT 9999 BKN030 M06/M11 Q1012 WIND 1119FT 13013KT ENSS 051550Z 28005KT 9999 VCSH FEW005 SCT020 BKN041 M06/M08 Q1008 RMK WIND 500FT 02009KT KLFT 051622Z VRB04KT 1 3/4SM +RA BR BKN005 OVC015 12/12 A2984 RMK AO2 P0019 T01220117 KLHB 051615Z AUTO 34004KT 5SM RA BKN007 OVC011 09/09 A2989 RMK AO2 P0003 T00940091 ENST 051620Z 36009G19KT 320V040 9999 VCSH FEW020CB SCT045 04/M03 Q1015 RMK WIND 300FT 35011KT KJYL 051615Z AUTO 00000KT 10SM OVC004 A3002 RMK AO2 KJYM 051615Z AUTO 21009KT 10SM OVC017 01/M01 A3004 RMK AO2 UUYY 051600Z 04002MPS 5000 BR NSC M26/M28 Q1000 R01/490236 TEMPO 0300 FZFG BKN002 RMK QFE741/0988 KJYO 051615Z AUTO 10SM CLR 09/07 A3003 RMK AO2 ENTO 051620Z 34002KT CAVOK 05/M01 Q1017 ENUG 051620Z AUTO 12005KT 060V180 9999NDV NCD M01/M08 Q1010 W06/S3 KJZI 051615Z AUTO 00000KT 6SM BR BKN003 OVC014 13/13 A3001 RMK AO2 KJYR 051615Z AUTO 19017KT 10SM CLR 04/00 A2965 RMK AO2 ENVA 051620Z 28014KT 9999 SCT050 02/00 Q1019 TEMPO 4000 -SHRASN BKN014TCU RMK WIND 670FT 29017KT FGBT 051600Z 28007KT 9999 FEW010 29/25 Q1009 KLGU 051551Z AUTO 05008KT 10SM CLR A3003 RMK AO2 SLPNO KLIC 051555Z AUTO 30007KT 10SM CLR 08/M07 A2960 RMK AO2 SLP035 T00831072 KLHM 051615Z AUTO 00000KT 4SM CLR 00/00 A3011 RMK AO1 ENVD 051550Z 27010KT 9999 VCSH SCT022 SCT037 M07/10 Q1009 Proudly powered by [1]LiteSpeed Web Server KJZP 051615Z AUTO 00000KT 10SM OVC002 11/07 A3003 RMK AO2 T01050070 KLHQ 051453Z AUTO 27004KT 10SM OVC020 03/M01 A3012 RMK AO2 SLP207 T00281006 51013 EPBY 051600Z 25008KT 9000 NSC M01/M03 Q1022 UWKD 051600Z 19005G10MPS 9999 DRSN BKN015 M08/M10 Q1006 R11/810050 TEMPO 20007G12MPS RMK QFE744/0993 UWKE 051600Z 19009MPS 9999 DRSN BKN007 M12/M15 Q1010 R21/410560 NOSIG RMK OBST OBSC QFE740/0987 VOBG 051600Z 06004KT CAVOK 22/17 Q1018 KMAE 051553Z AUTO 00000KT 4SM BR BKN014 06/04 A3010 RMK AO2 SLP193 T00560039 KLHW 051558Z AUTO 34006KT 10SM OVC003 15/13 A2999 RMK AO2 SLP158 T01470133 $ KLHX 051453Z AUTO 26007KT 10SM CLR 02/M07 A2961 RMK AO2 SLP032 T00171067 56004 KMAF 051553Z 23007KT 8SM BKN120 08/03 A2986 RMK AO2 SLP097 T00780033 KLJF 051612Z AUTO 12010KT 7SM CLR 02/01 A2967 RMK AO2 LBSF 051600Z 10009KT CAVOK M01/M08 Q1031 NOSIG DXNG 051500Z 04003KT 330V120 8000 NSC 33/05 Q1013 NOSIG KLHZ 051605Z AUTO 00000KT 10SM BKN006 08/07 A3006 RMK AO2 VOCB 051600Z 00000KT 6000 FEW015 25/22 Q1015 NOSIG KMAI 051553Z AUTO 06008KT 2 1/2SM BR OVC003 17/17 A2994 RMK AO2 SLP138 T01670167 ENVR 051550Z 36020G32KT 9999 FEW040 BKN070 04/M01 Q1015 VOBL 051600Z VRB02KT 6000 NSC 21/20 Q1019 NOSIG VOBM 051200Z 09006KT 9999 FEW015 SCT080 28/18 Q1016 KLIT 051553Z 09008KT 10SM BKN010 OVC110 06/05 A3003 RMK AO2 SLP172 CIG 008V012 T00560050 KO22 051555Z AUTO 00000KT 8SM CLR 01/01 A3009 RMK AO1 KMAN 051555Z AUTO 00000KT 7SM CLR M07/M09 A3016 RMK A01 KMAO 051635Z AUTO 35003KT 10SM OVC006 09/08 A3003 RMK AO2 VOCI 051600Z 08003KT 4000 HZ FEW090 26/24 Q1013 NOSIG KMBG 051552Z AUTO 35006KT 10SM OVC090 M01/M04 A2949 RMK AO2 SLP003 T10061039 UWKS 051600Z 20011MPS 6000 DRSN BKN013 M08/M10 Q1001 R24/950550 TEMPO 20011G17MPS 1500 SN BLSN OVC005 RMK QFE736 VNKT 051620Z 09003KT 5000 BR FEW020 11/09 Q1023 NOSIG VOCL 051600Z 32004KT 5000 HZ FEW015 27/24 Q1013 NOSIG KMCB 051553Z AUTO VRB03KT 5SM -RA BR BKN004 OVC011 11/10 A2992 RMK AO2 SLP129 P0004 T01110100 KMBL 051556Z AUTO 27014G18KT 10SM BKN026 04/M01 A2995 RMK AO2 SLP162 T00391006 KMCC 051615Z AUTO 31003KT M1/4SM FG OVC001 02/02 A3014 RMK AO2 KMCD 051615Z AUTO 27015G21KT 10SM OVC042 03/00 A2984 RMK AO2 T00271005 KMCE 051622Z AUTO 00000KT 2 1/2SM BR SCT007 04/03 A3011 RMK AO2 T00390028 TSNO EPGD 051600Z 27015G25KT 9999 OVC010 03/01 Q1017 VOBZ 051600Z 00000KT 2000 HZ NSC 24/23 Q1015 NOSIG KMBO 051615Z AUTO 00000KT 10SM DZ OVC005 09/09 A2995 RMK AO2 KMCF 051558Z AUTO 19007KT 10SM OVC090 25/23 A3001 RMK AO2 SLP165 T02470233 KLKR 051635Z AUTO 31003KT 10SM CLR 11/09 A3003 RMK AO2 PWINO KMCI 051553Z 17012KT 10SM FEW200 06/03 A2987 RMK AO2 SLP120 T00610028 KMBS 051553Z 22011KT 8SM CLR 02/01 A2998 RMK AO2 SLP158 T00220006 KLLJ 051555Z AUTO 13003KT 10SM CLR M09/M16 A2999 RMK AO2 SLP190 T10941156 KMCJ 051615Z AUTO 02006KT 10SM OVC002 12/11 A2978 RMK AO1 KMCK 051453Z AUTO 00000KT 10SM CLR M02/M06 A2958 RMK AO2 SLP035 T10171056 56013 LCLK 051600Z 27004KT 9999 FEW035TCU FEW040CB 14/12 Q1023 RETS NOSIG UWLW 051600Z 19005MPS 8000 OVC020 M08/M11 Q1010 R20/450150 NOSIG RMK QFE752 KLKU 051615Z AUTO 00000KT 10SM OVC003 08/07 A3002 RMK AO2 KLKV 051615Z 35004KT 10SM CLR M09/M12 A3009 RMK AO1 KMDD 051615Z AUTO 00000KT 10SM CLR 08/04 A2987 RMK AO2 T00800040 KMCN 051553Z 04005KT 6SM BR OVC004 09/08 A3002 RMK AO2 SLP164 T00890078 KMCO 051553Z 18013KT 10SM FEW017 SCT150 27/21 A3001 RMK AO2 SLP160 T02670211 KMDH 051611Z 10010KT 10SM BKN013 04/02 A3006 RMK AO2 T00440022 KLLQ 051553Z AUTO 05006KT 10SM OVC006 07/06 A2999 RMK AO2 SLP156 T00720056 KMDJ 051615Z AUTO 17019KT 3SM BR BKN008 BKN019 BKN025 25/24 A2980 RMK A01 KMEB 051552Z AUTO 01005KT 10SM CLR 12/08 A3004 RMK AO2 SLP171 T01220078 KLNC 051615Z AUTO 09003KT 10SM OVC007 10/07 A2992 RMK AO2 T00960071 KLND 051553Z AUTO 03010KT 10SM FEW070 M07/M11 A2974 RMK AO2 PK WND 36027/1531 SLP096 T10671106 KMCW 051553Z AUTO 16012KT 6SM BR OVC003 00/M01 A2982 RMK AO2 SLP103 T00001006 KLMO 051614Z AUTO 29006KT 10SM SCT080 OVC090 11/M06 A2964 RMK AO2 T01141064 KMCX 051615Z AUTO 19005KT 10SM OVC010 01/M02 A3008 RMK AO2 T00051023 KMEH 051556Z AUTO 00000KT 10SM OVC029 M05/M08 A3002 RMK AO2 SLP202 T10501078 KMDQ 051615Z AUTO 01005KT 10SM OVC007 08/07 A3002 RMK AO2 KMEI 051611Z 02006KT 3SM RA BR BKN005 BKN011 OVC021 11/10 A2997 RMK AO2 P0011 T01110100 KMDS 051610Z AUTO 15009KT 10SM CLR 01/01 A2952 RMK AO2 KLMT 051553Z 00000KT 10SM CLR M07/M09 A3010 RMK AO2 SLP218 T10721089 KLNK 051554Z 18014KT 10SM CLR 04/M01 A2971 RMK AO2 SLP068 T00391006 KMDT 051556Z 29003KT 10SM BKN010 07/05 A3001 RMK AO2 SLP164 T00670050 KLNL 051615Z AUTO 27005KT 10SM CLR 01/M01 A2983 RMK AO2 T00111015 LDDU 051600Z 32004KT CAVOK 09/05 Q1028 NOSIG UWOO 051600Z 31003MPS 9000 -SN OVC011 M10/M11 Q1018 R26/850345 NOSIG RMK QFE753/1004 KMFD 051552Z 26005KT 10SM OVC014 02/M02 A3009 RMK AO2 SLP199 T00171017 KMEM 051554Z 10008KT 10SM OVC008 07/04 A3002 RMK AO2 SLP164 T00670044 KMFE 051553Z 29007KT 10SM OVC012 15/11 A2993 RMK AO2 SLP133 T01500111 KMDW 051553Z 20009KT 3SM BR OVC005 01/M01 A3005 RMK AO2 SLP185 T00061011 ENZV 051620Z 30014KT 9999 SCT010 BKN014 07/06 Q1023 TEMPO BKN009 KLNN 051615Z AUTO 25013KT 10SM BKN026 OVC031 04/00 A3006 RMK AO1 T00420000 LBWN 051600Z VRB02KT CAVOK 01/M03 Q1034 NOSIG UWOR 051600Z 24004MPS 9999 BKN008 M12/M14 Q1016 R25/490245 NOSIG RMK QFE738/0985 KLNP 051615Z AUTO 00000KT 10SM SCT007 OVC018 06/05 A3007 RMK AO2 KMDZ 051615Z AUTO 18006KT 3SM BR OVC003 M01/M02 A2984 RMK AO2 T10141018 KMER 051545Z 00000KT 1 1/2SM BR SKC 01/01 A3009 KMFI 051554Z AUTO 16007KT 6SM BR OVC004 M01/M02 A2986 RMK AO2 SLP127 T10061017 KLNR 051556Z AUTO 16005KT 5SM BR OVC005 01/M01 A2994 RMK AO2 SLP141 T00111006 KLNS 051553Z 26008KT 10SM OVC010 07/06 A3001 RMK AO2 SLP163 T00670056 KO69 051615Z AUTO 00000KT M1/4SM OVC002 05/05 A3014 RMK AO1 DXSK 051500Z 08002KT CAVOK 35/16 Q//// KLOL 051553Z AUTO 04013KT 10SM FEW035 OVC047 M01/M06 A3007 RMK AO2 SLP202 T10061061 KLPC 051556Z AUTO 00000KT 10SM CLR 06/06 A3002 RMK AO2 SLP169 T00610056 KMGC 051615Z AUTO 20006KT 7SM OVC007 00/00 A3007 RMK AO2 VOGO 051130Z 29008KT 6000 FEW018 31/21 Q1010 NOSIG KLOM 051615Z AUTO 27003KT 10SM OVC010 05/04 A3000 RMK AO1 KMEV 051615Z AUTO 00000KT 10SM CLR M02/M10 A3005 RMK AO2 KMGE 051558Z 13003KT 4SM BR OVC007 10/08 A3001 RMK AO2A SLP166 T01010083 $ KMGG 051613Z AUTO 09007KT 10SM BKN090 BKN110 01/01 A2970 RMK AO2 T00100006 KMEZ 051555Z AUTO 09006KT 10SM OVC110 07/07 A2997 RMK AO2 LCPH 051600Z 12005KT 9999 FEW030TCU 17/11 Q1023 KMFR 051616Z 02006KT 10SM OVC005 M01/M01 A3023 RMK AO2 T10061006 KLOR 051553Z AUTO 05003KT 10SM OVC005 14/13 A2995 RMK AO2 SLP140 T01440133 $ KMGJ 051554Z AUTO 00000KT 7SM OVC005 02/00 A2994 RMK AO2 SLP142 T00170000 TSNO KLOT 051615Z AUTO 19009KT 4SM BR OVC003 00/00 A3005 RMK AO2 T00000000 KLOU 051453Z 04003KT 10SM OVC017 04/00 A3012 RMK AO2 SLP202 T00440000 53009 EPLB 051600Z 25011KT CAVOK M02/M07 Q1023 EPKK 051600Z 23006KT 6000 NSC M01/M07 Q1025 KMGM 051600Z 08009KT 3SM BR OVC005 12/10 A2996 RMK AO2 RAE1554 P0000 T01220100 KMFV 051615Z AUTO 34011G17KT 310V020 10SM OVC005 09/08 A3001 RMK AO2 T00850075 KMHE 051553Z AUTO 14007KT 10SM SCT110 02/M01 A2950 RMK AO2 SLP002 T00221011 KMGN 051614Z AUTO 26011G26KT 230V290 7SM -RA SCT018 BKN038 OVC047 03/00 A2987 RMK AO2 T00401003 FHAW 051550Z 16015KT 9999 FEW018 26/19 Q1013 BLU NOSIG VOHS 051600Z 03007KT 5000 HZ FEW015 23/13 Q1019 NOSIG KLOZ 051453Z AUTO 02005KT 10SM FEW014 OVC019 07/04 A3009 RMK AO2 SLP192 T00670039 53012 KO86 051610Z AUTO 00000KT 10SM OVC006 00/00 A3014 RMK AO1 KLPR 051553Z AUTO 27009KT 10SM FEW015 OVC023 02/M01 A3010 RMK AO2 SLP198 T00221011 KMGR 051615Z AUTO 00000KT 2SM BR OVC003 17/17 A2998 RMK AO2 KMIA 051553Z 14011G22KT 10SM SCT020 BKN250 28/22 A3003 RMK AO2 SLP170 T02780222 LCRA 051550Z 08010KT 9999 FEW060 15/12 Q1022 NOSIG KMHK 051552Z 20009KT 10SM CLR 08/01 A2979 RMK AO2 SLP095 T00780011 $ KLQK 051635Z AUTO 00000KT 7SM OVC002 08/07 A3001 RMK AO2 T00800072 KMIB 051558Z 17003KT 10SM BKN011 OVC018 M07/M08 A2954 RMK AO2A SLP038 T10701081 KMHL 051635Z AUTO 14007KT 10SM CLR 05/05 A2996 RMK AO2 KMIC 051553Z 11007KT 9SM BKN095 01/M02 A2974 RMK AO2 SLP080 T00111017 EPKT 051600Z 23010KT CAVOK M00/M07 Q1025 KLRD 051556Z 29011KT 10SM OVC009 11/09 A2995 RMK AO2 SLP152 T01110094 $ EPLL 051600Z 22008KT CAVOK M01/M05 Q1023 VOHY 051530Z VRB03KT 5000 HZ NSC 24/12 Q1019 NOSIG KMGW 051607Z 30006KT 10SM BKN029 08/M01 A3007 RMK AO2 T00781006 $ KMIE 051453Z 24004KT 10SM OVC014 02/M02 A3009 RMK AO2 SLP193 T00221017 51014 KLRF 051623Z AUTO 07007KT 10SM BKN009 BKN014 06/06 A2999 RMK AO2 PRESFR KMGY 051453Z AUTO 26003KT 10SM OVC019 03/M02 A3010 RMK AO2 SLP200 T00281022 53008 KMHR 051545Z 00000KT 6SM BR SKC 04/03 A3011 KLRJ 051615Z AUTO 17020G31KT 10SM CLR 04/M00 A2962 RMK AO2 KP08 051615Z AUTO 12007KT 10SM CLR 12/M05 A2997 RMK AO2 KMHS 051556Z AUTO VRB03KT 10SM CLR M02/M05 A3011 RMK AO2 SLP230 T10171050 LEAB 051600Z 06010KT 9999 FEW010 BKN015 OVC030 12/10 Q1019 NOSIG KMHT 051614Z 00000KT 3/4SM R35/3500V5500FT -SN BR BKN005 OVC010 M01/M03 A2995 RMK AO2 P0001 T10111028 KMHV 051600Z AUTO 25029G35KT 10SM CLR 10/M05 A2994 RMK A01 KLSE 051553Z 18011KT 6SM BR OVC007 02/01 A2988 RMK AO2 SLP127 T00220006 $ KLRO 051615Z AUTO 32004KT 10SM BKN005 OVC017 13/12 A3002 RMK AO2 KLSF 051613Z AUTO 01005KT 10SM OVC006 11/11 A2999 RMK AO2 LEAG 051600Z AUTO 06015KT 9999 -RA SCT007 BKN019 OVC025 16/15 Q1015 EPMO 051600Z 24010KT 7000 NSC M01/M04 Q1022 UWSS 051600Z 21005MPS CAVOK M10/M12 Q1018 R12/850350 NOSIG RMK QFE749 LEBA 051600Z AUTO 07006KT 040V110 9999 NCD 20/12 Q1015 KMIS 051615Z AUTO 14007KT 7SM SCT012 BKN040 OVC060 27/22 A2982 RMK A01 LEBB 051600Z 12005KT CAVOK 18/10 Q1020 NOSIG KNAK 051554Z AUTO 33006KT 10SM SCT014 08/05 A3003 RMK AO2 SLP169 T00830050 LEAL 051600Z 06006KT 020V090 9999 SCT025TCU BKN054 17/15 Q1016 NOSIG KMKC 051554Z 17007KT 10SM CLR 06/04 A2989 RMK AO2 SLP125 T00610039 KNBC 051556Z 02004KT 3SM OVC004 13/12 A3002 RMK AO2 SFC VIS 10 CIG 003V009 SLP167 T01280117 KLRU 051615Z AUTO 19003KT 10SM CLR 07/M02 A2997 RMK AO2 T00691025 LEAM 051600Z 09007KT 060V120 9999 FEW015 SCT090 19/14 Q1015 KMIV 051554Z AUTO 29007KT 10SM OVC011 07/07 A3001 RMK AO2 CIG 009V013 SLP163 T00720067 KMKE 051552Z 20008KT 6SM BR OVC005 01/M01 A3000 RMK AO2 SLP165 T00111006 KMIW 051553Z AUTO 15013KT 5SM BR BKN002 01/01 A2984 RMK AO2 SLP115 I1000 T00060006 LEAO 051600Z 07011KT 040V110 9999 SCT027 BKN048 13/11 Q1018 LEBG 051600Z 06004KT 9999 SCT008 SCT014 08/07 Q1022 KMKG 051555Z 27008KT 10SM BKN022 05/M01 A3000 RMK AO2 SLP165 T00501006 KNBG 051602Z 06011KT 2SM TSRA BR BKN004 OVC011CB 17/16 A2981 RMK AO2 OCNL LTGICCCCG OHD-N TS OHD-N MOV N T1 SET P0000 T01670161 $ KMJQ 051615Z AUTO 16013KT 10SM SCT080 BKN090 OVC110 02/M01 A2965 RMK AO2 LEAS 051600Z 00000KT CAVOK 16/10 Q1019 NOSIG KNCA 051556Z 33008KT 10SM SCT009 BKN110 11/10 A3000 RMK AO2 SLP163 T01110100 KP28 051556Z AUTO 17012G20KT 04/01 A2976 RMK AO1 SLP086 T00440011 KLUA 051615Z AUTO 22003KT 10SM SCT044 SCT050 11/07 A3001 RMK AO2 KMKJ 051615Z AUTO 29008KT 10SM OVC023 09/04 A3007 RMK AO2 T00850039 VOMD 051600Z 00000KT 5000 HZ FEW018 SCT090 27/21 Q1014 NOSIG KMLB 051553Z 19012KT 10SM FEW022 27/22 A3001 RMK AO2 SLP163 T02720217 LEBL 051600Z 06019KT 9999 FEW015 SCT040 16/13 Q1021 NOSIG KMKL 051607Z 07008KT 10SM OVC009 07/04 A3004 RMK AO2 T00670044 KMLC 051617Z AUTO 11004KT 9SM FEW001 BKN018 OVC110 06/04 A2993 RMK AO2 T00560044 KLUD 051615Z AUTO 14005KT 10SM SCT008 OVC014 07/07 A2991 RMK AO2 T00710065 KLSV 051558Z AUTO 00000KT 10SM CLR 03/M11 A2995 RMK AO2 SLP146 T00291107 KMKN 051615Z AUTO 15005KT 10SM OVC009 08/07 A2992 RMK AO2 T00790066 KMLE 051615Z AUTO 14008KT 10SM CLR 04/00 A2974 RMK AO2 T00410001 KLUF 051558Z AUTO 30003KT 10SM CLR 09/M01 A2995 RMK AO2 SLP142 T00891006 $ KMLF 051552Z AUTO 01024KT 10SM CLR 02/M06 A2995 RMK AO2 PK WND 01028/1539 SLP141 T00171061 KMKO 051626Z AUTO 14009KT 1SM BR OVC002 05/05 A2996 RMK AO2 T00500050 KMJX 051556Z AUTO 27011G16KT 10SM OVC009 07/06 A3001 RMK AO2 SLP167 T00670056 PNO $ LECH 051600Z 02010KT 340V060 9999 SCT016 SCT021 14/12 Q1020 KMLI 051559Z 14008KT 1SM R09/P6000FT BR OVC003 01/M01 A2998 RMK AO2 T00061011 UWUU 051600Z 19004MPS 4500 -SN OVC010 M15/M18 Q1014 R14R/491046 NOSIG RMK QBB300 QFE750/1001 KMKS 051615Z AUTO 03004KT 10SM OVC004 10/09 A3001 RMK AO2 KLTS 051558Z 20002KT 1/4SM R17L/1000FT FG VV001 03/02 A2988 RMK AO2A SLP126 T00300023 KMLJ 051615Z AUTO 00000KT 10SM OVC005 10/10 A3002 RMK AO2 VOML 051600Z 00000KT 6000 FEW020 27/24 Q1013 NOSIG LEBT 051600Z AUTO 04011G24KT 320V100 9999 // BKN059 16/11 Q1018 VOMM 051600Z 05005KT 5000 HZ SCT018 SCT100 26/22 Q1013 NOSIG KLUK 051453Z 00000KT 10SM OVC021 04/00 A3015 RMK AO2 SLP211 T00440000 53013 KMKT 051456Z AUTO 15013KT 10SM CLR 02/M01 A2972 RMK AO2 SLP076 T00171006 58013 FZRANO KNBT 051556Z AUTO 33011KT 10SM BKN007 BKN120 A2998 RMK AO2 SLP5uœ PNO $ KLUL 051615Z AUTO 04006KT 10SM OVC005 12/12 A2994 RMK AO2 T01150115 KLUM 051615Z AUTO 11005KT 1/4SM FG OVC001 00/00 A2984 RMK AO2 T00000000 LECO 051600Z VRB01KT 9999 FEW048 18/10 Q1019 NOSIG DXXX 051600Z 20006KT 170V230 9999 FEW015 30/25 Q1010 NOSIG KMLP 051553Z AUTO 32005KT 10SM CLR M14/M16 A2983 RMK AO2 SLP184 T11391156 $ KMKY 051615Z AUTO 16013G24KT 10SM SCT020 27/22 A3002 RMK AO1 EPPO 051600Z 23004KT CAVOK M02/M05 Q1024 LEBZ 051600Z 07009KT 9999 FEW035 SCT040 18/12 Q1017 KMMH 051615Z AUTO 30008KT 10SM CLR 04/M19 A3005 RMK AO2 T00371191 KMMI 051555Z AUTO 05004KT 10SM OVC009 09/08 A3005 RMK KMLS 051553Z AUTO 32023G29KT 10SM FEW023 SCT030 BKN055 M05/M11 A2980 RMK AO2 PK WND 32030/1524 SLP115 T10501106 KLVJ 051553Z AUTO 06007KT 10SM FEW005 OVC026 13/11 A2982 RMK AO2 RAE53 TSE1458 SLP096 P0003 T01280111 KLWA 051614Z AUTO 24005KT 10SM BKN017 OVC024 05/02 A3003 RMK AO2 T00450016 EPRA 051600Z 25006KT 6000 NSC M02/M07 Q1023 KMLT 051553Z AUTO 09003KT 10SM CLR M07/M09 A3004 RMK AO2 SLP184 T10721089 KMMK 051619Z AUTO 00000KT 3SM BR SCT004 OVC010 02/M01 A2996 RMK AO2 T00171006 TSNO KLVK 051553Z 00000KT 3SM BR BKN009 OVC015 09/08 A3010 RMK AO2 SLP193 T00890078 KLWB 051615Z AUTO 00000KT 10SM SCT025 06/00 A3005 RMK AO2 T00600001 LEEC 051300Z 03011KT 9999 FEW020 19/13 Q1013 KLWC 051607Z AUTO 13010KT 7SM FEW007 05/04 A2987 RMK AO2 T00500039 KMLU 051553Z 05008KT 4SM -RA BR OVC005 08/07 A2993 RMK AO2 PRESFR SLP133 P0009 T00830072 KMML 051556Z AUTO 14008KT 10SM FEW110 02/M01 A2960 RMK AO2 SLP038 T00221006 FZRANO KLVL 051615Z AUTO 31003KT 10SM OVC007 08/07 A3003 RMK AO1 T00830065 LECV 051600Z 07004KT 9999 BKN030 12/09 Q1020 KLVM 051553Z AUTO 32014KT 10SM BKN110 M08/M13 A2986 RMK AO2 SLP156 T10831133 KLWD 051553Z AUTO 17008KT 5SM BR FEW003 01/01 A2986 RMK AO2 SLP122 T00060006 VOMY 050830Z 11008KT 9999 SCT015 31/16 Q1015 KLVN 051613Z AUTO 11005KT 7SM OVC090 01/01 A2975 RMK AO2 KMNE 051615Z AUTO 00000KT 10SM -DZ OVC006 08/07 A2996 RMK AO2 T00800068 KP53 051556Z AUTO 22008KT 02/M01 A2982 RMK AO1 SLP106 T00171011 KLUX 051615Z AUTO 00000KT 10SM 08/07 A3003 RMK AO2 KMNH 051617Z AUTO 33008KT 10SM CLR 07/M09 A2967 RMK AO2 KP58 051551Z AUTO 24007KT 210V280 03/01 A2993 RMK AO1 SLP143 T00280006 $ KLVS 051553Z AUTO 19009KT 10SM CLR 07/M09 A2975 RMK AO2 SLP039 T00721094 KMMT 051558Z 36003KT 10SM FEW007 SCT011 BKN100 BKN250 12/09 A3003 RMK AO2A SLP172 T01180086 $ KP59 051551Z AUTO 32009G14KT 02/01 A2978 RMK AO1 SLP092 P0001 T00220011 KMOB 051609Z 06008KT 1SM BR OVC002 16/14 A2990 RMK AO2 T01560144 KP60 051556Z AUTO VRB05KT M16/M19 A2972 RMK AO1 SLP121 T11611194 $ UWWW 051600Z 19003MPS 9999 BKN019 M12/M14 Q1013 R23/450340 NOSIG RMK QFE749/0999 KMMU 051545Z 28008G14KT 7SM OVC007 05/04 A3000 KNEL 051600Z AUTO 28008KT 9SM OVC009 07/06 A2999 RMK AO2 CIG 007V012 SLP153 T00670056 PNO KMMV 051622Z AUTO 18009KT 10SM -RA BKN009 BKN014 OVC036 03/02 A3016 RMK AO2 P0002 T00330022 KMOD 051614Z 25004KT 1/4SM FG OVC003 06/04 A3010 RMK AO2 T00610044 KLWM 051554Z 00000KT 1 1/4SM -SN BR BKN006 OVC012 00/M01 A3002 RMK AO2 SLP167 P0000 T00001011 KMNM 051556Z AUTO 22006KT 9SM -RA CLR 03/00 A2990 RMK AO2 RAB04E13B53UPB13E31 SLP148 P0000 T00280000 EPSC 051600Z 20006KT 4500 BR OVC003 M02/M02 Q1023 KMNN 051533Z AUTO 28004KT 8SM BKN016 OVC021 02/M01 A3011 RMK AO2 T00221011 KNFE 051624Z AUTO 36009KT 10SM OVC011 13/09 A3000 RMK AO2 T01330089 KNFG 051555Z 03003KT 8SM SCT013 BKN200 06/01 A2999 RMK AO2 SLP154 T00560006 $ KNDZ 051611Z 11006KT 10SM OVC005 21/19 A2991 RMK AO2 T02110194 $ LEGA 051600Z 24004KT 9999 FEW040 SCT070 15/11 Q1016 KP68 051553Z AUTO 33004KT M02/M06 A3002 RMK AO1 SLP160 T10171056 KLWS 051556Z 00000KT 10SM CLR M02/M07 A3012 RMK AO2 SLP214 T10221072 KP69 051552Z AUTO 00000KT M02/M03 A3017 RMK AO1 SLP239 T10171033 KLWT 051608Z AUTO 31012G19KT 9SM -SN FEW006 BKN010 OVC019 M12/M14 A2989 RMK AO2 P0000 T11221144 KLXL 051612Z AUTO 10007KT 10SM CLR 00/M01 A2971 RMK AO2 KNFL 051556Z 13004KT 10SM SCT080 SCT150 BKN200 M02/M06 A3006 RMK AO2 SLP148 T10171056 FGSL 051600Z 30004KT 8000 FEW010 30/24 Q1010 NOSIG KLWV 051453Z AUTO 09005KT 10SM OVC013 03/M01 A3012 RMK AO2 SLP203 T00281006 53008 KMNV 051615Z AUTO 04007KT 10SM OVC007 10/09 A3004 RMK A01 LEGE 051600Z 02006KT 350V060 9999 FEW009 SCT013 BKN017 14/13 Q1022 KNEW 051611Z AUTO 07011KT 1/2SM -TSRA FG OVC002 16/16 A2983 RMK AO2 LTG DSNT SW AND W TSB05 P0013 T01610161 KLXN 051615Z AUTO 20004KT 10SM SCT110 04/M04 A2961 RMK AO2 T00401045 KMOP 051616Z AUTO 25008KT 10SM SCT020 03/00 A2996 RMK AO2 T00310000 KLYH 051606Z 19004KT 6SM BR OVC002 06/05 A3003 RMK AO2 T00560050 KMNZ 051615Z AUTO 00000KT 10SM OVC009 08/07 A2992 RMK AO2 T00820071 KMOR 051615Z AUTO 07003KT 10SM FEW009 FEW013 OVC027 10/08 A3005 RMK A01 EPRZ 051600Z 22009KT CAVOK M02/M07 Q1026 LDOS 051600Z 03004KT CAVOK 02/M02 Q1030 KLXT 051620Z AUTO 17011KT 5SM BR BKN003 04/03 A2990 RMK AO2 T00390033 TSNO KMOT 051554Z 00000KT 10SM BKN010 M06/M07 A2954 RMK AO2 SLP033 T10561067 KMQB 051615Z AUTO 18012KT 3/4SM BR OVC003 01/01 A3003 RMK AO2 T00100010 LEHC 051600Z 13003KT 9999 FEW045 14/06 Q1021 LDPL 051600Z 10003KT CAVOK 09/07 Q1028 NOSIG KLXV 051624Z AUTO 31009G18KT 1 1/2SM -SN BKN034 OVC045 M04/M09 A2976 RMK AO2 P0000 T10441094 KMQE 051554Z AUTO 14008KT 00/M01 A2995 RMK AO1 SLP159 P0003 T00001006 KNFW 051552Z 12004KT 10SM OVC015 09/06 A2991 RMK AO2 SLP113 T00940061 $ KMPO 051553Z AUTO 26011G16KT 10SM OVC004 01/M01 A2991 RMK AO2 SNE08 SLP148 P0000 T00061006 KMOX 051612Z AUTO 12013KT 10SM CLR 02/M01 A2959 RMK AO2 KLXY 051615Z AUTO 04004KT 7SM RA OVC006 09/08 A2988 RMK AO2 P0001 T00850078 KNGP 051556Z 32016KT 10SM BKN011 OVC015 12/10 A2989 RMK AO2 SLP120 T01220100 $ EPSY 051600Z 24008KT 5000 -SN BR BKN005 OVC008 01/00 Q1019 LEGR 051600Z VRB01KT 9999 FEW035 BKN080 16/11 Q1016 KMQI 051610Z AUTO 02008KT 10SM OVC006 11/11 A2998 RMK AO2 T01110108 KMQJ 051618Z AUTO 18006KT 10SM OVC013 02/M01 A3012 RMK AO1 LEGT 051600Z 04006KT CAVOK 14/10 Q1019 LEIB 051600Z 03004KT 9000 FEW014 SCT035 16/15 Q1016 NOSIG KNHK 051552Z 33010KT 10SM SCT009 08/06 A3003 RMK AO2 SLP168 T00830056 $ KMRB 051553Z 00000KT 10SM BKN041 08/04 A3001 RMK AO2 SLP163 T00830039 KMRC 051615Z AUTO 06006KT 10SM OVC010 A3002 RMK KNGU 051559Z 34008KT 290V350 7SM OVC005 10/08 A3002 RMK AO2 SLP166 T01000083 KMPV 051620Z AUTO 18006KT 1 1/4SM -SN BR BKN022 OVC031 M03/M04 A2990 RMK AO2 P0001 T10281044 TSNO KLYV 051616Z AUTO 16013G16KT 10SM BKN080 OVC090 01/M01 A2958 RMK AO2 KNID 051556Z 00000KT 10SM FEW200 BKN250 BKN280 M01/M13 A2996 RMK AO2 SLP160 T10111128 $ KMRF 051556Z AUTO 24013KT 10SM CLR 06/03 A2995 RMK AO2 SLP133 T00610028 KMRH 051616Z AUTO VRB04KT 10SM SCT007 OVC110 12/11 A2998 RMK AO2 T01170106 TSNO LDRI 051400Z 12003KT 090V160 9999 FEW040 SCT050 BKN070 11/04 Q1027 KMQS 051615Z AUTO 30008G13KT 10SM OVC009 07/05 A3000 RMK AO2 KMRJ 051615Z AUTO 17007KT 1/4SM FG OVC001 01/01 A2993 RMK AO2 EPWA 051600Z 25004KT 210V280 CAVOK M01/M05 Q1022 NOSIG KLZU 051545Z 00000KT 7SM BKN006 OVC070 09/07 A3000 RMK ATIS S RWY 25 ILS APCH JW VORY 051230Z 09007KT 1500 HZ FEW020 SCT025 28/22 Q1013 KMRN 051605Z AUTO 00000KT 2 1/2SM BR OVC001 07/07 A3007 RMK AO2 VIS 1 1/4V5 T00690069 KNIP 051553Z 18013KT 10SM FEW016 BKN150 BKN250 24/20 A2999 RMK AO2 SLP149 T02390200 $ KMQY 051556Z 03005KT 3SM BR OVC004 07/06 A3008 RMK AO2 SLP198 T00670056 KLZZ 051615Z AUTO 29004KT 1 1/2SM -SN BKN006 OVC010 07/07 A2990 RMK AO2 P0003 T00730068 VOTK 051130Z 07006KT 5000 HZ FEW020 SCT100 29/21 Q1010 LFBA 051600Z AUTO 14005KT 100V160 CAVOK 15/09 Q1022 NOSIG KOAJ 051611Z AUTO 35006KT 10SM FEW010 11/09 A3001 RMK AO2 KOAK 051553Z 00000KT 10SM OVC012 12/10 A3011 RMK AO2 SLP194 T01170100 KMRT 051613Z AUTO 20003KT 10SM OVC017 02/M01 A3011 RMK AO2 T00221007 KNJK 051556Z 19003KT 10SM FEW180 SCT250 07/M06 A2992 RMK AO2 SLP146 T00721061 LFBC 051600Z AUTO 10004KT CAVOK 15/10 Q1021 BECMG 3000 BR KMSL 051553Z AUTO VRB06KT 9SM -RA OVC007 09/07 A3003 RMK AO2 RAB50 SLP168 P0000 T00890067 KMTC 051558Z 28007KT 10SM BKN025 OVC032 04/M00 A3001 RMK AO2A SLP171 T00411002 LFBD 051600Z AUTO 11003KT CAVOK 14/09 Q1022 NOSIG KNJM 051557Z AUTO 34008KT 10SM 12/09 A3000 RMK AO2 SLP163 T01170094 $ VOTP 051500Z 06007KT 3000 HZ FEW010 SCT015 24/22 Q1014 LFBE 051600Z AUTO 09004KT 9999 BKN042 14/08 Q1022 NOSIG KMSN 051553Z 18009KT 1 3/4SM BR OVC004 01/00 A2994 RMK AO2 SFC VIS 2 1/2 SLP148 T00060000 KOBE 051615Z AUTO 15010G15KT 10SM SCT015 27/22 A3003 RMK AO2 KMSO 051553Z 35004KT 10SM OVC050 M05/M11 A3003 RMK AO2 SLP205 T10501106 VOTR 051600Z 07004KT 5000 BR FEW016 26/23 Q1013 BECMG 4000 BR LFBG 051600Z AUTO 13004KT CAVOK 14/08 Q1022 NOSIG KMSP 051553Z 10010KT 9SM BKN090 BKN130 BKN250 01/M02 A2974 RMK AO2 PRESFR SLP080 T00061017 KMRY 051626Z 00000KT 1/4SM FG VV001 08/08 A3011 RMK AO2 T00830078 RVRNO LDSP 051600Z 33004KT CAVOK 11/03 Q1028 NOSIG LFAQ 051600Z AUTO 12005KT 7000 NSC 02/M00 Q1025 BECMG 4000 BR LFBH 051600Z AUTO 13007KT CAVOK 14/10 Q1021 NOSIG KMTH 051553Z AUTO 13009KT 10SM CLR 29/22 A3002 RMK AO2 SLP166 T02890222 LFBI 051600Z AUTO 08003KT CAVOK 14/07 Q1023 NOSIG LEJR 051630Z VRB02KT 9999 FEW040 20/16 Q1015 KMSS 051603Z AUTO 07004KT 1 3/4SM -SN BR BKN014 OVC021 M01/M03 A2984 RMK AO2 P0000 T10111028 KMTJ 051453Z AUTO 00000KT 10SM OVC100 M01/M07 A2983 RMK AO2 SLP107 T10111067 53004 EPWR 051600Z 26006KT CAVOK M01/M01 Q1025 VOTV 051600Z 04004KT 3000 -TSRA FEW010 SCT015 FEW025CB OVC090 25/24 Q1013 NOSIG LFAT 051600Z AUTO 13007KT CAVOK 06/02 Q1025 NOSIG LELC 051600Z 01006KT 360V080 9999 SCT012TCU SCT030 17/16 Q1016 NOSIG LFBL 051600Z AUTO 14003KT CAVOK 13/06 Q1023 NOSIG KNLC 051556Z 00000KT 7SM BKN028 BKN150 06/03 A3010 RMK AO2 SLP195 T00560028 LFBM 051600Z AUTO 00000KT CAVOK 16/08 Q1021 NOSIG KMSV 051615Z AUTO 26007KT 10SM OVC008 01/01 A2992 RMK AO1 KMTN 051545Z 27003KT 10SM FEW011 09/07 A3004 LFBO 051600Z AUTO 14010KT CAVOK 13/08 Q1022 TEMPO 14018G28KT KMTO 051553Z AUTO 16009KT 10SM OVC009 02/M01 A3009 RMK AO2 SLP195 T00171006 KOCF 051550Z 19010G16KT 10SM BKN014 26/20 A3001 LFBP 051600Z AUTO VRB02KT CAVOK 16/07 Q1021 NOSIG KMSY 051618Z 07014G22KT 1 1/2SM TSRA BR OVC003CB 15/15 A2980 RMK AO2 LTG DSNT ALQDS FRQ LTGICCG SW-NW-NE TS SW-NW-NE MOV N P0000 T01500150 KMTP 051554Z AUTO 23004KT 08/07 A2998 RMK AO1 SLP152 P0003 T00780072 KOCH 051535Z 04006KT 10SM OVC006 08/07 A2986 RMK AO1 KMUI 051558Z AUTO 21004KT 10SM OVC006 05/05 A3000 RMK AO2 SLP165 T00450045 LFCK 051600Z AUTO 12021KT CAVOK 13/08 Q1023 TEMPO 12025G35KT LFBT 051600Z AUTO 01003KT CAVOK 14/06 Q1021 NOSIG KNKT 051554Z 34010KT 10SM BKN007 BKN120 11/09 A3001 RMK AO2 SLP157 T01060089 LELL 051600Z 05006KT 360V110 9999 FEW025 15/12 Q1021 LFBU 051600Z AUTO 13003KT CAVOK 15/07 Q1022 NOSIG LEMD 051600Z 34003KT 9999 BKN055 SCT070 14/10 Q1019 NOSIG KMTV 051615Z AUTO 00000KT 4SM BR OVC003 07/06 A3006 RMK AO2 T00700062 LELN 051600Z VRB02KT 9999 BKN025 12/07 Q1021 KMVE 051612Z AUTO 15009KT 10SM SCT110 01/01 A2962 RMK AO2 KMTW 051556Z AUTO 21005KT 10SM OVC014 03/M01 A2995 RMK AO2 SLP166 T00281011 LELO 051600Z 09007KT CAVOK 14/09 Q1022 KNKX 051555Z 08004KT 10SM BKN250 13/07 A2997 RMK AO2 SLP146 T01280072 KMUO 051558Z AUTO 24005KT 10SM CLR M04/M07 A3014 RMK AO2 SLP231 T10441073 $ LEMG 051600Z VRB02KT 9999 FEW017 SCT030 17/14 Q1016 NOSIG LFBY 051600Z 07003KT CAVOK 15/10 Q1021 LEMH 051600Z 09003KT 9999 FEW015 SCT040 15/14 Q1018 LFBZ 051600Z AUTO 08005KT CAVOK 15/08 Q1021 NOSIG KMVH 051615Z AUTO 29022G31KT 9SM FEW015 SCT020 M11/M15 A2980 RMK AO2 KOCQ 051615Z AUTO 24006KT 10SM OVC015 02/M01 A2991 RMK AO1 T00151007 EPZG 051600Z 19001KT CAVOK M02/M03 Q1025 LFCR 051600Z AUTO 12008KT CAVOK 11/06 Q1023 NOSIG KMWA 051550Z 09010KT 10SM OVC011 04/03 A3007 KOEB 051614Z AUTO 21006KT 10SM OVC017 02/00 A3006 RMK AO2 T00151005 KMUT 051615Z AUTO 17014KT 1/2SM FG OVC003 00/M00 A2999 RMK AO2 KMVL 051554Z AUTO 17004KT 3/4SM -SN BR VV016 M03/M05 A2990 RMK AO2 SLP138 P0003 T10331050 KMWC 051545Z 22004KT 5SM BR OVC008 01/M02 A2999 KNMM 051614Z 00000KT 2SM +RA BR BKN003 BKN038 OVC055 11/09 A2998 RMK AO2 T2 SET P0003 T01110089 $ KOCW 051605Z AUTO 34005KT 10SM CLR 12/09 A3001 RMK AO2 T01200089 VOVZ 051600Z 34004KT 3000 BR NSC 23/19 Q1015 NOSIG KODO 051553Z AUTO 24005KT 8SM FEW120 07/03 A2986 RMK AO2 SLP100 T00670033 LEMO 051600Z 06008KT 020V080 9999 NSC 19/13 Q1015 NOSIG KMWH 051552Z 01003KT 10SM CLR M07/M09 A3009 RMK AO2 SLP208 T10671089 KMWK 051605Z AUTO 35003KT 10SM CLR 13/09 A3004 RMK AO2 T01260087 KMWL 051553Z AUTO 15003KT 9SM OVC016 07/06 A2991 RMK AO2 SLP127 T00670056 KMWM 051614Z AUTO 15016G21KT 10SM CLR 03/M01 A2962 RMK AO2 KMWN 051552Z 22026G35KT 0SM SN FZFG BLSN VV000 M10/M10 RMK VRY LGT ICG KODX 051553Z AUTO 19008KT 10SM CLR 03/M04 A2957 RMK AO2 SLP029 T00331044 KOFF 051558Z AUTO 16013KT 10SM OVC150 04/03 A2975 RMK AO2 SLP088 T00380028 KMWO 051615Z AUTO 24003KT 10SM OVC018 04/M01 A3015 RMK AO2 T00401015 KOEO 051615Z AUTO 12007KT 10SM OVC100 00/00 A2982 RMK AO2 T00000000 KMXF 051610Z AUTO 09007KT 10SM BKN006 OVC080 12/11 A2994 RMK AO2 RAE01DZB01E05 KMVY 051553Z 15008KT 6SM -RA BR OVC017 06/04 A2999 RMK AO2 SLP155 P0003 T00610039 KNOG 051607Z AUTO 35012KT 10SM SCT012 OVC029 13/11 A2990 RMK AO2 T01280111 PNO $ LEPA 051600Z 08005KT 9999 FEW015 17/14 Q1017 NOSIG LFGA 051600Z AUTO VRB03KT 0400 R19/0450N FZFG VV/// M02/M02 Q1028 PTKK 051552Z 03008KT 15SM FEW013 SCT120 OVC280 28/24 A2975 RMK SLP076 T02780243 KNPA 051618Z 07007KT 4SM BR BKN003 BKN013 BKN250 19/18 A2987 RMK AO2 T01940183 $ KOGA 051615Z AUTO 00000KT 10SM OVC090 04/M06 A2959 RMK AO2 T00361056 KOGB 051553Z AUTO 22003KT 10SM OVC006 10/09 A3004 RMK AO2 SLP172 T01000089 KMWT 051553Z AUTO VRB05KT 10SM BKN015 OVC120 07/04 A2996 RMK AO2 SLP152 T00720044 KOFK 051556Z AUTO 19017G25KT 10SM CLR 03/M02 A2960 RMK AO2 SLP035 T00331022 KOGD 051553Z 32013KT 10SM CLR M04/M13 A3001 RMK AO2 SLP173 T10391133 KMYF 051553Z 11004KT 10SM FEW012 11/07 A2997 RMK AO2 SLP148 T01060067 PNO KMXO 051615Z AUTO 16012KT 1/4SM FG OVC003 00/M00 A2994 RMK AO2 KOFP 051554Z AUTO 30004KT 10SM OVC005 06/04 A3005 RMK AO2 SLP177 T00610044 GABG 051500Z 00000KT CAVOK 36/09 Q//// PTKR 051551Z 00000KT 15SM SCT017 SCT120 BKN300 26/25 A2981 RMK SLP094 T02600251 KMYJ 051635Z AUTO 17008KT 1/2SM OVC001 01/00 A2999 RMK AO2 PWINO KNQA 051550Z 09008KT 10SM OVC010 06/04 A3003 LFGJ 051600Z AUTO 27003KT 6000 NSC 04/02 Q1026 BECMG 3000 BR BKN003 LDZA 051600Z 11002KT 9999 FEW048 02/M03 Q1029 NOSIG KMYL 051611Z AUTO 00000KT 4SM BR CLR M16/M17 A3000 RMK AO2 T11611172 LDZD 051600Z 01003KT 9999 FEW040 10/06 Q1027 NOSIG KNOW 051615Z AUTO 00000KT 10SM BKN050 BKN060 03/00 A3004 RMK AO2 T00280000 KMZG 041730Z AUTO 03021G28KT 19/18 A2987 RMK A01 LEPP 051600Z 33001KT 9999 FEW038 13/08 Q1022 ESCF 051620Z AUTO 31009KT 9999 BKN074/// 05/01 Q1015 KMYP 051611Z AUTO 27037G51KT 1 3/4SM -SN SCT019 OVC027 M08/M12 A2988 RMK AO2 KMZH 051553Z AUTO 00000KT 7SM OVC005 M01/M02 A2977 RMK AO2 KNQI 051556Z 34013KT 10SM SCT011 BKN030 BKN100 13/12 A2990 RMK AO2 SLP121 T01330117 KMYR 051545Z 01004KT 8SM BKN004 OVC022 11/09 A3002 KOGS 051555Z AUTO 00000KT 3SM -SN OVC008 00/M01 A2982 RMK AO2 T00011006 TSNO KNRB 051552Z 20012KT 10SM FEW015 SCT025 BKN150 BKN250 27/20 A2998 RMK AO2 SLP151 T02670200 GABS 051630Z 07006KT 040V100 CAVOK 34/M01 Q1013 NOSIG KMYV 051626Z AUTO 22011KT 2 1/2SM BR CLR 05/04 A3013 RMK AO2 T00500039 ESDF 051620Z 27006KT 9999 FEW018 SCT170 05/03 Q1017 FJDG 051555Z 13004KT 9999 FEW025 29/24 A2990 RMK SLP122 T02890238 KMYZ 051615Z AUTO 18012G18KT 10SM CLR 07/01 A2974 RMK AO2 LERI 051600Z 23002KT 8000 FEW012 SCT030 16/15 Q1017 NOSIG WIBB 051600Z 00000KT 9000 FEW017 28/25 Q1008 KOJA 051615Z AUTO 20010KT 10SM CLR 06/05 A2985 RMK AO2 LESA 051600Z 05007KT CAVOK 12/08 Q1020 KOJC 051553Z 19010G18KT 5SM BR OVC004 04/03 A2989 RMK AO2 SLP128 T00390028 LGAD 051620Z VRB03KT 9999 SCT025 BKN080 13/07 Q1027 KPAE 051602Z 13009KT 1 1/2SM -SN BR OVC005 01/01 A3005 RMK AO2 RAE1555SNB1555 P0000 T00110006 KNSE 051556Z 11004KT 10SM OVC004 19/18 A2991 RMK AO2 RAE01 SLP115 P0000 T01890183 $ KNQX 051553Z 14015G22KT 10SM FEW028 FEW100 28/23 A3001 RMK AO2 SLP160 T02780228 $ FIMP 051600Z 15005KT 9999 FEW016 BKN050 25/19 Q1016 KPAH 051553Z 08011KT 10SM OVC015 06/02 A3006 RMK AO2 SLP181 T00560017 KMZZ 051615Z AUTO 20007KT 10SM OVC013 01/M01 A3011 RMK AO2 T00091009 KNSI 051557Z 31019KT 8SM FEW009 FEW200 SCT300 13/12 A2996 RMK AO2 PK WND 29027/1537 SLP143 T01280117 $ FIMR 051600Z 17004KT 9999 BKN017 25/23 Q1016 LERS 051600Z 06010KT 030V100 9999 SCT025 17/12 Q1020 KNRS 051556Z 11007KT 7SM FEW015 SCT150 BKN250 13/01 A2998 RMK AO2 SLP151 T01280011 $ LERT 051600Z 35003KT 320V020 9999 SCT048 19/15 Q1015 NOSIG LFKB 051600Z 14004KT 9999 FEW017 SCT033 BKN140 15/13 Q1024 NOSIG KOKB 051538Z AUTO 03003KT 10SM BKN015 06/02 A2998 RMK AO2 T00610017 LFJL 051600Z AUTO 11005KT 070V150 0400 R22/0500N R04/0500N FZFG VV/// M02/M02 Q1027 NOSIG LFKC 051600Z 18002KT 9999 FEW073 BKN120 14/10 Q1022 NOSIG KOKC 051616Z 16009KT 1SM R35R/P6000FT BR SCT002 SCT100 SCT250 05/04 A2988 RMK AO2 T00500044 $ LGAL 051550Z 36006KT CAVOK 07/M02 Q1033 RCFN 051230Z 36006KT 310V050 9999 BKN040 24/20 Q1019 NOSIG RMK A3011 KNTD 051556Z 00000KT 10SM FEW008 FEW150 BKN250 09/03 A2997 RMK AO2 SLP150 T00890033 $ KPAM 051620Z 17011KT 2 1/2SM BR BKN005 23/22 A2992 RMK AO2A KPAN 051615Z AUTO 00000KT 10SM CLR 05/M07 A3002 RMK AO2 LESO 051600Z 00000KT CAVOK 17/09 Q1021 LFKF 051600Z AUTO 08008KT 030V130 9999 BKN018 BKN035 OVC041 16/12 Q1023 BECMG SHRA FEW020CB BKN030 BKN040 KPBF 051553Z AUTO 08007KT 10SM OVC011 07/05 A3001 RMK AO2 SLP161 T00670050 KPAO 051547Z VRB04KT 10SM FEW008 BKN012 OVC020 11/10 A3011 KPBG 051611Z AUTO 16009KT 4SM -SN BKN037 OVC047 00/M03 A2985 RMK AO2 P0000 T00001028 KPBH 051615Z AUTO 16004KT 10SM OVC004 M01/M02 A2982 RMK AO2 T10151019 LFJR 051600Z AUTO 07002KT CAVOK 10/06 Q1023 NOSIG KPBI 051553Z 15017G22KT 10SM BKN022 BKN027 BKN032 27/22 A3005 RMK AO2 SLP175 T02720217 LFKJ 051600Z 02004KT 9999 FEW036 BKN110 16/09 Q1022 NOSIG WIDD 051600Z 34003KT 9999 -TSRA SCT014 FEW016CB 28/25 Q1012 LEST 051600Z 00000KT 9999 FEW030 18/09 Q1019 NOSIG LFLB 051600Z AUTO 00000KT 7000 NCD 03/01 Q1027 NOSIG KOKK 051556Z AUTO 18007KT 10SM OVC011 01/M01 A3010 RMK AO2 SLP204 T00111011 FZRANO KNUC 051556Z 18004KT 8SM SCT009 SCT150 BKN240 13/12 A2999 RMK SLP152 T01330122 LESU 051600Z 00000KT 9999 BKN055 08/05 Q1022 LETL 051600Z AUTO 12005KT 080V150 9999 SCT037/// 11/08 Q1020 LFLC 051600Z AUTO VRB02KT CAVOK 12/04 Q1023 NOSIG LGBL 051620Z 09012KT 9999 FEW015 BKN035 BKN080 10/04 Q1032 PTPN 050250Z 08008KT 4SM -SHRA BKN016CB OVC120 26/25 A2972 RMK CB ALQDS MOV W LAST LGAV 051620Z 02014KT CAVOK 09/01 Q1031 NOSIG KOKM 051615Z AUTO 16006KT M1/4SM FG OVC002 02/02 A2994 RMK AO2 T00230023 KOLE 051615Z AUTO 27009G17KT 200V310 7SM OVC013 00/M01 A2993 RMK AO2 LETO 051600Z 02005KT 9999 FEW020 BKN050 14/10 Q1020 NOSIG KOLF 051624Z AUTO 31025G30KT 2SM -SN OVC055 M07/M11 A2982 RMK AO2 PK WND 30030/1621 P0000 T10671111 KOLG 051615Z AUTO 14003KT 7SM OVC004 M01/M02 A2980 RMK AO1 ESGG 051620Z 26004KT CAVOK 03/02 Q1017 R21/29//95 KNUI 051627Z AUTO 23006KT 10SM SCT011 09/06 A3002 RMK AO2 T00890061 LFKS 051600Z AUTO 12007KT 9999 FEW038/// BKN130/// OVC240/// ///TCU 15/13 Q1024 KOMA 051552Z 17015KT 10SM BKN130 BKN250 05/00 A2974 RMK AO2 SLP080 T00500000 ESGJ 051620Z 30006KT CAVOK 04/02 Q1015 WIEE 051600Z 00000KT 9999 BKN020 25/24 Q1011 LEVC 051600Z 04011KT 010V070 9999 FEW014 FEW025TCU BKN035 17/13 Q1018 NOSIG LFLL 051600Z 02003KT 7000 NSC 06/03 Q1025 NOSIG LFMC 051600Z 10003KT 9999 SCT043 BKN100 14/07 Q1024 KNTU 051556Z 33012KT 10SM BKN007 BKN220 11/09 A2999 RMK AO2 SLP159 T01110089 KPDC 051615Z AUTO 12005KT 5SM BR OVC004 01/00 A2992 RMK AO2 T00081002 LEVD 051600Z 06005KT 9999 FEW048 11/08 Q1020 LFMD 051600Z AUTO VRB02KT 9999 FEW052 OVC100 15/07 Q1024 NOSIG KOLM 051554Z 27006KT 5SM BR OVC008 01/01 A3009 RMK AO2 RAB00E01SNE00 CIG 005V011 SLP191 P0000 T00110011 KOKV 051615Z AUTO 31013KT 10SM CLR 10/02 A3001 RMK AO2 KPCM 051615Z AUTO 17009G17KT 10SM SCT018 28/22 A3002 RMK AO2 LFLN 051600Z AUTO 02004KT CAVOK 08/03 Q1024 NOSIG KPBX 051615Z AUTO 00000KT 10SM SCT014 BKN021 OVC029 07/04 A3009 RMK AO2 T00710043 LFLP 051600Z AUTO 30005KT 7000 NSC 02/M01 Q1026 NOSIG LFMH 051600Z AUTO 14005KT CAVOK 09/02 Q1024 NOSIG ESGP 051620Z 27002KT CAVOK 05/02 Q1017 R19/19//// KOKZ 051615Z AUTO 00000KT 7SM OVC003 09/09 A3002 RMK AO2 T00880088 KNUQ 051556Z 25006KT 10SM OVC017 11/09 A3012 RMK AO2 SLP201 T01060089 KOMH 051615Z AUTO 00000KT 10SM 06/06 A3005 RMK AO2 PTSA 050255Z 16008KT 10SM BKN021CB BKN130 BKN300 30/25 A2971 RMK CB VC N-NE LFMI 051600Z AUTO VRB02KT CAVOK 14/06 Q1023 NOSIG LFLS 051600Z AUTO 09006KT CAVOK 06/M00 Q1025 NOSIG ESGR 051620Z 31006KT CAVOK 06/M01 Q1016 KOLS 051554Z AUTO 14006KT 10SM CLR 07/M04 A3002 RMK AO2 SLP148 T00721039 KONA 051613Z AUTO 14005KT 7SM BKN012 OVC080 02/00 A2986 RMK AO2 KPEA 051555Z AUTO 16010KT 5SM BR BKN004 02/02 A2990 RMK AO2 T00170015 LFMK 051600Z AUTO 11004KT 060V150 9999 OVC021 12/09 Q1023 TEMPO 10015G25KT SHRA BKN013TCU KPDK 051553Z 00000KT 7SM OVC008 11/08 A3001 RMK AO2 SLP168 T01060078 KOMK 051553Z AUTO 34003KT 10SM CLR M08/M11 A3011 RMK AO2 SLP213 T10781111 LFLU 051600Z AUTO 31002KT CAVOK 08/03 Q1025 LFML 051600Z AUTO 06009KT CAVOK 16/06 Q1023 NOSIG ESIB 051620Z AUTO 36004KT 9999 -RA BKN037/// OVC074/// 05/02 Q1017 ESGT 051620Z VRB03KT CAVOK 03/01 Q1018 KOLU 051615Z AUTO 18016G20KT 10SM CLR 06/M01 A2965 RMK AO2 RVRNO KOLV 051555Z 09008KT 10SM OVC005 A3001 KOMN 051550Z 18004KT 10SM SCT012 25/22 A3000 LFLW 051600Z AUTO 12004KT CAVOK 11/04 Q1024 NOSIG LFMN 051600Z 08013KT 9999 SCT046 BKN100 16/07 Q1024 NOSIG KPCW 051609Z AUTO 23009KT 10SM OVC025 04/01 A3008 RMK AO2 $ KNUW 051556Z 16015G21KT 9SM -RA OVC018 05/00 A3008 RMK AO2 RAB35SNB35E42 SLP186 P0000 T00500000 $ PTRO 051550Z 34004KT 14SM SCT016 BKN120 OVC300 25/25 A2979 LFLX 051600Z AUTO 08004KT CAVOK 10/06 Q1024 NOSIG LFMO 051600Z AUTO 29003KT 9999 SCT056 BKN070 BKN094 11/07 Q1024 NOSIG LFLY 051600Z AUTO 06003KT 5000 BR NSC 07/03 Q1025 BECMG BKN005 LFMP 051600Z AUTO 10006KT 9999 -RA BKN018 BKN023 BKN029 14/12 Q1023 TEMPO SHRA BKN007TCU KOLY 051615Z AUTO 12005KT 10SM OVC010 02/01 A3011 RMK AO2 KOLZ 051615Z AUTO 15014KT M1/4SM FZFG OVC002 M00/M00 A2988 RMK AO2 KPCZ 051615Z AUTO 21005KT 10SM OVC010 02/00 A2993 RMK AO2 T00211005 LEVS 051600Z 03004KT 340V070 9999 FEW030 SCT055 14/09 Q1020 LFOA 051600Z AUTO 11007KT CAVOK 09/04 Q1024 NOSIG KOOA 051615Z AUTO 16011KT 2SM -SN OVC002 00/00 A2992 RMK AO2 T00010000 LEVT 051600Z 07003KT 9999 FEW035 15/08 Q1021 LFOB 051600Z AUTO 08005KT 7000 NSC 03/M00 Q1025 NOSIG LFMT 051600Z 01006KT 9999 BKN040 13/06 Q1024 NOSIG KPDT 051553Z 17008KT 10SM OVC048 M02/M07 A3011 RMK AO2 SLP203 T10171067 LFMU 051600Z AUTO 02006KT CAVOK 13/06 Q1024 NOSIG LFOC 051600Z AUTO 07004KT 360V070 CAVOK 09/06 Q1024 NOSIG LGEL 051620Z 34010KT 9999 FEW025 11/01 Q1030 KONL 051615Z AUTO 18009KT 10SM BKN120 05/M04 A2952 RMK AO2 T00501036 LFMV 051600Z AUTO 00000KT 9999 OVC060 12/07 Q1024 NOSIG KONM 051615Z AUTO 14003KT 10SM CLR 01/M08 A2994 RMK AO2 T00111083 LFOE 051600Z AUTO 09006KT 8000 NSC 07/03 Q1024 ETAD 051558Z AUTO 00000KT 9999 CLR M01/M04 A3030 RMK AO2 SLP275 T10061042 TSNO $ LEVX 051600Z 00000KT 9999 FEW030 19/13 Q1019 NOSIG KPEO 051553Z AUTO 24011KT 10SM OVC024 04/M01 A2992 RMK AO2 PK WND 24029/1509 SLP138 T00441011 KPDX 051553Z 19008KT 10SM -RA FEW014 OVC028 03/02 A3016 RMK AO2 SLP213 P0002 T00330017 KONO 051553Z AUTO 24003KT 10SM CLR M07/M10 A3019 RMK AO2 SLP249 T10671100 KNXF 051556Z AUTO 06005KT 9SM OVC016 13/07 A2997 RMK AO2 SLP235 T01330072 $ RCKH 051600Z 35008KT 310V030 4200 BR FEW014 SCT038 BKN090 24/21 Q1018 NOSIG RMK A3008 LFMY 051600Z AUTO 06006KT CAVOK 14/05 Q1024 NOSIG KONP 051615Z AUTO 14010G15KT 10SM SCT044 SCT060 03/02 A3018 RMK AO2 LFOH 051600Z AUTO 09006KT CAVOK 08/04 Q1023 NOSIG KPEQ 051615Z AUTO 20006KT 10SM CLR 08/05 A2988 RMK AO2 T00820049 LEXJ 051600Z 00000KT CAVOK 19/10 Q1019 LFOJ 051600Z AUTO 06005KT CAVOK 08/05 Q1024 NOSIG KPGA 051553Z AUTO 08004KT 10SM CLR 03/M09 A2990 RMK AO2 SLP126 T00281089 TSNO GAKA 051500Z 12004KT CAVOK 38/10 Q1009 LFPB 051600Z AUTO 07005KT CAVOK 06/02 Q1025 NOSIG LFOK 051600Z AUTO 06005KT 9000 NSC 04/01 Q1025 NOSIG KONT 051553Z 00000KT 10SM FEW017 FEW200 BKN250 09/02 A2997 RMK AO2 SLP148 T00940022 KNYC 051551Z AUTO 25008G16KT 9SM OVC013 06/03 A2999 RMK AO2 SLP149 T00610033 $ KPGD 051553Z 15014KT 10SM FEW018 BKN100 28/22 A3003 RMK AO2 SLP169 T02780217 GAKD 051500Z 04010KT 020V080 CAVOK 39/10 Q1010 WIHH 051200Z 27008KT 7000 FEW018 27/22 Q1008 NOSIG PTTP 051555Z 11007KT 10SM -SHRA BKN017TCU OVC120 26/24 A2977 RMK SHRAB25 TCU ALQDS SLP081 T02560239 KONX 051610Z AUTO 33005KT 10SM BKN008 12/10 A2999 RMK AO2 T01210104 KOPF 051553Z 15014G21KT 10SM SCT024 BKN030 BKN037 28/22 A3004 RMK AO2 SLP172 T02780217 KPEX 051613Z AUTO 12008KT 10SM CLR 00/01 A2967 RMK AO2 T00040005 VQPR 050900Z 14010KT 9999 SKC 22/M09 Q1020 NOSIG LFOP 051600Z AUTO 11005KT 7000 NSC 04/01 Q1024 BECMG 4000 BR LFPG 051600Z 07006KT CAVOK 06/03 Q1024 NOSIG KNYG 051556Z 00000KT 10SM OVC008 06/05 A3005 RMK AO2 SLP177 T00610050 KNXP 051556Z 00000KT 6SM CLR 06/M12 A3001 RMK AO2 SLP148 T00561117 $ KONZ 051613Z AUTO 24006KT 10SM OVC026 04/00 A3005 RMK AO2 T00410000 KPEZ 051615Z AUTO 33007KT 3SM RA SCT007 BKN015 OVC026 11/10 A2992 RMK AO2 T01080100 LFQA 051600Z AUTO 10003KT 9000 NSC 02/00 Q1025 ETAR 051558Z 00000KT 4000 BR OVC005 M01/M01 A3033 RMK AO2A SLP290 T10091013 $ LFOT 051600Z AUTO 12004KT CAVOK 12/06 Q1023 NOSIG LFQB 051600Z AUTO 00000KT CAVOK 05/02 Q1025 KNYL 051557Z 06004KT 10SM CLR 11/M06 A2991 RMK AO2 SLP128 T01061061 KOPL 051615Z AUTO 35005KT 7SM OVC004 10/10 A2986 RMK AO2 LTG DSNT E P0003 T01030100 PWINO LFOV 051600Z AUTO 12003KT CAVOK 11/07 Q1022 LFPM 051600Z AUTO 09004KT CAVOK 06/03 Q1025 KPHD 051553Z AUTO 25003KT 10SM OVC027 03/M01 A3012 RMK AO2 SLP205 T00331006 LFPN 051600Z AUTO 11003KT 9000 NSC 06/02 Q1024 NOSIG ESKM 051620Z 29009KT CAVOK 02/M05 Q1015 KOPN 051615Z AUTO 00000KT 7SM OVC003 09/07 A3002 RMK AO2 LFPO 051600Z 08003KT CAVOK 07/02 Q1024 NOSIG ESKN 051620Z 32013KT CAVOK 04/M04 Q1013 R26/19//95 KPHF 051625Z 33006KT 10SM OVC005 09/08 A3002 RMK AO2 CIG 004V009 T00940078 GAKO 051500Z 12004KT CAVOK 36/17 Q//// LFQG 051600Z AUTO VRB02KT CAVOK 08/04 Q1024 LEZG 051600Z 32005KT 9999 FEW040 15/10 Q1021 WIII 051600Z 27008KT 7000 SCT022 25/24 Q1009 NOSIG LGHI 051550Z 02013KT CAVOK 12/01 Q1027 KPIA 051554Z 18008KT 6SM BR OVC007 02/01 A3004 RMK AO2 CIG 004V010 SLP178 T00170011 KORB 051621Z AUTO 00000KT 10SM OVC012 M02/M04 A2975 RMK AO2 LFPT 051600Z AUTO 07005KT 7000 NSC 04/01 Q1024 LFRB 051600Z AUTO 17005KT 9999 OVC012 12/10 Q1020 BECMG 3000 BR OVC004 KPIB 051615Z AUTO 03007KT 8SM OVC004 12/10 A2994 RMK AO1 GAKT 051500Z 04008KT CAVOK 36/12 Q//// GAMB 051500Z 32005KT CAVOK 34/09 Q1012 LEZL 051600Z 06007KT 9999 FEW030 20/13 Q1015 NOSIG LFRC 051600Z AUTO 13005KT CAVOK 09/06 Q1022 NOSIG KPHL 051554Z 29007KT 10SM OVC011 07/04 A3002 RMK AO2 SLP166 T00670044 KORC 051615Z AUTO 18018G26KT 10SM CLR 04/01 A2961 RMK AO2 LFPV 051600Z AUTO 08003KT 9000 NSC 07/02 Q1024 NOSIG LFRD 051600Z AUTO 15005KT 120V180 9000 NSC 10/07 Q1022 NOSIG KORD 051551Z 19011KT 3SM BR OVC004 00/M01 A3003 RMK AO2 SLP176 T00001011 KPGV 051605Z AUTO 01005KT 10SM BKN006 10/09 A3003 RMK AO2 KPIE 051553Z 16011KT 10SM FEW014 OVC090 24/21 A3001 RMK AO2 SLP161 T02440211 KORE 051626Z AUTO 00000KT 1 1/4SM -SN BR OVC009 M01/M01 A2993 RMK AO2 CIG 006V011 P0001 T10111011 KPHN 051616Z AUTO 27005KT 10SM OVC025 04/00 A3002 RMK AO2 KORF 051551Z 35009KT 10SM OVC004 09/08 A3001 RMK AO2 SLP161 T00940078 RCMQ 051600Z 36014G24KT 8000 FEW010 BKN050 19/18 Q1019 RMK A3011 LFRG 051600Z AUTO 11003KT 070V140 CAVOK 08/04 Q1023 NOSIG KPHP 051555Z AUTO 31014KT 10SM OVC012 02/M01 A2956 RMK AO2 SLP021 T00171011 KORG 051615Z AUTO 30007KT 10SM -RA BKN007 OVC015 A2987 RMK AO2 P0001 GAKY 051200Z 10010KT CAVOK 36/10 Q1013 LFRH 051600Z AUTO 12007KT CAVOK 12/09 Q1021 BECMG BKN006 LFQQ 051600Z AUTO 12003KT 8000 NSC 03/00 Q1025 BECMG 4000 BR KPIH 051553Z 22014KT 10SM SCT021 M07/M09 A3004 RMK AO2 SLP199 T10671094 $ KORH 051612Z VRB03KT 1 1/2SM -SN BR OVC004 M02/M03 A2993 RMK AO2 P0000 T10171033 LFRI 051600Z AUTO VRB03KT CAVOK 13/09 Q1022 NOSIG LFRJ 051600Z AUTO 17003KT 9999 BKN013 12/09 Q1020 BECMG NSC KOSA 051615Z AUTO 08009KT 10SM OVC012 09/06 A2993 RMK AO1 T00860057 LFSB 051600Z 32004KT 6000 NSC 01/M01 Q1027 TEMPO 4500 BR LFRK 051600Z AUTO 10003KT CAVOK 09/06 Q1022 NOSIG KOQT 051605Z AUTO 07008KT 10SM SCT014 BKN023 OVC029 11/07 A3007 RMK AO2 T01060072 KPHT 051615Z AUTO 08009KT 10SM OVC011 03/01 A3005 RMK KOQU 042150Z 33005KT 15SM SKC 05/M08 A3018 LFRL 051600Z AUTO 13006KT 9999 OVC008 12/10 Q1020 NOSIG KPIL 051553Z AUTO 33011KT 10SM OVC065 13/11 A2990 RMK AO2 SLP123 T01330106 ESMK 051620Z 28011KT 9999 FEW018 SCT025 BKN031 06/04 Q1018 KORL 051553Z 19012KT 10SM SCT019 27/22 A3001 RMK AO2 SLP164 T02720217 KOSC 051614Z AUTO 21005KT 7SM SCT008 OVC040 02/01 A2992 RMK AO2 T00160006 ETEB 051611Z COR AUTO 16005KT 0400 FZFG VV001 M03/M04 A3032 RMK AO2 FZDZB11 RVRNO COR 1613 RCNN 051600Z 02008KT 4000 BR FEW010 BKN050 20/17 Q1018 RMK A3009 AWOS R18 AND R36 N/A LFRM 051600Z AUTO 12002KT CAVOK 12/07 Q1023 NOSIG LFSD 051600Z AUTO 00000KT 6000 NSC 03/00 Q1026 KPIM 051615Z AUTO 11003KT 10SM OVC002 11/10 A2999 RMK AO2 T01050101 LFRN 051600Z AUTO 10005KT CAVOK 10/07 Q1022 NOSIG ESND 051620Z AUTO 30009KT 9999 NCD M00/M05 Q1014 LFRO 051600Z AUTO 20006KT CAVOK 13/08 Q1020 BECMG 3000 BR OVC006 KPHX 051551Z 09008KT 10SM BKN250 10/M04 A2994 RMK AO2 SLP132 T01001039 LGIO 051550Z AUTO /////KT //// // ////// 09/03 Q1027 RE// LFSG 051600Z AUTO 36003KT 4200 BR NSC M01/M02 Q1026 KNZY 051552Z 00000KT 10SM SCT017 BKN180 12/08 A2997 RMK SLP147 T01220083 LFRQ 051600Z AUTO 14006KT 110V170 9999 OVC007 12/10 Q1020 BECMG 3000 BR OVC004 ESNG 051620Z 02002KT 9999 -SN SCT010 BKN020 M09/M11 Q1009 KOSH 051553Z 20010KT 7SM OVC009 01/M01 A2993 RMK AO2 SLP149 T00111011 $ LFSI 051600Z AUTO 09003KT CAVOK 07/M00 Q1025 KPIR 051615Z AUTO 33008KT 10SM BKN006 M02/M04 A2948 RMK AO2 T10221044 ESMQ 051620Z 30009KT CAVOK 05/03 Q1015 PTYA 051553Z VRB05KT 11SM -SHRA SCT016TCU SCT130 OVC300 26/25 A2977 RMK SHRAE02B30 TCU ALQDS SLP081 T02630253 LGIR 051620Z VRB05KT 9999 SCT010 FEW018TCU BKN025 13/13 Q1026 NOSIG LFRS 051600Z AUTO 11005KT CAVOK 12/09 Q1021 NOSIG KORS 051615Z AUTO 18007KT 030V040 8SM BKN016 BKN022 03/02 A3000 RMK AO2 LFRT 051600Z AUTO 18004KT 140V230 CAVOK 12/08 Q1021 KPKB 051553Z 35006KT 10SM BKN024 06/00 A3014 KPIT 051551Z 27011KT 10SM FEW018 OVC025 04/00 A3008 RMK AO2 SLP203 T00390000 ESMS 051620Z 28015KT 9999 SCT017 BKN023 06/04 Q1019 GANK 051500Z 08006KT CAVOK 36/M00 Q//// LFRU 051600Z AUTO 15004KT CAVOK 12/08 Q1020 LGKC 051150Z /////KT 9999 FEW010 14/08 Q1027 LFSL 051600Z AUTO 13004KT CAVOK 13/06 Q1023 NOSIG ESNK 051620Z 34008KT CAVOK 01/M03 Q1011 ESMT 051620Z 29005KT 9000 BR FEW008 04/03 Q1019 LHBC 051445Z 00000KT CAVOK 02/M03 Q1032 ESNL 051620Z AUTO 32009KT 9999 NCD M02/M06 Q1008 LFRV 051600Z AUTO 11005KT 080V140 CAVOK 10/08 Q1021 KPKD 051610Z AUTO 10007KT 1 1/4SM BR OVC003 M03/M05 A2969 RMK AO2 T10281050 KQBD 051555Z AUTO 32008KT 10SM CLR M03/M15 A3002 RMK AO2 SLP178 WND DATA ESTMD T10311147 LFSN 051600Z AUTO 12003KT 070V160 0750 0700 R03/1000U FZFG VV/// M01/M02 Q1027 KQD3 051556Z AUTO 04006KT 9999 CLR 27/19 A2996 RMK AO2 SLP143 T02680191 ESNN 051620Z 32007KT CAVOK 02/M03 Q1011 R16/19//95 LFSO 051600Z AUTO 11004KT 0650 0450 R02/0550N FZFG VV/// M02/M02 Q1026 ESOE 051620Z 34014KT CAVOK 04/M03 Q1015 LGKF 051550Z 12007KT 9999 FEW018 SCT025 BKN080 15/12 Q1027 KQBF 051556Z AUTO 00000KT 9999 CLR 35/02 A2978 RMK AO2 SLPNO T03510019 ESNO 051620Z 31009KT CAVOK M00/M04 Q1008 ESMX 051620Z 26005KT 230V300 9999 FEW008 04/03 Q1016 KOTG 051556Z AUTO 17014KT 10SM BKN080 OVC095 02/M01 A2962 RMK AO2 SLP046 T00221011 FZRANO KS25 051615Z AUTO 30018G24KT 10SM OVC012 M05/M07 A2962 RMK AO2 LFTH 051600Z AUTO 06013KT 9999 // NSC 15/08 Q1024 LFRZ 051600Z AUTO 08004KT CAVOK 12/09 Q1021 NOSIG KOTH 051615Z 15007KT 10SM SCT038 BKN046 BKN055 03/02 A3024 RMK AO1 ESNQ 051620Z VRB02KT 2000 SN VV010 M10/M11 Q1008 GANR 051500Z 08006KT CAVOK 37/04 Q1012 LFST 051600Z AUTO VRB01KT 2700 BR OVC002 M01/M01 Q1028 TEMPO 0300 FZFG VV/// ESNS 051620Z 35005KT 310V020 9999 FEW015 BKN025 M06/M08 Q1009 ESPA 051620Z 35006KT 9999 -SN FEW010 BKN040 BKN110 M08/M10 Q1010 ESOK 051620Z 34003KT 280V010 CAVOK 01/M02 Q1016 KOSU 051453Z 27004KT 10SM OVC019 02/M01 A3011 RMK AO2 SLP204 T00221011 53013 LGKL 051620Z 31007KT 9999 FEW025 SCT080 13/06 Q1027 ESNU 051620Z 04003KT CAVOK M03/M05 Q1009 R14/72//60 KS32 051615Z AUTO 10013KT M1/4SM FZFG OVC001 M04/M04 A2962 RMK AO2 KOTM 051607Z AUTO 17013KT 3SM BR OVC002 01/00 A2992 RMK AO2 T00110000 ESNV 051620Z AUTO 30005KT 9999 NCD M01/M03 Q1010 LFSX 051600Z AUTO 21001KT CAVOK 05/M00 Q1026 NOSIG ESPE 051620Z VRB01KT 9999 -SN BKN024 M10/M11 Q1009 LGKO 051620Z 33004KT 9999 FEW020 14/05 Q1025 ESNX 051620Z 30009KT 9999 SCT040 BKN069 M04/M06 Q1007 LGKP 051620Z 33010KT 9999 SCT020 16/11 Q1024 LHBP 051600Z 10007KT 4000 BR NSC M03/M04 Q1031 NOSIG ETGG 051620Z 28014KT 9999 FEW010 BKN018 06/02 Q1024 WHT ESNZ 051620Z 31011KT CAVOK M01/M05 Q1013 LGKR 051550Z VRB02KT 9999 BKN080 14/11 Q1027 NOSIG VRMM 051600Z 03004KT 9999 FEW020 28/23 Q1013 NOSIG WIMM 051600Z 00000KT 9999 SCT018 27/25 Q1009 KS39 051615Z AUTO 00000KT 10SM CLR M07/M09 A3009 RMK AO2 ETHA 051620Z VRB01KT 9999 01/M02 Q1026 BLACKBLU+BLU+ ETHB 051620Z 19003KT 9999 FEW300 M02/M04 Q1026 BLU+BLU+ LHDC 051614Z AUTO 32004KT //// ////// M04/M05 Q1032 KPMD 051553Z AUTO 29014KT 10SM CLR 13/M06 A2997 RMK AO2 SLP138 T01281056 LGLM 051550Z 07011KT 9999 FEW020 08/01 Q1032 LGKV 051620Z 02005KT 9999 FEW025 05/M04 Q1033 ETHC 051620Z 00000KT 9999 R26/0650N MIFG FEW250 M04/M04 Q1027 BLU+BLU+ KPKV 051615Z AUTO 31008KT 10SM OVC006 11/11 A2987 RMK AO2 T01050105 LFTW 051600Z AUTO 01003KT CAVOK 12/06 Q1024 NOSIG KPLN 051602Z AUTO 28004KT 10SM FEW023 BKN033 OVC042 02/00 A2987 RMK AO2 RAE1559 P0000 T00220000 KOVE 051553Z AUTO 31003KT 8SM CLR 03/01 A3012 RMK AO2 SLP204 T00280011 KOUN 051615Z AUTO 16006KT 7SM 04/04 A2990 RMK AO2 PWINO ETHE 051620Z AUTO 00000KT //// // ////// M02/M05 Q1027 /// ESOW 051620Z 33013KT CAVOK 04/M05 Q1014 R01/290195 ETHF 051620Z 17004KT 9999 FEW280 M03/M04 Q1027 BLU+BLU+ KQDG 051456Z AUTO 00000KT 8000 M FEW100 SCT240 04/02 A2972 RMK AO2 LTG DSNT SW-W SLP066 T00390020 401320039 PWINO $ LGKZ 051550Z 00000KT 7000 FEW004 SCT020 OVC070 04/02 Q1031 KPLR 051555Z AUTO 04004KT 7SM OVC004 10/10 A2999 RMK A01 LGLR 051550Z 08004KT 9999 FEW015 BKN035 07/05 Q1032 BLU KOWA 051615Z AUTO 14015G19KT 7SM SCT090 02/M01 A2974 RMK AO2 KPNA 051615Z AUTO 10SM CLR M11/M19 A2980 RMK AO2 LGMK 051550Z 36017G27KT 9999 FEW018 13/04 Q1027 KOWB 051556Z 07008KT 10SM OVC016 04/01 A3011 KPNC 051553Z AUTO 18005KT 10SM CLR 08/04 A2987 RMK AO2 SLP116 T00780039 KOVL 051613Z AUTO 12011KT 10SM CLR 01/00 A2963 RMK AO2 KPLU 051615Z AUTO 18004KT 10SM FEW005 BKN047 OVC050 02/02 A3007 RMK AO2 ETHL 051620Z 24006KT 3000 BR OVC003 M01/M02 Q1027 YLO KOWD 051553Z 00000KT 1SM -SN BR OVC006 01/M01 A2998 RMK AO2 SLP154 P0003 T00061006 ETIC 051620Z AUTO 16003KT 2800 BR OVC003 M04/M04 A3033 RMK AO2 VIS 2800V4000 FZRANO $ KPNE 051554Z AUTO 30011KT 10SM OVC010 07/05 A3003 RMK AO2 SLP170 T00720050 TSNO 1. http://www.litespeedtech.com/error-page ETHN 051620Z 11003KT 0200 FZFG VV000 M02/M03 Q1026 RED LFVP 051600Z 33009KT 9999 BKN026 BKN046 M00/M07 Q1007 NOSIG KPMP 051553Z 15014KT 10SM FEW018 SCT024 SCT032 27/22 A3004 RMK AO2 SLP173 T02670222 KQEI 051620Z AUTO 22005KT 9999 SCT042 02/M08 A3015 RMK A02 TSNO KOWI 051615Z AUTO 17012KT 3SM BR OVC004 05/05 A2987 RMK AO2 ETIH 051603Z AUTO 15003KT 2800 BR OVC003 M03/M03 A3034 RMK AO2 KOVS 051553Z AUTO 16003KT 5SM BR OVC006 02/00 A2993 RMK AO2 SLP143 T00170000 PWAK 051158Z AUTO 07017KT 9999 CLR 26/21 A2995 RMK AO2 SLP148 T02590206 10269 20258 402910255 58002 TSNO $ ETHS 051620Z 25001KT 0050 FZFG FEW260 M04/M05 Q1026 RED FCST CANCEL KOXB 051553Z AUTO 33005KT 9SM OVC003 08/07 A3001 RMK AO2 SLP160 T00780072 ESSA 051620Z 32014KT CAVOK 03/M05 Q1012 R01L/19//60 R08/19//71 R01R/19//67 NOSIG KQFB 051620Z AUTO 28010G21KT 9999 BKN055 08/M03 A3016 RMK A02 TSNO KPOB 051558Z AUTO 03004KT 10SM CLR 11/08 A3002 RMK AO2 SLP169 T01120078 $ LGMT 051620Z 36007KT 9999 FEW025 12/02 Q1029 KPOC 050047Z 26003KT 10SM CLR 17/M02 A3001 ETIK 051601Z AUTO 00000KT 9000 BR OVC004 M02/M02 A3036 RMK AO2 ESSB 051620Z 32012KT CAVOK 04/M05 Q1012 R30/19//62 KQEL 051620Z AUTO 22004KT 9999 CLR 01/M07 A3024 RMK A02 TSNO KOXC 051550Z 25004KT 2SM BR OVC003 02/01 A2996 KPMU 051615Z AUTO 06005KT 10SM -DZ OVC006 07/06 A3001 RMK AO2 T00700060 WIOO 051500Z 00000KT 6000 SCT012 27/25 Q1009 NOSIG KPNM 051614Z AUTO 07007KT 7SM BKN100 01/M01 A2973 RMK AO2 KPMV 051615Z AUTO 17013G17KT 10SM CLR 05/00 A2975 RMK AO2 T00510000 ESSD 051620Z 30010KT CAVOK 02/M05 Q1015 KPOE 051623Z VRB05KT 2 1/4SM -RA BR OVC003 10/09 A2985 RMK AO2A VIS 2 1/4V4 KPOF 051553Z AUTO 08007KT 10SM CLR 05/03 A3004 RMK AO2 SLP177 T00500028 TSNO KQEP 051620Z AUTO 26005G13KT 9999 CLR 01/M08 A3018 RMK A02 TSNO KOWP 051615Z AUTO 15005KT 4SM BR 06/06 A2992 RMK AO2 T00630057 GASG 051500Z 04004KT CAVOK 34/06 Q//// KQEQ 051620Z AUTO 27006G12KT 9999 CLR M01/M09 A3012 RMK A02 TSNO RCSS 051600Z 05003KT 340V110 9999 FEW015 BKN040 21/14 Q1023 NOSIG RMK A3022 KQER 051620Z AUTO 21005KT / // CLR M01/M08 A3016 RMK A02 TSNO KOXI 051615Z AUTO 21006KT 10SM OVC008 00/M07 A3008 RMK AO1 KPNS 051553Z 09007KT 10SM OVC003 21/18 A2990 RMK AO2 SLP126 T02060183 KQES 051620Z AUTO 9999 CLR 21/12 / RMK A02 TSNO LGPA 051620Z AUTO 01016KT //// // ////// 12/06 Q1027 RE// KPPA 051615Z AUTO 20018G22KT 10SM CLR 08/M02 A2973 RMK AO2 T00831020 ESTA 051620Z 27013KT 9999 OVC012 06/04 Q1019 KPNT 051615Z AUTO 20011KT 4SM BR OVC004 00/00 A3006 RMK AO2 P0001 T00020002 GASK 051500Z 24002KT CAVOK 35/10 Q//// ESSL 051620Z 31012KT CAVOK 05/00 Q1014 KQEV 051620Z AUTO 33004KT 9999 CLR M26/33 / RMK A02 TSNO WIPP 051600Z 31002KT 9999 SCT012 28/25 Q1010 NOSIG FKKD 051600Z 27007KT 9999 FEW016 FEW020CB 30/25 Q1008 NOSIG GASN 051500Z 00000KT CAVOK 38/10 Q//// RCTP 051600Z 04014KT 9000 FEW020 SCT030 20/16 Q1023 NOSIG RMK A3021 KPPF 051552Z AUTO VRB04KT 7SM FEW005 06/04 A2992 RMK AO2 SLP134 T00560039 KQEX 051620Z AUTO 36004KT 9999 CLR 06/M04 A3018 RMK A02 TSNO KOWX 051615Z AUTO 23008KT 7SM SCT013 OVC018 01/00 A3012 RMK AO1 KQEY 051620Z AUTO 30006G14KT 9999 SCT031 04/M05 A3022 RMK A02 TSNO ESSP 051620Z 33010KT CAVOK 05/M03 Q1014 R27/29//95 KOXR 051551Z 07004KT CLR 10/02 A2996 RMK AO2 SLP145 T01000017 KQFT 051620Z AUTO 23004KT 9999 CLR 01/M08 A3021 RMK A02 TSNO KPOU 051553Z VRB03KT 10SM OVC010 02/01 A2996 RMK AO2 SLP143 T00170006 ESST 051620Z 32007KT CAVOK M03/M04 Q1018 ESTL 051620Z AUTO 29015KT 9999NDV FEW016/// BKN019/// OVC024/// 06/04 Q1019 KQFV 051620Z AUTO 32004G13KT / /CLR M00/M09 A3014 RMK A02 TSNO KOXV 051555Z AUTO 17011KT 7SM 02/01 A2987 RMK AO2 KPOV 051606Z AUTO 25006KT 10SM SCT018 OVC026 03/M01 A3007 RMK AO2 T00251006 ESSV 051620Z 33014KT CAVOK 06/02 Q1012 R21/29//75 ESUD 051620Z AUTO 31010KT 9999 NCD M01/M07 Q1009 FKKN 051600Z 04008KT CAVOK 28/09 Q1016 KQFX 051620Z AUTO 27003KT 9999 CLR 02/M07 A3023 RMK A02 TSNO KPPO 051615Z AUTO 19007KT 7SM OVC007 01/01 A3008 RMK AO2 T00100010 KPOY 051615Z AUTO 34020G27KT 10SM CLR M10/M13 A2975 RMK AO2 KPPQ 051615Z AUTO 15005KT 1/4SM FG OVC001 02/02 A3003 RMK AO2 T00170017 LFYR 051600Z AUTO 16002KT CAVOK 10/04 Q1024 NOSIG KPQI 051556Z AUTO 00000KT 3SM -SN BR OVC006 M10/M11 A3003 RMK AO2 SNB11 SLP217 P0000 T11001111 FZRANO FKKR 051600Z 06006KT CAVOK 37/04 Q1009 NOSIG KPRB 051619Z AUTO 10006KT 10SM BKN004 04/02 A3009 RMK AO2 T00390022 TSNO KPRC 051553Z 21003KT 10SM CLR 05/M09 A2998 RMK AO2 SLP135 T00501089 KPQL 051553Z AUTO 04007KT 5SM BR OVC003 16/14 A2989 RMK AO2 SLP123 T01610144 TSNO KQHN 051455Z VRB03KT 9000 HZ FEW250 18/M01 A3023 RMK SLP202 Q1023 DA4153 52013 KPQN 051613Z AUTO 16009KT 10SM SCT090 02/M01 A2953 RMK AO2 KPRG 051615Z AUTO 13006KT 10SM OVC011 02/00 A3011 RMK AO2 T00190004 ESUP 051620Z 00000KT CAVOK M15/M16 Q1010 LGPZ 051620Z 09012KT 9999 SCT025 BKN080 13/04 Q1027 KOZR 051625Z AUTO 04006KT 10SM OVC004 15/15 A2993 RMK AO2 LGSA 051620Z 05011KT 9999 SCT015 FEW018TCU BKN030 13/10 Q1027 KOZS 051615Z AUTO 12004KT 10SM CLR 05/03 A2996 RMK AO2 VTBD 051600Z 04007KT 9999 FEW020 SCT100 28/22 Q1013 NOSIG KQJB 051556Z AUTO 00000KT 9999 CLR 34/03 A2982 RMK AO2 SLPNO T03350033 ESUT 051620Z AUTO 34007KT 310V010 9999 BKN036/// M02/M06 Q1010 KPSC 051553Z 08006KT 10SM CLR M03/M04 A3014 RMK AO2 SLP211 T10331044 KRAC 051553Z AUTO 22009KT 5SM BR OVC005 01/M01 A3002 RMK AO2 SLP172 T00061011 ETND 051420Z 20002KT 9999 MIFG FEW250 01/M03 Q1026 BLU+ KPRN 051556Z AUTO 07005KT 9SM OVC001 14/12 A2994 RMK AO2 SLP136 T01390122 KOZW 051614Z AUTO 25009KT 10SM OVC025 03/00 A3001 RMK AO2 T00300000 ETMN 051620Z 24005KT 9999 FEW030 M01/M03 Q1027 BLU+BLU+ KPRO 051615Z AUTO 17012KT 10SM CLR 04/03 A2980 RMK AO2 T00410030 KPSF 051554Z AUTO VRB03KT 10SM OVC006 00/M02 A2988 RMK AO2 SLP132 T00001017 KQHY 051556Z AUTO 06003KT 10SM BKN013 22/20 A2993 RMK AO2 SLPNO T02160197 LGRP 051620Z 28006KT 9999 FEW018 15/11 Q1023 NOSIG ETNG 051550Z 11003KT CAVOK 01/M01 Q1026 NOSIG ETNH 051620Z 24006KT 9999 BKN025 03/00 Q1025 BLU BLU LIBA 051555Z 07006KT CAVOK 11/09 Q1027 RMK SKC VIS MIN 9999 WIND THR11 08004KT WIND THR29 00000KT BLU VTCC 051600Z 00000KT 9999 FEW040 21/17 Q1018 A3008 NOSIG KPRS 051615Z AUTO 00000KT 10SM OVC007 09/07 A2997 RMK AO2 T00910070 LGSK 051550Z 03008KT 9999 FEW020 BKN030 10/01 Q1031 KT20 051615Z AUTO 34007KT 2SM DZ OVC005 10/10 A2989 RMK AO2 T01010101 KPSK 051615Z AUTO 33005G15KT 10SM SCT028 10/03 A3005 RMK AO2 T00990032 KPTB 051615Z AUTO 33004KT 10SM OVC007 07/05 A3003 RMK AO2 T00660051 KRAL 051553Z 06003KT 10SM CLR 09/02 A2998 RMK AO2 SLP143 T00940017 ETNL 051620Z 23006KT 9000 BKN025 01/M01 Q1024 BLU FCST CANCEL VTBO 051100Z 36003KT 8000 FEW022 29/23 Q1010 KRBD 051553Z 08004KT 7SM OVC006 09/08 A2989 RMK AO2 CIG 005V010 SLP120 T00890078 LIBD 051620Z VRB03KT 9999 FEW025 09/08 Q1027 LGSM 051550Z 36010KT 330V030 CAVOK 14/08 Q1026 KPSM 051623Z 00000KT 1SM R34/P6000FT -SN OVC002 00/M02 A2996 RMK AO2A LHKE 051615Z 07002KT 0600 FZFG BKN003 M04/M04 Q1031 NOSIG RMK RED KPSN 051615Z AUTO 03005KT 7SM -SN OVC008 08/08 A2988 RMK AO2 T00870082 LIBF 051350Z VRB03KT CAVOK 15/07 Q1027 ETNN 051620Z 14003KT 9999 FEW260 M00/M02 Q1026 BLU+BLU+ VTCH 051000Z 34004KT 9999 FEW028 31/17 Q1011 A2986 INFO LGRX 051620Z 09006KT 9999 FEW025 BKN100 13/08 Q1027 LGSO 051620Z 01022G32KT 9999 FEW020 12/06 Q1028 KPRX 051535Z 08009KT 10SM OVC100 08/05 A2993 RMK AO1 KPSO 051615Z AUTO 00000KT 10SM SCT090 M03/M07 A2992 RMK AO2 T10261068 LGTG 051550Z 31004KT 9999 FEW030 08/01 Q1031 RMK FEW080 BLU LIBG 051550Z 07003KT CAVOK 12/06 Q1026 KRAP 051552Z 33033G40KT 10SM BKN034 BKN065 M01/M04 A2956 RMK AO2 PK WND 33042/1533 UPB24E45SNB1453E18 SLP033 P0000 T10061044 KPSP 051553Z 31004KT 10SM CLR 11/M01 A2992 RMK AO2 SLP134 T01061011 KRBG 051619Z AUTO 15005KT 10SM FEW011 SCT021 03/02 A3024 RMK AO2 T00330022 LIBH 051555Z 24004KT CAVOK 10/07 Q1026 RMK SKC QUK / QUL / VIS MAR 30 KM VIS MIN 9999 VTBS 051600Z 05005KT 9999 FEW020 SCT100 27/21 Q1013 NOSIG LGSR 051620Z 36016KT 9999 FEW025 14/08 Q1026 VTCL 051200Z 01003KT 9999 FEW025 25/20 Q1014 A2996 VTBU 051600Z 02006KT 8000 FEW020 26/21 Q1012 NOSIG LICA 051550Z 06011KT CAVOK 14/08 Q1026 KRAS 051615Z AUTO 32011KT 10SM OVC010 11/10 A2988 RMK AO2 T01140104 KRCA 051618Z 32025G34KT 10SM -SN SCT011 SCT026 SCT034 OVC065 M02/M05 A2960 RMK AO2A PRESRR $ LICB 051550Z 12004KT 090V150 9999 FEW030 15/10 Q1025 ETNS 051620Z AUTO 23009KT 9999 // ////// 03/02 Q1025 /// KPTK 051553Z 26008KT 10SM OVC024 03/M01 A3000 RMK AO2 SLP168 T00281006 $ KPUB 051453Z 23005KT 10SM CLR M01/M09 A2961 RMK AO2 SLP042 T10111089 56003 VTCN 051100Z 03002KT 9999 FEW025 24/17 Q1013 ETNT 051620Z VRB01KT 9999 MIFG FEW200 M02/M03 Q1027 BLU+BLU+ KPUC 051553Z AUTO 33021G33KT 10SM BKN050 OVC065 00/M09 A2986 RMK AO2 PK WND 33033/1546 SLP150 T00001089 LICC 051620Z 08011KT 8000 FEW015 BKN030 15/09 Q1026 KRBL 051615Z AUTO 35005KT 3SM BR CLR 02/02 A3013 RMK AO2 T00220017 LICD 051550Z 12013KT CAVOK 19/15 Q1023 KQN2 051556Z AUTO 00000KT 9999 CLR 26/20 A2987 RMK AO2 SLPNO T02640196 KRCE 051555Z AUTO 18011KT 3SM BR 04/04 A2989 RMK AO2 VTCP 051600Z AUTO 00000KT 9999 // ////// 23/21 Q1016 LIBN 051555Z 06003KT 9999 FEW030 13/09 Q1027 RMK BKN BKN080 VIS MIN 9999 WIND THR14 05003KT WIND THR32 05003KT BLU KPTN 051626Z AUTO 06008KT 10SM VCTS -RA BKN004 BKN013 OVC023 A2982 RMK AO2 LTG DSNT N-E P0003 FZRANO $ KQN3 051556Z AUTO 05007KT 9999 CLR 35/02 A2990 RMK AO2 SLP114 T03450021 GAYE 051500Z 08006KT CAVOK 39/03 Q//// ETNW 051620Z 26001KT 9999 M03/M05 Q1026 BLU+BLU+ LICF 051555Z 23005KT 9999 FEW040 17/10 Q1025 RMK BKN BKN200 QUK 2 QUL 1 SW VIS MAR 20 KM MON LIB NC VIS MIN 9999 KPSX 051608Z AUTO 27008KT 2 1/2SM BR OVC004 11/11 A2987 RMK AO2 T01060106 KRBO 051615Z AUTO 34013G18KT 10SM SCT011 OVC028 13/12 A2989 RMK AO2 T01290115 LICG 051555Z 14007KT 9999 FEW013TCU SCT020 15/11 Q1023 LGSY 051550Z 02013G23KT 9999 BKN025 10/03 Q1030 BLU LIBP 051550Z VRB02KT 6000 NSC 10/09 Q1028 KT35 051615Z AUTO 35005KT 10SM -RA OVC005 09/09 A2989 RMK AO2 T00920087 LIBQ 050755Z 04004KT 9999 FEW006 04/M00 Q1024 VTCT 051500Z 00000KT CAVOK 20/19 Q1018 A3007 LIBR 051615Z 33003KT CAVOK 11/09 Q1027 NOSIG KPTS 051615Z AUTO 16005KT 10SM CLR 06/06 A2991 RMK AO2 T00600056 LICJ 051620Z 06008KT CAVOK 16/07 Q1024 LGTS 051620Z VRB03KT 9999 FEW010 SCT025 09/03 Q1033 NOSIG KPUJ 051615Z AUTO 15003KT 7SM OVC003 11/11 A3000 RMK AO2 KPTT 051615Z AUTO 19020G25KT 10SM CLR 06/00 A2971 RMK AO2 T00620000 KPVB 051615Z AUTO 17007KT 1/2SM OVC003 00/00 A2994 RMK AO1 T00010001 LICL 051555Z 06006KT 9999 SCT030 16/13 Q1023 RMK OVC OVC090 QUK 1 QUL 0 VIS MAR 20 KM VIS MIN 9999 KPVC 051556Z AUTO 13009KT 10SM FEW040 SCT065 04/01 A3000 RMK AO2 UPE23 PRESFR SLP160 P0000 T00390011 LIBV 051555Z 02004KT 6000 FEW012 08/07 Q1026 RMK FEW VIS MIN 6000 WIND THR32 03004KT WIND THR14 03004KT WHT KPVD 051558Z 00000KT 2 1/2SM -RA BR BKN004 OVC012 01/00 A2998 RMK AO2 P0000 T00110000 KRCM 051635Z AUTO 13006KT 10SM CLR 04/03 A2994 RMK AO2 KRDD 051553Z 32003KT 10SM BCFG CLR 01/00 A3012 RMK AO2 SLP199 I1001 T00060000 KPTV 051556Z AUTO 09003KT 6SM BR CLR 03/02 A3011 RMK AO2 SLP212 T00280022 ETOU 051558Z AUTO 00000KT 9999 OVC007 M02/M04 A3038 RMK AO2 SLP300 T10191036 GCGM 051600Z 18004KT 140V210 9999 FEW015 SCT022 22/17 Q1020 RMK R09/18003KT 120V270 ARP/17003KT 120V250 GCFV 051600Z 35012KT 9999 FEW030 SCT041 24/18 Q1019 KPTW 051554Z AUTO 27004KT 6SM BR OVC011 06/04 A3002 RMK AO2 SLP166 T00560039 KRBW 051615Z AUTO 00000KT 10SM OVC003 12/ A3002 RMK AO2 KPVE 051615Z AUTO 05005KT 10SM OVC008 06/04 A3003 RMK KPVF 051615Z AUTO 07007KT 10SM CLR 07/M04 A3008 RMK AO1 LIBY 051555Z 05007KT 9999 SCT020 BKN025 12/12 Q1027 RMK BKN QUK 2 QUL 1 NE VIS MAR 12 KM VIS MIN 9999 KPVG 051615Z AUTO 35004KT 10SM OVC006 09/08 A3000 RMK AO1 KRDG 051617Z 26007KT 10SM SCT009 07/03 A2999 RMK AO2 T00670033 LICR 051550Z 19009KT CAVOK 16/07 Q1025 KRCR 051615Z AUTO 20007KT 10SM OVC010 01/00 A3010 RMK AO2 P0001 GCHI 051600Z 01007KT 330V040 9999 SCT028 22/17 Q1019 NOSIG LIEA 051620Z VRB03KT 9999 BKN040 17/11 Q1021 KPWA 051553Z 19008KT 8SM CLR 06/05 A2988 RMK AO2 SLP122 T00560050 KPVJ 051615Z AUTO 15003KT 10SM BKN002 04/04 A2990 RMK AO2 T00400040 LIEB 051555Z 12005G17KT 4000 -RA BR BKN020 14/13 Q1021 RMK OVC QUK 3 QUL 0 VIS MAR 4 KM MON INVIS VIS MIN 4000 LICT 051555Z 12008KT 9999 -RA SCT022 15/13 Q1024 KRDK 051555Z AUTO 17012KT 10SM CLR 04/02 A2980 RMK AO2 LIEC 051555Z 13021KT 9999 FEW015 SCT018 15/12 Q1020 RMK OVC BKN070 QUK 4 QUL 0 VIS MAR 16 KM VIS MIN 9999 KPWC 051612Z AUTO 08006KT 1 1/4SM BR OVC002 M03/M03 A2976 RMK AO2 LIED 051555Z 12008KT 9999 FEW015 SCT025 15/13 Q1019 RMK OVC BKN070 VIS MIN 9999 WIND THR35 12009KT WIND THR17 11009KT BLU KRDM 051556Z 05004KT 10SM CLR M07/M11 A3008 RMK AO2 SLP215 T10721106 KQND 051556Z AUTO 00000KT 9999 CLR 35/02 A2988 RMK AO2 SLPNO T03480020 LIEE 051620Z 12014KT 9000 -SHRA SCT015 BKN030 16/14 Q1020 KPUW 051553Z AUTO 19003KT 10SM CLR M04/M06 A3007 RMK AO2 SLP214 T10391061 FLHN 051300Z 09010KT CAVOK 34/08 Q1013 KRCX 051615Z AUTO 17006KT 1/4SM FZFG OVC001 00/M01 A2986 RMK AO2 T10051007 KPWG 051608Z AUTO 35008KT 4SM -RA BR SCT008 OVC023 08/08 A2990 RMK AO2 P0001 LICZ 051555Z 26004KT 4000 -RA BKN015 OVC070 13/13 Q1026 RMK OVC VIS MIN 2500SW WIND THR28 26004KT WIND THR10 27003KT A3030 YLO KRCZ 051605Z AUTO 36004KT 10SM CLR 11/08 A3003 RMK AO2 T01070079 KRDR 051626Z COR AUTO 10005KT 1 1/2SM BR OVC002 M03/M04 A2969 RMK AO2 COR 1628 ETSA 051620Z 04001KT 9999 M02/M02 Q1026 BLU+BLU+ KPWK 051552Z 20007KT 4SM BR OVC005 01/M01 A3004 RMK AO2 SLP178 T00061006 ETSB 051620Z 26004KT 9999 FEW250 00/M03 Q1025 BLU+BLU+ KRDU 051551Z 03003KT 10SM FEW009 SCT180 SCT250 10/07 A3004 RMK AO2 SLP173 T01000067 KPVU 051558Z 30012KT 10SM FEW060 OVC080 01/M07 A3002 KPWM 051551Z 04004KT 1/2SM -SN FZFG BKN021 BKN025 OVC035 M02/M04 A3002 RMK AO2 SLP165 P0002 T10221044 KRFD 051554Z 19012KT 1/2SM R01/2600V3500FT FZFG OVC002 M01/M01 A3002 RMK AO2 SLP174 T10061011 KPVW 051615Z AUTO 21012G17KT 10SM CLR 07/00 A2978 RMK AO2 T00661002 TSNO KPXE 051615Z AUTO 04004KT 3SM BR OVC003 11/10 A3001 RMK AO2 T01140101 LIEO 051620Z 08007KT 050V110 9999 FEW020 SCT040 16/14 Q1023 KREO 051552Z AUTO 16005KT M10/M13 A3011 RMK AO1 SLP228 T11001133 KT65 051615Z AUTO 32007KT 7SM OVC013 14/11 A2992 RMK AO2 T01350107 ETSH 051615Z 01001KT 4500 BCFG MIFG FEW250 M04/M05 Q1026 GRN KRFI 051615Z AUTO 06005KT 10SM OVC006 08/08 A2989 RMK AO2 T00810075 ETSI 051620Z VRB03KT 4500 BR OVC005 M02/M03 Q1028 YLO LHPA 051615Z 17004KT CAVOK M01/M04 Q1029 NOSIG RMK BLU KRGA 051615Z AUTO 07005KT 10SM OVC016 05/02 A3010 RMK AO2 KPWT 051615Z 17008KT 9SM OVC006 00/M01 A3008 RMK AO1 KT70 051558Z AUTO 31009KT 10SM BKN012 OVC024 11/09 A2989 RMK AO2 BKN V OVC SLP120 T01110089 $ ETSL 051620Z AUTO 36001KT 0300 // ////// M03/M04 Q1026 /// ETSN 051620Z VRB03KT 3700 BR OVC004 M02/M03 Q1028 YLO FCST CANCEL LGZA 051150Z 00000KT 9999 SCT025 BKN080 16/11 Q1026 GCLA 051600Z VRB02KT 9999 FEW017 SCT022 22/18 Q1020 KRGK 051547Z AUTO 14007KT 5SM BR SCT009 BKN110 02/00 A2981 RMK AO2 FLKK 051600Z 16003KT 9999 -TS FEW045CB BKN090 25/16 Q1017 KPYM 051622Z AUTO 12005KT 5SM -RA BR SCT007 OVC013 03/02 A2996 RMK AO2 P0001 T00330022 KT82 051615Z AUTO 36005KT 5SM -DZ BKN006 BKN033 OVC040 08/07 A2990 RMK AO2 T00780068 LHPP 051545Z 12004KT CAVOK 01/M02 Q1030 FMCH 051600Z 14003KT 110V190 9999 FEW020TVU 28/25 Q1012 NOSIG KRHI 051553Z AUTO 24005KT 10SM FEW009 00/M02 A2984 RMK AO2 SLP124 T00001017 TSNO LHPR 051545Z 12008KT 4000 BR NSC M01/M02 Q1029 RMK GRN AGGH 051600Z 16002KT 25KM HZ FEW015 SCT100 SCT300 26/24 Q1007 KRIC 051554Z 33008KT 10SM BKN009 08/06 A3003 RMK AO2 SLP174 T00780056 KQRD 051558Z AUTO M M M M M M RMK AO2 SLPNO $ KPYX 051615Z AUTO 18018G21KT 10SM CLR 07/00 A2966 RMK AO2 T00700002 KRHP 051605Z AUTO 00000KT 10SM BKN018 12/09 A3000 RMK AO2 T01190094 GCLP 051600Z 03016KT 9999 SCT030 BKN040 23/17 Q1019 NOSIG KPZQ 051614Z AUTO 00000KT 4SM -SN SCT011 BKN016 OVC021 02/01 A2988 RMK AO2 T00150005 KQRH 051556Z AUTO 08003KT 9999 CLR 27/20 A3000 RMK AO2 SLP152 T02690198 KSAA 051615Z AUTO 25025G31KT 10SM OVC065 M05/M14 A2973 RMK AO2 KSAC 051627Z 31005KT 1 1/2SM BR BKN002 04/04 A3013 RMK AO2 T00390039 KRIL 051453Z AUTO 25003KT 10SM CLR M05/M08 A2982 RMK AO2 SLP116 T10501078 53005 KRHV 051548Z VRB03KT 10SM OVC010 11/10 A3013 KSAD 051551Z AUTO 00000KT 10SM CLR 04/M03 A3000 RMK AO2 SLP154 T00391028 FMEE 051600Z AUTO 12007KT 9999 SCT047/// BKN054/// BKN066/// 24/17 Q1015 NOSIG KSAF 051553Z 35008KT 10SM CLR 02/M08 A2988 RMK AO2 SLP116 T00221083 KQQY 051555Z AUTO VRB03KT 9999 CLR 30/21 A3003 RMK AO2 SLP146 WND DATA ESTMD T03040213 $ KU16 051358Z AUTO 33017G23KT 10SM OVC095 M02/M14 A2996 RMK AO2 PK WND 32028/1259 SLP774 T10221144 TSNO $ FMCZ 051600Z AUTO VRB02KT 9999 BKN023/// BKN029/// BKN035/// 28/22 Q1012 TEMPO SHRA BECMG SCT020 FEW022CB KSBA 051553Z 00000KT 10SM CLR 07/07 A2995 RMK AO2 SLP142 T00720067 KSBD 051539Z AUTO 00000KT 10SM CLR 08/M01 A2997 RMK AO2 T00831014 KRKD 051456Z AUTO 04004KT 10SM OVC100 M01/M04 A3007 RMK AO2 SLP185 T10061044 58015 FZRANO KRIV 051558Z AUTO 00000KT 10SM CLR 07/01 A2997 RMK AO2 SLP148 T00660011 PWINO LHSM 051545Z 08003KT 6000 BKN040 00/M03 Q1030 ETWM 051620Z AUTO 31001KT 2600 // ////// M03/M04 Q1027 /// LHSN 051615Z 06002KT 0350 R02/0700V1500U FZFG BKN002 OVC005 M04/M04 Q1031 NOSIG RMK RED KSAN 051551Z 11003KT 10SM SCT013 SCT150 BKN200 13/07 A2999 RMK AO2 SLP153 T01330067 KRIW 051611Z AUTO 02015KT 9SM SCT009 OVC110 M07/M10 A2976 RMK AO2 SNE09 P0001 T10671100 FMEP 051600Z AUTO 12012KT CAVOK 25/18 Q1015 KSAR 051615Z AUTO 09006KT 10SM BKN010 04/01 A3006 RMK AO2 T00390014 KSAT 051607Z 30008KT 3SM -RA BR FEW007 BKN023 OVC037 10/09 A2991 RMK AO2 SFC VIS 4 P0000 T01000089 KSBM 051553Z AUTO 21008KT 10SM OVC011 01/M02 A2996 RMK AO2 SLP153 T00061017 KSAV 051553Z 36008KT 2SM BR OVC004 13/12 A3003 RMK AO2 SFC VIS 3 SLP168 P0001 T01330117 KSCD 051615Z AUTO 00000KT 7SM DZ OVC004 11/11 RMK AO2 T01130113 KRLD 051615Z AUTO 00000KT 10SM CLR M02/M03 A3015 RMK AO2 T10221031 LHUD 051545Z 03004KT 8000 SCT083 00/M03 Q1031 LJCE 051600Z AUTO 03002KT 7000 NSC 01/M01 Q1029 GBYD 051500Z 07008KT CAVOK 38/17 Q1009 KSBN 051554Z 20009KT 10SM OVC009 00/M01 A3008 RMK AO2 CIG 007V011 SLP194 T00001011 KSAW 051445Z 24006KT 10SM SKC M00/M03 A2979 KSBO 051615Z AUTO 04004KT 10SM OVC005 11/11 A3002 RMK AO2 KSCF 051615Z AUTO 06014G20KT 5SM BR OVC005 18/18 A2981 RMK A01 KRKP 051553Z AUTO A2988 RMK AO2 SLP121 PWINO FZRANO $ KSBP 051556Z 00000KT 10SM CLR 13/04 A3002 RMK AO2 SLP166 T01330044 KSCH 051245Z 07004KT 2 1/2SM -SN BKN008 OVC014 M02/M02 A2994 RMK FIRST KSAZ 051613Z AUTO 08003KT 10SM SCT003 M03/M03 A2970 RMK AO2 KRKR 051615Z AUTO 01004KT 10SM SCT005 SCT008 05/05 A2997 RMK AO2 T00510045 LIMA 051550Z 19003KT 3000 BR NSC 08/04 Q1027 KRKS 051554Z AUTO 28020G30KT 10SM CLR M08/M19 A2982 RMK AO2 PK WND 29037/1516 SLP129 T10831189 KSBS 051615Z AUTO 29013G22KT 1 1/2SM SCT010 BKN022 OVC037 M04/M06 A2977 RMK AO1 T10401061 KSDA 051615Z AUTO 17014KT 10SM CLR 05/03 A2980 RMK AO2 KSDB 051553Z AUTO 33026KT 10SM CLR 09/M04 A3003 RMK AO2 PK WND 33034/1513 SLP137 T00891044 KSCK 051555Z 26004KT 1/4SM FG OVC002 03/03 A3010 RMK AO2 SLP192 T00330033 RVRNO LIMC 051620Z VRB02KT 2000 R35R/1500U R17L/1400D R35L/P1500N BCFG NSC 06/05 Q1027 BECMG 1200 BCFG KU42 051555Z AUTO 32015G22KT 10SM BKN070 OVC080 M01/M10 A3002 RMK AO1 T10151103 LIME 051620Z 21005KT 1200 R28/P2000VP2000U BR SCT003 05/04 Q1027 KRME 051553Z 00000KT 10SM OVC021 01/00 A2989 RMK AO2 UPB07E13SNE07 SLP125 P0000 T00060000 LIMF 051620Z 22003KT 3500 BR NSC 08/04 Q1027 KSDF 051556Z 08005KT 10SM BKN019 05/M01 A3014 RMK AO2 SLP208 T00501006 LIMG 051550Z 02009KT 350V090 9999 BKN045 14/M02 Q1025 KRMG 051553Z AUTO 04003KT 10SM OVC006 10/08 A3000 RMK AO2 SLP156 T01000078 KSBY 051554Z 31007KT 10SM OVC008 08/07 A3001 RMK AO2 CIG 005V010 SLP164 T00830067 LIMH 051355Z /////KT CAVOK M06/M29 Q1023 RMK SKC MON LIB VAL S FOSCHIA VIS MIN 9999 KSCR 051605Z AUTO 32003KT 10SM CLR 12/08 A3004 RMK AO2 T01160080 KSEA 051608Z 17007KT 1/2SM R16L/5000VP6000FT SN FG VV006 01/01 A3007 RMK AO2 P0003 T00060006 LIMJ 051620Z 05008KT 010V080 9999 BKN040 12/04 Q1026 FKYS 051600Z 02003KT 350V050 4000 HZ FEW020 29/21 Q1014 NOSIG LIMK 051555Z 00000KT 3000 BR NSC 07/04 Q1026 RMK SKC VAL FOSCHIA SKC SUP VIS MIN 3000 KSDL 051553Z 16004KT 10SM CLR 09/M03 A2994 RMK AO2 SLP130 T00941033 LIML 051620Z 00000KT 0250 R36/0400V0550N FG VV/// 06/06 Q1028 NOSIG KRNC 051615Z AUTO 03005KT 10SM BKN010 BKN014 08/08 A3004 RMK KSDM 051553Z AUTO 11004KT 8SM FEW010 11/03 A2997 RMK AO2 SLP148 T01110028 $ KRND 051614Z 30007KT 5SM -DZ BR BKN007 OVC016 10/10 A2991 RMK AO2A RAE06DZB06E12DZB14 LIMN 051613Z 18003KT 0500 FG NSC 07/06 Q1027 RMK SKC VIS MIN 0500 RED KSEE 051447Z 00000KT 10SM SKC 04/02 A2997 KRMN 051615Z AUTO 00000KT 10SM OVC005 06/05 A3008 RMK AO2 T00560053 LIMP 051550Z VRB02KT 3000 BR BKN050 09/06 Q1029 KSEG 051553Z AUTO 23004KT 10SM FEW012 BKN036 06/04 A3000 RMK AO2 SLP161 T00560044 KRNH 051615Z AUTO 13007KT 3SM BR OVC003 M01/M01 A2980 RMK AO2 T10081008 LIMS 051555Z 00000KT 1500 BR SCT040 BKN060 09/06 Q1026 KROA 051554Z 31014KT 10SM FEW040 12/04 A3004 RMK AO2 SLP174 T01170044 LIMT 051555Z 36006KT 0000 FG VV/// 03/01 Q1025 RMK MON INVIS VAL INVIS VIS MIN 0000 KSFB 051553Z 18010KT 10SM SCT014 27/21 A3000 RMK AO2 SLP156 T02720211 LIMU 051555Z 02014KT CAVOK 12/06 Q1026 RMK BKN BKN070 QUK 3 QUL 1 SE VIS MAR 30 KM VIS MIN 9999 KROC 051554Z 28020G28KT 10SM SCT024 BKN030 05/00 A2993 RMK AO2 PK WND 26030/1535 SLP142 T00500000 LIMV 051555Z /////KT 5000 1000N BR SCT003 BKN012 07/04 Q1026 RMK OVC MON N INVIS S LIB NC VAL N INVIS S FOSCHIA VIS MIN 1000N KRNM 051553Z 00000KT 10SM CLR 04/01 A2997 RMK AO2 SLP150 T00390006 $ KSEM 051615Z AUTO 09005KT 10SM OVC005 12/11 A2995 RMK AO2 VTPH 051200Z 35004KT 300V040 8000 NSC 27/22 Q1010 KSFF 051553Z 00000KT 10SM CLR M04/M06 A3009 RMK AO2 SLP209 T10441061 KRNO 051555Z 00000KT 10SM FEW150 BKN220 M02/M07 A3006 RMK AO2 SLP177 T10171067 $ LIMY 051555Z VRB02KT 6000 NSC 08/03 Q1027 RMK SCT SCT083 VAL FOSCHIA VIS MIN 6000 KRMY 051614Z AUTO 22005KT 10SM OVC021 02/00 A3003 RMK AO2 T00180000 KRNP 051614Z AUTO 23005KT 10SM OVC026 03/01 A3001 RMK AO2 T00270013 KSDY 051556Z AUTO 31019G27KT 9SM -SN OVC017 M05/M08 A2970 RMK AO2 PK WND 31027/1552 SNE1458B23 SLP089 P0000 T10501078 FZRANO KSEP 051615Z AUTO 00000KT 10SM OVC010 08/06 A2994 RMK AO2 T00770055 KROG 051558Z 12009KT 10SM CLR 04/03 A2994 RMK AO2 SLP143 T00440033 $ LIMZ 051550Z 35002KT 8000 NSC 08/05 Q1027 GCRR 051600Z 33010KT 9999 FEW030 BKN040 24/18 Q1019 LIPA 051555Z 03002KT CAVOK 06/02 Q1027 RMK SKC VIS MIN 9999 WIND THR05 00000KT WIND THR23 03003KT A3035 BLU KU68 051615Z AUTO 28003KT 10SM SCT046 BKN085 BKN120 M05/M11 A2982 RMK AO2 LIPB 051550Z VRB02KT CAVOK 03/M03 Q1028 VTPM 050900Z 09006KT 020V120 9999 SCT030 BKN080 29/19 Q1010 RWY 27/INFO I KRNT 051618Z VRB03KT 3/4SM SN BR BKN004 BKN008 OVC014 01/01 A3009 RMK AO2 RAB1557E1558 P0003 T00060006 KSET 051554Z AUTO 16007KT 8SM OVC011 04/02 A3006 RMK AO2 SLP181 T00440022 FLSK 051600Z 20006KT 9999 -TS FEW060CB BKN070 25/17 Q1015 LIPC 051555Z 30001KT 6000 SCT026 08/06 Q1028 FNBC 051600Z 32007KT 9999 SCT014 FEW017CB 26/26 Q//// VTPO 051100Z 00000KT 8000 SCT022 SCT030 30/21 Q1011 KSFM 051627Z AUTO 00000KT 1SM -SN BR FEW004 SCT016 OVC021 M02/M03 A2997 RMK AO2 P0000 FZRANO RVRNO $ KRPD 051615Z AUTO 14008KT 1/4SM FZFG OVC003 M02/M02 A2985 RMK AO2 T10211025 KRNV 051615Z AUTO 03008KT 7SM DZ OVC007 08/08 A2999 RMK AO2 T00750075 VTPP 051300Z 08003KT 8000 FEW025 25/20 Q1013 LIPE 051620Z 28001KT 5000 BR FEW012 BKN080 08/06 Q1028 LIPF 051555Z 24002KT 2000 BR BKN030 09/06 Q1028 KSGF 051611Z 16014G20KT 8SM OVC004 03/02 A2994 RMK AO2 T00280022 KSFO 051556Z 26007KT 10SM FEW006 SCT010 OVC015 12/09 A3011 RMK AO2 SLP197 T01170089 $ KQWX 051555Z AUTO 00000KT 12SM BKN150 04/00 A2977 RMK AO2 SLP701 WND DATA ESTMD T00370000 FNBG 051600Z 31008KT 9999 SCT015 BKN120 27/23 Q1011 KSGH 051556Z AUTO 23004KT 10SM OVC016 03/M01 A3011 RMK AO2 SLP208 T00281006 LIPH 051620Z VRB01KT CAVOK 07/01 Q1028 KSEZ 051615Z AUTO 03004KT 10SM CLR 08/M08 A2998 RMK AO2 KSFQ 051615Z AUTO 32007KT 10SM OVC006 10/10 A3001 RMK AO2 T00950095 KRPH 051615Z AUTO 14006KT 10SM BKN011 OVC017 08/08 A2990 RMK AO2 T00750075 LIPI 051555Z /////KT CAVOK 08/02 Q1027 RMK SKC VIS MIN 9999 WIND THR06 32004KT WIND THR24 33003KT BLU KROS 051615Z AUTO 12004KT 10SM SCT100 M01/M01 A2979 RMK AO2 KRPJ 051615Z AUTO 17013KT 1/4SM FZFG OVC002 M01/M01 A3002 RMK AO2 T10091010 KSGJ 051558Z 21010KT 10SM FEW020 27/21 A2999 RMK AO2 SLP156 T02670206 LIPK 051550Z 00000KT 6000 FEW030 BKN070 09/03 Q1028 FNCA 051600Z 17006KT 9999 FEW015 FEW025CB 29/25 Q1009 EVLA 051620Z AUTO 29008KT 9999 FEW061/// OVC082/// 07/04 Q1011 KRQB 051614Z AUTO 27009KT 10SM SCT015 BKN023 04/M01 A2995 RMK AO2 T00401006 LIQC 051555Z ///02KT CAVOK 14/07 Q1026 RMK SKC QUK 1 QUL 0 VIS MAR 15 KM VIS MIN 9999 LIPL 051555Z /////KT 0100 R31/0250N FG VV001 05/05 Q1028 RMK VIS MIN 0100 WIND THR31 27003KT RED KSHD 051615Z AUTO 00000KT 10SM CLR 10/04 A3003 RMK AO2 T00980044 KROW 051551Z 32005KT 10SM CLR M01/M03 A2984 RMK AO2 SLP104 T10061028 KRQE 051553Z AUTO VRB03KT 10SM CLR M04/M08 A2994 RMK AO2 SLP138 T10391078 TSNO LIPO 051550Z 27005KT 0500 R32/1200D FG NSC 05/05 Q1028 KROX 051614Z AUTO 14006KT 10SM OVC011 M01/M04 A2973 RMK AO2 KSFY 051615Z AUTO 15013KT 3/4SM BR OVC001 00/00 A2998 RMK AO2 T10011005 LIPQ 051620Z VRB03KT CAVOK 07/M02 Q1028 KSFZ 051556Z AUTO 00000KT 2SM -RA BR OVC003 01/M01 A2996 RMK AO2 UPE03RAB03 SLP168 P0001 T00061006 FZRANO VTSB 051400Z 36005KT 7000 SCT014 BKN100 25/25 Q1011 KSGR 051553Z 04006KT 10SM OVC006 12/12 A2981 RMK AO2 RAE02 SLP096 P0000 T01170117 LIPR 051615Z 26002KT 6000 OVC020 10/05 Q1028 LIPS 051555Z 00000KT 6000 NSC 09/03 Q1027 RMK SKC VIS MIN 6000 WIND THR26 00000KT WIND THR08 00000KT WHT VTSC 050900Z 10010KT 8000 SCT020 BKN100 28/25 Q1006 RWY20 INFO J LIRA 051620Z 14007KT CAVOK 13/04 Q1026 KSGS 051611Z AUTO 13006KT 7SM BKN090 01/00 A2976 RMK AO2 T00050000 GCTS 051600Z 27008KT 9999 FEW030 24/17 Q1019 NOSIG KSGT 051615Z AUTO 08005KT 10SM OVC011 07/03 A3003 RMK AO1 VTSE 051200Z 15006KT 5000 -TSRA SCT010 SCT016CB BKN024 24/24 Q1010 RERA KSGU 051615Z 21003KT 10SM CLR 02/M08 A2999 RMK AO1 KSHL 051615Z AUTO 17017KT 10SM CLR 04/01 A2960 RMK AO2 VTSF 051400Z 00000KT 9000 BN015 BKN020 25/25 Q1010 LIQN 051550Z VRB03KT CAVOK 10/03 Q1025 VTSG 051600Z 03006KT 350V070 9999 FEW020 24/23 Q1010 LIRE 051555Z 08004KT 9999 FEW030 14/03 Q1025 RMK SCT SCT200 VIS MIN 9999 WIND THR13 10006KT WIND THR31 10002KT BLU KSHN 051619Z AUTO 14004KT 3SM -SN BR OVC019 01/00 A3004 RMK AO2 P0003 T00110000 LIQO 051455Z 15007KT CAVOK 12/02 Q1025 KRPX 051615Z AUTO 28015G19KT 10SM M06/M15 A2977 VTSH 051100Z 09008KT 9999 VCSH FEW018CB SCT030 BKN100 28/25 Q1007 NOSIG LIRF 051620Z 13006KT 110V170 CAVOK 14/05 Q1026 NOSIG KSIF 051605Z AUTO 00000KT 5SM BR OVC002 06/06 A3006 RMK AO2 T00620062 LIPX 051620Z 24006KT 6000 NSC 06/04 Q1028 LIRG 051555Z 11002KT CAVOK 13/00 Q1026 LIPY 051550Z VRB01KT 7000 FEW015 BKN020 10/06 Q1028 WMBA 051600Z 10001KT 9999 SCT032 SCT150 BKN280 27/25 Q1009 LIRH 051555Z 05003KT CAVOK 13/M03 Q1026 LIPZ 051620Z 21003KT 190V260 CAVOK 07/02 Q1028 NOSIG LIRI 051550Z 00000KT CAVOK 13/06 Q1026 KSHR 051553Z AUTO 32015KT 9SM SCT015 BKN038 OVC080 M06/M09 A2979 RMK AO2 SNE21 SLP125 P0000 T10611089 FMMI 051600Z 09006KT 9999 VCTS SCT017CB SCT020 21/16 Q1020 NOSIG VTSM 051600Z 08008KT 7000 FEW020 28/25 Q1011 KSIK 051615Z AUTO 09010KT 10SM BKN014 05/02 A3006 RMK AO2 LIRL 051555Z 06002KT CAVOK 15/04 Q1026 KSJC 051553Z 24005KT 5SM BR FEW003 BKN008 OVC015 11/09 A3011 RMK AO2 RAB39E50 SLP196 P0000 T01110089 KRRL 051615Z AUTO 22004KT 10SM OVC005 00/M01 A2987 RMK AO2 T10011010 LIRM 051555Z 07004KT CAVOK 13/08 Q1025 KTAD 051554Z AUTO 26006KT 9SM CLR 06/M09 A2966 RMK AO2 SLP021 T00561094 KSHV 051556Z 05006KT 7SM -RA BKN008 OVC012 08/07 A2993 RMK AO2 SLP136 P0001 T00830072 LIQW 051455Z 30008KT 9999 FEW030 10/08 Q1026 VTSP 051600Z 07006KT 8000 FEW018 BKN100 26/23 Q1010 NOSIG LIRN 051620Z 25004KT CAVOK 13/03 Q1026 NOSIG VTSR 050000Z 10008G20KT 060V140 9999 FEW011 SCT021 26/23 Q1008 LIRP 051615Z 10004KT 9999 FEW060 13/08 Q1026 NOSIG VTSS 051600Z 10003KT 9999 -RA SCT020 SCT028 BKN100 24/23 Q1011 NOSIG LIRQ 051620Z 09002KT CAVOK 09/06 Q1026 VTST 051200Z 04005KT 8000 -RA FEW018 SCT025 25/24 Q1007 RWY08 INFO N WMAU 051600Z 07003KT 9999 FEW017CB SCT140 BKN270 28/26 Q//// QFF1010 LIRS 051555Z 16004KT CAVOK 15/06 Q1025 KSKA 051558Z AUTO 14003KT 10SM CLR M06/M07 A3004 RMK AO2 SLP206 T10651070 $ LIRT 051455Z 16011KT CAVOK 07/04 Q1025 VTUD 051600Z AUTO 08005KT 040V120 CAVOK 23/18 Q1017 KRRT 051614Z AUTO 00000KT 10SM OVC013 M01/M03 A2974 RMK AO2 LIRU 051550Z VRB03KT CAVOK 15/04 Q1026 FMMT 051600Z 00000KT 9999 FEW017 SCT033 26/20 Q1014 NOSIG KRSL 051553Z AUTO 18019KT 10SM CLR 07/00 A2963 RMK AO2 SLP044 T00670000 $ LIRV 051555Z 03005KT CAVOK 11/03 Q1026 FMNM 051600Z 32008KT 9999 FEW020CB 28/24 Q1011 NOSIG KTAN 051518Z AUTO VRB03KT 4SM -RA BR BKN004 OVC014 03/02 A3000 RMK AO2 P0001 T00280017 KSJN 051554Z AUTO 12003KT 10SM CLR M01/M08 A2995 RMK AO2 SLP146 T10061078 TSNO KRSN 051615Z AUTO 03006KT 10SM -DZ OVC004 09/08 A2996 RMK AO2 T00860077 FMNN 051400Z 20002KT 9999 VCSH BKN020CB 26/24 Q1012 LIRX 051555Z 18013KT CAVOK 12/10 Q1024 RMK FEW FEW060 VIS MIN 9999 VIS MAR 20 KM KSKF 051624Z AUTO 36009KT 10SM SCT008 BKN019 OVC024 10/09 A2988 RMK AO2 RAE1559DZB1559E09 CIG 017V024 BKN V OVC $ VTUI 051600Z AUTO 11005KT 080V140 9999 BKN130/// OVC210/// 23/18 Q1017 A3004 KSIY 051553Z AUTO VRB03KT 10SM CLR M02/M05 A3016 RMK AO2 SLP240 T10221050 $ KRSP 051554Z AUTO 33012G19KT 10SM CLR 06/03 A2997 RMK AO2 SLP166 T00610028 $ LIRZ 051550Z 33004KT 9999 SCT060 13/08 Q1026 VTUK 051600Z 06006KT 8000 NSC 25/20 Q1016 NOSIG VTUL 051200Z 00000KT 9999 FEW032 24/22 Q1015 KSJS 051620Z AUTO 00000KT 10SM OVC025 08/03 A3010 RMK AO2 T00800026 KSLB 051615Z AUTO 18019KT 10SM CLR 04/00 A2968 RMK AO2 KSJT 051559Z 27003KT 2 1/2SM RA BR BKN012 OVC019 07/06 A2991 RMK AO2 P0001 T00720061 KRST 051554Z 15013KT 6SM BR FEW004 FEW075 BKN090 00/M01 A2979 RMK AO2 SLP103 I1000 T00001006 KTCC 051553Z AUTO 25022G29KT 10SM CLR 10/M09 A2969 RMK AO2 PK WND 25029/1550 SLP048 T01001089 KSLC 051554Z 33012KT 10SM FEW060 BKN085 M01/M11 A3003 RMK AO2 SLP164 SH DSNT SE T10061106 VTUO 051200Z 05007KT 010V070 7000 FEW025 26/22 Q1014 A2996 INFO M RWY 04 KRSV 051615Z AUTO 15004KT 10SM OVC011 02/00 A3014 RMK AO2 T00200001 KTBN 051623Z AUTO 15007KT 1 3/4SM BR OVC001 02/02 A2996 RMK AO2 VIS 1/2V1 3/4 KRSW 051553Z 16014KT 10SM FEW024 28/21 A3001 RMK AO2 SLP158 T02830206 KRTN 051553Z AUTO 06004KT 10SM CLR M01/M07 A2970 RMK AO2 SLP068 T10111067 KRUE 051607Z AUTO 10005KT 10SM FEW007 06/04 A3000 RMK AO2 T00560044 KSLE 051556Z 18016G21KT 10SM -RA BKN009 OVC060 03/01 A3017 RMK AO2 UPB52E54RAB54 SLP217 P0000 T00280011 VTUQ 051600Z AUTO 04007KT 010V070 ////NDV ////// 24/20 Q1016 A3000 KSJX 051614Z AUTO 27013G20KT 10SM SCT027 SCT033 OVC040 04/00 A2987 RMK AO2 T00400000 VVCR 051600Z 04012KT 6000 -RA FEW008 SCT013 FEW015CB BKN040 26/25 Q1014 TEMPO 2000 SHRA GCXO 051600Z 32007KT 290V350 9999 FEW003 SCT011 BKN015 17/16 Q1022 NOSIG KSLG 051615Z AUTO 13005KT 10SM CLR 04/03 A2993 RMK AO1 KRUG 051615Z AUTO 13006KT 10SM M04/M04 A2959 RMK AO2 KSLH 051614Z AUTO 26006KT 7SM SCT022 BKN031 OVC039 02/00 A2985 RMK AO2 T00200002 KTAZ 051615Z AUTO 15006KT 7SM OVC007 02/01 A3008 RMK AO2 T00220011 VVCT 051300Z 10006KT 9999 SCT015 SCT040 27/24 Q1011 NOSIG KSLI 051558Z 00000KT 10SM SCT015 BKN200 11/07 A2998 RMK AO2A SLP155 T01060066 KTBR 051615Z AUTO 00000KT 10SM BKN006 OVC011 14/13 A3000 RMK AO2 T01390129 FNGI 051600Z VRB02KT 9999 FEW013 26/12 Q1013 VTUU 051600Z 03010KT 9000 FEW028 SCT100 24/20 Q1015 NOSIG LJLJ 051600Z 30001KT 9999 FEW050 M01/M03 Q1028 NOSIG KRTS 051615Z AUTO 28003KT 10SM CLR M03/M05 A3006 RMK AO2 VTUV 051400Z 05010KT 8000 BKN022 OVC100 24/17 Q1016 A3000 INFO O RWY 36 LJMB 051600Z 30001KT 8000 NSC 01/M02 Q1028 KSLK 051627Z AUTO 22008KT 3/4SM -SN BR BKN015 OVC025 M02/M04 A2975 RMK AO2 P0000 T10171039 $ VTUW 051100Z 11007KT 9999 FEW028 26/18 Q1014 LIVC 051355Z 21014KT 9999 SCT035 SCT040 00/M02 Q1025 RMK BKN MON LIB VAL CLD SCT ABB VIS MIN 9999 VVDN 051600Z 01007KT 4500 BR SCT012 BKN050 25/23 Q1018 TEMPO 3000 RA BR KTCL 051626Z 12003KT 1 3/4SM +RA BR FEW008 BKN048 OVC075 11/11 A3000 RMK AO2 P0015 T01110111 LIVD 051555Z /////KT CAVOK M00/M04 Q1027 RMK SKC VIS MIN 9999 KTCM 051627Z AUTO 19006KT 10SM FEW018 BKN039 OVC049 02/02 A3008 RMK AO2 RAE03RAB10E27 $ LIVE 051555Z 01003KT CAVOK M00/M05 Q1026 RMK SKC VIS MIN 9999 KSLN 051553Z 18015G21KT 10SM CLR 07/01 A2975 RMK AO2 SLP079 T00670011 KSME 051615Z AUTO 07003KT 10SM OVC019 06/03 A3010 RMK AO2 LIVF 051555Z 09002KT 5000 BR OVC005 08/05 Q1026 RMK OVC MON INVIS VAL INVIS VIS MIN 5000 KSMF 051553Z 32006KT 1/4SM R16R/1000FT FG VV001 03/03 A3012 RMK AO2 SLP198 T00280028 KTDF 051605Z AUTO 31003KT 10SM SCT007 08/06 A3006 RMK AO2 KSKX 051615Z AUTO 34004KT 10SM CLR M02/M09 A2990 RMK AO1 KSLO 051615Z AUTO 11004KT 10SM OVC009 04/01 A3008 RMK AO2 T00370009 KTBX 051615Z AUTO OVC005 M11/M12 A2971 RMK AO2 PWINO KRUQ 051605Z AUTO 00000KT 10SM OVC004 07/07 A3004 RMK AO2 T00710069 KSLR 051615Z AUTO 10009KT 10SM OVC013 09/06 A2994 RMK AO2 T00880060 KTCS 051553Z AUTO 17004KT 10SM CLR 04/M07 A2992 RMK AO2 SLP120 T00391072 KSNA 051553Z 00000KT 10SM FEW012 BKN300 12/06 A2998 RMK AO2 SLP151 T01220061 KTEB 051610Z 27015G22KT 10SM SCT014 07/03 A2996 RMK AO2 T00720028 EVRA 051620Z 30007KT 250V330 9999 SCT020 05/02 Q1007 R36/290195 NOSIG KRUT 051556Z AUTO 12013KT 10SM OVC024 M01/M03 A2988 RMK AO2 SNE46 SLP138 P0000 T10061028 FZRANO $ KSNC 051615Z AUTO 00000KT 2 1/2SM BR BKN001 BKN004 OVC011 02/02 A2995 RMK AO2 LKCV 051600Z 29004KT 4000 BR OVC012 M03/M04 Q1028 NOSIG RMK GRN GRN KSMN 051615Z AUTO 23004KT 10SM BKN065 M07/M16 A3002 RMK AO1 LIVO 051555Z 00000KT CAVOK M01/M03 Q1025 RMK SKC VIS MIN 9999 KSMO 051606Z 00000KT 10SM CLR 11/04 A2998 RMK AO2 T01110039 KRWF 051553Z AUTO 13008KT 10SM BKN100 02/M01 A2964 RMK AO2 SLP046 T00171011 LIVP 050755Z 26006KT CAVOK M05/M08 Q1023 KSMP 051613Z AUTO 00000KT 1 1/4SM -SN BR OVC028 M06/M06 A2993 RMK AO2 P0000 T10561056 FZRANO $ KSMQ 051553Z AUTO 00000KT 6SM BR OVC014 05/04 A2999 RMK AO2 SLP157 T00500039 KSNH 051615Z AUTO 04007KT 10SM OVC009 08/06 A3000 RMK A01 LIVR 051555Z 33005KT CAVOK M02/M06 Q1021 RMK SKC MON LIB VIS MIN 9999 KRWI 051553Z AUTO VRB05KT 10SM FEW008 10/08 A3003 RMK AO2 SLP168 T01000078 KTDR 051622Z AUTO 16012KT 7SM -RA BKN005 24/23 A2992 RMK AO2 RAB22 $ KRVS 051611Z 16004KT 6SM BR OVC002 04/03 A2994 RMK AO2 T00390028 KSMS 051615Z AUTO 00000KT OVC008 11/09 A3004 RMK AO2 KSOA 051615Z AUTO 00000KT 10SM FEW006 OVC012 07/07 A2996 RMK AO2 LIVT 051555Z 04001KT CAVOK 11/07 Q1027 RMK SCT SCT090 QUK 0 QUL 0 VIS MAR 20 KM VIS MIN 9999 KSNK 051615Z AUTO 16006KT 7SM SCT090 05/05 A2987 RMK AO2 T00540047 KRWL 051453Z AUTO 26028G36KT 10SM FEW055 SCT070 OVC090 M04/M11 A2963 RMK AO2 PK WND 28049/1415 SNE35 SLP048 P0001 60003 T10441111 53010 KSNL 051615Z AUTO 17010G16KT 10SM BKN009 06/06 A2991 RMK AO2 T00620061 FNHU 051600Z 00000KT 9999 SCT017 BKN070 20/17 Q1020 FMSD 051600Z 06016KT 9999 FEW020 SCT033 25/20 Q1013 KRXE 051553Z AUTO 28009KT 10SM UP CLR M07/M18 A2995 RMK AO2 UPB42 SLP173 P0000 T10721183 KSMX 051551Z 31008KT 10SM BKN200 09/06 A3002 RMK AO2 SLP169 T00890061 $ KTDZ 051553Z AUTO 22012KT 8SM OVC024 03/01 A3010 RMK AO2 SLP197 T00280006 KSPA 051615Z AUTO 00000KT 7SM OVC004 07/06 A3004 RMK AO2 KSNS 051553Z 00000KT M1/4SM FG VV002 07/07 A3010 RMK AO2 SLP202 T00720067 RVRNO KSNT 051551Z AUTO 00000KT M19/M22 A2996 RMK AO1 SLP188 T11941217 KSPB 051553Z AUTO 18008KT 9SM -RA FEW009 BKN023 OVC060 02/01 A3013 RMK AO2 SLP203 P0003 T00220011 TSNO KSPD 051556Z AUTO 24005KT 12/M07 A2959 RMK AO1 SLP005 T01171067 KTEW 051623Z AUTO 22003KT 10SM OVC025 02/01 A3003 RMK AO2 T00230008 KTEX 051555Z AUTO 26009G14KT 10SM BKN070 A2989 RMK AO2 KSPF 051615Z AUTO 30020G28KT 4SM -SN BKN013 OVC019 M05/M07 A2965 RMK AO2 KSNY 051453Z AUTO 26012KT 10SM OVC110 07/M06 A2957 RMK AO2 SLP017 T00721056 56000 KSPG 051553Z 20007KT 10SM OVC090 23/21 A2999 RMK AO2 SLP155 T02330211 KSOP 051556Z AUTO 36004KT 10SM CLR 11/07 A3004 RMK AO2 SLP191 P0002 T01060072 KTFP 051615Z AUTO 33015G21KT 10SM OVC011 12/11 A2989 RMK AO2 T01200105 KSPI 051552Z 18010KT 8SM OVC010 03/01 A3005 RMK AO2 SLP182 T00330011 KTGI 051615Z AUTO 32009KT 10SM OVC006 08/07 A3002 RMK AO1 KTHA 051615Z AUTO 01006KT 10SM OVC006 07/07 A3003 RMK KSPL 051615Z AUTO 32013G16KT 10SM 14/11 A2991 RMK AO1 KRYM 051556Z AUTO 11005KT 10SM SCT210 M02/M02 A2973 RMK AO2 SLP084 T10231025 TSNO $ KRYN 051445Z 10006KT 10SM CLR 03/M03 A2998 KSOW 051615Z AUTO 20013G19KT 10SM CLR 05/M12 A3000 RMK AO2 KSQE 051615Z AUTO VRB05G12KT 5SM BR SCT014 BKN020 26/24 A2980 RMK A01 KSQI 051556Z AUTO VRB05KT 3/4SM UP BR OVC002 M01/M01 A3001 RMK AO2 UPB07 SLP183 P0000 T10061011 FZRANO RVRNO KSPR 051615Z AUTO 18019KT 4SM BR FEW009 SCT028 BKN065 25/24 A2978 RMK A01 KSPS 051552Z 14008KT 5SM BR BKN002 06/05 A2989 RMK AO2 SLP123 T00560050 MBGT 051600Z 06018KT 9999 SCT020TCU 27/21 Q1018 FNMA 051400Z 29004KT 9999 SCT007 BKN057 25/21 Q1016 EVVA 051620Z AUTO 33012KT CAVOK 06/01 Q1010 KRYT 051553Z AUTO VRB05KT 10SM FEW021 08/03 A2998 RMK AO2 SLP160 T00780033 TSNO $ KSRC 051556Z AUTO 06005KT 10SM BKN007 BKN120 06/05 A3006 RMK AO2 SLP185 T00560050 KSQL 051550Z 25003KT 7SM OVC015 11/09 A3012 KRZL 051615Z AUTO 20008KT 10SM OVC007 00/00 A3009 RMK AO2 KRYV 051615Z AUTO 18008KT 4SM BR OVC005 00/00 A2996 RMK AO2 T00030003 KSPW 051553Z AUTO 18017KT 10SM BKN100 04/01 A2966 RMK AO2 SLP054 T00390006 KRYW 051615Z AUTO 31004KT 2SM RA OVC003 09/08 A2990 RMK AO2 T00870082 KRZN 051615Z AUTO 15005KT 4SM BR BKN003 M01/M01 A2980 RMK AO2 T10101011 KTIF 051615Z AUTO 28014G20KT 10SM SCT100 SCT120 13/M03 A2954 RMK AO2 T01251027 KRYY 051548Z 00000KT 4SM BR OVC005 09/07 A3004 WMKA 051600Z 02003KT 9999 FEW030 SCT140 BKN260 25/24 Q1010 LJPZ 051600Z 27001KT 9999 SCT060 BKN080 10/06 Q1028 WMKB 051600Z 08003KT 8000 FEW024 SCT140 BKN270 27/25 Q1009 KRZR 051615Z AUTO 02009KT 10SM BKN009 OVC013 10/09 A3001 RMK A01 WMKC 051600Z 09007KT 060V140 9999 FEW017CB SCT020 BKN280 28/25 Q1010 WMKD 051600Z 31001KT 9999 FEW008 SCT160 BKN280 27/25 Q1010 NOSIG KRZT 051614Z AUTO 20003KT 10SM OVC019 03/M01 A3014 RMK AO2 KTIK 051558Z 17011KT 5SM CLR 04/04 A2987 RMK SLP127 T00420041 $ WMKE 051100Z 13003KT 9999 SCT020 SCT140 BKN250 28/25 Q1007 KSSC 051558Z 04006KT 10SM SCT011 BKN100 11/08 A3002 RMK AO2A SLP168 CIG LWR NE-SE T01130084 $ GEML 051600Z VRB01KT 9999 FEW020 BKN037 19/14 Q1015 KTHV 051553Z AUTO 31004KT 10SM FEW012 BKN043 07/05 A3000 RMK AO2 SLP164 T00720050 FNLU 051600Z 28006KT 9999 FEW020 FEW030TCU BKN100 28/22 Q1010 KW13 051615Z AUTO 32003KT 10SM SCT037 11/02 A3001 RMK AO1 T01050024 KSSF 051625Z 32006KT 2 1/2SM -RA BR SCT009 BKN014 OVC028 11/09 A2989 RMK AO2 RAE06B20 P0000 T01060089 WMKI 051600Z 09003KT 9999 FEW030 SCT140 BKN280 28/24 Q1009 KTIP 051615Z AUTO 17011KT 10SM OVC007 02/01 A3008 RMK AO2 T00160005 WMKJ 051600Z VRB01KT 9999 -RA FEW009 FEW016CB SCT020 BKN260 23/23 Q1010 RETSRA KSRQ 051553Z 17012KT 10SM FEW019 OVC100 27/22 A2999 RMK AO2 SLP153 T02670217 WMKK 051600Z 00000KT 9999 FEW017CB SCT140 BKN280 28/24 Q1009 NOSIG KSSI 051553Z AUTO 21007KT 190V260 10SM OVC014 23/19 A2999 RMK AO2 SLP155 T02280194 KSRR 051615Z AUTO 27007KT CLR 06/M08 A2991 RMK AO2 WMKL 051600Z 07004KT 9999 FEW026 SCT140 BKN270 27/24 Q1009 WMKM 051600Z 03002KT 9999 FEW027 BKN140 27/26 Q1010 LKKB 051600Z 18005KT 110V240 5000 BR OVC006 M04/M05 Q1028 NOSIG WMKN 051600Z 06003KT 9000 -RA FEW005 FEW017CB SCT022 BKN150 27/26 Q1010 RETSRA KSTC 051553Z 08008KT 10SM SCT100 00/M01 A2971 RMK AO2 SLP080 T00001006 KTKC 051613Z AUTO 17006KT 10SM SCT075 OVC090 03/00 A2959 RMK AO2 T00300000 KW22 051615Z AUTO 32006KT 10SM FEW014 OVC023 06/02 A3006 RMK AO2 PWINO WMKP 051600Z 02003KT 8000 SCT025 SCT140 BKN270 28/25 Q1009 NOSIG KTIW 051553Z 16009G17KT 10SM -RA BKN006 OVC011 02/02 A3007 RMK AO2 RAB46SNE46 CIG 005V010 SLP187 P0007 T00170017 KSTE 051615Z AUTO 20003KT 10SM OVC007 M01/M01 A2990 RMK AO2 T10071013 KUBE 051615Z AUTO 15005KT 1/4SM FZFG OVC003 M02/M02 A2982 RMK AO2 KTIX 051547Z 18013KT 7SM BKN019 27/23 A3002 KSTF 051635Z AUTO 35003KT 5SM RA BKN003 BKN007 OVC028 08/08 A3000 RMK AO2 KUAO 051553Z 19007KT 10SM -RA OVC027 03/01 A3017 RMK AO2 RAB31UPB32E33 SLP218 P0001 T00280011 LLBG 051620Z VRB02KT CAVOK 17/10 Q1022 NOSIG KTKI 051619Z 12007KT 10SM SCT015 OVC080 09/07 A2989 RMK AO2 T00940067 KSTJ 051553Z 17009KT 10SM CLR 05/03 A2986 RMK AO2 SLP117 T00500028 KSUA 051547Z 17013KT 7SM SCT025 29/22 A3005 KSTK 051610Z AUTO 21004KT 10SM SCT110 00/M07 A2960 RMK AO2 KW29 051615Z AUTO 34004KT 7SM HZ SCT011 08/06 A3002 RMK AO2 KSTL 051604Z 17008KT 10SM OVC012 05/01 A3006 RMK AO2 T00500011 KW31 051615Z AUTO 30004KT 10SM BKN005 07/07 A3002 RMK AO1 T00740069 KSUE 051556Z AUTO 23005KT 10SM OVC015 02/00 A2992 RMK AO2 SLP158 T00220000 FZRANO PNO $ KSTP 051553Z 10006KT 8SM BKN100 BKN110 01/M01 A2978 RMK AO2 SLP091 T00061006 KTLH 051553Z 18008KT 1SM BR OVC002 23/22 A2996 RMK AO2 SFC VIS 1 1/2 SLP144 T02280222 VVNB 051600Z 02004KT 360V060 8000 NSC 23/15 Q1022 NOSIG KSTS 051553Z 00000KT 1/4SM FG OVC001 03/03 A3010 RMK AO2 SLP186 T00330033 KTMA 051615Z AUTO 06004KT 3/4SM BR OVC002 13/13 A2998 RMK AO2 T01300130 KTMB 051553Z 13013G21KT 10SM FEW024 28/21 A3003 RMK AO2 SLP168 T02780211 LKKU 051500Z 18006KT CAVOK 00/M04 Q1028 KSVC 051615Z AUTO 31010KT 10SM CLR 06/M03 A2998 RMK AO2 T00591027 KTKV 051615Z AUTO 00000KT 10SM OVC008 00/M02 A2984 RMK AO2 T10051024 LKKV 051600Z 08002KT CAVOK M04/M06 Q1025 KSUN 051551Z 31010KT 10SM SKC M13/M17 A3002 KTME 051615Z AUTO 02005KT 10SM 11/10 A2984 RMK AO2 KW43 051615Z AUTO 33012G18KT 1 1/4SM -SN OVC013 M05/M07 A2970 RMK AO2 KTKX 051615Z AUTO 09007G14KT 10SM OVC014 06/03 A3004 RMK AO2 KUCP 051556Z AUTO 26005KT 10SM FEW020 OVC035 03/M01 A3007 RMK AO2 SLP208 T00331006 $ KUDG 051556Z AUTO 03005KT 10SM SCT010 12/08 A3004 RMK AO2 SLP179 T01170083 KSVH 051605Z AUTO 00000KT 7SM OVC004 07/07 A3003 RMK AO2 T00730073 LKNA 051600Z 22003KT 0300 FZFG VV001 M04/M05 Q1026 NOSIG RMK RED RED KSUS 051554Z 07004KT 6SM BR OVC013 02/02 A3005 RMK AO2 SLP183 T00220022 KSUT 051605Z AUTO 01004KT 10SM SCT090 SCT120 12/11 A3000 RMK AO2 T01200108 KTMK 051615Z AUTO 19007KT 2SM -SN SCT009 OVC015 02/00 A3015 RMK AO2 P0013 KTNB 051615Z AUTO 31013G20KT 10SM BKN013 07/04 A3003 RMK AO2 T00710042 KSUU 051603Z AUTO 01002KT 3SM BR CLR 05/04 A3010 RMK AO2 VIS 1 3/4 RWY03R $ KSUW 051615Z AUTO 19003KT 10SM OVC014 01/M02 A2981 RMK AO2 T00101016 KSVN 051623Z 03004KT 3SM BR OVC004 15/15 A2998 RMK AO2A KSUX 051552Z 18014KT 10SM CLR 06/M01 A2965 RMK AO2 SLP048 T00611006 KSWF 051545Z VRB05KT 5SM BR BKN005 OVC015 01/01 A2996 KUCY 051615Z AUTO 00000KT 10SM OVC014 04/02 A3003 RMK VVPB 051600Z 29005KT 5000 -RA BR FEW007 SCT015 BKN040 22/22 Q1019 TEMPO 3000 -RA BR KTOA 051547Z 00000KT 10SM SCT020 BKN060 12/10 A2999 FNSA 051600Z 27004KT 9999 FEW040 29/18 Q1020 KTOB 051614Z AUTO 15012KT 10SM CLR 01/M01 A2977 RMK AO2 LKMT 051600Z 22010KT 9000 NSC M02/M04 Q1027 NOSIG KTOC 051615Z AUTO 12003KT 7SM OVC001 10/10 A3002 RMK AO2 T01000096 KW63 051615Z AUTO 26003KT 10SM OVC003 06/06 A3004 RMK AO1 KSWO 051553Z 17006KT 8SM CLR 06/04 A2989 RMK AO2 SLP124 T00560044 KTOI 051553Z AUTO 04008KT 10SM OVC004 13/13 A2997 RMK AO2 SLP146 T01280128 KTPA 051553Z 16010KT 10SM FEW016 BKN090 26/21 A3001 RMK AO2 SLP162 T02610211 KUES 051545Z 22006KT 3SM BR OVC004 M01/M01 A2998 LLET 051550Z 35006KT CAVOK 21/05 Q1020 KTOL 051552Z 20009KT 10SM OVC023 02/01 A3008 RMK AO2 SLP194 T00220006 KTNU 051555Z AUTO 16012KT 3SM BR BKN004 01/01 A2986 RMK AO2 PWINO LKPD 051600Z VRB01KT 2500 BR OVC013 M03/M04 Q1028 NOSIG RMK YLO YLO KSWW 051615Z AUTO 16007KT 10SM OVC100 08/06 A2990 RMK AO2 T00810061 VVPQ 051600Z 04005KT 9999 SCT015 SCT040 26/24 Q1011 NOSIG KSYF 051615Z AUTO 27003KT 10SM CLR 06/M06 A2960 RMK AO2 T00581063 KTPF 051615Z AUTO 18008KT 10SM OVC090 26/23 A3001 RMK AO2 KTOP 051553Z 17011KT 10SM CLR 06/03 A2984 RMK AO2 SLP110 T00610028 KW75 051615Z AUTO 32005KT 10SM OVC002 06/06 A3003 RMK AO1 T00630063 KTPH 051556Z AUTO 33003KT 10SM CLR 03/M07 A3000 RMK AO2 SLP163 T00331072 KTOR 051453Z AUTO 30007KT 10SM CLR 05/M06 A2953 RMK AO2 SLP992 T00501061 55003 KSYI 051615Z AUTO 01004KT 10SM BKN010 OVC014 08/08 A3005 RMK LLHA 051550Z 01009KT 9999 FEW030 19/13 Q1021 KW78 051615Z AUTO 00000KT 10SM OVC003 07/06 A3005 RMK AO1 T00680061 KSXT 051556Z AUTO 16005KT 10SM CLR M04/M05 A3010 RMK AO2 SLP229 T10391050 KTPL 051451Z AUTO 34006KT 10SM -RA OVC007 08/08 A2990 RMK AO2 SLP142 P0000 60001 T00830078 55004 FNUB 050800Z 16015KT 9999 FEW030 FEW040CB 23/16 Q1025 KW81 051615Z AUTO 32004KT 10SM OVC004 07/07 A3002 RMK AO1 T00700070 FNSU 051600Z 23006KT 9999 FEW012 BKN060 26/// Q1013 KSYM 051610Z AUTO VRB04KT 10SM OVC020 06/01 A3013 RMK AO2 KSYN 051614Z AUTO 18009KT 10SM SCT090 OVC110 03/00 A2975 RMK AO2 T00280000 KTQE 051554Z AUTO 16012KT 10SM CLR 02/M01 A2970 RMK AO2 SLP062 T00221006 KUGN 051555Z 22007KT 2 1/2SM BR OVC003 00/M01 A3001 RMK AO2 SLP174 T00001006 FNUE 051600Z 00000KT CAVOK 23/18 Q1015 FNUG 051600Z 33006KT 9999 SCT020 BKN090 25/19 Q1013 WMSA 051600Z 15002KT 9999 FEW025 SCT140 BKN280 29/25 Q1010 KTQH 051615Z AUTO 14008KT 10SM CLR 05/05 A2994 RMK AO2 KSYR 051554Z 26022G30KT 10SM FEW017 BKN022 OVC050 04/01 A2989 RMK AO2 PK WND 26030/1548 SLP123 T00390006 LKPR 051600Z 18004KT 090V200 6000 BKN004 OVC005 M05/M06 Q1027 R24/29//95 R30/35//95 NOSIG LLIB 051550Z VRB03KT CAVOK 15/10 Q1021 KSZL 051558Z 18005KT 10SM FEW001 SCT200 03/03 A2993 RMK AO2A SLP145 T00280028 MBPV 051600Z 06011KT 9999 SCT015 27/21 Q1017 GFLL 051500Z 27008KT 9999 SCT012 FEW027CB 32/27 Q1009 RMK CB/NE KW96 051615Z AUTO 32003KT 10SM OVC007 07/06 A3003 RMK AO1 T00660060 KTRI 051607Z 14004KT 10SM FEW008 FEW015 BKN034 09/08 A3007 RMK AO2 T00940078 MDAB 051600Z 04004KT 9999 SCT018 BKN070 28/25 Q1016 KSZT 051615Z AUTO 21004KT 10SM CLR M04/M08 A3007 RMK AO2 KTRK 051545Z 00000KT 10SM SCT220 M09/M09 A3007 RMK NOSPECI KW99 051610Z AUTO 27010G14KT 10SM CLR 12/02 A3003 RMK AO2 T01150017 KUIL 051621Z AUTO 10005KT 7SM -RA FEW011 BKN019 OVC035 01/01 A3004 RMK AO2 RAE1555B13 P0000 T00060006 KTRL 051553Z AUTO 07012KT 10SM FEW014 OVC075 09/06 A2989 RMK AO2 SLP122 T00940056 KTRM 051452Z AUTO 00000KT 10SM CLR 04/M01 A2988 RMK AO2 SLP116 T00441011 53006 TSNO KVAD 051558Z 17005KT 1SM BR OVC002 21/21 A2996 RMK AO2A SLP146 T02120210 $ KUIN 051554Z AUTO 17007KT M1/4SM FG VV002 01/01 A3001 RMK AO2 SLP167 T00060006 KVAF 051615Z AUTO 28011G16KT 8SM CLR 26/21 A2976 RMK A01 KTTA 051605Z AUTO 00000KT 10SM CLR 10/07 A3004 RMK AO2 T01040073 LKTB 051600Z 23003KT 9000 OVC013 M01/M03 Q1028 NOSIG KTTD 051553Z 00000KT 10SM -RA OVC036 04/02 A3017 RMK AO2 RAE03B23 SLP216 P0000 T00390017 KUKF 051605Z AUTO 00000KT 7SM BKN002 07/07 A3006 RMK AO2 KTTF 051611Z AUTO 23011KT 10SM OVC025 04/01 A3007 RMK AO2 T00370012 KTSP 051555Z AUTO 31008KT 7SM CLR 03/M02 A3004 RMK AO2 KVBG 051555Z 34009KT 9SM FEW190 BKN250 11/07 A3001 RMK AO2A SLP166 T01080072 MDBH 051600Z 13014KT 9999 FEW020CB FEW024 SCT300 30/23 Q1015 CB/SW FOOG 051600Z /////KT 9999 SCT010 FEW020CB BKN040 29/24 Q1009 VVTS 051600Z 02002KT 9999 SCT015 SCT040 26/24 Q1012 NOSIG KUKI 051556Z AUTO 00000KT 10SM CLR 03/02 A3014 RMK AO2 SLP203 T00280022 KVCB 051553Z AUTO 36004KT 2 1/2SM BR CLR 05/04 A3013 RMK AO2 SLP201 T00500044 FOOL 051600Z 26005KT 9999 FEW013 29/24 Q1009 NOSIG KTTN 051553Z 29006KT 10SM OVC007 07/04 A3000 RMK AO2 CIG 006V010 SLP155 T00670044 FOON 051600Z /////KT 9999 SCT012 FEW016TCU 28/23 Q1010 KVAY 051554Z AUTO 28004KT 9SM OVC010 07/04 A3001 RMK AO2 CIG 007V013 SLP162 T00670044 TSNO KVBS 051615Z AUTO 10020KT 10SM BKN005 OVC048 14/14 A2978 RMK A01 KTTS 051558Z AUTO 22012KT 10SM CLR 28/22 A2999 RMK AO2 SLP160 T02760217 $ KVBT 051615Z AUTO 15009KT 10SM CLR 06/01 A2994 RMK AO1 KUKT 051555Z AUTO 25007KT 8SM OVC005 04/04 A3001 RMK AO1 KTUL 051553Z 15004KT 9SM SCT003 BKN250 05/04 A2992 RMK AO2 SLP132 T00500044 KTVC 051553Z 26009KT 10SM FEW038 SCT044 04/M01 A2991 RMK AO2 SLP134 T00441006 KULM 051614Z AUTO 15014G18KT 10SM SCT080 SCT100 03/00 A2966 RMK AO2 KVBW 051615Z AUTO 00000KT 10SM CLR 10/03 A3001 RMK AO2 T01020031 KVDF 051615Z AUTO 18008KT 7SM BKN021 BKN090 27/21 A3001 RMK AO2 KTVF 051556Z AUTO 10011KT 5SM BR OVC004 M03/M04 A2970 RMK AO2 SNB21E31 SLP076 P0000 T10331039 FZRANO KTUP 051553Z AUTO 02007KT 9SM -RA OVC006 08/07 A3000 RMK AO2 RAB04 SLP157 P0002 T00830067 RJAA 051600Z 31005KT 4000 MIFG BR FEW008 BKN/// 11/10 Q1008 TEMPO 3000 BR KTVI 051615Z AUTO 00000KT 1/2SM RA OVC003 22/22 A2997 RMK AO2 KVDI 051615Z AUTO 00000KT 10SM BKN005 OVC009 13/13 A3000 RMK AO2 KTUS 051553Z 14007KT 10SM CLR 10/M05 A2999 RMK AO2 SLP142 T01001050 KVCT 051609Z 31012KT 5SM -RA BR BKN005 BKN009 OVC013 11/10 A2987 RMK AO2 P0002 T01060100 KTVK 051615Z AUTO 16011KT 4SM BR OVC001 00/00 A2993 RMK AO2 KTVL 051553Z AUTO 00000KT 10SM CLR M04/M13 A3005 RMK AO2 SLP176 T10441133 KVCV 051615Z AUTO 25003KT 10SM 09/M06 A2997 RMK AO2 RJAF 050700Z 23009KT 190V270 9999 FEW050 BKN/// 13/M00 Q1011 LKVO 051300Z VRB01KT 5000 BR OVC006 M04/M04 Q1028 KTWF 051553Z 22015KT 10SM CLR M07/M12 A3008 RMK AO2 SLP204 T10721117 MDCY 051600Z 08018KT 9999 SCT020 BKN080 28/24 Q1014 RJAH 051600Z 34001KT 2000 BR MIFG FEW001 BKN/// 08/07 Q1008 SAAJ 050935Z 20010G22KT 9000 -TSRA BKN040 21/17 Q1005 KTVR 051618Z AUTO 07005KT 3SM +RA BR FEW008 OVC040 09/09 A2993 RMK AO2 P0008 T00940089 KUNI 051615Z AUTO 00000KT 10SM OVC021 05/01 A3013 RMK AO2 T00480006 RJAK 042345Z 28003KT 4500 BR SCT005 SCT100 10/08 Q1011 RMK 4ST005 3AC100 A2988 RJBB 051600Z 25012KT 9999 FEW030 BKN/// 15/09 Q1014 NOSIG KX60 051555Z AUTO 14005KT 6SM HZ CLR 26/22 A3000 RMK A01 TSNO RJBD 051000Z 01005KT 330V050 9999 FEW030 BKN/// 14/07 Q1014 KVEL 051553Z AUTO 25004KT 10SM BKN090 BKN110 M01/M07 A2981 RMK AO2 SLP124 T10111072 RJBE 051200Z 29007KT 9999 FEW025 BKN/// 14/10 Q1014 KTWM 051614Z AUTO 00000KT 10SM BKN016 02/M02 A2977 RMK AO2 SABE 051600Z 34011KT 9999 SCT040TCU 29/18 Q1007 KUNO 051621Z AUTO 12010KT 10SM BKN008 04/02 A3000 RMK AO2 CIG 006V011 T00440022 KTVY 051635Z AUTO 32011G14KT 10SM OVC080 00/M12 A3006 RMK AO2 SAAR 051600Z 02006KT 9999 FEW030 SCT100 31/18 Q1007 RJCA 050130Z VRB02KT 7000 -SHRA FEW005 SCT015 BKN025 03/02 Q1008 RMK 1ST005 4ST015 7CU025 A2979 KVER 051615Z AUTO 15007KT 1/2SM FG OVC002 02/ A2998 RMK AO2 T0017 RJAT 050313Z 05003KT 9999 FEW005 SCT015 BKN020 13/09 Q1012 RMK 1ST005 3CU015 5CU020 A2989 RJCB 051100Z 06003KT 030V110 9999 FEW009 BKN025 01/M00 Q1007 KVES 051615Z AUTO 25003KT 10SM OVC014 01/00 A3010 RMK AO2 RJCC 051600Z 28003KT 250V320 9999 FEW010 SCT025 BKN060 02/02 Q1004 EYKA 051620Z 25016KT 9000 OVC004 03/01 Q1011 R08/290095 KTXK 051553Z VRB04KT 10SM OVC012 08/06 A2996 RMK AO2 SLP144 T00780056 KUNU 051615Z AUTO 17007KT 3SM BR OVC004 00/00 A2996 RMK AO2 T00001003 RJAW 051500Z 13004KT 9999 FEW005 24/23 Q1016 RMK 2ST005 A3001 KUNV 051553Z 29015G29KT 10SM SCT020 BKN027 BKN070 05/01 A2999 RJCH 051100Z 33003KT 300V020 9999 FEW020 SCT080 BKN/// 06/M00 Q1007 RJCK 051100Z VRB02KT 9999 FEW010 SCT040 BKN050 01/M00 Q1007 RJBT 050900Z 18003KT 150V230 9999 FEW040 BKN/// 11/11 Q1014 RJDC 051200Z 24010KT 9999 FEW030 BKN/// 15/11 Q1016 RJCM 051100Z VRB01KT 9999 FEW008 SCT009 BKN010 00/M01 Q1008 RJCN 050900Z 01004KT 340V040 9999 FEW010 SCT020 BKN030 03/02 Q1006 RJCO 050240Z 30010KT 6000 FEW015 SCT020 BKN050 07/02 Q1009 RMK 1ST015 4SC020 7SC050 A2980 SADF 051600Z 29011KT 260V340 9999 BKN045TCU SCT200 30/17 Q1007 SACO 051600Z 18015KT CAVOK 26/09 Q1010 KUOX 051615Z AUTO 06005KT 8SM -RA OVC004 06/05 A3003 RMK AO2 KTYQ 051615Z AUTO 16008KT 10SM OVC013 01/M01 A3011 RMK AO2 T00131007 FQCH 051600Z /////KT 9999 FEW015 SCT/// 29/17 Q1018 KTYR 051605Z 06005KT 10SM -RA OVC011 09/07 A2991 RMK AO2 P0000 T00890072 RJCT 050438Z 10002KT 5000 BR FEW005 SCT010 BKN020 05/05 Q1006 RMK 1ST005 4ST010 5CU020 A2972 RJEB 050700Z 30003KT 7000 -SHSN FEW006 SCT020 BKN040 01/M00 Q1009 KTYS 051620Z 03009KT 7SM BKN011 BKN016 OVC027 10/08 A3004 RMK AO2 T01000078 FQBR 051600Z 14014KT 9999 FEW020 FEW030CB 28/21 Q1012 RMK CB TO N RJEC 051100Z 31004KT 4000 BR FEW005 SCT020 BKN040 01/M00 Q1007 KVGT 051553Z AUTO 34007KT 10SM CLR 07/M09 A2993 RMK AO2 SLP157 T00721089 RJDM 050105Z 00000KT 8000 FEW002 BKN200 10/10 Q1020 RMK 1ST002 6CI200 A3012 3000E-S RJCW 050900Z 35006KT 9999 FEW030 BKN/// 00/M07 Q1009 KVIH 051602Z AUTO 13005KT 3SM BR OVC002 02/02 A2997 RMK AO2 T00170017 KTZR 051550Z 22003KT 10SM OVC018 03/M01 A3011 RJDT 051100Z 26007KT 230V290 5000 HZ FEW030 BKN/// 14/08 Q1016 MDJB 051600Z 36006KT 9999 SCT018 BKN070 27/23 Q1017 RERA LLSD 051550Z 02005KT 9999 FEW030 19/12 Q1021 RJFF 051600Z 30010KT 9999 FEW030 SCT040 BKN/// 15/07 Q1017 KUSE 051615Z AUTO 22011KT 9SM OVC020 02/00 A3008 RMK AO2 RJFG 050900Z 33004KT 9999 FEW020 BKN/// 15/11 Q1017 KVJI 051615Z AUTO 10005KT 10SM SCT016 OVC025 10/06 A3006 RMK AO2 T00980064 RJFK 051200Z 31008KT 9999 FEW030 BKN/// 12/09 Q1018 KUTA 051615Z AUTO 06005KT 10SM OVC011 06/05 A3003 RMK AO2 TSNO KVIS 051556Z AUTO 00000KT 2 1/2SM BR CLR 03/02 A3011 RMK AO2 SLP206 T00280017 KY19 051555Z AUTO 31011KT 1/2SM SN SCT003 M02/M02 A2957 RMK AO2 P0077 RJFM 051200Z 27008KT 9999 FEW025 BKN/// 15/10 Q1016 KWAL 051554Z 32008KT OVC002 07/07 A3001 RMK AO2 SLP158 T00720072 $ RJFO 051300Z VRB01KT 9999 FEW035 BKN/// 12/09 Q1016 KY23 051615Z AUTO 15006KT 1/2SM FZFG OVC003 M02/M02 A2985 RMK AO2 T10181020 RJGG 051600Z 25016KT CAVOK 14/09 Q1012 NOSIG SAEZ 051600Z 31010KT CAVOK 30/19 Q1006 RJFR 051600Z 26019KT 8000 FEW020 SCT030 BKN/// 15/08 Q1016 RJFS 051600Z 06002KT 6000 FEW040 SCT045 BKN/// 10/09 Q1018 RJFT 051200Z VRB02KT CAVOK 10/10 Q1017 RJFU 051200Z VRB02KT 9999 FEW035 BKN/// 12/11 Q1017 EYPA 051620Z 30008KT 250V340 9999 FEW013 BKN063 06/04 Q1012 R19/2///95 KY31 051613Z AUTO 26008G16KT 10SM CLR 03/00 A2990 RMK AO2 T00321001 KVLD 051553Z 18005KT 2SM BR OVC004 21/21 A2998 RMK AO2 SLP157 T02110211 RJFY 050323Z 28010KT 9999 FEW030 BKN230 18/10 Q1017 RMK 1CU030 A3005 KUTS 051612Z AUTO VRB03KT 10SM OVC005 09/08 A2983 RMK AO2 T00940078 KUVA 051615Z AUTO 00000KT 10SM OVC009 11/09 A2993 RMK AO2 T01050087 KVKS 051615Z AUTO 00000KT 3SM BR SCT006 BKN020 OVC038 10/09 A2992 RMK A01 KVLL 051615Z AUTO 26006KT 10SM OVC027 04/00 A3004 RMK AO2 T00411003 GGOV 051600Z 22005KT 180V260 CAVOK 34/23 Q1009 NOSIG KVKY 051615Z AUTO 14008G15KT 080V200 1 1/4SM BR BKN006 OVC012 24/23 A2984 RMK A01 VIS 1/2V3 KWDG 051548Z 16006KT 5 SM FEW200 04/04 A2985 SBAA 051530Z 00000KT 9999 BKN025 34/24 Q1012 MDLR 051600Z 05006KT 8000 -RA FEW016CB SCT018 BKN070 25/24 Q1016 CB/NE/E/SE/SW/N KY50 051556Z AUTO 20007KT 7SM OVC007 01/M01 A2993 RMK AO2 SLP165 T00111006 KY49 051615Z AUTO 09006KT 10SM OVC005 M02/M03 A2973 RMK AO2 T10201033 LMML 051615Z 11007KT 9999 SCT019TCU 17/14 Q1024 NOSIG KVNC 051615Z AUTO 16015G23KT 10SM CLR 27/23 A3001 RMK AO2 TSNO KUUU 051618Z AUTO 00000KT 4SM BR SCT004 BKN015 OVC037 04/04 A2995 RMK AO2 RAE06 P0000 T00440044 KY51 051615Z AUTO 16007KT 1/4SM OVC002 00/00 A2987 RMK AO1 T00000000 SBAF 051600Z 22008KT 9999 FEW015 OVC020 24/19 Q1007 RJKA 051000Z 33002KT 9999 FEW020 SCT030 BKN120 19/18 Q1017 KWDR 051615Z AUTO 00000KT 10SM BKN007 OVC075 10/08 A3004 RMK AO1 KVOA 051615Z AUTO 13015KT 3SM BR BKN005 BKN021 25/24 A2983 RMK A01 EYSA 051620Z 28012KT 8000 -RA BKN009 OVC014 04/04 Q1009 R32R/290195 R32L/290195 GRN NOSIG SBAN 051500Z 34004KT 8000 BKN009 SCT014 24/19 Q1018 SBBE 051600Z 34012KT 9999 BKN035 FEW040TCU 30/24 Q1011 KY63 051618Z AUTO 14014KT 10SM CLR 01/M01 A2962 RMK AO2 T00051015 SBBG 051600Z 00000KT CAVOK 28/13 Q1010 FQIN 051400Z 16010KT 9999 SCT020 29/18 Q1016 SBBH 051500Z 29008KT 4000 -RA SCT007 BKN014 OVC100 21/19 Q1013 SBBI 051600Z 24006KT 9999 FEW035 24/12 Q1011 SBAR 051600Z 08018KT 9999 FEW020 30/24 Q1010 SBCA 051500Z 07004KT 9999 SCT030 26/15 Q1013 SBAT 051500Z 29006KT 9999 FEW025 31/23 Q1014 SBCB 051600Z 27005KT 9999 SCT015 BKN045 25/19 Q1007 SBCC 051600Z 34009KT 9999 SCT025 FEW030TCU 28/20 Q1014 KVOK 051558Z 15004KT 4SM BR OVC004 01/00 A2989 RMK AO2A SLP135 KY70 051614Z AUTO 23007KT 10SM OVC022 02/00 A3001 RMK AO2 T00200003 MDPC 051600Z 13014KT 8000 -RA BKN018 BKN070 26/24 Q1016 KVPC 051553Z AUTO 00000KT 7SM OVC004 09/08 A3002 RMK AO2 SLP162 T00890078 KUXL 051615Z AUTO 01009G15KT 4SM RA OVC007 11/10 A2983 RMK AO2 LTG DSNT SW T01060101 SBAX 051600Z 33011KT 9999 SCT004 BKN012 ///// Q1015 SBCF 051600Z 26011KT 3000 RA BKN010 BKN020 OVC080 21/19 Q1013 KUYF 051615Z AUTO 22005KT 10SM OVC015 03/01 A3011 RMK AO2 SBCG 051600Z 30012KT 270V340 9999 SCT025 BKN030 FEW035TCU 30/22 Q1011 SBBQ 051600Z 27013KT 9999 BKN033 25/17 Q1013 SBCH 051500Z 17010KT CAVOK 25/11 Q1012 KVNY 051551Z 00000KT 10SM CLR 08/01 A2997 RMK AO2 SLP144 T00830011 SBCI 051600Z 04003KT 9999 SCT020 SCT090 33/21 Q1012 SBBR 051600Z 29013KT 9999 BKN033 26/18 Q1017 SBCJ 051600Z 04004KT 9999 -RA SCT020 25/23 Q1015 KUZA 051554Z AUTO VRB03KT 10SM FEW080 10/07 A3005 RMK AO2 SLP177 T01000067 PNO SBBU 051500Z 26008KT 9999 SCT040 29/21 Q1011 SBCM 051500Z 24010KT 9999 SCT025 25/15 Q1010 FPST 051600Z 14010KT 9999 FEW020CB BKN040 29/25 Q1010 NOSIG SBBV 051600Z VRB12KT 9999 BKN030 33/21 Q1012 SBBW 051600Z 28005KT 9999 SCT020 BKN090 32/22 Q1013 FQLC 051600Z 05008KT 9999 TS SCT015 FEW020CB BKN070 23/17 Q1018 RMK CB TO N/NE/E/SE/S/SW SAME 051600Z 11008KT CAVOK 22/02 Q1011 SBCO 051600Z 24003KT 9999 BKN040 27/14 Q1010 SBCP 051600Z 10002KT 9999 BKN015 BKN080 27/24 Q1007 MDPP 051600Z 08010KT 9999 SCT020 28/24 Q1017 NOSIG SBCR 051600Z 36005KT 9999 SCT030 35/24 Q1007 KVPS 051555Z 10006KT 10SM SCT006 BKN013 OVC090 22/19 A2990 RMK AO2A SCT006 V BKN SLP131 T02170193 $ SBCT 051600Z 23010KT 9999 FEW035 22/09 Q1011 FQMA 051600Z 17014KT 9999 SCT015 BKN020 25/21 Q1017 NOSIG KVRB 051553Z 19010KT 10SM SCT023 28/21 A3003 RMK AO2 SLP167 T02780211 SBDN 051600Z 28015KT 230V340 9999 BKN045 33/15 Q1009 SBCX 051500Z 12006KT CAVOK 20/10 Q1013 RJNG 050116Z VRB02KT 5000 BR FEW001 SCT003 11/11 Q1015 RMK 2ST001 3ST003 A3000 SBEG 051600Z 13003KT 9999 BKN015 BKN100 28/23 Q1013 SBCY 051600Z 07009KT 9999 SCT030 32/22 Q1011 KWHP 050353Z 00000KT 10SM SKC 15/M02 A3001 RMK LAST SBCZ 051600Z 29004KT 9999 SCT020 31/24 Q1011 KVQQ 051550Z 18009KT 10SM FEW017 26/21 A2998 KVPZ 051556Z AUTO 20009KT 9SM OVC006 01/M01 A3007 RMK AO2 SLP192 T00061011 TSNO $ RJOA 051200Z 29006KT 9999 FEW030 BKN/// 10/09 Q1015 SBEK 051600Z 05003KT 9999 SCT018 BKN100 32/26 Q1012 RJNK 051600Z 20008KT 9999 TS FEW020CB SCT030 BKN070 12/07 Q1010 RJOB 051200Z 27004KT 9999 FEW030 BKN/// 10/08 Q1014 EYVI 051620Z 26016KT 6000 DZ OVC004 02/01 Q1010 R19/5/0294 NOSIG KVQT 051615Z AUTO VRB06G12KT 8SM FEW011 FEW018 26/24 A2977 RMK A01 SAOC 051600Z 18018KT CAVOK 22/00 Q1011 RJOC 051100Z 14004KT 9999 SCT040 BKN/// 12/09 Q1014 FQNC 050800Z 04009KT 9999 BKN020 31/22 Q1014 MDSD 051600Z 03005KT 8000 VCRA FEW014CB BKN016 OVC070 26/23 Q1016 RERA CB/NE/E/S/SW RJOF 050327Z 28010KT 9999 FEW025 SCT035 BKN230 17/09 Q1017 RMK 1CU025 3CU035 A3004 KVSF 051608Z AUTO 00000KT 3SM -SN BR SCT018 BKN025 OVC036 M03/M05 A2994 RMK AO2 P0000 T10281050 KWJF 051556Z 27019KT 10SM CLR 12/M04 A2997 RMK AO2 PK WND 28027/1507 SLP146 T01171039 RJOH 051600Z 27004KT 9999 -SHRA FEW030 SCT040 BKN070 11/08 Q1013 SBFI 051600Z 07003KT 9999 FEW025 29/18 Q1009 RJOI 051555Z 26009KT 9999 FEW020 BKN035 BKN230 14/07 A2998 RMK SLP153 T01440072 SBES 051600Z 23007KT 190V280 9999 FEW017 BKN023 24/19 Q1007 RJNS 051200Z 26020KT 9999 FEW020 BKN/// 13/07 Q1011 SANT 051600Z 16003KT 9999 FEW040TCU 32/21 Q1005 RJOK 051100Z 35008KT 9999 FEW025 BKN/// 12/07 Q1015 RJNT 051200Z 16005KT 120V220 9999 FEW060 SCT080 11/06 Q1013 KVTA 051554Z AUTO 28003KT 10SM OVC019 03/M01 A3011 RMK AO2 SLP203 T00331011 SANU 051600Z 16012KT 8000 SA NSC 26/04 Q1011 SBFL 051600Z VRB07KT 9999 BKN040 24/17 Q1008 RJOM 051200Z 12004KT 080V170 9999 FEW030 BKN/// 13/08 Q1016 SBFN 051600Z 13014KT 9999 SCT019 31/24 Q1012 RJNW 051000Z 24007KT 9999 FEW015 BKN070 10/07 Q1012 LOAN 051500Z 36003KT 8000 SKC RJOO 051100Z 32001KT 9999 FEW025 BKN/// 13/08 Q1014 RJOP 042145Z 27010KT 9999 FEW025 BKN230 13/09 Q1016 RMK 1CU025 A3000 RJNY 050639Z 07005KT 030V130 9999 FEW020 BKN230 17/11 Q1009 RMK 1CU020 A2982 FQNP 051500Z 12005KT 9999 BKN020 FEW020CB 33/19 Q1010 RMK CB TO W/E RJOR 051200Z 14008KT 9999 FEW030 BKN/// 10/08 Q1014 RJOS 041912Z 28009KT 9999 FEW015 SCT035 13/09 Q1014 RMK 1CU015 4CU035 A2997 SBFS 051500Z /////KT 9999 SCT006 OVC080 ///// Q//// KVTI 051635Z AUTO 15011KT 1SM BR OVC001 02/01 A2989 RMK AO2 RJOT 051200Z 22005KT 9999 FEW030 BKN/// 11/07 Q1015 SAOU 050130Z 14005KT 9999 VCTS SCT035 FEW050CB 25/16 Q1004 RETSRA VYMD 051430Z 34003KT 5000 NSC 20/15 Q1015 MDST 051600Z 17005KT 9999 FEW016CB BKN020 27/23 Q1017 CB/N SBGL 051600Z 09004KT 9999 FEW015 OVC020 24/19 Q1007 SBGM 051600Z 35012KT 9999 BKN030 BKN083 30/23 Q1012 FQPB 051600Z 06010KT 9999 SCT020 27/24 Q1012 LOAV 051500Z 33004KT 8000 SCT009ST 00/M03 RJOW 051000Z 18005KT CAVOK 11/09 Q1016 KWLD 051554Z AUTO 17013KT 10SM CLR 07/04 A2986 RMK AO2 SLP116 T00670044 KVTN 051452Z AUTO 23009KT 10SM CLR 06/M06 A2948 RMK AO2 SLP997 T00611056 56010 SBGO 051600Z 33009KT 9999 SCT017 SCT023 BKN100 27/18 Q1015 RJOY 051000Z 19003KT 9999 FEW030 BKN/// 14/07 Q1015 RJOZ 051515Z 28016G27KT 9999 FEW020 SCT030 BKN050 15/09 Q1016 RMK 1CU020 3CU030 7SC050 A3001 SBFZ 051600Z 09012KT 9999 BKN023 29/23 Q1011 KVTP 051613Z AUTO 03015G28KT 10SM CLR M01/M11 A2981 RMK AO2 KXBP 051615Z AUTO 15004KT 10SM OVC014 08/07 A2994 RMK AO2 T00760070 SBGR 051600Z 29017G30KT 9999 BKN045 27/17 Q1010 KVUJ 051600Z AUTO 36005KT 10SM CLR 11/08 A3008 RMK AO2 T01110076 SBIC 051600Z 23004KT 9999 SCT017 FEW023TCU BKN090 ///// Q1013 SARC 051600Z 02008KT 9999 FEW028 30/19 Q1007 KWMC 051556Z AUTO 27005KT 10SM BKN049 OVC060 M02/M07 A3009 RMK AO2 SLP196 T10221072 SBGW 051600Z 23006KT 180V290 9999 SCT025 29/18 Q1007 SARE 051600Z 03008KT 340V050 CAVOK 31/19 Q1006 SARF 051600Z 34007KT 9999 FEW022 31/21 Q1007 KVUO 051601Z AUTO 18009KT 150V220 9SM -RA BKN015 OVC027 04/02 A3015 RMK AO2 P0001 T00390017 SBIH 051600Z 02004KT 8000 SCT016 BKN100 30/25 Q1011 KVVG 051615Z AUTO 10SM 28/26 A2991 RMK A01 SARI 051600Z 09003KT 9999 FEW030 29/19 Q1010 RJSA 051200Z 21005KT 8000 FEW005 SCT015 BKN030 05/04 Q1007 SASA 051600Z 36006KT 9999 SCT020 29/18 Q1009 SBHT 051600Z 10004KT 9999 BKN020 33/22 Q1012 RKJB 051600Z AUTO 34015KT 3000 NCD 07/00 Q1025 SBIL 051500Z 03010KT 9999 VCSH SCT015 BKN025 BKN040 29/24 Q1012 RJSC 051000Z 07003KT 040V120 9999 -SHRA FEW030 BKN040 09/07 Q1010 SARL 051600Z 02008KT 9999 SCT026 31/19 Q1007 FQQL 051200Z 15005KT 9999 BKN020 FEW025CB SCT090 30/25 Q1011 RMK CB TO N SBJF 051500Z 27010KT 9999 BKN018 28/20 Q1010 RJSF 051100Z 20005KT CAVOK 07/04 Q1011 SBIP 051500Z 06006KT 9999 SCT025 OVC080 28/23 Q1009 SARP 051600Z 02007KT 9999 FEW035 30/19 Q1008 RJSH 050754Z 25010KT 9999 FEW030 SCT040 10/05 Q1008 RMK 1CU030 4CU040 A2977 RJSI 051000Z VRB03KT 9999 FEW020 SCT030 BKN040 10/05 Q1009 SASJ 051600Z 09002KT 9999 FEW030 31/20 Q1007 SCBA 051600Z 31020KT 9999 FEW030 SCT100 BKN200 14/06 Q1010 RJSK 051200Z 22004KT 180V250 9999 -SHRA FEW010 SCT025 BKN050 09/06 Q1009 RKJK 051458Z AUTO 31019G27KT 10SM BKN039 06/M01 A3024 RMK AO2 PK WND 32028/05 SLP245 T00601012 401320051 52020 $ HAAB 051600Z 03007KT C A V O K 13/M04 Q1028 RJTE 041806Z 34010KT 310V030 9999 FEW008 SCT012 BKN015 15/13 Q1009 RMK 2ST008 4ST012 7CU015 A2982 RJSN 051200Z 17008KT 9999 FEW020 BKN030 11/11 Q1011 KVVV 051614Z AUTO 13007KT 10SM CLR 00/M02 A2958 RMK AO2 RJSO 050546Z 29010KT 260V320 9999 FEW020 BKN035 11/07 Q1007 RMK 2CU020 5CU035 A2975 RJTF 050700Z 22003KT 180V270 9999 FEW030 BKN/// 17/08 Q1010 SBKG 051600Z 11013KT CAVOK 32/17 Q1013 SCAP 051600Z 23010G20KT 180V270 9999 BKN036 16/06 Q1019 SBJP 051600Z 07010KT 020V100 9999 FEW033 31/21 Q1012 SBIZ 051600Z 09007KT 9999 FEW030 SCT035 34/21 Q1010 SBJR 051600Z 21003KT 9999 SCT020 OVC030 25/20 Q1007 RJTI 050700Z 18003KT 150V220 9999 FEW030 BKN/// 15/09 Q1010 RJSR 051000Z VRB02KT 9999 FEW005 SCT020 BKN030 07/07 Q1009 SCAR 051600Z 20011KT CAVOK 22/14 Q1013 SCAS 051500Z 25011KT 9999 FEW030 OVC040 14/08 Q1014 RJSS 051200Z 11004KT 070V170 9999 FEW020 SCT040 BKN060 12/05 Q1009 SBLB 051520Z 36013KT 5000 -RA SCT006 OVC070 25/23 Q1007 W///S4 SCAT 051600Z 30006KT 220V020 CAVOK 22/12 Q1015 RJSU 050333Z VRB02KT 9999 FEW020 SCT040 BKN050 14/06 Q1009 RMK 1CU020 3CU040 5CU050 A2981 RJTL 042208Z VRB02KT 5000 BR FEW020 SCT230 09/08 Q1010 RMK 1CU020 A2985 SCCC 051600Z 03007KT 9999 FEW020 SCT036 15/07 Q1010 SBJU 051500Z 09006KT 9999 FEW023 35/17 Q1014 SBJV 051600Z 14008KT CAVOK 27/15 Q1007 KVWU 051614Z AUTO 00000KT 10SM OVC010 M01/M03 A2974 RMK AO2 SBLE 051600Z 00000KT 9999 SCT040 26/20 Q1012 RJTO 050700Z 13002KT 9999 FEW010 BKN/// 16/12 Q1010 SCCF 051600Z 27014KT CAVOK 24/M12 Q1024 RJSY 051200Z 28012KT 8000 -SHRA FEW010 SCT020 BKN040 11/08 Q1010 SBKP 051600Z 28018KT 9999 SCT040 27/14 Q1011 SCCH 051600Z 17008KT 9999 SCT012 20/08 Q1020 RJTR 041737Z AUTO VRB04KT 3SM BR BKN023 BKN029 OVC038 09/09 A2985 RMK AO2 RAE37 $ SCCI 051600Z 25015KT CAVOK 16/02 Q1006 NOSIG SCDA 051600Z 19015KT CAVOK 22/13 Q1014 SBMA 051600Z 36004KT 9999 SCT023 33/23 Q1011 RJTT 051600Z 28004KT CAVOK 13/09 Q1008 NOSIG SAVC 051600Z 00000KT 9999 SCT030 OVC100 12/10 Q1010 SBMD 051600Z 11005KT 9999 SCT022 35/20 Q1012 SBME 051500Z 12003KT 9999 BKN015 OVC070 26/21 Q1008 SBLO 051600Z 21004KT 9999 BKN025 29/19 Q1011 SBLP 051500Z 22005KT 9999 SCT030 33/22 Q1013 SBMG 051600Z 26009G19KT 250V340 9999 BKN045 30/16 Q1009 RJTY 051558Z AUTO 00000KT 9SM R18/5500FT CLR 10/08 A2984 RMK AO2 SLP108 T01010084 SBLS 051600Z 33007KT 280V350 3000 RA BKN009 BKN017 BKN100 22/20 Q1013 SBMK 051600Z 28015KT 9999 SCT040 BKN100 30/18 Q1013 KVYS 051615Z AUTO 19010KT 1 3/4SM BR OVC002 01/01 A3003 RMK AO2 T00060006 SAWC 050140Z 27005KT 9999 FEW030 BKN090 11/08 Q1007 KWRB 051622Z AUTO 36004KT 10SM OVC005 10/09 A3001 RMK AO2 FQTT 051600Z 18016G29KT 150V220 4000 -TSRA BKN018 FEW020CB BKN070 25/22 Q1013 SAWE 051500Z 34018KT CAVOK 13/10 Q1005 SBMN 051600Z 17003KT 9999 BKN010 BKN100 27/24 Q1013 SBNF 051600Z 12007KT 9999 SCT045 25/// Q1008 SBMO 051600Z 11015KT 9999 SCT020 32/22 Q1011 SCCY 051600Z 25007KT 180V320 9999 FEW030 BKN040 16/05 Q1011 SAWG 051600Z 27009KT 9999 FEW035 SCT040 21/M00 Q1005 SBMQ 051600Z 09010KT 9999 SCT023 35/23 Q1011 SAWH 051600Z 25016KT CAVOK 12/04 Q1003 KXIH 051615Z AUTO 03021KT 9SM OVC007 13/12 A2977 RMK A01 SBMS 051500Z 05010KT 9999 SCT030 37/20 Q1010 KWRI 051558Z AUTO 29008KT 10SM OVC008 06/05 A2998 RMK AO2 SLP153 T00640053 SCFA 051600Z 20013KT 9999 FEW020 20/14 Q1014 NOSIG SAVT 051225Z 23010KT 3000 +RA FEW020 SCT040TCU 13/13 Q1002 SBMT 051500Z 27017KT 9999 BKN036 26/16 Q1010 SCEL 051600Z 18008KT 130V210 CAVOK 22/09 Q1017 NOSIG SAVV 041817Z 15024KT 9999 SCT045TCU OVC100 24/19 Q0998 KWRL 051553Z AUTO 34014G22KT 10SM OVC070 M04/M09 A2975 RMK AO2 SLP114 T10441094 FQVL 051500Z 13013KT 090V150 9999 FEW020 26/19 Q1013 SBMY 051600Z 24005KT 9999 FEW018 OVC100 28/25 Q1013 SBOI 051600Z 01003KT 9999 SCT025 FEW030TCU 32/// Q1011 SBPA 051600Z 26008G18KT 190V350 9999 BKN040 26/15 Q1010 SBPB 051600Z 07019KT 9999 FEW020 34/23 Q1010 SBNT 051600Z 11013KT 9999 SCT028 31/22 Q1011 SBPC 051500Z 35008KT 9999 SCT012 25/19 Q1014 RKPC 051600Z 34014KT 310V020 6000 BKN025 10/02 Q1025 NOSIG SCFM 051600Z 27008KT CAVOK 14/04 Q1005 SCGE 051600Z 16004KT 9999 BKN030 17/09 Q1021 SBPF 051600Z 17009KT CAVOK 26/17 Q1012 RKNY 051600Z AUTO 25012KT 3000 NCD 04/M07 Q1017 SAZA 050730Z 32010KT 9000 -RA OVC045 22/15 Q1005 SBPJ 051500Z 27003KT 9999 FEW025 30/23 Q1013 SBPK 051600Z 09010KT 9999 SCT030 28/18 Q1010 LPBJ 051600Z 08007KT 9999 FEW024 19/12 Q1016 RKPK 051600Z 29009KT 9000 NSC 09/00 Q1018 NOSIG SCFT 051600Z 28010KT 9999 BKN046 14/04 Q1014 MGCB 051600Z 27006KT 9999 SCT018 BKN200 23/17 QFE 869.6 KWST 051626Z AUTO 00000KT 2 1/2SM -RA BR SCT018 BKN026 OVC034 04/03 A2995 RMK AO2 P0000 T00440028 SBPL 051600Z 06007KT 9999 SCT040 37/13 Q1010 SBPP 051600Z 30007KT 9999 BKN025 30/19 Q1011 SBPR 051500Z 32008KT 9999 -DZ BKN008 BKN012 OVC080 21/21 Q1014 LPAZ 051600Z 19018KT 6000 FEW009 BKN011 20/18 Q1008 SBPS 051600Z 02013KT 330V060 9999 SCT020 31/23 Q1009 SBRB 051600Z 35009KT 9999 SCT030 SCT100 30/21 Q1011 SCIC 051600Z 23012KT CAVOK 21/07 Q1018 SAZM 051600Z 27008KT 230V320 9000 -SH SCT030 SCT100 BKN200 28/17 Q1004 SBPV 051600Z 05006KT 9999 SCT012 BKN015 BKN100 27/23 Q1012 KXLL 051615Z AUTO 22009KT 4SM BR OVC006 05/03 A3000 RMK AO2 SAZN 051600Z 27017G25KT CAVOK 20/04 Q1011 SCIE 051600Z 25012KT 210V270 9999 FEW020 18/11 Q1021 SBRF 051600Z 06009KT 9999 SCT023 30/24 Q1011 SCGZ 051600Z 25009KT 9999 FEW050 SCT130 13/02 Q1003 SCHR 051600Z 25010KT 9999 FEW025 0VC035 17/09 Q1008 SAZS 051600Z 32019KT 9999 FEW040 SCT045 13/02 Q1015 KWVI 051615Z AUTO 00000KT 10SM SCT017 08/08 A3011 RMK AO2 T00780078 SBRJ 051600Z 19010KT 9999 FEW015 BKN020 BKN040 24/19 Q1007 LPCS 051600Z 27006KT 9999 FEW020 18/13 Q1017 KXNA 051553Z 12005KT 9SM CLR 03/02 A2993 RMK AO2 SLP142 T00280022 SBSC 051600Z 20007KT 9999 OVC020 24/18 Q1007 FSIA 051600Z 14004KT 9999 -SHRA FEW014CB BKN016 26/24 Q1011 TEMPO 8000 -SHRA SBQV 051600Z 35009KT 9999 SCT028 29/17 Q1015 KWVL 051615Z AUTO 02004KT 2SM -SN BR SCT023 OVC032 M04/M06 A2999 RMK AO2 VIS 1V5 P0000 FZRANO KWWD 051556Z AUTO 29007KT 10SM BKN007 OVC013 07/06 A3002 RMK AO2 CIG 006V011 SLP169 T00720056 $ RKSG 051458Z 29010G15KT 7SM FEW200 03/M04 A3023 RMK A02A SLP238 52026 SBSG 051600Z 13014KT 110V170 9999 BKN020 31/22 Q1011 SBRP 051600Z 30012KT 9999 BKN035 30/19 Q1009 SCIP 051600Z 34007KT 240V020 9999 SCT020 BKN250 24/19 Q1020 NOSIG SCIR 051600Z 14012KT 9999 BKN020 16/09 Q1024 RKSI 051600Z 33016KT CAVOK 01/M08 Q1025 NOSIG SBTA 051600Z 25012G23KT 9999 SCT030 30/16 Q1007 SBSJ 051600Z 28013G35KT 9999 BKN020 28/15 Q1009 KXMR 051558Z AUTO 17012KT 10SM CLR 27/22 A3000 RMK AO2 SLP162 T02650217 $ SBTC 051500Z 04012KT 9999 BKN020 BKN070 28/24 Q1012 SBSL 051600Z 01013KT 9999 SCT020 32/21 Q1010 SBSM 051600Z 05006KT 340V140 CAVOK 28/16 Q1009 SBTE 051600Z 09005KT 9999 SCT030 37/16 Q1009 SBSN 051600Z 09010KT 9999 FEW020 32/23 Q1011 SBTF 051600Z 33004KT 9999 SCT015 BKN100 28/25 Q1012 SCJO 051600Z 30010KT 9999 BKN022 BKN035 16/06 Q1019 RKSO 051558Z 32009KT 7SM CLR 02/M02 A3023 RMK AO2A SLPNO WND DATA ESTMD ALSTG ESTMD $ KXNO 051558Z AUTO 00000KT 10SM SCT007 11/10 A3003 RMK AO2 SLP172 T01130099 SBSP 051600Z 30013KT 9999 BKN040 26/15 Q1010 SBSR 051600Z 28008KT 9999 SCT030 32/17 Q1011 SBUA 051500Z 29003KT 9999 SCT020 SCT070 30/25 Q1012 RKSS 051600Z 31011KT CAVOK M00/M12 Q1025 NOSIG KWWR 051615Z AUTO 18021G28KT 10SM CLR 08/00 A2975 RMK AO2 SBTK 051500Z 18007KT 9999 SCT030 32/25 Q1012 MGES 051600Z 09004KT 9999 SCT018 SCT090 OVC200 25/19 QFE 909.2 SBST 051600Z 25009KT 9999 BKN033 23/17 Q1008 HBBA 051200Z 17002KT 8000 TS SCT025 FEW030CB BKN100 32/19 Q1010 BECMG TSRA KXNT 051555Z AUTO 28009G17KT 230V320 10SM OVC022 03/M01 A2997 RMK AO2 LPFL 051600Z 19014G26KT 160V220 9999 FEW018 SCT034 18/13 Q0994 SBSV 051600Z 07016KT 9999 SCT020 30/23 Q1011 RKTN 051600Z 31012KT 9999 SCT040 08/M02 Q1019 NOSIG SBUF 051500Z 36005KT 9999 FEW023 37/12 Q1011 RKTP 042100Z 19004KT 2000 BR SCT000 BKN012 BKN030 09/08 A3000 SBUG 051600Z 03008KT 9999 FEW033 30/18 Q1008 LPFR 051600Z 23007KT 200V260 9999 SCT030 18/14 Q1015 SBTT 051600Z 30006KT 9999 SCT020 29/24 Q1012 SBTU 051600Z 06006KT 9999 BKN025 32/22 Q1014 SBUL 051500Z 30015KT 9999 BKN013 23/19 Q1016 RKTU 051600Z 28010KT 9999 FEW040 03/M04 Q1024 NOSIG VYYY 051600Z 36003KT 7000 FEW020 SCT110 26/23 Q1013 SBVH 051600Z 31011KT 280V360 9999 SCT022 FEW030TCU BKN090 28/23 Q1014 SBUR 051500Z 28014KT 9999 TS BKN017 BKN020 FEW040CB 26/21 Q1013 SCMK 051600Z 02030KT 9999 OVC022 12/10 Q1013 KWYS 051610Z AUTO 22005KT 10SM CLR M13/M19 A2981 RMK AO2 MGGT 051600Z 18004KT CAVOK 18/14 Q1025 A3027 SCT090 BKN100 NOSIG KXPY 051615Z AUTO 06006KT 2 1/2SM BR OVC004 19/19 A2980 RMK A01 YABA 051630Z AUTO 31005KT 9999 // NCD 09/08 Q1015 LPHR 051600Z 20017KT 6000 -RA SCT007 SCT022 BKN070 19/17 Q0998 SBVT 051600Z 03008KT 9999 FEW020 BKN100 31/26 Q1006 KXSA 051615Z AUTO 30005KT 10SM OVC005 07/07 A3005 RMK AO2 T00650065 MGHT 051600Z 00000KT CAVOK 20/13 QFE 819.8 BKN200 WSAP 051500Z 03006KT 5000 -TSRA FEW013 FEW015CB FEW016TCU BKN140 28/26 Q1010 KYIP 051553Z 24010KT 10SM OVC026 04/01 A3005 RMK AO2 SLP180 T00440011 SCNT 051600Z 21012KT 9999 FEW026 16/02 Q1007 MHAM 051600Z 04006KT 9999 FEW034TCU BKN250 29/26 TCU N S SCON 051600Z 36007KT 9999 OVC015 14/13 Q1014 LPLA 051600Z 20017G28KT 6000 -RA SCT008 BKN016 19/17 Q1002 MHCA 051600Z 00000KT 9999 SCT028 SCT250 27/22 LQBK 051600Z 12002KT 5000 BR NSC 02/M01 Q1029 NOSIG KYKM 051553Z 32004KT 10SM CLR M06/M08 A3010 RMK AO2 SLP204 T10561078 KYKN 051615Z AUTO 18009KT 10SM CLR 05/M03 A2955 RMK AO1 SCPQ 051600Z 33009KT 290V010 9999 -SHRA FEW011 SCT020 BKN040 14/12 Q1015 MHCH 051600Z 00000KT 9999 SCT032TCU BKN080 28/24 TCU ALL HZ SBYS 051600Z 29014G24KT 9999 SCT040 31/18 Q1010 LPMA 051600Z 04003KT 350V080 9999 SCT015 BKN030 20/17 Q1019 SCRD 051600Z 18008G18KT CAVOK 22/11 Q1017 SCRG 051600Z 20013KT 9999 FEW050 20/11 Q1017 SCQP 051600Z 26009KT 9999 FEW024 BKN030TCU 15/09 Q1021 KXVG 051556Z AUTO 00000KT 10SM BKN006 M02/M03 A2973 RMK AO2 FSPP 051600Z 27003KT //// //// 28/23 Q1012 SCRM 051600Z 34010KT 0200 FG OVC003 01/01 Q0992 MGMM 051600Z 00000KT CAVOK 28/24 Q1012 A2988 BKN200 SCSE 051600Z 29011KT CAVOK 21/12 Q1014 LOWG 051620Z VRB01KT CAVOK M01/M03 Q1028 NOSIG KYNG 051551Z 25008KT 10SM BKN016 OVC028 03/M01 A3006 RMK AO2 SLP189 T00331006 LOWI 051620Z VRB01KT CAVOK M01/M06 Q1027 NOSIG SCTB 051600Z VRB05KT 8000 NSC 21/08 Q1018 MGMT 051300Z 00000KT CAVOK 25/23 Q1009.5 BKN070 LOWK 051620Z 33002KT 8000 SKC M01/M03 Q1028 NOSIG SEAM 051600Z 10003KT 9999 SCT023 BKN100 18/13 Q1028 LOWL 051620Z 30004KT 270V330 8000 OVC010 M02/M04 Q1029 BECMG OVC009 SCTE 051600Z 30008KT 9999 BKN025 OVC045 14/09 Q1018 NOSIG SCSN 051600Z 24016KT CAVOK 21/12 Q1017 SECA 051600Z 02003G14KT 9999 FEW040 30/14 Q1016 LOWS 051620Z 31002KT 9999 FEW004 M02/M04 Q1028 NOSIG MGPB 051600Z 12004KT 9999 FEW020 BKN200 30/26 Q1011 A2985 LPPD 051600Z 19019KT 9999 SCT011 BKN018 19/18 Q1006 SCTN 051600Z 36019KT 9999 OVC020 12/09 Q1016 LOWW 051620Z 34005KT 6000 FZBR FEW020 M03/M04 Q1029 BECMG 4000 FZBR LOWZ 051500Z 00000KT 50KM SKC M01/M05 Q1026 LOXT 051550Z 25005KT 4500 BR SCT006ST OVC008ST M01/M03 Q1029 RMK OVC SCVD 051600Z 25007KT 220V280 9999 FEW029 BKN037 BKN042 15/08 Q1020 SECO 051600Z 03004KT 9999 FEW020 BKN100 30/25 Q1013 LOXZ 051550Z 24002KT 12KM SKC M02/M03 Q1027 LPPR 051600Z 23003KT CAVOK 19/12 Q1018 LPPS 051600Z 28004KT 250V310 9999 FEW013 SCT030 20/18 Q1019 LPPT 051600Z 04007KT 360V080 9999 FEW028 19/13 Q1017 SECU 051600Z 05006KT 9999 BKN040 22/10 Q1025 SCVM 051600Z 24014KT CAVOK 23/15 Q1016 YBAF 051630Z AUTO 05008KT 9999 // NCD 25/20 Q1013 RMK MGQZ 051600Z 00000KT 8000 OVC200 16/09 QFE 773.8 HZ YBAS 051630Z AUTO 15004KT 9999 // NCD 24/21 Q1014 RMK MGSJ 051600Z 00000KT 9000 SCT100 OVC200 26/24 Q1013 A2991 HZ MGRT 051600Z 00000KT CAVOK 29/22 Q1015 A2997 BKN200 VOL. SANTA MARIA Y SANTIAGUITO EN ACTIVIDAD YBBN 051600Z 01013KT 9999 FEW018 BKN120 24/21 Q1012 NOSIG LRBC 051600Z 17010KT CAVOK M00/M02 Q1030 YBCG 051630Z AUTO 04012KT //// VCTS OVC032 23/21 Q1014 REVCTS YBCK 051630Z AUTO 01003KT //// // ////// 27/11 Q1009 RMK YAMB 051630Z AUTO 16006KT 9999 // SCT036 24/21 Q1012 LRAR 051600Z 01002KT CAVOK M01/M03 Q1031 MHLC 051600Z VRB02KT 9999 FEW026 BKN200 30/24 Q1011 A2986 NOSIG LRBM 051600Z /////KT CAVOK M01/M02 Q1031 YBDG 051630Z AUTO 17007KT 9999 // NCD 13/10 Q1010 RMK MHLE 051600Z 20006KT 9999 SCT024 BKN200 21/16 LRBO 051600Z 20010KT 9999 SKC 00/M06 Q1032 BLU BLU YBCS 051600Z 16007KT 9999 FEW026 25/21 Q1011 SEGS 051600Z 15015KT 9999 SCT020 27/17 Q1014 RMK A2996 LRBS 051600Z 00000KT CAVOK 01/M05 Q1033 NOSIG YBCV 051630Z AUTO 00000KT 9999 // NCD 28/12 Q1010 LRCK 051600Z 17008KT CAVOK M03/M04 Q1034 NOSIG SEGU 051600Z 03006KT 9999 FEW020 BKN026 BKN090 28/20 Q1012 NOSIG RMK A2989 MGTU 051600Z 27006KT CAVOK 29/23 SCT200 LRCL 051600Z 08004KT 050V110 CAVOK M04/M06 Q1031 MHLM 051600Z 19007KT 9999 FEW030 BKN250 31/25 Q1011 A2986 NOSIG YANG 051630Z AUTO 20003KT 9999 // NCD 27/01 Q1012 LRCT 051600Z 00000KT 2000 BR FEW200 M04/M05 Q1031 YLO YLO YBDV 051630Z AUTO 21025KT //// // ////// 29/18 Q1010 SEJD 051600Z 10005KT 9999 SCT020 28/28 Q1015 RMK A2997 LRCV 051600Z 08005KT CAVOK M01/M05 Q1032 LQMO 051600Z 12002KT CAVOK 08/M02 Q1027 ROAH 051600Z 04005KT 360V070 9999 FEW020 SCT050 BKN120 23/18 Q1018 BGBW 051550Z 07015G25KT 9999 FEW060 BKN095 BKN140 09/M05 Q0993 YBGD 051630Z AUTO 30006KT 9999 // NCD 26/11 Q1011 RMK SFAL 051550Z 11008KT 9999 SCT030 08/03 Q1011 GMAD 051600Z 26013KT 9999 SCT016 20/15 Q1017 NOSIG MHNO 051600Z 19004KT 9999 SCT040 SCT250 27/20 HZ GMAG 051600Z 32008KT 9999 BKN016 19/17 Q1017 NOSIG FTTA 051600Z 06008KT CAVOK 35/12 Q1010 FTTC 051500Z 04006KT CAVOK 36/M02 Q1012 FTTD 051400Z 00000KT CAVOK 37/07 Q1009 HDAM 051500Z 10006KT CAV0K 28/21 Q1016 YBHI 051630Z AUTO 00000KT 9999 // SCT100 OVC125 18/15 Q1012 KZPH 051635Z AUTO 17012G16KT 10SM CLR A3001 RMK AO2 MGZA 051600Z 00000KT CAVOK 30/21 QFE 987.3 OVC200 SEMC 051600Z 03010KT 360V060 9999 SCT033 26/18 Q1017 FTTJ 051600Z 05008KT 8000 NSC 35/00 Q1010 NOSIG YBHM 051630Z AUTO 09010KT 9999 // SCT023 BKN028 26/21 Q1013 MHPL 051600Z 13005KT 9999 SCT026TCU BKN250 27/24 Q1012 RERA TCU ALL HZ GMAT 051600Z 32010KT 9999 SCT013 20/16 Q1018 NOSIG YARG 051600Z AUTO 20004KT 9999 // SCT120 29/23 Q1009 LRIA 051600Z 16005KT CAVOK 00/M06 Q1029 R14/19//95 BGGH 051550Z 07006KT 9999 BKN006 BKN014 M02/M03 Q1002 SELT 051600Z 19010KT 9999 BKN023 16/11 Q1030 YARM 051630Z AUTO 28002KT 9999 // SCT081 BKN100 BKN120 19/18 FVBU 051600Z 12014KT 090V150 CAVOK 27/14 Q1019 NOSIG RODN 051558Z AUTO 00000KT 10SM SCT060 OVC120 20/20 A3009 RMK AO2 SLP195 T02030203 YCBA 051630Z AUTO 23003KT 9999 // SCT081 SCT100 21/16 Q1011 HCMH 051200Z 07017KT 9999 FEW025 22/11 Q1020 NOSIG YCBB 051630Z AUTO 22005KT //// // ////// 24/14 Q1012 RMK WSSL 051500Z 34004KT 230V030 4000 +TSRA FEW014CB SCT016TCU BKN140 27/26 Q1010 RMK 1430Z Q1011 SEMT 051600Z /////KT 9999 OVC020 25/21 Q1013 RMK A2994 LQSA 051600Z VRB01KT 4000 BR NSC 02/M04 Q1028 NOSIG SENL 051600Z 07003KT 9999 FEW020 BKN100 30/24 Q1013 YBKE 051630Z AUTO 21005KT //// // ////// 25/17 Q1010 RMK MHSC 051558Z AUTO 19007KT 9999 SCT038 30/22 A2999 RMK AO2 SLP111 T02950220 $ HCMM 051200Z 07014KT 9999 FEW027 30/23 Q1010 NOSIG MHRO 051600Z 20003KT 9999 FEW025 SCT200 30/24 Q1011 A2986 NOSIG YCAR 051630Z AUTO ///21KT //// // NCD 20/14 Q1011 WSSS 051600Z VRB02KT 9999 -RA FEW016 FEW020CB BKN160 27/25 Q1011 RETS NOSIG YCAS 051630Z AUTO 09013KT //// // ////// 23/21 Q1014 RMK FVCZ 051200Z 12005KT CAVOK 35/17 Q1018 FVFA 051500Z 10012KT CAVOK 33/12 Q1012 NOSIG MHTE 051600Z 36002KT 9999 SCT024TCU 29/25 Q1009 TCU SW HZ YCBP 051630Z AUTO 09006KT 9999 // OVC105 22/20 Q1013 RMK MHTG 051600Z 00000KT 9999 SCT026 SCT080 24/19 Q1019 A3009 NOSIG GMFF 051600Z 24016G29KT 9999 FEW010 BKN026 16/16 Q1016 RESHRA TEMPO SHRA YBMA 051630Z AUTO 29001KT 9999 // NCD 23/10 Q1011 YBKT 051630Z AUTO 00000KT //// // ////// 25/22 Q1008 MHSR 051600Z 18006KT 5000 HZ FEW025 BKN250 25/17 5KMS ALL HZ BGJH 051514Z 05009KT 350V100 7000 OVC040 06/00 Q0993 YBLN 051630Z AUTO 00000KT //// // ////// 10/08 Q1017 RMK GMFK 051600Z 17005KT 130V200 9999 FEW026 SCT033 18/11 Q1018 NOSIG GMFM 051600Z 24013KT 5000 RA SCT013 BKN020 FEW026CB 16/14 Q1017 NOSIG GMFO 051600Z 27013KT 9999 SCT026TCU SCT080 18/13 Q1015 NOSIG BGJN 051550Z 15006KT 9999 FEW075 BKN170 M08/M13 Q1007 YBNA 051600Z AUTO 28006KT 250V040 5000 // SCT020 SCT044 BKN056 23/22 Q1016 YBLT 051630Z AUTO 14008KT 9999 // NCD 10/10 Q1011 RMK MHTR 051600Z 03002KT 9999 FE3W028 BKN250 30/23 HZ YBMK 051630Z AUTO 02004KT 9999 // NCD 22/21 Q1012 RMK SERB 051600Z 05012KT 9999 SCT040 20/12 Q1029 FVHA 051600Z 34006KT 300V360 9999 FEW025CB BKN090 BKN300 21/17 Q1020 NOSIG YCEE 051630Z AUTO 24002KT //// // ////// 13/11 Q1014 SEQM 051600Z 33005KT 9999 SCT026 SCT080 20/09 Q1026 NOSIG RMK A3030 YCDO 051630Z AUTO 22007KT //// // ////// 23/19 Q1010 RMK BGKK 051550Z AUTO 08012KT 040V100 9999NDV OVC031/// 02/M03 Q1010 YCCY 051630Z AUTO 00000KT //// // ////// 27/16 Q1009 RMK ROIG 051100Z 02010KT 9999 SCT016 BKN070 24/21 Q1017 LQTZ 051600Z 28003KT 230V300 4500 BR NSC 03/M07 Q1028 SESA 051600Z 27010KT 9999 SCT015 SCT070 24/19 Q1013 YCDU 051630Z AUTO 25013KT 090V250 9999 // SCT069 BKN100 OVC115 YCEM 051630Z AUTO 00000KT //// // ////// 13/09 Q1011 RMK SESD 051600Z 30003KT 6000 BCFG SCT010 OVC013 23/20 Q1013 GLRB 051630Z 25006KT 9999 SCT020 FEW027CB SCT100 30/25 Q1010 RMK CB-E SERO 051600Z VRB02KT 1000 -DZ OVC004 22/22 Q1013 YBNS 051630Z AUTO 15005KT 9999 // ////// 15/13 Q1011 RMK YBOK 051630Z AUTO 13008KT 9999 // SCT115 24/20 Q1014 YCFL 051630Z AUTO 13013KT //// // ////// 27/21 Q1010 RMK SESM 051600Z 07004KT 9999 SCT030 27/19 Q1017 RMK A3005 YAYE 051630Z AUTO 20005KT 9999 // BKN120 20/18 Q1014 RMK LROD 051600Z 11004KT CAVOK M01/M03 Q1031 YCFS 051630Z AUTO 33015KT 9999 // NCD 23/19 Q1011 RMK SGAS 051600Z 03008KT 310V060 CAVOK 32/19 Q1007 SEST 051600Z 15012KT 9999 SCT023 25/19 Q1013 A2991 FVKB 051500Z 12007KT 9999 FEW035CB BKN300 28/18 Q1011 YBPN 051630Z AUTO 00000KT 9999 // NCD 20/19 Q1012 RMK LSGC 051620Z AUTO 00000KT 9999 SCT047 03/M01 Q1025 SETN 051600Z 28009KT 9999 BKN023 OVC080 26/23 Q1013 A2992 BGNN 051412Z 05005KT 020V150 9999 +RA VCSH SCT060 OVC080 04/01 Q0994 RMK WIND BGNN 05005KT 020V150 LROP 051600Z 20002KT CAVOK M01/M06 Q1033 NOSIG LSGG 051620Z VRB01KT 6000 FEW010 02/00 Q1027 NOSIG YCHK 051630Z AUTO 33013KT 9999 // NCD 27/15 Q1010 RMK SETU 051600Z 08008KT 9999 BKN023 14/09 Q1032 HECA 051630Z 36008KT 9999 BKN025 20/13 Q1022 NOSIG HEAT 051600Z 33013KT CAVOK 18/11 Q1021 NOSIG HEBL 051600Z 08006KT CAVOK 24/06 Q1017 NOSIG HEAX 051200Z 36009KT 9999 SCT020 21/12 Q1022 NOSIG MHYR 051600Z 27002KT 9999 SCT020 SCT250 26/20 HZ YBRK 051630Z AUTO 01007KT 9999 // NCD 24/21 Q1013 RMK YBRL 051630Z AUTO 00000KT //// // ////// 25/20 Q1009 RMK LSGS 051550Z 00000KT CAVOK 03/M04 Q1027 YBRM 051630Z AUTO 10003KT 9999 // NCD 26/24 Q1009 GMMB 051600Z 24012KT 5000 SCT013TCU BKN016 18/16 Q1018 NOSIG YCIN 051630Z AUTO 09003KT //// // NCD 25/23 Q1008 RMK GMMC 051600Z 26014KT 9999 BKN016TCU SCT026 20/16 Q1016 FWCL 051500Z 20005KT 9999 -TSRA FEW025CB BKN030 BKN080 25/19 Q1015 FM1630 NSW YBSG 051630Z AUTO 00000KT //// // ////// 25/20 Q1009 RMK GMMD 051600Z 26006KT 9999 BKN026TCU SCT100 17/12 Q1019 NOSIG GMME 051600Z 25013KT 5000 FEW010 SCT015 BKN020 18/16 Q1015 TEMPO 3000 SHRA HEDF 050800Z 00000KT 2000 BR NSC 15/12 Q1022 GMMH 051600Z 01018KT CAVOK 22/17 Q1016 NOSIG GMMI 051600Z AUTO VRB05KT 9999NDV ////// 19/15 Q1018 NOSIG LRSB 051600Z 28002KT CAVOK M07/M09 Q1030 LTAC 051550Z 02006KT CAVOK M02/M07 Q1029 NOSIG SGEN 051600Z 06008KT CAVOK 29/18 Q1008 KZZV 051553Z AUTO 28003KT 10SM OVC022 03/M02 A3012 RMK AO2 SLP205 T00331017 GMML 051600Z 36013KT 9999 SCT030 23/16 Q1019 NOSIG YBRY 051630Z AUTO 35010KT 9999 // NCD 27/12 Q1011 RMK YBTH 051630Z AUTO 19005KT 9999 // SCT087 OVC115 19/18 Q1012 ROMY 051100Z 03009KT 9999 VCSH FEW014 BKN020 BKN090 24/22 Q1017 LTAF 051550Z 34011KT 310V010 4800 HZ SCT035 BKN100 16/01 Q1023 NOSIG GMMN 051600Z 26010KT 9999 SCT016TCU BKN020 17/16 Q1018 TEMPO 6000 RA LTAG 051550Z 34005KT 9999 SCT040 BKN100 15/05 Q1022 NOSIG SGES 051600Z 07004KT 330V120 9999 SCT033 30/20 Q1008 LTAI 051550Z VRB02KT 9999 FEW030 SCT200 16/10 Q1024 NOSIG YBSU 051600Z AUTO 34007KT 9999 // NCD 23/20 Q1013 LTAJ 051550Z 25003KT 9999 FEW040 BKN100 07/06 Q1023 NOSIG LTBA 051550Z 05011KT CAVOK 07/M01 Q1034 NOSIG YBTL 051630Z AUTO 11006KT 9999 // SCT027 SCT035 SCT042 26/20 Q1012 YBUD 051630Z AUTO 36009KT 9999 // SCT019 SCT027 24/20 Q1013 YCKN 051630Z AUTO 11014KT 9999 // NCD 26/20 Q1010 LTAL 051250Z 30005KT 6000 -SHSN FEW010 BKN020 BKN070 M02/M04 Q1028 LRTC 051600Z AUTO 16003KT 9999 NCD M02/M04 Q1034 LRSM 051600Z 00000KT CAVOK M01/M04 Q1031 LTBD 051350Z 28006KT 9999 FEW040 15/07 Q1025 FVMV 051200Z 17012KT 9999 FEW060 BKN070 BKN300 19/13 Q1018 LTAN 051550Z 32008KT 9999 FEW035 01/M05 Q1029 NOSIG LTBF 051550Z 35009KT 320V020 CAVOK 06/M02 Q1032 NOSIG GMMW 051600Z 09001KT 9999 -RA FEW020 BKN080 15/12 Q1015 NOSIG LTAP 051550Z 03006KT 350V050 9999 FEW018 SCT035 BKN090 M00/M04 Q1030 NOSIG GMMX 051600Z 25009KT 9999 SCT023 19/11 Q1018 NOSIG BGSF 051550Z AUTO 33002KT 9999NDV NCD M14/M15 Q1005 LTBH 051550Z 04011KT 9999 FEW035 07/M00 Q1032 LTAR 051550Z 31010KT 9999 -SN BKN030 BKN090 M06/M09 Q1026 GMMZ 051600Z 00000KT 9999 FEW030 21/02 Q1016 NOSIG LTAS 051430Z 09003KT 9999 SCT033 BKN100 04/02 Q1035 RMK RWY18 15003KT LTCA 051550Z 28011KT 9999 FEW035 BKN200 05/M03 Q1023 NOSIG LTBJ 051550Z 36016KT CAVOK 10/M02 Q1027 NOSIG LTAT 051550Z 30013KT 9999 FEW040 SCT100 03/M04 Q1025 NOSIG LTCB 051550Z 29012KT 270V010 8000 -SHRA SCT010 FEW020CB BKN025 06/01 Q1034 LTAU 051550Z 27007KT 8000 SCT040 M01/M04 Q1029 NOSIG LTCC 051550Z 19003KT 9999 SCT040 BKN100 08/06 Q1022 NOSIG LTAV 050728Z VRB02KT 1100 R29/1200U R11/1100U BCFG BKN006 M01/M01 Q1028 RMK RWY11 23003KT 180V290 LRSV 051600Z 25008KT CAVOK M02/M03 Q1027 R16/420395 LRTM 051600Z 09006KT 5000 BR SCT007 M05/M07 Q1031 LTCD 051550Z 31009KT 9999 SCT040 BKN100 01/M08 Q1024 NOSIG YDBY 051630Z AUTO 08003KT //// // ////// 26/23 Q1009 RMK LTAW 051250Z 23008KT 9999 BKN034 06/M03 Q1029 LTCE 051550Z 26014KT 9999 SCT030 M04/M09 Q1020 NOSIG BIBD 051317Z 19012KT 9999 FEW015 SCT028 09/// Q1016 LTBO 051350Z 08015KT CAVOK 07/M10 Q1027 LTCF 051550Z 03008KT 9999 BKN030 OVC080 M03/M06 Q1018 LTAY 051550Z 07014KT 9999 SCT035 05/M00 Q1027 LTCG 051550Z VRB14G29KT 4600 -TSRA BKN009 FEW020CB BKN027 05/03 Q1032 BECMG TSRA LTBQ 051550Z 10003KT 080V140 9999 BKN030 05/01 Q1034 NOSIG LTAZ 051550Z VRB01KT 9999 FEW040 01/M06 Q1029 LRTR 051600Z 05004KT CAVOK M00/M03 Q1030 NOSIG LTCI 051550Z 34006KT 320V080 8000 SCT012 SCT030 BKN070 02/00 Q1019 RESHRASN TEMPO 2000 SHSN BR LTBR 051550Z 07005KT CAVOK 00/M02 Q1032 NOSIG LSMA 051550Z VRB01KT 2600 BR OVC002 M00/M01 Q1028 RMK AMB LTCJ 051550Z 24003KT 200V260 9999 SCT040 BKN100 09/07 Q1022 LTDA 051550Z 22004KT 4000 BR SCT035 BKN100 11/10 Q1024 LTBS 051550Z 05003KT 020V080 9999 FEW030 SCT200 12/09 Q1023 NOSIG YCMM 051630Z AUTO 15003KT //// // ////// 13/09 Q1013 RMK LTCK 051350Z 12007KT 9000 -RA FEW012 BKN030 BKN070 03/02 Q1021 BIAR 051600Z 15010KT 9999 FEW052 BKN060 07/03 Q1018 LTBU 051550Z 01007KT 9999 FEW035 01/M03 Q1034 LTCL 051250Z 26003KT 9999 FEW010 SCT040 BKN100 11/06 Q1022 LTCM 051050Z 32020KT 9999 -RA SCT015 BKN025 OVC080 04/M01 Q1032 LSMD 051550Z AUTO 00000KT 7000NDV NCD 01/M01 Q1028 RMK BGTL 051558Z AUTO 00000KT 9000 HZ CLR M24/M26 A2967 RMK AO2 SLP039 T12381262 LSME 051550Z AUTO VRB01KT 3100NDV BR SCT006 OVC008 01/00 Q1028 RMK LTCN 051550Z 00000KT 8000 SCT035 BKN100 08/06 Q1023 NOSIG HEGN 051600Z 35016KT CAVOK 22/07 Q1018 NOSIG LTCO 051350Z 22014KT 9999 SCT027 BKN080 00/M02 Q1019 LTCP 051550Z VRB02KT 9999 SCT035 BKN090 08/07 Q1022 LTBY 051550Z 31005KT CAVOK M01/M03 Q1030 LRTZ 051600Z VRB02KT 9999 SKC M01/M04 Q1034 BLU BLU LTBZ 050450Z 02011KT 9999 BKN030 BKN090 00/M04 Q1027 YCMT 051630Z AUTO 02006KT //// // ////// 26/15 Q1012 RMK YCNK 051630Z AUTO 19007KT //// // ////// 22/19 Q1010 RMK LTCR 051450Z 02003KT 9999 FEW040 SCT100 BKN200 12/07 Q1021 LTCS 051550Z 33004KT 9999 SCT040 BKN100 07/04 Q1023 LTCT 051250Z 00000KT 9999 SCT036 BKN070 06/M02 Q1019 YCNM 051630Z AUTO 35005KT //// // ////// 25/15 Q1009 RMK YCOE 051630Z AUTO 07006KT //// // ////// 25/19 Q1010 LTCU 051250Z 20003KT 180V240 9999 SCT035 BKN100 06/01 Q1022 LTCV 051350Z 30007KT 9999 SCT040 BKN100 11/05 Q1021 LSMM 051550Z AUTO 10002KT 9999NDV FEW070 M04/M05 Q1027 RMK LTCW 051250Z 00000KT 8000 3500S BR SCT035 BKN080 M02/M05 Q1021 YBWP 051630Z AUTO 10002KT 9999 // SCT035 25/21 Q1009 LSMP 051550Z 00000KT 2100 BR OVC002 00/00 Q1028 RMK AMB RORS 051000Z 02018KT 9999 SCT015 BKN023 BKN080 25/21 Q1017 LSMS 051550Z 00000KT CAVOK 03/M04 Q1027 YCOM 051600Z AUTO 03009KT 9999 // BKN003 OVC007 16/16 Q1013 YBWW 051630Z AUTO 15006KT 9999 // SCT120 24/20 Q1014 RMK LTFC 051550Z 33014KT 9999 FEW035 05/M02 Q1026 LTFD 051550Z 07018KT CAVOK 08/M01 Q1031 YBWX 051630Z AUTO 24014KT //// // ////// 25/21 Q1008 YCNY 051630Z AUTO 00000KT //// // ////// 25/15 Q1009 RMK LTFE 051550Z 13005KT 090V160 CAVOK 13/05 Q1025 NOSIG LTFG 051550Z 06004KT 030V090 CAVOK 12/11 Q1023 LTFH 051550Z 26018KT 6000 SHRA SCT010 BKN030 BKN090 03/01 Q1035 BECMG TL1650 NSW BIEG 051600Z 16006KT 9999 NSC 03/M01 Q1019 R04/790194 RMK RWY SANDED RPLB 051600Z 04006KT 9999 FEW018CB FEW020 BKN080 25/22 Q1013 RMK A2991 DSTNT OCNL LTG SW LTFJ 051550Z 03009KT 9999 SCT035 04/M00 Q1034 NOSIG HEIS 051600Z 34007KT 9999 FEW020 19/11 Q1022 RPLC 051600Z 31006KT 9999 FEW020 BKN300 25/23 Q1015 NOSIG RMK A2997 LTFK 051250Z VRB12KT 9999 SCT028 10/02 Q1032 GMTA 051600Z 26002KT 9999 FEW020 SCT026 BKN100 19/17 Q1014 NOSIG ROTM 051558Z VRB04KT 9999 BKN120 21/19 A3010 RMK SLP178 T02110189 RPLI 051500Z 00000KT 9999 FEW019 25/23 Q1013 NOSIG RMK A2991 FWKI 051600Z 08007KT 9999 FEW025CB SCT080 24/18 Q1016 NOSIG RPLL 051600Z 34004KT 300V040 9999 FEW025 27/26 Q1013 NOSIG RMK A2991 RPMD 051600Z 02003KT 9999 FEW016 BKN290 26/23 Q1010 RMK A2983 FVTL 050900Z 15013KT 9999 FEW045CB SCT050 BKN300 27/13 Q1022 GMTN 051600Z 11009KT 5000 -RA SCT010 BKN033 16/14 Q1014 NOSIG HEMA 051600Z 31006KT CAVOK 21/11 Q1018 NOSIG GMTT 051600Z 09011KT 6000 SCT010 BKN016 16/15 Q1014 RESHRA NOSIG RPMR 050900Z 02002KT 9999 VCSH SCT018 OVC080 27/24 Q1007 RMK A2974 HEMM 051600Z 01007KT 9999 SCT020 SCT200 19/13 Q1024 NOSIG BIHN 051600Z 31002KT 9999 VCFG FEW020 SCT032 BKN058 01/// Q1021 HELX 051600Z 24002KT CAVOK 21/06 Q1018 NOSIG RPMZ 051500Z 00000KT 9999 FEW017 BKN300 26/24 Q1012 RMK A2988 FVWN 051500Z 05004KT CAVOK 33/10 Q1013 MKJP 051600Z 20007KT 9999 FEW022 29/23 Q1014 MKJS 051600Z 09011KT 9999 FEW022 28/24 Q1014 YCUN 051630Z AUTO 22007KT //// // ////// 16/09 Q1016 RMK BIIS 051600Z 01008KT 9999 BKN035 09/04 Q1015 YDLQ 051630Z AUTO 19006KT //// // ////// 18/10 Q1009 RMK YCWA 051630Z AUTO 33005KT 9999 // NCD 26/13 Q1012 RMK GOGG 051600Z 08004KT CAVOK 37/18 Q1010 BIKF 051600Z 13012KT 9999 FEW020 BKN044 07/05 Q1017 GOGK 051500Z VRB02KT CAVOK 38/17 Q1009 HEPS 051600Z 02012KT 9999 SCT025 21/16 Q1022 NOSIG GOGS 051600Z 24004KT CAVOK 32/24 Q1010 YCWR 051630Z AUTO 00000KT //// // ////// 22/18 Q1010 HESC 051600Z 34010KT CAVOK 12/M03 Q1025 NOSIG HESG 051600Z 31010KT CAVOK 19/06 Q1019 NOSIG HESH 051600Z 36014KT CAVOK 22/09 Q1017 NOSIG YDPO 051630Z AUTO 04011KT 9999 // NCD 11/08 Q1010 RMK HESN 051600Z 03007KT CAVOK 24/M00 Q1018 NOSIG LSZA 051620Z VRB01KT CAVOK 07/02 Q1027 NOSIG LSZB 051620Z 00000KT 8000 NSC M02/M02 Q1027 NOSIG RPVD 051500Z 32004KT 9999 FEW015 BKN080 27/25 Q1010 RMK A2983 LSZC 051620Z AUTO VRB04KT 2500 BR OVC003 00/00 Q1028 LSZG 051620Z AUTO 17002KT 1100 BR BKN001 M00/M01 Q1028 LSZH 051620Z 33004KT 5000 BR SCT058 M00/M02 Q1028 NOSIG HETR 051600Z 33006KT CAVOK ///// Q1018 RPVM 051600Z 03003KT 9999 FEW020 BKN250 26/24 Q1011 NOSIG RMK A2985 LSZL 051550Z 21003KT 150V250 CAVOK 06/00 Q1027 RMK BLU RPVP 051200Z 34004KT 9999 FEW019 SCT080 BKN240 28/25 Q1010 RMK A2983 LSZR 051620Z 00000KT 7000 BKN007 M00/M01 Q1028 NOSIG RMK L LSZS 051620Z 16001KT CAVOK M07/M07 Q1025 RMK T MMAA 051545Z 35003KT 8SM SCT080 SCT300 27/23 A2991 RMK 8/032 TCU S CU FXMM 051300Z 27010KT 9999 BKN035 27/09 Q1022 NOSIG YELD 051630Z AUTO 05002KT //// // ////// 27/25 Q1008 RMK CAHR 051600Z AUTO 34007KT M01/M06 RMK AO1 SOG 08 8011 SLP145 T10121059 BIRK 051600Z 12007KT 9999 FEW018 BKN045 07/03 Q1017 GOOD 051500Z VRB02KT CAVOK 39/14 Q1010 MMAN 051546Z 07002KT 15SM SKC 12/07 A2995 RMK ISOL SC YFBS 051630Z AUTO 00000KT //// // ////// 23/19 Q1009 RMK GOOG 051500Z 10004KT CAVOK 40/08 Q//// MMAS 051540Z 20006KT 10SM SCT100 SCT200 11/07 A3018 RMK 8/036 MMCB 051544Z 15006KT 20SM FEW220 22/11 A3012 RMK 8/008 ISOL CU LUKK 051600Z 21008KT CAVOK M00/M05 Q1031 R26/120095 NOSIG GOOK 051600Z 08004KT CAVOK 40/14 Q1009 FYGB 051500Z AUTO 02009KT //// // ////// 31/09 Q1020 YFDF 051630Z AUTO 32009KT 9999 // NCD 26/16 Q1011 RMK MMCE 051545Z 14008KT 7SM FEW020 28/24 A2984 RMK 8/100 CBBC 051617Z AUTO 00000KT 9SM OVC046 00/ A3003 RMK TD MISG SLP171 FYGF 051500Z AUTO 24003KT //// // ////// 33/10 Q1018 YEML 051630Z AUTO 04008KT 9999 // NCD 26/18 Q1012 MMBT 051545Z 27015KT 7SM SKC 28/20 A2994 RMK HZY CB DSNT S MMCL 051540Z 02007KT 10SM SKC 17/09 A3002 MMCM 051541Z 15013KT 7SM SCT015 BKN100 29/25 A2986 RMK 8/620 MMCN 051544Z 09007KT 10SM SKC 18/07 A2999 RMK HZY MMCP 051541Z 14010G20KT 7SM SKC 29/24 A2982 GOOY 051600Z 01014KT CAVOK 28/21 Q1011 NOSIG MMCS 051553Z 20010KT 10SM SKC 05/M05 A2992 MMCT 051544Z 18010KT 8SM BKN030 30/21 A2988 RMK 8/500 MSGTX MMMD MMCU 051544Z 20003KT 10SM SKC 07/07 A3002 RMK HZY ISOL CU MMCV 051540Z 32008KT 8SM FEW010 OVC015 14/09 A2995 RMK 8/5// LWR SC OVR MT HZY MMDO 051545Z 18007KT 12SM SKC 06/M01 A3015 RMK HZY MMCZ 051548Z 14008KT 8SM BKN015TCU 30/25 A2989 RMK 8/200 CI BIVM 051600Z 11019KT 9999 BKN045 07/06 Q1018 MMEP 051545Z 00000KT 12SM SKC 15/12 A3004 GOSM 051600Z 16004KT CAVOK 40/12 Q1009 GOSP 051600Z 04002KT CAVOK 37/20 Q1009 GOSS 051600Z 34010KT 280V010 CAVOK 31/21 Q1010 GOTK 051500Z 14006KT 6000 NSC 39/18 Q1009 MMGL 051547Z 00000KT 8SM FEW080 SCT300 13/08 A3013 RMK 8/031 MMGM 051546Z 00000KT 10SM SKC 13/09 A2997 RMK HZY FYKM 051500Z 00000KT 9999 FEW030CB 29/17 Q1013 MMIA 051557Z RTD 00000KT 8SM SCT020 BKN200 22/17 A3007 RMK 8/201 YERN 051630Z AUTO 00000KT //// // ////// 18/18 Q1015 GOTT 051600Z 08006KT CAVOK 39/10 Q1008 FYKT 051500Z AUTO 24005KT //// // ////// 38/M00 Q1014 MMHO 051545Z 12005KT 10SM SKC 14/05 A3002 RMK ISOL CI HZY NCRG 051600Z 11005KT 9999 FEW016 SCT090 25/24 Q1012 NCPY 051600Z AUTO 07003KT //// ///// 27/23 Q1009 FYML 051500Z AUTO 05002KT //// // ////// 36/03 Q1017 YESP 051630Z AUTO 35003KT 9999 // SCT066 11/07 Q1016 RMK MMIO 051540Z 29007KT 10SM SKC 14/05 A3004 YGBI 051630Z AUTO 05003KT //// // ////// 29/25 Q1008 RMK FYLZ 051500Z AUTO 21006KT //// // ////// 32/13 Q1008 FYOA 051100Z 15003KT 9999 SCT045TCU 33/13 Q1017 YFLI 051630Z AUTO 26014KT 9999 // NCD 13/09 Q1010 RMK MNBL 051600Z 10004KT 9999 SCT018 30/24 Q1013 YGDH 051630Z AUTO 12004KT //// // ////// 24/17 Q1010 RMK FYOO 051500Z AUTO 00000KT //// // ////// 36/09 Q1013 MNCH 051600Z 17004KT 8000 VCRA BKN025TCU 27/24 Q1013 TCU/RA/N/NE/E/NW MMMA 051540Z 31008KT 8SM OVC035 13/11 A2992 RMK 8/5// LWR ST OCNL DROPS MMMD 051547Z 14012KT 7SM BKN015 29/23 A2986 RMK 8/500 MMLM 051540Z 10006KT 10SM SKC 15/07 A3003 RMK HZY FYOW 051600Z AUTO 26002KT //// // ////// 28/11 Q1016 MMLO 051552Z 27009KT 8SM SCT030 BKN200 14/08 A3022 RMK 8/508 HZY MMLP 051540Z 00000KT 10SM FEW035 16/11 A3006 RMK 8/500 YGEL 051630Z AUTO 15009KT 9999 // NCD 15/11 Q1015 MMLT 051549Z 00000KT 8SM SKC 19/09 A2999 MMML 051544Z 10005KT 10SM SCT200 09/M07 A2990 RMK 8/008 MMMM 051540Z 23015KT 8SM FEW100 18/10 A3015 RMK 8/030 ISOL CU MMMT 051550Z 18010KT 10SM SKC 27/20 A2977 MMNL 051542Z 32007KT 8SM OVC010 11/09 A2994 RMK 8/7// YGFN 051630Z AUTO 33001KT 9999 // SCT011 21/20 Q1013 RMK MMMV 051440Z 00000KT 1/2 SM FG VV001 09/09 A2994 RMK 8//// FYRN 050600Z AUTO 00000KT //// // ////// 23/17 Q1019 MMMX 051544Z 19005KT 15SM FEW100 SCT200 19/04 A3023 NOSIG RMK 8/032 CU ACSL E SKBG 051600Z 17004KT 9999 FEW015 SCT240 24/18 A3001 MMMY 051540Z 28008KT 15SM SKC 14/08 A2992 MMMZ 051544Z 07005KT 15SM SKC 16/10 A3000 RMK FULYR 3QUAD SKAR 051600Z 00000KT 9999 SCT015 FEW017TCU BKN080 23/18 A3012 RMK TCU/SW METAR SKIB 051600Z 11003KT 4000 -TSRA FEW003CB BKN005 BKN080 20/20 A3014 RMK CB/SE AD BLW MNM MET MMPA 051540Z 36004KT 1SM BR HZ BKN005 OVC010 21/21 A2991 RMK 8/8// VRB CONS MMPB 051540Z 19011KT 7SM SCT012 BKN230 16/09 A3025 RMK 8/502 HZY SKCC 051600Z 03008KT 9999 FEW020 SCT200 30/22 A2993 FYRU 051500Z 27014KT 9999 VCSH FEW035 SCT045TCU 33/14 Q1013 MMPE 051458Z RTD 09007KT 10SM FEW200 10/M01 A2991 RMK 8/005 SKBO 051600Z VRB02KT 9999 BKN020 16/07 A3035 SKCG 051600Z 12004KT 9999 SCT020 31/26 A2983 MMPG 051540Z 30006KT 10SM SCT008 BKN015 13/08 A2995 RMK 8/500 SKBQ 051600Z 07005KT 9999 SCT015 31/25 A2985 SKCL 051500Z 27003KT 5000 HZ SCT015 BKN120 22/19 A3008 MMPN 051541Z 00000KT 7SM BKN015TCU 16/15 A3016 RMK 8/200 HZY LWR CLDS 1-2 QUAD CI MMOX 051544Z 00000KT 10SM SKC 19/12 A3019 RMK CI/PRESRR MMPQ 051547Z 00000KT 5SM SCT200 29/25 A2981 RMK 8/001 HZY MSGTX MMMD MMPR 051448Z 03005KT 15SM SKC 17/16 A2996 RMK SLP143 52009 923 MMPS 051541Z 00000KT 10SM BKN200 29/22 A2999 RMK 8/002 YHBA 051630Z AUTO 36010KT 9999 // SCT021 BKN027 25/20 Q1013 SKEJ 051600Z 00000KT 9999 FEW005 BKN200 28/25 A2987 YFRT 051630Z AUTO 12014KT //// // ////// 16/14 Q1013 BKPR 051630Z VRB03KT 9999 FEW060 01/M04 Q1029 NOSIG RMK 17010095 MMQT 051545Z 24013KT 14SM FEW020 SCT120 18/08 A3019 RMK 8/140 CI FYWB 051500Z 30010KT CAVOK 24/15 Q1009 MMSD 051540Z 36006KT 12SM SKC 18/07 A3002 FYWE 051500Z 33011KT 9999 VCSH FEW040CB SCT045 30/03 Q1021 MNJG 051600Z 00000KT 9999 BKN019 22/20 Q1014 YGLA 051630Z AUTO 01005KT 9999 // SCT018 SCT030 25/21 Q1013 FYWH 051500Z 28008KT 9999 VCSH FEW040CB SCT045 BKN100 31/04 Q1020 NOSIG TAPA 051600Z 07010KT 9999 SCT021 28/22 Q1015 NOSIG GQNI 050900Z 04006KT CAVOK 28/01 Q1017 MMSL 051544Z 21004KT 9SM SKC 20/08 A3005 RMK SC MMTC 051542Z 00000KT 10SM SKC 12/07 A3007 RMK ISOL SC MMRX 051543Z 33009KT 8SM OVC015 13/10 A2993 RMK 8/5// HZY YGLI 051630Z AUTO 09005KT 9999 // SCT079 OVC100 18/17 Q1017 MMSP 051547Z 22011KT 15SM SCT210 13/02 A3010 RMK 8/004 CU GQNO 051600Z 01007KT 330V060 CAVOK 32/15 Q1011 NOSIG MMTG 051550Z 00000KT 12SM SKC 24/17 A2998 RMK ISOL CI MMTJ 051552Z 00000KT 7SM FEW150 SCT200 11/00 A3000 RMK 8/035 HZY GQPA 051500Z 04008KT 9999 NSC 33/11 Q1014 MNJU 051600Z 09004KT 9999 SCT020 29/24 Q1013 MMTM 051550Z 36016KT 6SM -DZ SCT010 OVC015 18/14 A2991 RMK 8/8// -DZ INTMT YFTZ 051630Z AUTO 29002KT //// // ////// 27/22 Q1009 RMK FYWW 051500Z 28008KT 9999 FEW045CB BKN060 30/05 Q1020 MMTO 051543Z 25010KT 8SM SCT015 SCT200 14/05 A3031 RMK 8/102 AC MMTP 051547Z 00000KT 10SM FEW200 29/23 A2992 RMK 8/001 HZY YGLS 051630Z AUTO 11010KT //// // ////// 20/18 Q1013 RMK SKIB 051500Z 22003KT 2000 -DZ BR BKN005 BKN080 20/20 A3017 RMK AD BLW MNM MET MMVA 051547Z 00000KT 7SM SCT210 28/24 A2984 RMK 8/006 MMUN 051546Z 13016KT 7SM BKN015 29/25 A2989 RMK 8/100 MDT CU CI K04V 051609Z AUTO 29005KT 10SM CLR M02/M11 A2984 RMK AO2 K06D 051615Z AUTO 14010KT 10SM OVC004 M06/M06 A2960 RMK AO2 K04W 051612Z AUTO 09003KT M1/4SM FZFG OVC002 M01/M01 A2979 RMK AO2 MNMG 051600Z 06006KT 9999 SCT021TCU 29/24 Q1012 A2989 TCU/S/SW NOSIG GQPP 051600Z 33013KT CAVOK 24/18 Q1014 NOSIG K05U 051615Z AUTO 35007KT 10SM BKN016 BKN034 BKN049 M01/M05 A3004 RMK A01 SKIP 051600Z 09007KT 9999 BKN018 14/08 A3044 GQPZ 051500Z 06008KT 330V090 CAVOK 28/11 Q1017 MMVR 051543Z 09003KT 3SM HZ OVC040 27/24 A2982 RMK 8/5// BINOVC SLAL 051600Z 33006KT 9999 FEW023 21/08 Q1025 K08D 051615Z AUTO 30018KT 10SM OVC015 M07/M07 A2956 RMK AO2 LWOH 051500Z 34002KT 9999 FEW030 BKN050 07/M00 Q1029 SLCA 051600Z 36006KT 9999 NSC 33/17 Q1007 SLCB 051600Z 15005KT 100V210 9999 FEW033 27/05 Q1020 SKLC 051600Z 17006KT 9999 BKN015 29/25 A2989 LXGB 051550Z 07014KT 9000 HZ FEW006 SCT011 BKN027 17/16 Q1015 TEMPO FEW011 BKN030 MNPC 051600Z 11004KT 6000 VCRA FEW014CB SCT016TCU 30/27 Q1011 CBRA/E TCURASW NFFN 051600Z 08004KT 9999 FEW030 25/21 Q1007 NOSIG YHID 051630Z AUTO 13009KT 9999 -SHRA SCT020 SCT037 SCT048 28/23 Q1008 SKMD 051600Z 36010KT 9999 FEW030TCU SCT100 24/16 A3016 RMK TCU/NW MMZC 051602Z RTD 25019KT 10SM FEW005 11/01 A3014 RMK 8/600 SLCO 051600Z 33008KT 9999 SCT018 FEW020CB 31/25 Q1010 SLCP 051600Z 33010KT 9999 BKN015 BKN070 29/24 Q1012 MMZH 051541Z 24003KT 7SM FEW020 SCT080 BKN250 29/21 A2991 RMK 8/532 HZY DSNT TCU 3RD QUAD SKLT 051600Z 27003KT 9999 BKN015 SCT080 30/25 A2987 MMZO 051546Z 00000KT 15SM BKN250 28/20 A2989 RMK 8/005 SKMR 051600Z 15004KT 9999 SCT018 SCT100 30/25 A2986 K11R 051615Z AUTO 34006KT 10SM OVC006 11/10 A2987 RMK AO2 T01050100 YGTE 051617Z AUTO 09003KT 3400 // SCT009 24/23 Q1008 YGTH 051630Z AUTO 31004KT 9999 -SHRA SCT099 OVC115 19/16 Q1010 K12N 051554Z AUTO 21009KT 02/02 A2998 RMK AO1 SLP160 T00220017 SKMZ 051100Z 11004KT 9000 SCT100 13/10 A3030 RMK HZ YHLC 051600Z AUTO 28003KT //// // ////// 26/20 Q1011 MNRS 051600Z 00000KT 9999 FEW012CB SCT070 27/23 Q1013 CB/S/SW SLET 051600Z 31019G32KT 9999 FEW015 BKN020 31/23 Q1006 TBPB 051600Z 08015KT 9999 SCT018 30/23 Q1014 SKPC 051600Z 08009KT 9999 FEW020 31/24 A2979 LWSK 051600Z 33001KT 9999 BKN066 03/M02 Q1032 NOSIG YGTN 051630Z AUTO 07007KT 9999 // NCD 26/06 Q1012 SKNV 051600Z 02006KT 360V060 9999 SCT010 SCT100 BKN200 28/20 A2994 SKPE 051600Z 21005KT 5000 BCFG BKN009 SCT090 22/20 A3010 LYBE 051600Z 09003KT CAVOK 01/M06 Q1029 NOSIG MPBO 051600Z 00000KT 9999 FEW020 SCT090 Q1015 SKPS 051600Z 00000KT 3000 BCFG BKN010 SCT080 18/16 A3021 RMK AD BLW MNM MET YHML 051630Z AUTO 19005KT 9999 // NCD 08/06 Q1013 RMK MPDA 051600Z 00000KT(E) 9999 SCT018 27/23 Q1012 LYBT 051600Z 07004KT CAVOK 02/M05 Q1029 NOSIG SKPV 051600Z VRB02KT 9999 FEW017 BKN200 29/26 A//// SKRG 051600Z 11005KT 9999 SCT020 SCT200 19/11 A3031 SKRH 051600Z 11016KT 9999 FEW020 32/25 A2988 K14Y 051613Z AUTO 06009KT 7SM CLR M01/M01 A2967 RMK AO2 NFNA 051600Z 00000KT 9999 FEW020 23/22 Q1008 K0A9 051615Z AUTO 00000KT 10SM FEW008 BKN020 OVC029 10/08 A3005 RMK AO2 SLJE 051500Z 36010KT 9999 BKN013 30/24 Q1011 YIFL 051630Z AUTO 00000KT //// // BKN029 21/20 Q1011 RMK K18A 051615Z AUTO 00000KT 10SM OVC005 10/08 A3002 RMK AO2 T00960076 SKSM 051600Z 24004KT 9999 FEW020 31/26 A2984 YHOO 051630Z AUTO 17004KT //// // ////// 26/20 Q1010 RMK SLJO 051600Z 32012KT 9999 FEW017 BKN200 31/24 Q1011 SKSP 051600Z 07005KT 9999 SCT017 BKN080 29/25 A2991 SKUC 051600Z 09003KT 9999 SCT015 SCT200 30/24 A2993 TDCF 051600Z 27002KT 9999 SCT020 30/23 Q1013 SKUI 051600Z 00000KT 9999 BKN018 SCT100 28/23 A2988 NGFU 051600Z 00000KT 9999 -SHRA FEW020TCU BKN310 29/25 Q1005 K0E0 051615Z AUTO 25014KT 10SM CLR 07/M11 A2988 RMK AO2 T00721109 K21D 051613Z AUTO 10008KT 10SM BKN100 00/00 A2978 RMK AO2 SLMG 051600Z 32012KT 9999 SCT017 BKN080 32/25 Q1009 SLLP 051600Z VRB02KT 9999 SCT017 FEW020CB BKN200 14/02 Q1036 YJAB 051630Z AUTO 00000KT //// // ////// 27/22 Q1008 RMK K20U 051615Z AUTO 31024G34KT 9SM -RA OVC013 M06/M07 A2968 RMK AO2 K20V 051615Z AUTO 25016G27KT 10SM SCT035 BKN050 OVC070 04/M07 A2972 RMK AO2 K0F2 051615Z AUTO 14005KT 10SM BKN006 OVC012 08/07 A2990 RMK AO2 T00750068 SKVP 051600Z 08012KT 9999 FEW020 31/22 A2989 K0CO 051620Z AUTO 28023KT M1/4SM +SN OVC004 M11/M17 A2967 RMK AO2 YHSM 051630Z AUTO 22005KT 9999 // NCD 11/07 Q1012 RMK SKVV 051600Z 09004KT 9999 FEW023 BKN090 29/20 A2996 K22N 051615Z AUTO 22003KT 4SM BR 03/03 A3000 RMK AO2 Please be advised that LiteSpeed Technologies Inc. is not a web hosting YHUG 051630Z AUTO 03005KT //// // ////// 28/07 Q1011 RMK NFTF 051600Z 08010KT 9999 SCT005 BKN016 BKN100 24/24 Q1008 SLOR 051600Z 21005KT 9999 FEW017 FEW020CB 18/05 Q1034 K24J 051615Z AUTO 21006KT OVC012 25/23 A2999 RMK AO1 NFTL 051600Z 31010KT 9999 FEW010 SCT017 BKN110 27/26 Q1006 SLPO 051600Z 06005KT 9999 SCT020 17/07 Q1034 SLPS 051600Z 09004KT 9999 BKN017 35/26 Q1007 SLRB 051600Z 36015KT 9999 BKN020 32/24 Q1010 LYKV 051600Z VRB01KT CAVOK M01/M06 Q1029 NOSIG NFTV 051600Z 35007KT 9999 SCT016 BKN120 28/26 Q1007 MPMG 051600Z 32006KT 9999 FEW018 SCT080 29/25 Q1013 NOSIG K0J4 051558Z AUTO 08006KT 7SM OVC002 16/15 A2995 RMK AO2 SLP139 T01560150 $ SLRI 051600Z 36010KT 9999 SCT017 SCT080 BKN200 31/23 Q1011 SLSA 051600Z 33012KT 9999 SCT017 BKN200 32/23 Q1009 K1A6 051615Z AUTO 00000KT 10SM SCT015 OVC024 09/06 A3009 RMK AO2 T00850060 K1A9 051615Z AUTO 09007KT 10SM OVC005 11/11 A2995 RMK AO2 T01120110 SLRQ 051600Z 34008KT 9999 SCT016 32/26 Q1008 SLSI 051600Z 35010KT 9999 SCT015 31/24 Q1011 LYNI 051600Z 04003KT 360V060 7000 3000E NSC 01/M05 Q1031 NOSIG SLRY 051600Z 32005KT 9999 SCT020 BKN200 31/24 Q1009 SMJP 051600Z 11008KT 9999 FEW025CB SCT035 33/22 Q1011 NOSIG SLTJ 051600Z 09004KT 9999 FEW036 30/16 Q1011 MPPA 051600Z 33008KT 9999 FEW018 SCT090 31/// Q1012 K28J 051615Z AUTO 21007KT 170V240 10SM CLR 27/22 A2998 RMK AO2 TSNO HKJK 051600Z 04011KT 9999 FEW026 20/09 Q1020 NOSIG K1AM 051558Z AUTO 33006KT 1 1/8SM -SN OVC013 M12/M14 A2996 RMK AO2 SLP175 T11201136 $ LYPG 051600Z 15002KT 9999 FEW040 SCT070 07/M04 Q1028 NOSIG SLTR 051600Z 32014KT 290V350 9999 SCT017 32/24 Q1008 HKKI 051600Z 00000KT 9999 FEW024CB BKN080 26/17 Q1015 K1BM 051558Z AUTO 28018G23KT 10SM SCT095 BKN160 M11/M15 A2989 RMK AO2 SHSNE17 SLP194 T11111149 $ K1BN 051556Z AUTO 22009KT 10SM FEW017 BKN095 M02/M04 A2954 RMK AO2 SLP033 T10251042 $ K1AW 051558Z AUTO 28012G19KT 10SM CLR 05/M06 A2958 RMK AO2 SLP016 T00451060 $ ZBAA 051600Z 00000MPS CAVOK M06/M12 Q1030 NOSIG LZIB 051600Z 06004KT 8000 FEW012 M02/M03 Q1029 NOSIG SLVM 051600Z 00000KT 9999 NSC 36/24 Q1002 K1F0 051615Z AUTO 14004KT 10SM SCT004 BKN022 06/05 A2991 RMK AO2 K1CM 051558Z AUTO 31020G27KT 10SM CLR M12/M14 A2987 RMK AO2 PK WND 31027/50 SHSNE39 SLP194 T11201140 $ K1BW 051558Z AUTO M 10SM FEW070 05/M05 A2960 RMK AO2 SLP018 T00451048 $ SLVR 051600Z 34015G26KT 9999 SCT012 BKN017 32/23 Q1007 HKML 051600Z 09010KT 9999 FEW023 28/22 Q1011 K1DM 051558Z AUTO 33010G26KT 8SM -SN OVC014 M12/M15 A2990 RMK AO2 PK WND 30026/49 SLP203 T11241147 $ K1DN 051556Z AUTO 29010KT 10SM OVC007 M01/M02 A2954 RMK AO2 SLP036 T10101017 $ K1CW 051558Z AUTO 28019G28KT 10SM CLR 07/M06 A2961 RMK AO2 PK WND 28026/55 SLP013 T00741059 $ HKMO 051600Z 07008KT 9999 FEW025 28/22 Q1011 NOSIG GUCY 051600Z 23008KT 9999 SCT015 FEW020TCU 32/24 Q1010 NOSIG SLYA 051600Z 36008KT 9999 NSC 33/22 Q1005 YJLC 051630Z AUTO 36007KT //// // ////// 29/08 Q1009 RMK NGTA 050600Z VRB01KT 9999 FEW020 BKN300 29/22 Q1007 TDPD 051600Z 11008KT 9999 BKN019 30/23 Q1015 MPSM 051600Z 16006KT 130V190 9999 FEW020 29/24 Q1012 K1EM 051558Z AUTO M 10SM BKN095 M12/M15 A2989 RMK AO2 SHSNE16 SLP191 T11241149 $ K1H2 051615Z AUTO 13005KT 10SM OVC008 02/02 A3012 RMK AO2 T00240016 CERM 051600Z AUTO 21007KT M07/M10 RMK AO1 SOG 21 8021 SLP170 T10681097 K1DW 051558Z AUTO 28010KT 10SM M 06/M05 A2962 RMK AO2 SLP024 T00571054 $ K0R0 051615Z AUTO 04005KT 7SM OVC005 12/12 A2994 RMK AO2 K33V 051615Z AUTO 30018G26KT 2 1/2SM M06/M09 A2973 RMK AO2 VIS 1 1/2V5 K1FM 051558Z AUTO 03009KT 9SM -SHSN BKN022 BKN060 M13/M15 A2992 RMK AO2 SNE47SHSNB47 CIG 022V060 SLP222 T11291155 $ HKNW 051500Z 07010KT 9999 FEW024 22/10 Q1021 MPTO 051600Z 11003KT 9999 SCT018TCU 30/26 Q1013 NOSIG K0R4 051615Z AUTO 02007KT 10SM -RA OVC005 10/09 A2993 RMK AO2 T00950090 NGTT 051500Z 32006KT 9999 FEW020 BKN300 25/23 Q1006 K1J0 051558Z AUTO VRB05KT 6SM BR OVC003 17/17 A2995 RMK AO2 SLP099 T01670167 K2A0 051615Z AUTO 01004KT 10SM BKN007 OVC011 10/09 A3003 RMK A01 YIVO 051630Z AUTO 04006KT //// // ////// 19/15 Q1009 RMK LYTV 051600Z VRB02KT CAVOK 08/02 Q1028 NOSIG K1GM 051558Z AUTO 02008KT 10SM -SN SCT032 BKN060 M12/M13 A2991 RMK AO2 SLP205 T11201135 $ K1FW 051558Z AUTO 27006KT 10SM CLR 06/M05 A2958 RMK AO2 SLP010 T00571054 TSNO $ LZKZ 051600Z 24005KT 1600 -SG BKN002 M03/M04 Q1030 TEMPO 1200 -SG BKN001 K0S9 051615Z AUTO 00000KT 02/01 A3005 RMK AO2 PWINO K1K1 051615Z AUTO 19014G20KT 10SM CLR 06/03 A2981 RMK AO2 T00570029 K1HM 051558Z AUTO 33009KT 10SM FEW080 SCT100 M12/M16 A2996 RMK AO2 SNE56 SLP217 T11171159 $ K1HN 051556Z AUTO 29024G27KT 10SM OVC009 M02/M04 A2955 RMK AO2 SNE1459SHSNB1459E10 SLP039 T10221040 $ K1GW 051558Z AUTO 29010KT 10SM CLR 07/M05 A2958 RMK AO2 SLP014 T00681053 $ LYUZ 051600Z 20002KT CAVOK 01/M08 Q1026 LYVR 051600Z 13018KT 090V160 CAVOK 05/M11 Q1030 NOSIG K1L0 051615Z AUTO 02008G16KT 1 1/4SM +TSRA OVC003 16/15 A2983 RMK AO2 LTG DSNT ALQS P0002 T01550145 K36U 051615Z AUTO 01010G19KT 10SM OVC070 M02/M12 A2991 RMK AO2 GVAC 051600Z 05015KT 9999 BKN014 27/19 Q1014 NOSIG K1IM 051558Z AUTO 35011KT 10SM OVC043 M10/M12 A2998 RMK AO2 SNE32 SLP224 T10981117 $ K1HW 051558Z AUTO 28015G19KT 10SM FEW095 09/M05 A2957 RMK AO2 SLP014 T00931054 $ SOCA 051600Z AUTO 08008KT 040V130 CAVOK 33/21 Q1011 NOSIG GVBA 051600Z 05015KT 9999 FEW015 27/20 Q1015 NOSIG K2C8 051615Z AUTO 12007KT 7SM M02/M03 A2970 RMK AO2 K40B 051616Z AUTO VRB03KT M11/M12 A2994 RMK AO1 SLP183 T11111121 58023 K1JM 051558Z AUTO 34010KT 10SM FEW047 M13/M15 A2995 RMK AO2 SNB17E42SHSNB42E53 SLP223 T11291146 $ ZBHH 051600Z VRB01MPS CAVOK M14/M19 Q1027 NOSIG K1JN 051556Z AUTO M 4SM -SHSN OVC004 M05/M06 A2951 RMK AO2 SNB35E45SHSNB45 SLP032 T10511058 $ K1IW 051558Z AUTO 28011KT 10SM CLR 07/M06 A2957 RMK AO2 SLP012 T00701056 $ K1M4 051556Z AUTO VRB03KT 4SM -RA BR OVC002 09/08 A3002 RMK AO2 RAB09 SLP187 P0006 T00890083 K0V4 051615Z AUTO 00000KT 5SM OVC004 07/07 A3003 RMK AO1 T00720066 K1M5 051615Z AUTO 04006KT 10SM OVC009 05/04 A3007 RMK A01 K40J 051615Z AUTO 18009G14KT 140V200 10SM OVC012 25/21 A2998 RMK AO2 T02490212 K1KM 051558Z AUTO 29015G18KT 10SM BKN120 M08/M14 A2984 RMK AO2 SLP166 T10831145 $ K1KN 051556Z AUTO 28016KT 10SM OVC005 M06/M07 A2951 RMK AO2 SLP031 T10601072 $ K1JW 051558Z AUTO M 10SM BKN150 06/M06 A2958 RMK AO2 SLP021 T00641059 $ YKII 051630Z AUTO 19001KT 9999 // OVC041 12/08 Q1012 RMK LZPP 051600Z 14005KT CAVOK 00/M04 Q1029 K1LM 051558Z AUTO M 10SM -SHSN FEW031 SCT150 M12/M15 A2983 RMK AO2 PK WND 35035/41 SNE07SHSNB07E19SHSNB49 SLP183 T11211146 $ HLLM 051550Z 09007KT 7000 NSC 21/08 Q1022 K1LN 051556Z AUTO 07008KT 6SM BR OVC004 M07/M08 A2955 RMK AO2 SLP043 T10751079 $ K1KW 051558Z AUTO 27010KT 10SM CLR 06/M04 A2957 RMK AO2 SLP016 T00631040 $ AYGN 050600Z 13008KT 9999 FEW020 SCT040 30/26 Q1006 RMKS K0VG 051610Z AUTO 00000KT 10SM FEW021 SCT030 10/06 A3009 RMK AO2 K2F5 051615Z AUTO 25008KT 10SM CLR 07/03 A2986 RMK AO2 YLBD 051630Z AUTO 15003KT 9999 // NCD 25/24 Q1009 RMK K42J 051555Z AUTO 19008KT 10SM 24/21 A2999 RMK AO1 TSNO MSAC 051550Z 14005KT 9999 FEW033 28/25 Q1010 A2984 RMK HZ ALQDS K1P1 051615Z AUTO 00000KT 1SM -SN M03/M04 A2996 RMK AO2 P0001 T10311040 K1MM 051558Z AUTO 33011KT 10SM -SHSN BKN013 M12/M14 A2989 RMK AO2 SHSNE21SHSNB22 CIG 013V017 SLP197 T11211138 $ TFFF 051600Z AUTO 07012KT 9999 -RA BKN026/// BKN034/// BKN046/// ///TCU 29/23 Q1014 BECMG BKN028 K1LW 051558Z AUTO M 10SM CLR 07/M04 A2961 RMK AO2 SLP019 T00731038 $ K2G4 051615Z AUTO 28008KT 10SM OVC015 01/00 A2999 RMK AO1 K2DP 051601Z AUTO 36007KT 10SM OVC005 10/09 A2997 RMK AO2 $ K2G9 051615Z AUTO 29012G18KT 10SM OVC018 02/00 A3000 RMK AO2 LZSL 051600Z 00000KT CAVOK M03/M06 Q1029 K1NM 051558Z AUTO 28024G31KT 10SM -SN BKN017 M10/M13 A2981 RMK AO2 PK WND 27032/35 SLP162 T10981130 $ K1MW 051558Z AUTO 29006KT 10SM SCT150 M02/M08 A2960 RMK AO2 SLP042 T10241082 $ TFFR 051600Z AUTO 07010KT 040V120 9999 BKN030 BKN035 BKN042 30/23 Q1014 TEMPO 4000 SHRA FEW018TCU MRLB 051600Z 19003KT 9999 SCT015 BKN180 27/24 A2994 NOSIG K2I0 051615Z AUTO 08007KT 10SM OVC014 05/03 A3010 RMK AO2 T00520030 K1OM 051558Z AUTO M 10SM FEW015 SCT075 M11/M14 A2984 RMK AO2 SNB33E38SHSNB38E50 SLP161 T11131142 $ K1ON 051556Z AUTO 03007KT 10SM OVC007 M07/M08 A2956 RMK AO2 SLP042 T10731079 $ K1NW 051558Z AUTO 36003KT 10SM CLR 04/M07 A2959 RMK AO2 SLP025 T00401074 TSNO $ YLEC 051630Z AUTO 19007KT //// // ////// 20/17 Q1013 RMK K1R7 051555Z AUTO 00000KT 2 1/2SM RA BKN003 A2995 RMK AO2 P0022 LZTT 051600Z 23010KT 9999 FEW053 M01/M13 Q1024 NOSIG MRLM 051600Z 04006KT 9999 FEW025 29/24 A2990 YKMP 051630Z AUTO 01004KT //// // ////// 22/20 Q1010 RMK SMZO 051600Z 18007KT 9999 FEW025CB SCT035 33/22 Q1011 NOSIG K46D 051615Z AUTO 15003KT 10SM SCT007 BKN085 M05/M06 A2963 RMK AO2 K1OW 051558Z AUTO 28013G16KT 10SM CLR 05/M04 A2959 RMK AO2 SLP018 T00521044 PWINO $ K1S5 051635Z AUTO 00000KT 10SM CLR M05/M07 A3011 RMK AO2 T10551070 YLEO 051630Z AUTO 13007KT 9999 // NCD 25/06 Q1011 RMK YKNT 051630Z AUTO 12007KT //// // ////// 23/16 Q1013 MROC 051600Z 23004KT 9999 SCT020 26/19 A3006 NOSIG K46U 051600Z AUTO 30005KT 10SM BKN040 M10/M14 A2993 RMK A01 AYMO 050600Z 00000KT 9999 FEW018CB FEW018 SCT140 BKN300 29/26 Q1006 RMKS K49A 051615Z AUTO 04005KT 10SM BKN006 A3002 RMK AO2 YKOW 051630Z AUTO 01004KT 9999 // NCD 26/19 Q1009 RMK K3D2 051620Z AUTO 26007KT 10SM BKN020 BKN025 03/M01 A2990 RMK AO2 T00291006 YLHI 051600Z AUTO 04008KT 9999 // BKN016 23/20 Q1015 K1V4 051554Z AUTO M04/M06 A2990 RMK AO1 SLP141 P0004 T10441056 K1V6 051615Z AUTO 27023G30KT 10SM CLR 13/M08 A2964 RMK AO2 SPCL 051600Z 01009KT 9999 BKN015 31/25 Q1012 RMK BIRD HAZARD RWY 02/20 PP000 K3AU 051615Z AUTO 17015G21KT 10SM CLR 06/03 A2981 RMK AO2 YLHR 051630Z AUTO 11011KT //// // NCD 27/21 Q1009 LZZI 051600Z VRB02KT CAVOK M04/M07 Q1028 YKSC 051630Z AUTO 00000KT 9999 // NCD 09/07 Q1014 RMK AYNZ 050500Z 09006KT 9999 FEW030 FEW035CB SCT300 33/21 Q1004 RMKS MRPV 051600Z 29003KT 9999 FEW035 SCT140 24/18 A3006 NOSIG K3F3 051615Z AUTO 04006KT 3SM OVC004 08/07 A2993 RMK AO2 P0001 T00770072 PWINO YMBA 051630Z AUTO 17007KT //// // ////// 20/18 Q1013 YLIS 051630Z AUTO 06012G23KT 9000 // SCT015 BKN020 OVC051 ZBSJ 051600Z 20002MPS 5000 FU NSC M01/M08 Q1030 NOSIG OAHR 051555Z 23005KT CAVOK 17/00 Q1023 RMK BLU YMBD 051630Z AUTO 23005KT 9999 // NCD 12/09 Q1013 RMK YKRY 051630Z AUTO 36009KT 9999 // OVC012 22/19 Q1014 K2P2 051620Z AUTO 27013G17KT 10SM CLR 04/M02 A2990 RMK AO2 T00351017 ZBTJ 051600Z 20001MPS CAVOK M01/M12 Q1031 NOSIG AYPY 051600Z VRB03KT CAV0K 25/24 Q1006 OAKB 051550Z 23004KT 160V300 5000 FU NSC 09/M05 Q1026 NOSIG RMK WHT WHT YMAV 051630Z AUTO 15006KT 9999 // OVC025 14/09 Q1011 RMK YLLE 051630Z AUTO 15005KT 9999 // SCT054 SCT093 BKN125 31/14 Q1010 YMAY 051630Z AUTO 31004KT 240V340 9999 // NCD 21/18 Q1009 RMK GVNP 051600Z 02019KT 9999 FEW023 27/20 Q1013 NOSIG OBBI 051600Z 32011KT 8000 SKC 23/19 Q1018 NOSIG K54J 051615Z AUTO 07005KT 7SM OVC003 18/18 A2993 RMK AO2 T01780178 SPGM 051600Z /////KT 9999 FEW040 28/22 Q1014 RMK BIRD HAZARD RWY19 PP000 YMCO 051630Z AUTO 00000KT //// // ////// 16/13 Q1012 NIUE 051600Z AUTO /////KT //// // ///////// 26/25 Q1008 YMDG 051630Z AUTO 10002KT 9999 // NCD 22/17 Q1011 RMK K3I2 051618Z AUTO 00000KT 10SM SCT024 BKN030 08/03 A3014 RMK AO2 MTCH 051600Z 06010KT 9999 SCT026CB 26/19 Q1017 A3004 RMK SPHI 051600Z 20008KT 150V230 9999 FEW028 25/18 Q1013 RMK PP000 SPHO 051600Z VRB05KT 9999 SCT035 19/12 Q1028 RMK PP000 MSLP 051550Z 05004KT 020V090 5000 BR FEW017 FEW033CB SCT070 26/25 Q1013 A2992 NOSIG CB TO E SE YMEK 051630Z AUTO 17008KT 9999 // NCD 24/M06 Q1012 K4A6 051615Z AUTO 04007KT 10SM FEW008 OVC015 11/10 A3001 RMK AO2 K3J7 051615Z AUTO 00000KT 10SM OVC006 10/09 A2999 RMK AO2 SPJC 051600Z 31009KT 6000 BKN270 21/18 Q1013 NOSIG NOSIG RMK PP000 MSLU 051550Z 27005KT 9999 DZ BKN030 25/24 Q1012 A2991 RERA YMEN 051630Z AUTO 11005KT 9999 // OVC023 13/09 Q1011 RMK K4A9 051615Z AUTO 07003KT 10SM OVC011 11/07 A2998 RMK AO2 K1YT 051558Z AUTO 08003KT 10SM BKN130 M06/M09 A3006 RMK AO2 SLPNO T10631088 $ K57C 051615Z AUTO 17006KT 4SM BR OVC004 00/00 A2998 RMK AO2 T00001005 SPHY 051600Z /////KT 9999 FEW020 SCT040 15/04 Q1034 RMK BIRD HAZARD RWY 03/21 PP000 K3K3 051615Z AUTO 24006KT 10SM CLR 05/M05 A2960 RMK AO2 YMER 051630Z AUTO 15005KT 130V190 9000 // SCT024 OVC031 16/13 YMES 051630Z AUTO 17006KT 9999 // OVC017 14/11 Q1011 SPJI 051600Z 00000KT 9999 SCT040 32/23 Q1019 RMK PP000 YMGB 051630Z AUTO 19003KT //// // ////// 27/24 Q1008 SPJJ 051332Z VRB01KT 9999 FEW027 12/08 Q1030 OAMS 051550Z VRB01KT 9999 BKN150 BKN250 16/11 Q1020 BLU BLU+ YMGD 051630Z AUTO 12007KT //// // OVC075 28/22 Q1008 RMK SPJL 051600Z VRB01KT 9999 SCT010 SCT080 15/05 Q1037 RMK PP000 K3L4 051615Z AUTO 04012KT 7SM OVC003 13/13 A2980 RMK A01 SPJR 051630Z 12004KT CAVOK 21/11 Q1027 YMHB 051600Z AUTO 28008KT 9999 // OVC020 12/08 Q1011 ZBYN 051600Z 15001MPS CAVOK M04/M09 Q1031 NOSIG AYWK 050000Z 09003KT 9999 -RA FEW018CB FEW018 SCT040 OVC140 27/25 Q1009 RMKS K2V5 051555Z AUTO 24003KT 10SM BKN120 03/M06 A2960 RMK AO2 YMIA 051630Z AUTO 21007KT 9999 // NCD 18/08 Q1011 RMK K2V6 051614Z AUTO 27004KT 10SM OVC110 03/M07 A2961 RMK AO2 YLRE 051630Z AUTO 02007KT 9999 // NCD 27/11 Q1009 RMK SPME 051600Z 35005KT 8000 OVC012 25/20 Q1013 RMK BIRD HAZARD RWY 32/14 PP000 SPLO 051600Z 16009KT 9999 FEW030 22/17 Q1011 RMK PP000 K4BM 051616Z AUTO 21013G19KT 10SM SCT040 BKN050 BKN065 M03/M10 A2977 RMK AO2 GVSV 051600Z 06023G34KT 9999 FEW022 28/19 Q1014 NOSIG K3LF 051615Z AUTO 15005KT 10SM OVC008 03/01 A3007 RMK AO2 T00250012 K2W6 051618Z AUTO 31004KT 10SM SCT008 07/05 A3004 RMK AO1 YMHU 051630Z AUTO 00000KT 8000 // NCD 27/// Q1009 K3N8 051615Z AUTO 09008KT 10SM CLR M03/M04 A2967 RMK AO2 T10311042 YMIN 051630Z AUTO 15006KT //// // ////// 11/09 Q1014 RMK SPMS 051600Z 32005KT 9999 FEW020 32/24 Q1013 RMK BIRD HAZARD RWY 09/27 PP000 MSSA 051550Z 05002KT 9999 FEW027 26/21 Q1019 A301 HZ FBL ALQDS YNAR 051630Z AUTO 25005KT //// // ////// 19/15 Q1010 RMK YLST 051630Z AUTO 20008KT 9999 // NCD 25/M02 Q1011 RMK YLTN 051630Z AUTO 08012KT //// // ////// 23/15 Q1012 MSSM 051550Z 00000KT 9999 SCT037 27/26 Q1013 A2991 RMK DSTN SH TO SE DAAD 051600Z 00000KT 9999 SCT030 SCT050 14/09 Q1020 YNBR 051630Z AUTO 04004KT 9999 // NCD 26/13 Q1009 RMK DAAE 051600Z 26018KT 9999 FEW023 BKN090 20/08 Q1016 YMMB 051630Z AUTO 18001KT 9999 // SCT031 13/08 Q1011 RMK DAAG 051600Z 17004KT 9999 -RA FEW026 SCT040 BKN080 18/10 Q1017 MSSS 051550Z 12003KT 3000 BR BKN010 23/22 Q1015 A3000 YLTV 051630Z AUTO 00000KT 9999 // OVC021 13/11 Q1011 RMK DAAJ 051600Z 24003KT CAVOK 24/01 Q1022 MUCC 051550Z 11012KT 090V150 9000 SCT020 28/21 Q1016 DABB 051600Z 19007KT 9999 FEW026 19/11 Q1016 DABC 051600Z 28008KT 9999 FEW030 SCT100 15/07 Q1019 K4I3 051625Z AUTO 26004KT 10SM OVC019 02/M01 A3011 RMK AO2 MUCF 051550Z 26005KT 220V320 9999 FEW020 30/20 Q1016 K2WX 051556Z AUTO 32034G38KT M04/M08 A2953 RMK AO1 PK WND 32043/1515 SLP030 T10391078 DAAP 051600Z 00000KT CAVOK 27/01 Q1019 YMLT 051630Z AUTO 33005KT 9999 // SCT021 BKN033 OVC039 11/09 YMML 051600Z 14007KT 9999 BKN023 SCT185 14/08 Q1012 NOSIG K4I7 051555Z AUTO 16007KT 7SM OVC010 01/01 A3011 RMK AO2 K3R7 051613Z AUTO 07013KT 10SM -RA OVC004 11/10 A2984 RMK AO2 YMND 051630Z AUTO 14006KT 9999 // BKN011 21/19 Q1010 YMNE 051630Z AUTO 21012KT 9999 // NCD 24/M06 Q1011 RMK MUCL 051551Z 12016KT 9999 SCT020 29/21 Q1015 DAAS 051600Z 18007KT 9999 SCT030 FEW033CB SCT100 10/05 Q1020 DAAT 051600Z 30002KT CAVOK 23/M06 Q1023 MUCM 051550Z 12013KT 090V160 9000 FEW020 27/20 Q1017 YMNG 051630Z AUTO 20009KT 9999 // NCD 13/09 Q1010 RMK DAAV 051600Z 03002KT 9999 SCT030 SCT090 20/11 Q1015 TGPY 051600Z 09012KT 9999 SCT021 30/24 Q1013 NOSIG DAAY 051500Z 22014KT 9999 FEW016 FEW020CB SCT023TCU 15/12 Q1019 K5A6 051615Z AUTO 04003KT 5SM RA OVC005 08/08 A2998 RMK AO2 T00760076 SPQT 051600Z 02006KT 330V080 9999 BKN020 BKN100 31/24 Q1011 NOSIG RMK BIRD HAZARD PP000 K65S 051615Z AUTO 00000KT 10SM CLR M05/M10 A3003 RMK AO2 SPQU 051600Z 26010KT 170V340 CAVOK 20/M05 Q1025 RMK PP000 DABS 051600Z 08006KT 9999 SCT040 BKN100 11/09 Q1022 MUCU 051550Z 21005KT 180V240 9000 FEW020 28/18 Q1016 DABT 051600Z 20004KT 9999 SCT020 14/07 Q1019 YMOG 051630Z AUTO 21009KT //// // ////// 21/M05 Q1013 RMK K3T5 051555Z AUTO 35004KT 10SM BKN006 OVC010 11/10 A2985 RMK AO2 T01060101 K66R 051615Z AUTO 33007KT 2SM BR OVC004 10/09 A2985 RMK AO2 T00990091 SPRU 051600Z 15010KT 9999 OVC016 21/17 Q1013 RMK PP000 K5C1 051615Z AUTO 34005KT 1 1/2SM OVC005 07/07 A2991 RMK AO1 P0002 SPSO 051600Z 28008KT CAVOK 22/17 Q1012 RMK BIRD HAZARD RWY 22/04 PP000 YMOR 051630Z AUTO 06009KT 9999 // NCD 29/14 Q1009 RMK DAEF 051600Z 15006KT 9999 SCT040 25/03 Q1019 SPST 051600Z 33008KT 9999 SCT020 35/20 Q1010 RMK BIRD HAZARD RWY 17/35 PP000 SPTN 051600Z 19005KT 130V290 CAVOK 23/15 Q1014 RMK PP000 DAEN 051600Z 12010KT CAVOK 26/01 Q1017 YMRB 051630Z AUTO 09005KT 9999 // NCD 22/18 Q1013 RMK YNGU 051630Z AUTO 04002KT //// // ////// 28/22 Q1009 RMK YNHL 051630Z AUTO 20007KT //// // ////// 12/07 Q1012 RMK DAFH 051600Z 09014KT 9999 FEW020CB BKN030 13/06 Q1018 MUHA 051555Z 15011KT 120V190 9000 FEW030 28/20 Q1016 SPTU 051600Z 31008KT 9999 SCT008 29/24 Q1009 RMK BIRD HAZARD RWY 01/19 PP000 K4M9 051615Z AUTO 09009KT 10SM FEW013 05/04 A3005 RMK AO2 MUGM 051556Z 09012KT 9999 SCT035 SCT280 30/19 A3001 RMK SLP159 T03040190 MTPP 051600Z 07007KT 9999 FEW026 30/21 Q1014 A2996 MUHG 051550Z 11013KT 070V150 9999 SCT025 28/19 Q1016 K4O4 051615Z AUTO 08012G17KT 10SM BKN012 07/05 A2993 RMK AO2 YMRY 051630Z AUTO 32003KT 9999 // SCT033 SCT077 BKN100 17/15 YMTG 051630Z AUTO 00000KT 9999 // NCD 06/06 Q1013 RMK YMTI 051630Z AUTO 27007KT //// // ////// 29/24 Q1008 RMK K4MR 051558Z AUTO 23017G21KT 10SM CLR 05/M02 A2979 RMK AO2 SLP087 T00521017 $ SPZA 051630Z VRB02KT 9999 SCT090 31/16 Q1013 SPYL 051600Z 21010KT CAVOK 28/19 Q1012 RMK BIRD HAZARD RWY 17/35 PP000 DBBB 051600Z 22006KT 9999 SCT015 30/26 Q1009 NOSIG K4R5 051615Z AUTO 24003KT 10SM SCT024 02/M02 A2982 RMK AO2 T00201022 K6A1 051615Z AUTO 06005KT 10SM 11/11 A3000 RMK AO2 T01120112 K74V 051555Z AUTO 26020G26KT 10SM CLR 02/M09 A2984 RMK AO2 K6A2 051615Z AUTO 00000KT 2 1/2SM OVC001 09/09 A3000 RMK AO2 SPZO 051630Z VRB04KT 9999 SCT046 20/06 Q1030 RMK BIRD HAZARD RWY28 UAAA 051600Z VRB01MPS 0200 R05L/0800N R05R/0700N FZFG FU BKN012 M01/M02 Q1025 R05L/1///60 R05R/91//50 NOSIG K6B0 051615Z AUTO 00000KT 7SM OVC018 00/00 A2988 RMK AO2 T10051005 UAAH 051600Z 10002MPS 9999 SCT005 BKN190 M05/M05 Q1027 R05/0///60 NOSIG RMK QBB150 QFE732/0977 YMYB 051630Z AUTO 35005KT 9999 // NCD 23/19 Q1013 K6B9 051615Z AUTO 27011G25KT 250V310 10SM OVC028 04/M01 A2990 RMK AO2 UACC 051600Z 18004MPS 2100 SN BKN013 OVC028 M04/M05 Q1019 R22/4/0345 TEMPO 1000 SHSN BKN010CB RMK QFE732/0977 K4V0 051615Z AUTO 14003KT 10SM CLR M04/M07 A2984 RMK AO2 T10431073 DAOB 051600Z 10006KT 6000 RA BKN023 SCT093 12/11 Q1018 TJBQ 051550Z 09013G15KT 10SM SCT017 BKN022 27/24 A3003 DAOF 051600Z 30020KT CAVOK 23/07 Q1016 YNRC 051630Z AUTO 13003KT //// // ////// 08/07 Q1013 RMK UACK 051130Z 24005MPS CAVOK M12/M16 Q1016 R20/451042 NOSIG RMK QFE738/0985 DAOI 051600Z 04004KT 9999 SCT026 BKN100 17/13 Q1015 K79J 051556Z AUTO 08007KT 10SM OVC004 17/14 A2994 RMK AO2 SLP136 T01720144 UADD 051600Z 20004MPS 7000 NSC 05/03 Q1022 R13/0///65 NOSIG RMK QFE709/0946 K5M9 051615Z AUTO 11006KT 10SM OVC011 04/02 A3007 RMK AO2 T00360021 DAOL 051600Z 24006KT 9999 FEW026 SCT100 29/14 Q1015 UACP 051130Z 23007MPS CAVOK M15/M18 Q1014 NOSIG RMK QFE748/0998 DAON 051600Z 02003KT 9999 SCT026 SCT100 19/14 Q1015 DAOO 051600Z 01004KT 340V050 9999 FEW020 SCT033 19/13 Q1015 YPAD 051600Z 17004KT CAVOK 14/10 Q1013 NOSIG DAOR 051600Z 00000KT 9999 FEW033TCU SCT233 20/11 Q1017 K82C 051615Z AUTO 17006KT 2 1/2SM BR OVC005 01/00 A2989 RMK AO2 T00080001 YPAG 051630Z AUTO 25003KT 9999 // BKN100 OVC120 19/10 Q1014 DAOV 051600Z 00000KT 9999 -RA OVC030 16/13 Q1015 DAOY 051600Z 20006KT 9999 FEW030 SCT100 13/07 Q1018 YNSM 051630Z AUTO 14007KT //// // ////// 15/08 Q1015 RMK OEAB 051600Z 21004KT CAVOK 16/12 Q1027 NOSIG MUSC 051550Z 12011KT 090V150 9000 FEW020 27/20 Q1017 OEAH 051600Z 33004KT CAVOK 20/11 Q1018 NOSIG OEBA 051600Z 10009KT CAVOK 22/04 Q1024 NOSIG YPCC 051630Z AUTO 13017KT 9999 // SCT025 BKN039 26/21 Q1012 YOLD 051630Z AUTO 20005KT 9999 // BKN098 OVC125 21/13 Q1013 YNTN 051630Z AUTO 04004KT 9999 // NCD 27/22 Q1008 YPBO 051630Z AUTO 33004KT 9999 // NCD 27/M02 Q1010 RMK K82V 051615Z AUTO 00000KT 10SM CLR 05/M04 A2960 RMK AO2 OEAO 051600Z 23004KT CAVOK 23/08 Q1019 OEBH 051600Z 07008KT CAVOK 22/06 Q1021 NOSIG OEAR 051600Z 24004KT CAVOK 29/19 Q1016 MWCB 051600Z 12012KT 9999 SCT016 29/25 Q1015 K6I2 051615Z AUTO 06003KT 10SM OVC014 05/02 A3011 RMK AO2 YPEA 051630Z AUTO 18005KT 9999 // NCD 14/11 Q1016 DATG 051000Z 13006KT CAVOK 28/04 Q1021 YPED 051630Z AUTO 27004KT 9999 // NCD 14/10 Q1013 RMK K5R8 051615Z AUTO 36004KT 2SM +RA OVC006 10/10 A2985 RMK AO2 VIS 1V5 P0016 T00950095 YOLW 051630Z AUTO 24008KT //// // ////// 23/15 Q1009 RMK YPDN 051600Z 22002KT 9999 FEW020 27/25 Q1008 DAUA 051600Z 26010KT CAVOK 27/05 Q1014 DAUB 051600Z 11012KT 9999 SCT040 17/08 Q1020 TJIG 051555Z 06004KT 10SM FEW015 SCT030 BKN070 28/24 A3003 DATM 051200Z 16008KT CAVOK 31/04 Q1018 OEDF 051600Z 33007KT 8000 SKC 21/13 Q1018 NOSIG DAUE 051600Z 24010KT 9999 SCT033 SCT200 25/08 Q1016 UAII 051600Z 00000MPS 2000 BR FU NSC 09/03 Q1022 R10/0///70 NOSIG RMK QFE731/0975 DAUG 051600Z 08009KT 9999 BKN040 17/03 Q1017 MWCR 051600Z 11015KT 9999 SCT016CB SCT018 30/26 Q1014 DAUH 051600Z 14008KT 9999 SCT040 SCT100 25/00 Q1016 YOOD 051630Z AUTO 13006KT 120V190 //// // ////// 23/22 Q1012 DAUI 051600Z 24010KT CAVOK 30/06 Q1015 YNWN 051630Z AUTO 19004KT 9999 // NCD 26/M01 Q1010 RMK DAUK 051600Z 03010KT 9999 SCT033 SCT100 18/07 Q1018 OEDM 051500Z 11007KT CAVOK 24/05 Q1020 DAUL 051600Z 08012KT 9999 FEW026 SCT080 12/07 Q1019 DAUO 051600Z 08005KT 9999 SCT030 SCT100 20/06 Q1018 MUVR 051550Z 18006KT 150V230 9000 FEW025 28/20 Q1017 OEDR 051600Z 34007KT CAVOK 22/15 Q1017 NOSIG UBBB 051600Z 10003KT 9999 OVC046 07/04 Q1025 R88/CLRD// NOSIG YOOM 051630Z AUTO 22013KT 9999 // NCD 27/16 Q1011 RMK K5T9 051615Z AUTO 31008KT 10SM BKN013 BKN017 12/09 A2994 RMK A01 DAUT 051600Z 26008KT CAVOK 25/02 Q1015 DAUU 051600Z /////KT 9999 SCT040 SCT100 24/01 Q1015 ZGGG 051600Z 03006MPS 7000 NSC 21/11 Q1022 NOSIG UBBG 051600Z 22002KT 9999 OVC050 05/M00 Q1024 R30/CLRD// NOSIG K6L4 051615Z AUTO 00000KT 10SM BKN045 08/02 A3008 RMK AO2 ZGHA 051600Z 36005MPS 7000 NSC 11/02 Q1031 NOSIG DAUZ 051600Z 12011KT CAVOK 24/02 Q1019 UAKK 051600Z 17007MPS 9999 SCT046 M05/M08 Q1022 R23/920550 NOSIG RMK QFE719/0959 TIST 051553Z 12008KT 10SM SCT026 BKN035 OVC042 29/24 A3000 RMK AO2 SLP159 T02940239 $ UBBL 051600Z VRB03KT 9000 BKN015 06/05 Q1025 R33/CLRD// RMK MT OP UBBN 051600Z 08002KT 9999 SCT036CB OVC090 06/01 Q1018 R14R/CLRD// NOSIG RMK MT OP QFE688 TISX 051553Z 11013KT 10SM CLR 29/21 A3000 RMK AO2 SLP159 T02940211 K5SM 051613Z AUTO 23014G27KT 7SM BKN029 OVC034 M07/M11 A2981 RMK AO2 TSNO UBBQ 051600Z 14004KT 9999 BKN034 OVC100 04/00 Q1024 R16/CLRD// NOSIG RMK MT OBSC YPGV 051625Z AUTO 00000KT 6000 // NCD 25/25 Q1009 YORG 051630Z AUTO 00000KT 9999 // BKN087 OVC100 18/16 Q1013 OEGN 051600Z 30005KT 9999 FEW030 30/24 Q1014 NOSIG K7BM 051614Z AUTO 11003KT 10SM SCT036 OVC048 00/M10 A2977 RMK AO2 UBBY 051600Z VRB02KT 9999 -RA OVC060 04/M01 Q1027 R33/////// NOSIG RMK MT OP OEGS 051600Z 06005KT 8000 SKC 23/16 Q1017 OEGT 051600Z 27006KT CAVOK 14/03 Q1020 NOSIG OEHL 051600Z 03004KT 9999 SCT045 19/09 Q1020 UBEE 051500Z 10004KT 9999 SCT048 OVC100 06/01 Q1024 R30/CLRD// NOSIG YPKA 051630Z AUTO 19005KT 9999 // NCD 24/22 Q1008 RMK OEJB 051600Z AUTO 31006KT CAVOK 19/13 Q1018 NOSIG YPKG 050800Z AUTO 17008KT 9999 // SCT091 30/06 Q1008 TJNR 051628Z AUTO 07006KT 8SM -RA SCT013 BKN019 OVC039 26/25 A3002 RMK AO2 RAB11 P0001 T02610250 $ YPJT 051630Z AUTO 16003KT 9999 // NCD 13/11 Q1017 RMK YPLC 051630Z AUTO 24001KT 9999 // NCD 12/09 Q1013 RMK ZHCC 051600Z VRB01MPS 3000 BR NSC M00/M01 Q1034 NOSIG ZGKL 051600Z 04002MPS 4000 BR NSC 13/10 Q1027 NOSIG K6P9 051615Z AUTO 17006KT 10SM BKN008 OVC011 06/05 A2991 RMK AO2 UAOO 051600Z 20002MPS CAVOK 02/00 Q1021 NOSIG RMK QFE754/1006 OEJN 051600Z 30010KT 9999 FEW030 27/20 Q1015 NOSIG YPKS 051630Z AUTO 00000KT 9999 // OVC094 22/19 Q1010 RMK YPKT 051630Z AUTO 00000KT //// // ////// 27/25 Q1008 RMK OEKJ 051600Z 11005KT CAVOK 23/10 Q1022 YPKU 051630Z AUTO 36003KT 9999 // NCD 28/23 Q1008 RMK OEKK 051600Z 10008KT 9999 BKN035 17/09 Q1019 NOSIG YPLM 051630Z AUTO 21016KT 9999 // NCD 21/16 Q1009 OEKM 051600Z 22005KT CAVOK 16/12 Q1027 NOSIG K6R3 051615Z AUTO 00000KT 10SM OVC004 11/10 A2983 RMK AO2 T01060100 TJPS 050850Z 00000KT 10SM SKC 22/20 A2997 K6R6 051553Z AUTO 20009KT 08/08 A2991 RMK AO1 SLP119 P0001 T00830078 OEMA 051600Z 27011KT CAVOK 28/03 Q1019 NOSIG K8A0 051615Z AUTO 00000KT 5SM BR OVC004 09/09 A3000 RMK AO2 K96D 051615Z AUTO 12008KT 10SM M03/M03 A2969 RMK AO2 YPMQ 051630Z AUTO 01007KT 9999 // NCD 22/21 Q1010 SUAA 051600Z 36012KT 9999 FEW023 BKN200 30/23 Q1007 YPOD 051630Z AUTO 30001KT 9999 // BKN035 06/05 Q1013 RMK OEMK 051600Z 26002KT CAVOK 29/21 Q1015 ZGNN 051600Z 13002MPS 100V170 7000 NSC 17/15 Q1023 NOSIG SUAG 051200Z 03010KT CAVOK 24/17 Q1009 OENG 051600Z 06008KT CAVOK 21/08 Q1023 NOSIG UARR 051600Z 21003MPS 9999 FEW010 SCT110 M20/M22 Q1021 R22/850250 TEMPO 2000 IC BR SCT005 RMK QFE762/1016 TJSJ 051556Z 09009KT 10SM FEW029 SCT037 BKN100 29/24 A3001 RMK AO2 RAE08 SLP160 VCSH N-NE P0000 T02890239 $ UASK 051600Z 25003MPS 9999 SCT033CB OVC100 M03/M09 Q1032 R30/720136 NOSIG RMK QFE748/0997 YPPD 051630Z AUTO 30007KT 9999 // SCT022 26/23 Q1009 YPPF 051630Z AUTO 00000KT 9999 // NCD 14/10 Q1013 RMK UATE 051600Z 04004MPS CAVOK M02/M03 Q1029 R30/0///70 NOSIG RMK QFE770/1027 K7L2 051615Z AUTO 29005KT 10SM FEW043 SCT060 M04/M04 A2957 RMK AO2 YPPH 051600Z 18008KT 9999 FEW018 16/12 Q1016 NOSIG UATG 051600Z 23003MPS 5000 BR SCT050 M06/M08 Q1027 R14/82//65 NOSIG RMK QFE772/1030 UASP 051600Z 22005MPS CAVOK M09/M12 Q1024 R21/850340 NOSIG RMK QFE756/1009 SUCA 051600Z 34015KT 9999 SCT040 FEW043TCU 30/19 Q1006 UASS 051300Z 26007MPS CAVOK M05/M08 Q1028 R26/75//45 NOSIG RMK QFE752/1003 OEPA 051600Z 09003KT 9999 SCT035 17/09 Q1019 NOSIG ZGOW 051600Z 03003MPS 8000 NSC 21/16 Q1021 NOSIG ZHHH 051600Z 03003MPS 4000 HZ NSC 07/M00 Q1034 NOSIG K8D3 051556Z AUTO 14005KT M02/M03 A2958 RMK AO1 SLP036 T10171028 UATT 051600Z 26006MPS 9999 -SN SCT010 BKN036 M10/M12 Q1019 R31/490240 NOSIG RMK QFE744/0992 K7N0 051606Z AUTO 08009KT 2SM +TSRA BR 16/16 A2984 RMK AO2 LTG DSNT SW-N TSE04B06 PNO $ CMGB 051615Z AUTO 10002KT M02/M03 RMK AO1 SLP114 T10181026 58032 CMFM 051600Z AUTO 00000KT M11/M12 RMK AO1 SOG 39 8022 SLP148 T11091119 50002 UAUU 051600Z 19005MPS 9999 BKN035CB M13/M14 Q1013 R15/850149 NOSIG RMK QFE744/0992 OERF 051600Z 04008KT 9999 SCT040 SCT100 14/07 Q1019 SUDU 051600Z 01008KT 9999 SCT026 28/17 Q1007 OERK 051600Z 12003KT CAVOK 20/07 Q1021 NOSIG OESH 051600Z 04007KT CAVOK 25/09 Q1020 NOSIG OERR 051600Z 13004KT CAVOK 13/08 Q1020 NOSIG OETB 051600Z 31010KT CAVOK 18/M02 Q1019 NOSIG OESK 051600Z 04006KT 8000 SKC 15/04 Q1019 NOSIG UCFL 051600Z 01003MPS 9999 SCT031CB BKN100 03/00 Q1026 R88/////// RMK G/O YPTN 051600Z AUTO 07007KT 9999 // NCD 31/21 Q1008 UCFM 051600Z 04002MPS CAVOK 01/M00 Q1022 R08/CLRD70 NOSIG UCFO 051600Z 20003MPS 1400 R12/P2000 BR FU NSC 05/04 Q1023 R12/CLRD70 NOSIG OETF 051600Z 27011KT CAVOK 21/11 Q1023 NOSIG ZGSZ 051600Z 07008MPS CAVOK 23/15 Q1021 NOSIG TKPK 051600Z 03007KT 9999 SCT022 29/22 Q1016 TKPN 051600Z 09011KT 9999 SCT024 29/22 Q1016 OETR 051600Z 07005KT CAVOK 12/05 Q1020 NOSIG K9A5 051615Z AUTO 02004KT 10SM OVC007 11/09 A3002 RMK AO2 T01060090 YREN 051630Z AUTO 17007KT //// // ////// 15/08 Q1012 RMK OEWD 051600Z 12006KT CAVOK 22/14 Q1019 NOSIG YPWR 051630Z AUTO 07001KT 9999 // SCT036 BKN049 BKN086 19/15 Q1013 OEWJ 051600Z 32012KT CAVOK 25/16 Q1016 NOSIG YPXM 051630Z AUTO 14007KT 9999 // SCT018 OVC025 25/21 Q1012 SVBM 051600Z 11008KT 9999 SCT016 29/18 Q1017 MYGF 051600Z 14005KT 9999 BKN015 BKN250 27/22 A3004 HTAR 050900Z 25010KT 9999 BKN030 26/17 Q1017 K9D7 051615Z AUTO 13011G17KT 10SM OVC004 M05/M05 A2964 RMK AO2 OEYN 051600Z 28012KT CAVOK 26/19 Q1014 NOSIG K7W4 051615Z AUTO 28003KT 10SM OVC004 06/05 A3004 RMK AO1 T00550053 K7W6 051605Z AUTO 33010KT 10SM OVC005 10/10 A2998 RMK AO2 T01000095 SULS 051600Z 36006KT 9999 SCT030 BKN200 29/16 Q1007 HTDA 051600Z 04014KT 9999 FEW020 FEW021CB 27/24 Q1010 NOSIG HTBU 050900Z 03015KT 9999 SCT021 FEW023CB BKN100 25/19 Q1018 SUMU 051600Z 34010KT 9999 FEW033 BKN200 30/17 Q1007 NOSIG HTDO 050900Z 09006KT 9999 FEW027 28/16 Q1017 YSBK 051630Z AUTO 00000KT 9999 // OVC020 21/17 Q1011 YSCB 051630Z AUTO 05004KT 9999 // OVC027 18/16 Q1012 TLPC 051500Z 07006KT 9999 BKN021 29/24 Q1015 NOSIG HSOB 051600Z 01012KT CAVOK 31/11 Q1013 HSNN 051000Z 04008KT CAVOK 31/09 Q1015 YRMD 051630Z AUTO 04008KT //// // ////// 29/09 Q1009 RMK TLPL 051600Z 08013KT 9999 FEW026 30/24 Q1014 NOSIG YSCN 051630Z AUTO 00000KT 9999 -DZ ////// 21/18 Q1011 RMK YSCO 051630Z AUTO 00000KT //// // ////// 22/19 Q1010 RMK YSCR 051630Z AUTO 14012KT //// // ////// 17/07 Q1014 RMK HSPN 051600Z 03007 CAVOK 28/21 Q1015 MZBZ 051600Z 15006KT 9999 BKN020 30/26 A2988 Q1012 NOSIG HRYR 051600Z 33008KT 9999 FEW023CB BKN025 20/14 Q1018 NOSIG YSDU 051630Z AUTO 16003KT 9999 // NCD 22/17 Q1010 RMK YROM 051630Z AUTO 01007KT 9999 // NCD 28/12 Q1011 RMK YSGE 051630Z AUTO 16003KT //// // ////// 28/13 Q1009 SUSO 051600Z 03010KT 9999 FEW030 29/19 Q1008 MYNN 051600Z 09009KT 9999 SCT018 BKN220 26/20 A3007 K9L2 051556Z AUTO VRB03KT 10SM CLR 12/M07 A2995 RMK AO2 SLP136 T01171072 $ TNCA 051600Z 08014KT 050V120 9999 SCT028 31/23 Q1013 NOSIG HTIR 050900Z 09010KT 9999 BKN024 FEW025CB 27/16 Q1020 TNCB 051555Z AUTO 09013KT 040V120 9999 SCT027/// 30/23 Q1013 HTKA 050900Z 12008KT 9999 TS FEW024 FEW025CB BKN090 26/20 Q1019 TNCC 051600Z09010KT 9999 SCT022 31/24 Q1014 NOSIG TNCE 051555Z AUTO 07011KT 020V110 //// // ///////// 29/22 Q1016 RE// DFFD 051600Z 12004KT 060V200 8000 NSC 36/08 Q1012 NOSIG YSHK 051630Z AUTO 16013KT //// // ////// 18/13 Q1012 RMK ZJHK 051600Z 01002MPS 5000 BR NSC 21/19 Q1019 NOSIG HTKJ 051600Z 09020KT 9999 FEW044 27/13 Q1012 NOSIG HSSS 051630Z 02011KT CAVOK 34/08 Q1012 NOSIG TNCM 051600Z 11007KT 9999 FEW028 29/21 Q1016 A3000 NOSIG K8W2 051615Z AUTO 00000KT 10SM SCT045 11/03 A3000 RMK AO1 T01110032 SVMG 051600Z /////KT 9000 SCT010 SCT080 31/24 Q1013 REDZ NOSIG SVMI 051600Z 05004KT 9999 SCT016 30/20 Q1012 YSHT 051630Z AUTO 21006KT 9999 // NCD 15/11 Q1009 RMK YSHW 051630Z AUTO 00000KT 9999 // SCT026 SCT040 20/17 Q1011 HTMB 050900Z 09005KT 9999 BKN029 FEW030CB 23/13 UEEE 051600Z 26002MPS CAVOK M38/M42 Q1021 R23L/490150 NOSIG RMK QFE757 HTMG 050900Z 00000KT 9999 SCT027 31/20 Q1015 OIAA 051600Z 00000KT CAVOK 17/12 Q1018 K9MN 051614Z AUTO 14014KT 10SM SCT055 BKN075 OVC100 00/00 A2980 RMK AO1 T00020003 YTAR 051630Z AUTO 18006KT //// // ////// 22/05 Q1013 RMK YRTI 051630Z AUTO 19017KT //// // ////// 17/14 Q1016 RMK OIAG 051600Z 29002KT 7000 NSC 19/18 Q1018 OIAH 051600Z 00000KT CAVOK 19/15 Q1021 OIBA 051500Z 01006KT 3500 BR NSC 26/25 Q1014 OIBB 051600Z 33008KT 8000 NSC 22/17 Q1016 A3003 HTMT 050900Z 35018KT 9999 SCT024 31/23 Q1013 HTMU 050900Z 08005KT 9999 FEW024CB 27/14 Q1018 OIAM 051600Z 00000KT CAVOK 18/13 Q1017 HTMW 051600Z 30010KT 9999 FEW023 FEW024CB BKN270 25/19 Q1013 NOSIG HUEN 051600Z 17003KT 9999 FEW022 FEW024CB 24/18 Q1015 OIBJ 051500Z 20004KT CAVOK 23/14 Q1020 OIBK 051600Z 29004KT 3000 BR NSC 24/22 Q1015 OIBL 051600Z 00000KT 3000 BR NSC 23/23 Q1015 OICC 051600Z 00000KT 9999 SCT045 BKN090 11/01 Q1020 A3014 OIAW 051600Z 28004KT 9999 SCT040 BKN100 19/13 Q1017 YSMH 051630Z AUTO /////KT //// // ////// ///// Q1013 RMK YSMI 051630Z AUTO 20004KT //// // ////// 07/06 Q1011 OIBP 051600Z 00000KT CAVOK 24/18 Q1015 A2998 OIBQ 051500Z 31012KT CAVOK 22/19 Q1017 OICI 051600Z 14004KT 8000 FEW030CB SCT035 OVC080 09/06 Q1021 A3017 OIBS 051500Z 02006KT 7000 NSC 27/22 Q1015 OICK 050630Z 33004KT 9999 FEW035CB SCT040 OVC090 10/06 Q1026 YTEE 051630Z AUTO 28001KT 9999 // NCD 28/06 Q1009 RMK YTEF 051630Z AUTO 02005KT 9999 // NCD 25/23 Q1010 RMK OIBV 051500Z 00000KT 3000 BR NSC 25/24 Q1015 OICM 051600Z 00000KT 9999 FEW035CB SCT040 OVC080 16/09 Q1018 YSNF 051630Z AUTO 09003KT 9999 // BKN023 17/14 Q1019 OICS 051400Z 19006KT 9999 FEW040 11/02 Q1019 YTEM 051630Z AUTO 15005KT //// // ////// 21/18 Q1010 RMK CPBT 051500Z AUTO 01012KT M14/M18 RMK AO1 T11401178 50005 UDSG 051600Z 19004KT 9000 -SN OVC030 M01/M04 Q1018 R02/CLRD70 NOSIG YSOL 051630Z AUTO 34005KT 9999 // NCD 25/12 Q1011 RMK YSNW 051600Z AUTO 17002KT 7000 // OVC011 18/18 Q1012 CPEH 051500Z AUTO 33011KT M16/M19 RMK AO1 T11571192 YTGM 051630Z AUTO 14005KT //// // ////// 31/14 Q1009 HTTB 050900Z 33010KT 9999 SCT026 28/17 Q1019 OIFM 051600Z 24010KT 8000 -SHRA FEW035CB FEW040 11/05 Q1024 A3024 HTSO 050900Z 03012KT 9999 BKN024 FEW026CB 27/18 Q1018 OIGG 051600Z 00000KT 5000 BR FEW015CB BKN020 OVC080 09/07 Q1023 YTIB 051630Z AUTO 14008KT //// // ////// 26/14 Q1011 RMK OIFS 051600Z 17006KT 9000 FEW030CB SCT035 SCT090 09/06 Q1025 RETS CPFI 051600Z AUTO 32008KT M15/M18 RMK AO1 T11501178 K9V9 051615Z AUTO 00000KT 10SM CLR 02/M01 A2947 RMK AO2 T00201011 HTSU 050900Z 07006KT 9999 FEW020 FEW022CB BKN080 22/14 Q1021 YSRI 051630Z AUTO 00000KT 9999 // SCT022 OVC031 21/19 Q1011 DFOO 051600Z 08004KT CAVOK 35/10 Q1012 OIHH 051300Z 24004KT 9999 FEW040 SCT100 14/01 Q1020 SVVL 051400Z METAR SVBI 051400Z METAR SVSO 051400Z METAR SVAC 051400Z METAR SVGU 051400Z METAR SVSP 051400Z YSRN 051630Z AUTO 36004KT 9999 // OVC039 09/06 Q1011 RMK OIIE 051600Z VRB02KT 9999 FEW040 SCT100 12/M06 Q1020 OIII 051600Z 00000KT 9999 FEW040 SCT100 12/M02 Q1020 A3014 OIIK 051600Z 12002KT CAVOK 09/M02 Q1019 PAAD 051615Z AUTO 10017KT 3SM BR OVC003 M23/M25 A3083 RMK AO2 T12261252 OIIP 051600Z 17010KT 8000 SCT040 BKN100 10/M09 Q1019 OJAI 051600Z 30004KT 7000 NSC 12/06 Q1022 NOSIG PABA 051556Z AUTO 10017KT 10SM CLR M24/M27 A3089 RMK AO2 SNE1459 SLP446 P0000 T12391267 FZRANO TSNO OIKB 051600Z 19006KT 4000 BR NSC 25/23 Q1016 A3001 NOSIG PAAK 051616Z 10SM BKN065 RMK AO1 OJAM 051600Z 00000KT 4000 HZ NSC 12/07 Q1021 NOSIG YSSY 051600Z 21009KT 9999 SCT018 SCT040 BKN100 21/17 Q1012 TEMPO 1630/1900 6000 SHRA BKN010 ZJSY 051600Z 34002MPS 290V040 9999 BKN050 24/20 Q1018 NOSIG PABE 051553Z 03019KT 10SM BKN090 OVC110 M21/M24 A3021 RMK SLP233 T12061239 $ VIA AUTODIAL PAAQ 051553Z AUTO 35004KT 10SM CLR M22/M25 A3033 RMK SLP282 T12221250 TSNO VIA AUTODIAL OJAQ 051600Z 34008KT CAVOK 20/06 Q1019 NOSIG PABI 051553Z 10013G17KT 10SM CLR M21/M24 A3044 RMK SLP383 T12111239 VIA AUTODIAL CPIR 051500Z AUTO 36014KT M14/M19 RMK AO1 PK WND 35022/1441 T11441187 OIKK 051600Z 00000KT CAVOK 13/M08 Q1026 A3031 YSTW 051630Z AUTO 33001KT 9999 // NCD 22/17 Q1011 RMK PABL 051556Z AUTO 00000KT 10SM CLR M28/M31 A3067 RMK AO2 SLP387 T12781306 FZRANO OIKM 051300Z 36008KT CAVOK 26/M01 Q1018 A3007 PACD 051614Z 27018KT 10SM -RA SCT009 OVC031 02/01 A2999 RMK AO2 P0000 T00170011 OIKQ 051600Z 06006KT 5000 HZ NSC 24/20 Q1015 PABR 051553Z 12014KT 10SM CLR M28/M33 A3075 RMK SLP415 T12831328 VIA AUTODIAL HTZA 051600Z 06008KT 9999 FEW020 28/23 Q1010 NOSIG OIMB 051600Z 09006KT CAVOK 12/M03 Q1024 PABT 051553Z 35009KT 10SM CLR M30/M34 A3073 RMK SLP440 T13001339 VIA AUTODIAL OIMC 051600Z 29006KT CAVOK 12/01 Q1023 YTMO 051630Z AUTO 33006KT //// // ////// 29/07 Q1010 RMK OIMD 051600Z 00000KT CAVOK 14/M06 Q1018 PACM 051556Z AUTO 09019G27KT 10SM CLR M18/M23 A3029 RMK AO2 PK WND 09029/1517 SLP253 T11831228 FZRANO PABV 051556Z AUTO 18003KT 10SM CLR M23/M26 A3038 RMK AO2 SLP296 T12331256 FZRANO $ YSWG 051630Z AUTO 08006KT 9999 // SCT068 BKN120 20/19 Q1010 PADE 051453Z AUTO 07017KT 9SM -SN CLR M18/M24 A3058 RMK AO2 WSHFT 1405 SNB11 SLP355 P0000 60000 T11781239 58006 TSNO $ YSWH 051630Z AUTO 22006KT 9999 // NCD 17/05 Q1010 RMK PADG 051613Z 06010KT 7SM SKC M16/M25 A3056 UDYZ 051600Z 01001KT 9999 NSC 02/M00 Q1018 R09/010070 NOSIG YTNK 051630Z AUTO 02007KT 9999 // NCD 29/08 Q1010 PADK 051616Z AUTO 26013KT 6SM SCT016 BKN026 OVC042 04/M01 A3032 RMK AO1 PAEC 042349Z 01012KT 30SM SKC M19/M26 A3022 RMK NOSPECI PADL 051556Z AUTO 02013KT 10SM OVC035 M19/M23 A3028 RMK AO2 SLP258 T11891233 PWINO FZRANO $ OIMM 051600Z 16008KT CAVOK 12/M07 Q1022 A3020 PACV 051553Z 05005KT 10SM SCT033 M14/M15 A3032 RMK SLP270 I1000 T11391150 VIA AUTODIAL PADM 051556Z AUTO 06015G23KT 10SM CLR M19/M24 A3033 RMK AO2 SLP279 T11941244 FZRANO PAED 051558Z AUTO 02003KT 10SM CLR M23/M26 A3034 RMK AO2 SLP276 T12351264 OIMN 051600Z 00000KT CAVOK 05/M02 Q1022 OINE 051600Z 00000KT CAVOK 08/03 Q1023 OING 051600Z 26004KT 7000 FEW025CB SCT030 BKN080 12/10 Q1024 PAEG 051622Z AUTO 00000KT 10SM BKN001 M37/ A3072 RMK AO2 T1367 TSNO OIMQ 051600Z 00000KT CAVOK 14/M13 Q1022 PACZ 051555Z AUTO VRB02KT 10SM OVC070 M11/M19 A3014 RMK AO2 SLP223 T11111188 PADQ 051553Z 30003KT 10SM FEW025 SCT050 BKN100 M07/M09 A3030 RMK SLP261 T10721094 $ VIA AUTODIAL PAEH 051619Z AUTO VRB06KT 4SM -SN BR FEW030 BKN035 BKN070 M05/M06 A3003 RMK AO2 SLP183 PAEI 051558Z 00000KT 10SM CLR M35/ A3053 RMK AO2A SLP369 $ OIMS 051500Z 00000KT 9999 FEW035 SCT200 10/M08 Q1022 NSFA 051500Z 11004KT 9999 SCT026 26/24 Q1007 PAFA 051553Z 02006KT 10SM FEW060 M31/M33 A3056 RMK AO2 SLP370 T13061328 VISNO NE $ PAFB 051558Z AUTO 06006KT 10SM CLR M25/M28 A3056 RMK AO2 SLP374 T12461281 PADU 051557Z 22010KT 10SM -RA OVC018 04/01 A3011 RMK AO2 WND SHFT CS P0000 $ OINN 051600Z 00000KT 8000 SCT019 BKN025 OVC080 10/09 Q1022 PAEN 051553Z AUTO 05003KT 10SM CLR M24/M27 A3037 RMK SLP287 T12441267 TSNO VIA AUTODIAL PAFE 051616Z AUTO 00000KT 10SM CLR M05/M11 A3031 RMK AO1 OINR 051600Z 00000KT 9999 FEW022CB SCT025 OVC080 11/07 Q1021 PAGA 051558Z AUTO 00000KT 9SM CLR M37/ A3063 RMK AO2 SLP382 T1367 FZRANO PAFM 051556Z AUTO 01009KT 10SM CLR M25/M29 A3075 RMK AO2 SLP428 T12501294 FZRANO OINZ 051600Z 22004KT 8000 FEW023CB SCT027 BKN090 11/10 Q1022 PAGH 051557Z AUTO 12007KT 10SM CLR M24/M27 A3073 RMK AO2 SLP446 T12441272 FZRANO PAFR 051556Z AUTO 00000KT 10SM CLR M24/M27 A3033 RMK AO1 SYCJ 051600Z 06010KT 9999 BKN022 SCT300 32/23 Q1012 NOSIG PAFS 051601Z AUTO 05003KT 10SM CLR M31/M33 A3044 RMK AO2 SLP334 T13061333 FZRANO PAGK 051553Z AUTO 00000KT 10SM CLR M34/ A3047 RMK SLP416 T1344 TSNO VIA AUTODIAL YTRE 051630Z AUTO 22003KT 9999 // NCD 21/21 Q1009 RMK PAGL 051616Z AUTO 02016G24KT 10SM CLR M17/M24 A3046 RMK AO1 PAHC 051556Z AUTO 36010G17KT 10SM CLR M24/M28 A3039 RMK AO2 SLP297 T12441278 FZRANO PNO $ PAGM 051556Z AUTO 13040G48KT 10SM FEW013 OVC047 M08/M11 A3023 RMK AO2 PK WND 12048/1549 SLP243 T10781106 FZRANO $ PAGN 051556Z AUTO 06005KT 10SM CLR M06/M08 A3035 RMK AO2 SLP267 T10561083 FZRANO PAGS 051556Z AUTO 00000KT 10SM CLR M09/M13 A3038 RMK AO2 SLP287 T10941133 FZRANO SYEC 051600Z 04012KT 9999 SCT022 BKN300 31/24 Q1012 NOSIG PAHL 051556Z AUTO 07008KT 10SM CLR M24/M27 A3066 RMK AO2 SLP393 T12391267 FZRANO PAHN 051554Z AUTO 31014G22KT 10SM CLR M13/M18 A3054 RMK SLP344 T11281183 TSNO VIA AUTODIAL PAHO 051553Z 05003KT 10SM OVC039 M09/M16 A3030 RMK AO2 SLP263 T10941156 PAGY 051553Z AUTO 02017G23KT 10SM CLR M08/M18 A3053 RMK PK WND 02028/1539 SLP339 T10781183 TSNO VIA AUTODIAL PAHP 051556Z AUTO 09025G29KT 9SM CLR M18/M22 A3025 RMK AO2 PK WND 09030/1550 SLP281 T11831217 FZRANO PAIG 051556Z AUTO 00000KT 10SM OVC005 M16/M18 A3027 RMK AO2 SNE13B31E40 SLP262 P0000 T11611178 FZRANO $ PAII 051556Z AUTO 07011KT 10SM OVC060 A3018 RMK AO2 SNE02 SLPNO P0000 FZRANO $ NTAA 051600Z 12003KT 9999 FEW023 25/22 Q1013 NOSIG PAIK 051601Z AUTO 00000KT 10SM CLR M27/M29 A3071 RMK AO2 SLP453 T12671294 FZRANO PAIL 051553Z 01009KT 10SM CLR M17/M18 A3030 RMK SLP267 I1000 T11721183 VIA AUTODIAL PAJC 051556Z AUTO 29004KT 10SM -RA FEW018 BKN030 OVC036 01/00 A3009 RMK AO2 UPB11E17SNB17E26 SLP190 P0003 T00110000 FZRANO PAIM 051555Z AUTO 10010G17KT 050V120 10SM CLR M22/M28 A3058 RMK AO2 PK WND 03030/1532 SLP418 T12171283 PAIN 051616Z AUTO 00000KT 10SM CLR M34/M37 RMK AO1 OISF 051600Z 00000KT CAVOK 16/03 Q1021 PAHX 051556Z AUTO 03009KT 10SM CLR M25/M28 A3046 RMK AO2 SLP317 T12501278 FZRANO YTTI 051630Z AUTO 30007KT //// // ////// 29/24 Q1008 RMK PAHY 051556Z AUTO 03003KT 10SM CLR M01/M03 A3017 RMK AO2 SLP213 T10111028 FZRANO YTST 051630Z AUTO 23004KT 9999 // NCD 28/24 Q1008 OISL 051600Z 24004KT CAVOK 21/09 Q1019 PAJN 051553Z 00000KT 10SM CLR M09/M11 A3039 RMK AO2 SLP290 I1001 T10941111 $ PAIW 051558Z AUTO 08005KT 10SM CLR M13/M21 A3043 RMK AO2 SLP304 T11331211 FZRANO DIAD 051400Z 00000KT 9999 SCT016 32/25 Q1010 NOSIG PAKF 051601Z AUTO 26018G23KT 10SM -RA FEW008 SCT026 OVC100 04/M01 A3002 RMK AO2 PK WND 28033/1505 P0000 $ CPRO 051600Z AUTO 32013KT M15/M19 RMK AO1 PK WND 32019/1539 T11481191 PAKH 051556Z AUTO 02004KT 10SM OVC018 M01/M07 A3025 RMK AO2 SNB18E37 SLP245 P0000 T10111067 FZRANO $ OISR 051400Z 00000KT CAVOK 27/14 Q1017 ZLLL 051600Z 33003MPS 8000 NSC M07/M13 Q1028 NOSIG OISS 051600Z 31004KT CAVOK 19/M05 Q1025 A3027 OITK 051100Z 19008KT 9999 FEW035 BKN170 10/M04 Q1017 OKBK 051600Z 27003KT 7000 NSC 16/12 Q1019 NOSIG PAKK 051616Z AUTO 36007KT 330V030 10SM CLR M22/M33 A3048 RMK AO1 OITL 051400Z 10010KT 9000 3000E PRFG FEW003 SCT120 BKN180 01/M02 Q1018 OITM 051600Z 07008KT CAVOK 06/M03 Q1019 PAKN 051554Z 36009KT 10SM OVC060 M16/M19 A3020 RMK SLP229 T11611189 $ VIA AUTODIAL OITP 051600Z 00000KT CAVOK 03/01 Q1020 OISY 051600Z 08006KT 9999 FEW045 BKN080 12/01 Q1027 PAKP 051616Z AUTO 21006KT 10SM CLR M29/ A3051 RMK AO1 PALG 051556Z AUTO 05008KT 10SM CLR M22/M26 A3032 RMK AO2 SLP303 PWINO FZRANO TSNO RVRNO PALH 051553Z AUTO 11003KT 10SM CLR M21/M24 A3037 RMK SLP283 T12061239 TSNO VIA AUTODIAL PAJZ 051556Z AUTO 36003KT 7SM BKN012 M22/M26 A3036 RMK AO2 SLP288 T12221256 FZRANO $ YTWB 051630Z AUTO 11010KT 9999 // SCT006 SCT110 21/20 Q1017 CPRY 051500Z AUTO 35007KT M14/M17 RMK AO1 PK WND 34017/1414 T11391173 50004 OITR 051600Z 28006KT CAVOK 00/M02 Q1018 DIAP 051600Z 22009KT 180V250 9999 FEW012 31/24 Q1010 NOSIG PALJ 050150Z 00000KT 20SM SCT030 BKN050 M16/M18 A3046 RMK LAST 411441172 EST PASS CLSD NOSPECI OITT 051600Z 07006KT 9999 FEW035 BKN160 03/M02 Q1020 A3012 NOSIG PAKT 051553Z 30009KT 10SM CLR M01/M03 A3016 RMK AO2 SLP216 T10111033 PAMB 051603Z AUTO 05022G25KT 10SM OVC031 M18/M22 A3023 RMK AO2 PK WND 06026/1559 FZRANO $ PAKU 051545Z 11014KT 10SM R06/P6000FT SKC M23/M28 A3083 PAMC 051553Z 00000KT 10SM CLR M34/M38 A3047 RMK SLP337 T13391383 VIA AUTODIAL DIBK 051600Z 22004KT 9999 BKN013 31/22 Q1014 NOSIG CPST 051600Z AUTO 36011KT M17/M20 RMK AO1 PK WND 01019/1526 T11711198 PAKV 051553Z AUTO VRB03KT 10SM CLR M36/ A3061 RMK SLP377 T1361 TSNO $ VIA AUTODIAL PAMD 051616Z AUTO 23008KT 10SM FEW010 SCT014 OVC025 01/M03 A3027 RMK AO1 PAKW 051553Z AUTO 05011G16KT 10SM CLR M02/M05 A3018 RMK AO2 SLP219 T10221050 TSNO CPSV 051600Z AUTO 31007KT M17/M20 RMK AO1 T11661196 PALP 051453Z 12012KT 10SM SKC M25/M29 A3084 OITZ 051500Z 00000KT 9999 SCT040 05/M00 Q1018 PAMH 051556Z 35005KT 10SM CLR M21/M26 A3044 RMK AO2 SLP305 PWINO FZRANO RVRNO PANA 051556Z AUTO 05014G19KT 10SM OVC095 M20/M23 A3019 RMK AO2 SLP224 T12001233 FZRANO PAMK 051556Z AUTO 09016G25KT 10SM CLR M19/M24 A3040 RMK AO2 PK WND 11026/1507 SLP298 T11941244 FZRANO $ PANC 051553Z 00000KT 10SM CLR M21/M24 A3035 RMK SLP281 T12111239 $ VIA AUTODIAL PALU 051555Z AUTO 22004KT 10SM CLR M12/M19 A3060 RMK AO2 SLP363 T11201195 DIBU 051400Z VRB02KT 4000 HZ SCT015 33/19 Q1013 NOSIG PAMO 051556Z AUTO 08019G25KT 10SM CLR M21/M25 A3027 RMK AO2 PK WND 08029/1517 SLP268 T12111250 FZRANO PAMR 051553Z 07004KT 10SM CLR M23/M24 A3035 RMK SLP283 I1000 T12281244 VIA AUTODIAL PANI 051616Z AUTO 05004KT 10SM CLR M25/M30 A3035 RMK AO1 UHBB 051600Z 29003MPS CAVOK M24/M30 Q1021 R36/810250 NOSIG RMK QFE748/0997 DIDK 051400Z ///// 9999 SCT015 33/24 Q1011 NOSIG DIDL 051400Z ///// 9999 BKN015 31/25 Q1012 NOSIG PANN 051553Z AUTO 00000KT 10SM CLR M32/M36 A3052 RMK SLP357 T13221356 TSNO $ VIA AUTODIAL PAMY 041656Z AUTO 12025G30KT 7SM CLR M13/M16 A3042 RMK AO2 PK WND 12030/1653 SLP303 T11281161 FZRANO PAOH 051556Z AUTO 00000KT 10SM CLR M08/M09 A3036 RMK AO2 SLP283 T10831089 FZRANO PANT 051553Z 00000KT 10SM FEW150 M02/M04 A3014 RMK SLP208 I1000 T10171044 PAPB 051553Z AUTO 27006KT 9SM CLR 01/01 A3001 RMK SLP151 T00060006 TSNO VIA AUTODIAL PAOM 051553Z 08010KT 10SM FEW250 M15/M23 A3042 RMK SLP300 T11501228 VIA AUTODIAL PANW 051624Z AUTO 36011KT 10SM SCT004 OVC012 M23/M26 A3027 RMK AO2 FZRANO UGKO 051600Z 25016G28KT 210V280 6000 -RA SCT013 OVC038 03/02 Q1028 R07/29//50 NOSIG PAOO 051556Z AUTO 03013KT 8SM -SN OVC041 M15/M19 A3015 RMK AO2 SLP220 P0000 T11501189 FZRANO PAPG 051616Z 23003KT 10SM FEW060 M05/M06 A3024 RMK AO1 PAPH 051556Z AUTO 14010KT 10SM SCT042 BKN060 BKN080 03/M01 A3006 RMK AO2 SLP183 T00281006 PAOR 051553Z 00000KT 10SM BKN050 BKN055 M24/M27 A3048 RMK SLP402 T12391272 VIA AUTODIAL OIZB 051600Z VRB02KT CAVOK 18/02 Q1020 PAOT 051553Z 11014KT 10SM CLR M21/M26 A3066 RMK SLP381 T12061261 $ VIA AUTODIAL DIGA 051400Z 16004KT 9999 BKN013 32/24 Q1012 NOSIG PAOU 051624Z AUTO 11010KT 10SM -RA SCT028 OVC038 02/01 A2996 RMK AO2 P0001 FZRANO PAPM 051556Z AUTO 04019KT 9SM -SN M09/M13 A3010 RMK AO2 PK WND 03026/1537 SLP196 P0000 T10941133 FZRANO $ CPXL 051600Z AUTO 27002KT M17/M20 RMK AO1 T11741203 PAPN 051556Z AUTO 05006KT 10SM -SN FEW037 OVC070 M05/M07 A3011 RMK AO2 SNB54 SLP200 P0000 T10501072 FZRANO PAPO 051556Z AUTO 15027G31KT 10SM CLR M13/M17 A3059 RMK AO2 PK WND 15031/1556 SLP358 T11331172 FZRANO OIZH 051600Z 17008KT CAVOK 17/M01 Q1024 A3027 PAQH 051556Z AUTO 01009KT 9SM -SN BKN038 OVC047 M09/M12 A3012 RMK AO2 SLP202 P0000 T10941122 FZRANO OIZI 051600Z 00000KT CAVOK 23/01 Q1019 OIZJ 051600Z 00000KT 3500 BR NSC 24/22 Q1016 PAPT 050150Z 00000KT 25SM SKC M26/M29 A3023 RMK NOSPECI PARC 051628Z AUTO 31005KT 6SM HZ CLR M40/ A3063 RMK AO2 FZRANO OIYY 051600Z 14004KT CAVOK 19/M01 Q1022 PASA 051507Z AUTO 11028G33KT 4SM -SN BR CLR M08/M09 A3022 RMK AO2 PK WND 10033/1503 UPE1458SNB1458 P0000 FZRANO $ PAQT 051553Z AUTO 09007KT 7SM CLR M29/M32 A3084 RMK SLP446 T12941317 TSNO $ VIA AUTODIAL PASC 051553Z 09020KT 7SM SCT003 M23/M26 A3083 RMK SLP442 T12281256 VIA AUTODIAL PASD 051616Z 16014G22KT 10SM OVC013 06/05 A2994 RMK AO1 WEA YWCA 051630Z AUTO 21006KT //// // ////// 21/15 Q1010 RMK PASH 051616Z 10013KT 10SM CLR M20/M25 A3055 RMK AO1 PNO PASI 051553Z 11003KT 10SM CLR M04/M07 A3024 RMK SLP241 I1000 T10441067 VIA AUTODIAL YWBL 051630Z AUTO 31006KT 9999 // OVC029 08/07 Q1013 RMK PATA 051552Z 11009KT 10SM CLR M23/M27 A3064 RMK AO2 SLP385 T12331272 PNO $ PARS 051556Z AUTO 07010G16KT 10SM CLR M22/M26 A3035 RMK AO2 SLP282 T12171256 FZRANO $ OLBA 051600Z 01008KT 9999 FEW026 SCT080 18/10 Q1023 NOSIG PASK 051556Z AUTO 07011KT 10SM CLR M24/M28 A3070 RMK AO2 SLP394 T12441278 FZRANO $ PASL 051616Z AUTO 00000KT 10SM CLR M31/ A3045 RMK AO1 PATC 051608Z 03009KT 10SM CLR M14/M21 A3038 RMK AO2A SLP297 RCRNR PASM 051556Z AUTO 08020G30KT 10SM CLR M22/M25 A3025 RMK AO2 PK WND 08033/1513 SLP261 T12171250 FZRANO PASN 051553Z 30005KT 10SM BKN023 BKN028 00/M01 A3000 RMK SLP159 T00001006 $ VIA AUTODIAL PATE 051558Z AUTO 15016KT 10SM CLR M17/M22 A3039 RMK AO2 PK WND 11029/1547 SLP305 T11721222 FZRANO PASO 051553Z AUTO 00000KT 10SM OVC040 M08/M12 A3029 RMK SLP257 T10831122 TSNO VIA AUTODIAL YWBR 051600Z AUTO 15002KT //// // ////// 21/20 Q1012 PATG 051456Z AUTO 01012KT 10SM OVC030 M13/M18 A3022 RMK AO2 SLP234 T11331178 56029 FZRANO PARY 051556Z AUTO 07008KT 10SM CLR M26/M30 A3052 RMK AO2 SLP369 T12611300 FZRANO MSV 051630Z AUTO 11006KT 9999 // OVC020 16/16 Q1013 RMK PATK 051553Z AUTO 00000KT 10SM CLR M23/M26 A3035 RMK SLP291 T12281261 TSNO $ VIA AUTODIAL PATL 051622Z 08006KT 10SM CLR M25/M28 A3039 RMK AO2A SLP345 RCRNR PASV 051555Z AUTO VRB02KT 10SM CLR M23/M26 A3015 RMK AO2 SLP293 T12321260 MUI 051630Z AUTO 13009KT 9999 // NCD 22/18 Q1013 RMK YWDH 051630Z AUTO 17004KT 9999 // NCD 32/13 Q1009 PATO 051553Z AUTO 00000KT 10SM CLR M22/M24 A3036 RMK SLP285 T12221244 TSNO VIA AUTODIAL PASX 051616Z AUTO 08003KT 10SM SCT002 M26/ A3036 RMK AO1 UHHH 051600Z METAR 28006MPS CAVOK M20/M28 Q1015 R23L/090060 NOSIG PASY 051556Z 24017KT 8SM BKN023 OVC027 05/04 A3020 RMK AO2 SLP227 WND DATA ESTMD T00500039 $ PATQ 051556Z AUTO 09007KT 10SM CLR M29/M33 A3072 RMK AO2 SLP411 T12941328 FZRANO TSNO PAVA 051556Z AUTO 08021KT 10SM CLR M18/M22 A3023 RMK AO2 PK WND 09029/1535 SLP252 T11831222 FZRANO NSTU 051551Z VRB02KT 10SM SCT020 SCT110 26/26 A2973 RMK SHRAB02E45 SLP069 T02640264 PAVC 051556Z AUTO 25016G23KT 10SM -SN FEW017 BKN021 OVC037 01/00 A2998 RMK AO2 RAB14E56SNE14B56 SLP157 P0001 T00110000 FZRANO PAVD 051616Z 00000KT 10SM CLR M17/M22 A3042 RMK AO1 1547Z WEA PAUN 051616Z 11016G25KT 10SM CLR M19/M28 A3044 RMK AO1 DIKO 051500Z 14004KT 8000 FEW015 34/18 Q1012 NOSIG UIAA 051600Z 03004MPS 9999 NSC M22/M27 Q1015 R29/490150 NOSIG RMK QFE703 UGSB 051600Z 33021KT 9999 -RA SCT020 BKN034 06/02 Q1032 R13/29//54 NOSIG PAVL 051453Z AUTO 10012KT 10SM CLR M19/M26 A3063 RMK AO2 SLP374 T11941256 58008 TSNO $ PAWD 051553Z AUTO 36012KT 10SM OVC038 M13/M17 A3031 RMK SLP263 T11281172 TSNO VIA AUTODIAL PAWG 051616Z 07009KT 10SM CLR M01/M12 A3025 RMK AO1 WEA PAWI 051553Z AUTO 11008KT 10SM CLR M31/M34 A3066 RMK AO2 SLP385 T13111344 TSNO UIBB 051600Z VRB01MPS 7000 -SHSN BKN007 OVC015CB M10/M11 Q1008 R30/490237 NOSIG RMK QBB230 QFE713/0951 UGTB 051600Z 31006KT 9999 -SHRA SCT020CB BKN025 OVC035 02/M00 Q1026 R31L/19//55 NOSIG PAWN 051456Z AUTO 36006KT 10SM CLR M26/M29 A3070 RMK AO2 SLP411 T12611289 56008 FZRANO DIMN 051400Z 20006KT 9999 SCT016CB 31/22 Q1013 NOSIG YWHA 051630Z AUTO 21009KT 9999 // NCD 17/12 Q1013 RMK PAYA 051553Z 08003KT 10SM OVC043 M06/M11 A3032 RMK SLP267 T10561106 VIA AUTODIAL PAWS 051616Z AUTO 09005KT 10SM CLR M16/M21 A3042 RMK AO1 ZLXY 051600Z 02003MPS 8000 NSC 02/M07 Q1032 NOSIG DIOD 051400Z 07004KT 5000 HZ NSC 34/10 Q1014 NOSIG UHMA 050800Z 11014G17MPS 0400 R01/0600 +SN BLSN VV001 M01/M01 Q1008 RMK QBB040 QFE752/1003 YWGT 051630Z AUTO 16003KT 9999 // NCD 17/12 Q1008 RMK YVRD 051630Z AUTO 26004KT //// // ////// 30/18 Q1008 UHMD 050330Z 10011G16MPS P7000 DRSN FEW020 OVC040 M05/M08 Q1024 RMK QBB600 MT OBSC QFE767/1023 PAZK 051616Z AUTO 04006KT 10SM CLR M26/M29 A3017 RMK AO1 UHMM 051600Z 09005MPS 9999 -SHSN OVC015CB M09/M10 Q1002 RMK QFE737 YWIS 051630Z AUTO 04003KT //// // ////// 24/20 Q1013 RMK OMAA 051600Z 34006KT 8000 NSC 26/22 Q1015 NOSIG OMAD 051600Z 34005KT CAVOK 25/21 Q1016 NOSIG ZMUB 051630Z VRB01MPS 6000NW NSC M22/M26 Q1013 NOSIG RMK QFE652.8 67 NT OMAL 051600Z 28005KT CAVOK 27/10 Q1017 NOSIG YWLG 051630Z AUTO 20006KT 9999 // NCD 26/15 Q1009 RMK TQPF 051600Z 08009KT 9999 FEW022 29/21 Q1016 YWLM 051600Z AUTO 18010KT 6000 // OVC006 22/20 Q1010 DITB 051400Z 16002KT 9999 SCT015 31/24 Q1011 NOSIG UHPP 051600Z 01002MPS 9999 NSC M07/M09 Q1009 R34L/390031 NOSIG RMK QFE753/1005 EBBE 051555Z VRB01KT 9999 FEW250 04/M01 Q1026 BLU BLU DISP 051500Z 16008KT 9999 SCT013 30/25 Q1010 NOSIG OMDB 051600Z 36004KT 340V060 8000 NSC 27/22 Q1016 NOSIG DISS 051400Z ///// 9999 SCT015 31/25 Q1012 NOSIG EBBL 051555Z VRB01KT 9999 FEW230 00/M01 Q1026 BLU BLU EBAW 051620Z 14002KT CAVOK 01/M01 Q1026 NOSIG UIII 051600Z VRB01MPS 1800 1400SE R30/P2000N BR FEW046CB M12/M13 Q1014 R30/490340 NOSIG RMK QFE716/0955 EBCI 051620Z VRB01KT CAVOK 03/M00 Q1025 NOSIG EBBR 051620Z 16003KT CAVOK 03/00 Q1026 NOSIG CTCK 051600Z AUTO 07009KT M03/M03 RMK AO1 SOG 12 7010 SLP106 T10271034 VAAH 051600Z 00000KT 4000 FU NSC 21/13 Q1017 NOSIG YWOL 051630Z AUTO 00000KT 9999 // OVC050 20/18 Q1011 RMK VABB 051600Z 02003KT 3000 FU NSC 30/19 Q1014 NOSIG KA08 051615Z AUTO 33005KT 10SM DZ OVC005 12/12 A2997 RMK AO2 T01170116 OMDW 051600Z 34005KT 5000 HZ NSC 24/22 Q1017 NOSIG EBCV 051603Z AUTO VRB01KT 7000 NCD 02/M00 Q1026 WHT UHSS 051600Z 35007MPS 9999 SCT040 M07/M12 Q1007 R01/CLRD73 NOSIG RMK QFE754/1006 OMFJ 051600Z 18001KT 5000 HZ NSC 25/22 Q1017 A3003 VAAU 051500Z 35003KT 2500 HZ SCT020 22/16 Q1018 NOSIG EBDT 051555Z VRB02KT 9999 SCT300 04/M01 Q1026 BLU VABO 050700Z 07006KT 6000 NSC 29/11 Q1016 NOSIG VABP 051500Z 05005KT 5000 HZ NSC 16/09 Q1019 NOSIG VABV 050400Z 32003KT 2000 FU NSC 23/12 Q1017 EBFN 051555Z 13003KT 7000 BKN250 02/M00 Q1026 WHT WHT KA39 051615Z AUTO 13009KT 10SM CLR 08/M05 A3000 RMK AO2 EBFS 051525Z VRB01KT 9999 FEW240 06/M00 Q1025 BLU DIYO 051600Z 16006KT 9999 SCT016TCU 33/21 Q1010 NOSIG YWUD 051630Z AUTO 10007KT //// // ////// 15/09 Q1013 YWTN 051630Z AUTO 03006KT //// // ////// 29/09 Q1009 RMK UHWW 051600Z 30005MPS 9999 NSC M10/M18 Q1018 R25L/0///70 NOSIG RMK QFE762 TRPG 051600Z 08010KT 9999 SCT019 27/24 Q1017 VAID 051500Z 05003KT 5000 HZ NSC 19/10 Q1019 NOSIG EBLB 051555Z AUTO VRB02KT 9999 NCD 01/M02 Q1025 BLU EBLG 051620Z 12003KT CAVOK 05/M01 Q1025 NOSIG YWWL 051630Z AUTO 17006KT //// // ////// 22/18 Q1010 RMK VAJB 051500Z 00000KT 5000 HZ NSC 16/11 Q1019 VAJJ 051230Z 35010KT 320V020 5000 HZ SCT100 30/23 Q1013 NOSIG UKBB 051600Z 24006MPS 220V290 CAVOK M05/M07 Q1022 R18L/821040 R18R/851040 NOSIG YWYM 051630Z AUTO 29007KT //// // ////// 31/21 Q1007 RMK CTNK 051600Z AUTO 24001KT M03/M05 RMK AO1 SOG 08 1010 SLP108 T10301052 50004 UKDD 051600Z 23004MPS CAVOK M10/M12 Q1028 R26/890536 NOSIG UKDE 051600Z 23004MPS CAVOK M08/M12 Q1029 R20/720550 NOSIG YWYY 051630Z AUTO 30008KT 9999 // NCD 09/05 Q1010 RMK TTCP 051600Z 06010KT 9999 FEW020 29/24 Q1013 NOSIG UIUU 051600Z VRB01MPS 9999 BKN030 M18/M21 Q1017 R26/410595 NOSIG RMK QFE718/0958 EBOS 051620Z 13004KT 7000 NSC 01/M01 Q1026 TEMPO 4000 BR UKDR 051600Z 26005MPS CAVOK M09/M12 Q1029 R36/491025 NOSIG OMRK 051600Z 33003KT 6000 NSC 23/21 Q1016 A3003 CTRA 051600Z AUTO 28003KT M02/M03 RMK AO1 SOG 03 3022 SLP080 T10161030 VANP 051600Z 00000KT 2500 HZ NSC 19/11 Q1018 NOSIG NVSG 050600Z 12012KT 9999 SCT020 BKN040 28/25 Q1010 RMK RESH OMSJ 051600Z 34003KT 7000 NSC 24/21 Q1016 NVSL 050600Z 12005KT 9999 BKN020 28/24 Q1009 RMK RESH NVSS 050600Z 12008KT 9999 SCT020 FEW025CB BKN300 28/23 Q1009 RMK RESH EDAH 051550Z 25010KT 9999 BKN024 02/M01 Q1023 UKHH 051600Z 24008MPS 9999 SCT040 BKN100 M09/M12 Q1022 R25/451045 NOSIG VAPR 051000Z 27005KT 5000 FU NSC 33/22 Q1013 PFCL 051556Z AUTO 04017G21KT BKN034 OVC060 M19/M23 A3026 RMK AO2 SLPNO T11891228 PWINO FZRANO $ YYNG 051630Z AUTO 17007KT //// // ////// 21/18 Q1010 RMK ULAA 051600Z 07003MPS CAVOK M21/M23 Q1001 R08/420344 NOSIG RMK QFE750/1000 VARK 051400Z 05002KT 6000 NSC 26/10 Q1015 EDDB 051620Z 29003KT 6000 MIFG FEW006 M03/M03 Q1026 R25/19//95 TEMPO 1200 BCFG BKN008 EDDC 051620Z 15008KT CAVOK M04/M06 Q1026 NOSIG EDDE 051620Z 24005KT CAVOK M02/M03 Q1025 NOSIG EDDF 051620Z 15004KT 5000 BR OVC006 M02/M04 Q1029 TEMPO 4000 EDDG 051620Z 00000KT CAVOK M02/M05 Q1026 NOSIG EDDH 051620Z 00000KT 9999 BKN026 M01/M02 Q1026 NOSIG KC07 051617Z AUTO 26014G27KT 1/4SM SN OVC001 M10/M11 A2967 RMK AO2 KAAA 051615Z AUTO 15006KT 7SM OVC008 02/02 A3006 RMK AO2 T00200016 KC09 051615Z AUTO 20012KT 7SM OVC004 00/M01 A3005 RMK AO2 T00001009 PFEL 051558Z AUTO 02016G22KT 10SM CLR M18/M24 A3049 RMK AO2 SLP330 T11781244 FZRANO EDDK 051620Z 12004KT 090V150 CAVOK 02/M02 Q1027 NOSIG EDDL 051620Z 17003KT CAVOK 02/M02 Q1026 NOSIG EDDM 051620Z 10003KT 050V130 3500 BR SCT003 BKN004 M02/M02 Q1027 NOSIG KAAF 051553Z AUTO 17011KT 10SM FEW003 BKN019 OVC110 23/23 A2994 RMK AO2 SLP137 T02330228 EDDN 051620Z 12003KT 090V150 4500 BR OVC004 M02/M03 Q1028 R28/19//95 NOSIG VCBI 051610Z 02007KT 9999 FEW018 FEW020CB 27/23 Q1012 NOSIG RMK SE S EDDP 051620Z 21007KT CAVOK M02/M06 Q1026 NOSIG UKKK 051600Z 26008MPS CAVOK M04/M08 Q1021 R26/810350 NOSIG EDDR 051620Z 06004KT 0150 R09/0650N FZFG VV/// M02/M02 Q1027 NOSIG VAUD 051130Z 00000KT 4000 HZ NSC 26/05 Q1017 NOSIG EDDS 051620Z 00000KT CAVOK 01/M02 Q1026 NOSIG UKKM 051600Z 23008MPS CAVOK M04/M07 Q1021 R15/990440 NOSIG EDDT 051620Z 30003KT 4000 BR FEW007 SCT300 M03/M04 Q1026 BECMG 1200 BCFG BKN008 ZPPP 051600Z 04004MPS 020V100 CAVOK 07/04 Q1032 NOSIG KABE 051551Z 25005KT 3/4SM BR OVC003 04/02 A3000 RMK AO2 SFC VIS 2 1/2 SLP162 T00390022 EDDV 051620Z VRB01KT CAVOK M02/M04 Q1026 NOSIG EDFE 051550Z 28003KT 3000 BR BKN006 M02/M03 Q1028 EDDW 051620Z 24001KT 0800 0300S R09/0450VP2000D FZFG NSC M03/M04 Q1027 R88/290095 TEMPO 0300 KAAO 051554Z AUTO 17012KT 10SM CLR 06/04 A2980 RMK AO2 SLP098 T00560039 PNO $ UKLI 051600Z 00000MPS CAVOK M04/M06 Q1026 R28/490538 NOSIG KABH 051556Z AUTO 00000KT CLR A2962 RMK AO2 SLPNO $ KABI 051559Z 17006KT 10SM BKN009 OVC070 07/06 A2990 RMK AO2 CIG 007V012 T00720056 EDFH 051620Z 15007KT 0200 R21/0375V0500N FZFG NSC M05/M05 Q1025 UKLL 051600Z 23004MPS CAVOK M02/M08 Q1025 R31/810550 NOSIG KAAT 051555Z AUTO 02004KT 10SM CLR M06/M08 A3009 RMK AO2 SLP212 T10611078 TSNO KACB 051615Z AUTO 23006KT 210V280 10SM SCT027 BKN033 OVC047 04/00 A2991 RMK AO2 T00360000 KC29 051615Z AUTO 17007KT 1 3/4SM OVC002 01/01 A2994 RMK AO1 T00130013 UKLN 051618Z 00000MPS 2700 BR FEW200 M04/M05 Q1027 R15/850530 NOSIG EDFM 051620Z VRB02KT 7000 OVC008 M00/M01 Q1029 KC35 051615Z AUTO 19004KT 2 1/2SM BR OVC003 00/00 A2991 RMK AO2 T00010001 UKLR 051500Z 24005MPS CAVOK M05/M08 Q1023 R29/472022 NOSIG KABQ 051552Z 00000KT 10SM FEW250 01/M08 A2992 RMK AO2 SLP131 T00111083 KABR 051553Z AUTO 09007KT 10SM OVC110 00/M02 A2952 RMK AO2 SLP011 T00001022 KACJ 051615Z AUTO 05007KT 4SM BR OVC002 10/10 A3001 RMK AO2 UKLU 051600Z 00000MPS 9999 SCT200 M02/M05 Q1031 R10/090070 NOSIG KACK 051553Z 16011KT 10SM BKN023 BKN027 OVC031 06/02 A3001 RMK AO2 SLP163 T00610017 KADC 051552Z AUTO 10004KT 5SM BR SCT001 M04/M05 A2969 RMK AO2 KADF 051556Z AUTO VRB05KT 10SM SCT013 OVC095 07/05 A3000 RMK AO2 SLP164 T00720050 KADG 051553Z AUTO 24009KT 10SM OVC023 02/00 A3007 RMK AO2 SLP192 T00220000 KABY 051553Z 02004KT 4SM -RA BR OVC003 12/12 A3001 RMK AO2 RAB41 SLP162 P0000 T01220122 KACP 051615Z AUTO 35005KT 10SM OVC006 10/09 A2985 RMK AO2 P0001 T00990094 KACQ 051554Z AUTO 14013G16KT 10SM OVC085 01/00 A2975 RMK AO2 KADH 051615Z AUTO 17003KT 7SM BKN002 05/05 A2991 RMK AO2 EDHI 051620Z 22003KT CAVOK M00/M02 Q1026 EDGS 051620Z VRB01KT CAVOK M02/M04 Q1025 KACT 051606Z 35007KT 2 1/2SM -RA BR BKN011 OVC022 09/08 A2990 RMK AO2 P0000 T00890078 EDHK 051520Z 26006KT 9999 BKN025 03/00 Q1025 EDHL 051620Z 26004KT 9999 BKN025 02/M01 Q1026 KACV 051553Z AUTO 08005KT 10SM CLR 00/M01 A3021 RMK AO2 SLP237 T00001006 KADM 051555Z 10003KT 3SM BR BKN002 OVC017 04/04 A2992 RMK VIS N - SE 5SM UKOH 051600Z 23003MPS 190V290 CAVOK M05/M08 Q1032 R21/CLRD65 NOSIG KAEG 051547Z 00000KT 10SM FEW130 03/M09 A2991 KACY 051627Z 30009KT 10SM BKN014 OVC020 08/05 A3000 RMK AO2 T00830050 KAEJ 051615Z AUTO 30011KT 10SM SCT043 OVC050 03/M10 A2976 RMK AO2 T00311101 KADS 051514Z AUTO 10007KT 8SM OVC009 09/08 A2993 DNAA 051500Z 29006KT 250V340 8000 NSC 33/08 Q1012 NOSIG EDJA 051620Z 26004KT 9000 NSC M01/M02 Q1026 KAEL 051614Z AUTO 16013G16KT 5SM BR SCT005 02/02 A2977 RMK AO2 KADU 051615Z AUTO 18017G20KT 10SM CLR 06/02 A2976 RMK AO2 UKON 051600Z 22004MPS CAVOK M05/M07 Q1031 NOSIG KC62 051615Z AUTO 22008KT 10SM OVC009 00/M01 A3008 RMK AO2 T00041010 UKOO 051600Z 22004MPS CAVOK M03/M07 Q1032 R16/190056 NOSIG KADW 051558Z AUTO 32004KT 10SM SCT009 SCT014 08/05 A3001 RMK AO2 SLP171 T00790050 CWAE 051600Z 00000KT 15SM FEW040 FEW065 OVC090 M06/M07 A3000 RMK SF1SC1AC7 SF TR WND ESTD SLP189 KAFF 051558Z AUTO 27021G34KT 10SM CLR 09/M10 A2961 RMK AO2 PK WND 28039/51 SLP022 T00901099 CWAF 051600Z AUTO 16001KT M05/M08 RMK AO1 T10471079 KAFJ 051615Z AUTO 29007KT 180V290 10SM OVC020 04/M01 A3009 RMK AO1 CWBA 051600Z AUTO 17006KT M03/M04 RMK AO1 2PAST HR SOG 06 M P0005 T10261040 50012 CWAJ 051600Z AUTO 27006KT 04/01 RMK AO1 SLP174 T00390005 51019 KAFK 051615Z AUTO 18011KT 10SM CLR 05/01 A2977 RMK AO2 T00480010 KAGC 051553Z 32006KT 10SM BKN022 OVC028 03/M02 A3007 RMK AO2 SLP196 T00331022 TTPP 051600Z 11012KT 9999 VCSH FEW018 33/23 Q1012 NOSIG RMK SHWRS-NE SE S SW WNW KAFN 051623Z AUTO 00000KT 2SM -SN BR OVC008 M01/M03 A2990 RMK AO2 CIG 007V011 P0000 T10061028 CWBE 051600Z AUTO 27009KT 03/01 RMK AO1 SLP120 T00250007 51016 KAEX 051553Z 06005KT 5SM RA BR BKN008 BKN035 OVC042 09/09 A2985 RMK AO2 SLP113 P0008 T00940089 KAFO 051615Z AUTO 00000KT 10SM OVC031 M12/M14 A2990 RMK AO2 KAFP 051605Z AUTO 00000KT 10SM CLR 10/07 A3005 RMK AO2 T01030068 KC75 051615Z AUTO 18008KT 5SM BR OVC004 01/00 A3003 RMK AO2 T00050001 CWAQ 051600Z AUTO 31027G34KT M11/M12 RMK AO1 5PAST HR SOG 05 3030 PK WND 32034/1555 SLP089 P0002 T11091123 50018 CWAR 051600Z AUTO 01015G23KT M01/M10 RMK AO1 SOG 03 8014 PK WND 35025/1535 SLP058 T10081103 PFKT 051558Z AUTO 12014KT 10SM CLR M17/M21 A3044 RMK AO2 SLP310 T11671211 FZRANO CWCA 051622Z 31016G26KT 15SM BKN030 BKN070 M05/M08 A2975 RMK SC6AC1 SLP076 CWBK 051600Z AUTO 27008KT M02/M04 RMK AO1 6PAST HR 8009 PK WND 27018/1542 SLP144 P0002 T10221039 50008 PFKW 051556Z AUTO 03009KT 10SM BKN100 M21/M24 A3021 RMK AO2 SLP232 T12061244 FZRANO CWAV 051600Z AUTO 32006KT M15/M19 RMK AO1 SOG 17 2018 PK WND 33019/1513 SLP242 T11501188 KAFW 051553Z 09005KT 10SM BKN017 OVC022 09/06 A2990 RMK AO2 SLP126 T00940061 CWCF 051600Z AUTO 06002KT M02/M02 RMK AO1 SOG 04 3017 SLP078 T10191015 CWBO 051600Z AUTO 33012KT M15/M19 RMK AO1 2PAST HR SOG 00 1021 SLP221 P0001 T11531192 50002 CWCI 051500Z AUTO 27021KT 04/03 RMK AO1 PK WND 27030/1435 SLP073 T00400031 51015 KAIA 051453Z AUTO 24009KT 10SM CLR 03/M06 A2953 RMK AO2 SLP010 T00281056 58002 $ KAGS 051553Z 00000KT 10SM BKN007 OVC095 11/08 A3002 RMK AO2 SLP166 T01110083 CWDA 051500Z AUTO 29017KT M04/M06 RMK AO1 PK WND 29022/1448 SLP078 T10381064 58010 EDMA 051620Z 10002KT 2300 BR OVC002 M02/M02 Q1027 CWCJ 051600Z AUTO 04002KT 00/M01 RMK AO1 2PAST HR SOG 14 1019 SLP069 P0001 T00001006 50005 CWBS 051600Z AUTO 04013KT M04/M05 RMK AO1 PK WND 06017/1516 T10401046 KAIB 051615Z AUTO 00000KT 10SM CLR 00/M08 A2991 RMK AO2 CWBT 051600Z AUTO 33003KT M04/M08 RMK AO1 SLP150 T10411081 58016 KAID 051454Z 21004KT 10SM OVC013 02/M01 A3010 CWDC 051600Z AUTO 34007KT M10/M12 RMK AO1 SOG 17 1020 SLP145 T11001120 50002 CWBU 051600Z AUTO 33013G18KT M07/M10 RMK AO1 SOG 05 2026 PK WND 33019/1508 SLP108 T10701097 CWBV 051600Z AUTO 30011KT 01/ RMK AO1 SLP151 T0005 58012 KAHN 051551Z 35003KT 9SM BKN006 OVC075 09/08 A3002 RMK AO2 SLP167 T00940078 EDLN 051620Z 10003KT CAVOK 00/M02 Q1026 CWCO 051600Z AUTO 27008G15KT 04/01 RMK AO1 1023 SLP123 T00380008 50002 KAIG 051615Z AUTO 23004KT 10SM CLR 00/M02 A2986 RMK AO2 T00001021 CWBY 051600Z AUTO 34003KT M05/M09 RMK AO1 SOG 15 8013 SLP146 T10511091 EDLP 051620Z 16003KT CAVOK 01/M07 Q1026 KAHQ 051615Z AUTO 16013KT 10SM CLR 03/00 A2970 RMK AO2 T00301003 CWBZ 051600Z AUTO 08004KT M02/M02 RMK AO1 2PAST HR 8017 SLP107 P0009 T10171018 50070 UMBB 051330Z 27005G08MPS 7000 OVC014 M00/M02 Q1023 R29/491228 NOSIG OOMS 051550Z 07003KT 9000 NSC 25/21 Q1017 NOSIG KD07 051556Z AUTO 33030G37KT M02/M02 A2954 RMK AO1 PK WND 32037/1553 SLP034 P0004 T10171017 company and, as such, has no control over content found on this site. CWDJ 051600Z AUTO 33020KT M08/M10 RMK AO1 SOG 00 3027 PK WND 34028/1530 SLP103 T10751101 KBAB 051558Z 33006KT 10SM CLR 03/03 A3010 RMK AO2A VIS 2 1/2 RWY33/15 SLP197 T00260026 $ KAIK 051615Z AUTO 00000KT 10SM SCT008 SCT085 OVC110 11/08 A3005 RMK AO2 CWDK 051600Z AUTO 33005KT M13/M16 RMK AO1 SOG 01 3024 SLP239 T11301164 50002 CWEB 051600Z AUTO 08003KT 01/M00 RMK AO1 3001 SLP168 T00071004 50023 CWCT 051600Z AUTO 32020G29KT M17/M20 RMK AO1 PK WND 33029/1552 SLP214 T11661195 53019 KBAC 051615Z AUTO 08008KT 4SM BR BKN003 M05/M05 A2962 RMK AO2 KBAD 051609Z 06006KT 10SM -RA OVC008 08/08 A2993 RMK AO2A RAE1558RAB08 PRESFR EDLV 051620Z 00000KT CAVOK M00/M02 Q1026 PFNO 051558Z AUTO 07019KT 10SM CLR M22/M27 A3068 RMK AO2 SLP391 T12221267 FZRANO $ CWEE 051500Z AUTO M14/M16 RMK AO1 SLP158 T11401156 58016 KBAF 051553Z 00000KT 9SM OVC009 M01/M02 A2996 RMK AO2 SNE37 CIG 006V012 SLP153 P0001 T10111022 EDLW 051620Z 11003KT CAVOK 01/M06 Q1026 KAIO 051555Z AUTO 19012G18KT 10SM CLR 04/02 A2978 RMK AO2 EDMO 051620Z 00000KT CAVOK M02/M03 Q1026 CWEF 051500Z AUTO 35019KT M02/M06 RMK AO1 PK WND 35029/1425 SLP119 T10181055 50002 CWDO 051600Z AUTO 33018G24KT M03/M08 RMK AO1 PK WND 32025/1526 SLP061 T10331075 58015 KAJG 051615Z AUTO 12008KT 10SM OVC011 03/00 A3011 RMK AO2 T00320000 CWEH 051600Z AUTO 31027G34KT M18/M20 RMK AO1 1PAST HR SOG 06 3015 PK WND 31035/1543 SLP154 P0004 T11761195 50011 CWDQ 051600Z AUTO 34003KT M07/M11 RMK AO1 SLP141 T10691108 57033 EEEI 051550Z 30017G28KT 9999 BKN026 03/M01 Q1003 R24/190095 NOSIG KBAK 051545Z 00000KT 10SM OVC015 02/00 A3014 KAIT 051613Z AUTO 08004KT 1 1/4SM BR OVC003 M02/M03 A2973 RMK AO2 KBBB 051614Z AUTO 15011G16KT 7SM CLR 02/M01 A2961 RMK AO2 CWDT 051500Z AUTO 16001KT M13/M14 RMK AO1 SLP186 T11291135 56017 CWEK 051600Z AUTO 04029G34KT 02/M01 RMK AO1 1018 PK WND 05034/1549 SLP190 T00231007 50004 CWEL 051600Z AUTO 12017KT 02/01 RMK AO1 2PAST HR 8009 PK WND 12021/1559 SLP159 P0005 T00180013 50026 NWWW 051600Z AUTO VRB01KT 9999 SCT062 20/17 Q1013 NOSIG CWDV 051600Z AUTO 25006KT M02/M02 RMK AO1 SOG 18 3022 SLP087 T10191021 KBAN 051552Z AUTO 00000KT 10SM M06/M12 A3004 RMK AO2 SLP171 T10561117 $ KAJO 051556Z AUTO 00000KT CLR 05/04 A2999 RMK AO2 SLP171 T00500044 PWINO $ KBBF 051615Z AUTO 36016KT 10SM OVC010 15/13 A2982 RMK A01 ULLI 051600Z 34008G13MPS 310V010 6000 -SHSN DRSN BKN016CB OVC036 M03/M07 Q0994 R28L/520545 R28R/420545 NOSIG CWFF 051600Z AUTO 30010G16KT M08/M10 RMK AO1 SOG 05 3026 SLP119 T10831102 KD25 051615Z AUTO 19004KT 10SM OVC010 00/M01 A2981 RMK AO2 T00001011 KBBG 051618Z 13010KT 3SM BR OVC004 03/03 A2997 KAIZ 051547Z AUTO 15006KT 10SM FEW004 03/03 A2998 RMK AO2 CWEP 051600Z AUTO 31013KT M00/M05 RMK AO1 SOG 00 8003 PK WND 33025/1532 SLP143 T10041050 KAKH 051608Z AUTO 00000KT 9SM SCT006 09/07 A3003 RMK AO2 T00940067 CWDZ 051600Z AUTO 34010KT M15/M20 RMK AO1 PK WND 33020/1528 T11501196 CWEQ 051600Z AUTO 15001KT M08/M09 RMK AO1 SOG 06 3019 SLP091 T10841092 KAJR 051615Z AUTO 17004KT 7SM SCT005 11/11 A3000 RMK AO2 T01140114 CWER 051600Z AUTO 06014KT RMK AO1 PK WND 05017/1553 CWFJ 051600Z AUTO 01004KT M15/M17 RMK AO1 T11471171 50002 KALB 051551Z COR 18010KT 10SM OVC007 01/M01 A2992 RMK AO2 SNE1457 SLP135 P0000 T00111011 KBCB 051615Z AUTO 30010G15KT 10SM SCT028 10/04 A3006 RMK AO2 T00980035 CWGB 051600Z AUTO 11019KT 02/01 RMK AO1 4PAST HR 7003 PK WND 11022/1553 SLP160 P0005 T00180009 50024 CWEU 051600Z 28014G20KT 15SM IC SKC M29/M33 A3033 RMK SLP275 CWGD 051600Z AUTO 27014G21KT 04/01 RMK AO1 SOG 00 1022 PK WND 28022/1542 SLP147 T00390007 50002 KBCE 051553Z AUTO 29017KT 10SM CLR 03/M10 A2989 RMK AO2 SLP113 T00281100 TSNO CWEW 051600Z AUTO 05006KT M04/M05 RMK AO1 SOG 00 8027 SLP134 T10431050 KAKO 051453Z AUTO 23007KT 10SM OVC110 04/M08 A2960 RMK AO2 SLP023 T00391083 53010 KBAX 051615Z AUTO 26008KT 10SM OVC032 02/01 A2996 RMK AO2 T00200005 KBBP 051615Z AUTO 34004KT 10SM CLR 13/10 A3003 RMK AO2 KAJZ 051535Z AUTO 09003KT 10SM CLR M01/M05 A2984 RMK AO2 T10071051 EDOP 051420Z 26004KT 6000 NSC M03/M04 Q1026 KBAZ 051612Z 34009KT 9SM -RA BKN007 BKN019 OVC029 11/09 A2989 RMK AO2 P0001 T01060094 KAKQ 051602Z AUTO 29005KT 10SM OVC008 08/07 A3003 RMK AO2 CIG 006V011 T00830067 EDNY 051620Z VRB02KT 7000 SCT006 OVC008 01/M00 Q1028 CWFQ 051600Z AUTO 15007KT M03/M03 RMK AO1 8PAST HR SOG 12 8024 SLP108 P0003 T10301032 50045 CWEZ 051600Z AUTO 17021KT 04/02 RMK AO1 6016 PK WND 17027/1543 SLP161 T00440023 50020 KALI 051620Z AUTO 35012KT 10SM BKN013 OVC030 14/11 A2989 RMK AO2 T01390106 $ KAKR 051554Z AUTO 26007KT 10SM OVC022 04/M01 A3008 RMK AO2 SLP194 T00391006 KAMA 051553Z 22018KT 10SM CLR 07/M02 A2972 RMK AO2 SLP062 T00721022 KD39 051559Z AUTO 09011KT 10SM CLR 00/M01 A2966 RMK AO2 ULMM 051600Z 14002MPS 110V220 5000 -SHSN BKN014CB M25/M28 Q1008 R31/450342 TEMPO 0500 +SHSN VV003 RMK QFE749 KBCK 051615Z AUTO 17003KT 3SM BR OVC005 01/01 A2987 RMK AO2 T00100010 KALK 051556Z AUTO 23014G25KT 10SM CLR 12/M04 A3003 RMK AO2 WSHFT 1502 SLP122 T01221044 KALM 051455Z AUTO 15004KT 10SM CLR 03/00 A2996 RMK AO2 CWGL 051600Z AUTO 26015KT 03/01 RMK AO1 PK WND 26020/1520 SLP114 T00300008 52021 CWGM 051600Z AUTO 09004KT M15/M17 RMK AO1 T11521172 KBDE 051553Z AUTO 00000KT 10SM OVC013 M01/M04 A2974 RMK AO2 SLP089 T10111039 KBBW 051453Z AUTO 20006KT 10SM SCT110 02/M04 A2959 RMK AO2 SLP038 T00171039 55005 KALN 051545Z 16006KT 10SM OVC012 03/01 A3008 KALO 051607Z AUTO 13011KT 1 3/4SM BR OVC003 00/M01 A2986 RMK AO2 T00001006 KAMG 051625Z AUTO VRB03KT 2 1/2SM BR OVC002 14/14 A2999 RMK AO2 T01440144 KBDG 051615Z AUTO 00000KT 10SM CLR 01/M07 A2998 RMK AO1 T00061069 KBDH 051555Z AUTO 12013KT 10SM CLR 01/00 A2965 RMK AO2 NZAA 051600Z AUTO 05003KT 9999 NCD 16/15 Q1020 NOSIG OOSA 051550Z 19002KT CAVOK 26/21 Q1016 WS R07 NOSIG CWHI 051500Z AUTO 31015KT M17/M21 RMK AO1 PK WND 31027/1433 T11661206 CWGR 051600Z AUTO 32012KT M03/M07 RMK AO1 PK WND 32019/1534 SLP137 T10311070 58006 ZSAM 051600Z 05004MPS 6000 NSC 19/15 Q1022 NOSIG KALS 051552Z AUTO 31003KT 10SM CLR M09/M13 A2984 RMK AO2 SLP171 T10891128 KBEA 051615Z AUTO 33010G15KT 10SM OVC009 08/08 A2990 RMK AO2 T00800080 KBCT 051555Z 18010G20KT 10SM SCT019 BKN035 27/22 A3004 KANB 051608Z AUTO 07006KT 10SM BKN010 OVC018 11/09 A2998 RMK AO2 CIG 008V013 T01110089 KD50 051615Z AUTO 33011KT 3/4SM -SN BKN001 OVC010 M06/M06 A2961 RMK AO2 P0036 DNIB 050800Z 24003KT 7000 SCT011 26/24 Q1014 CWGT 051600Z AUTO 12016KT 02/01 RMK AO1 PK WND 12021/1509 SLP160 T00220008 55003 KBDL 051551Z VRB03KT 7SM BKN007 OVC014 M01/M02 A2997 RMK AO2 SLP152 SNE29 P0001 T10061022 CWHL 051600Z AUTO 03009KT 01/M01 RMK AO1 SLP186 T00141008 53017 KAND 051556Z AUTO 00000KT 10SM CLR 10/07 A3003 RMK AO2 SLP170 T01000067 KBED 051619Z 00000KT 3/4SM R11/3000V4500FT -SN BR OVC005 M01/M02 A2996 RMK AO2 P0002 T10061022 EDQM 051620Z 21009KT 5000 BR SCT004 M06/M07 Q1025 CWID 051600Z AUTO 00032KT M17/M19 RMK AO1 SLP322 T11701194 52015 KALW 051553Z 19007KT 10SM BKN044 OVC050 M01/M06 A3012 RMK AO2 SLP213 T10111061 KANE 051559Z 10006KT 10SM BKN100 01/01 A2975 KBDN 051615Z AUTO 00000KT 10SM CLR M03/M07 A3006 RMK AO2 KAMN 051615Z AUTO 23009KT 10SM OVC025 03/00 A2999 RMK AO2 T00250002 CWGW 051600Z AUTO 12016G21KT M11/M14 RMK AO1 SOG 15 3019 PK WND 11021/1559 SLP194 T11061138 CWHN 051622Z AUTO 31008G20KT 9SM -SN BKN025 M17/M20 A2995 KALX 051615Z AUTO 00000KT 3SM RA OVC003 11/11 A2998 RMK AO2 P0002 T01120107 CWHO 051600Z AUTO 00002KT M08/M13 RMK AO1 SLP116 T10811126 58010 CWGX 051600Z AUTO 08002KT M09/M10 RMK AO1 SOG 05 3012 SLP095 T10871097 50002 KD55 051615Z AUTO 11021KT M1/4SM FZFG OVC001 M04/M04 A2963 RMK AO2 PFSH 051558Z AUTO 03014KT 10SM CLR M20/M23 A3048 RMK AO2 SLP336 T12001228 FZRANO CWHP 051600Z AUTO 33009KT M05/M10 RMK AO1 SLP134 T10531095 58009 CWIG 051600Z AUTO 04010KT RMK AO1 CWGY 051600Z AUTO 29015G20KT M16/M19 RMK AO1 PK WND 29022/1532 SLP204 T11591191 52023 KBEH 051611Z AUTO 19008KT 5SM BR BKN012 OVC018 02/M01 A3005 RMK AO2 T00171006 ULPB 051600Z AUTO 02007MPS 4800 -SN NCD M08/M09 Q0990 RMK QFE739/0985 CWHQ 051600Z AUTO 10007KT M06/M08 RMK AO1 PK WND 06017/1510 T10621082 KD57 051615Z AUTO 29021G29KT 8SM OVC015 M01/M04 A2958 RMK AO2 KBDR 051621Z 25007KT 9SM BKN027 OVC065 08/04 A2996 RMK AO2 T00780044 CWII 051600Z AUTO 04004KT M00/M02 RMK AO1 T10041022 KANJ 051555Z AUTO 25006KT 10SM BKN065 OVC080 02/00 A2981 RMK AO2 SNB05E29 SLP102 P0000 T00170000 CWIJ 051600Z AUTO 01016KT M21/M23 RMK AO1 SOG 35 PK WND 00026/1515 SLP300 T12061231 KANK 051615Z AUTO 24014G23KT 10SM SCT048 BKN060 OVC070 05/M10 A2985 RMK AO1 T00511101 OPKC 051625Z VRB02KT 5000 HZ NSC 22/16 Q1017 NOSIG KD60 051615Z AUTO 30014G20KT 10SM BKN012 OVC023 M07/M07 A2958 RMK AO2 CWHT 051600Z AUTO 04001KT M32/M35 RMK AO1 SOG 29 2001 SLP395 T13181353 CWJB 051600Z AUTO 05011KT M06/M07 RMK AO1 SOG 16 T10601068 CWIK 051600Z AUTO 36007KT M09/M10 RMK AO1 SOG 07 3012 SLP077 T10861097 50005 EDSB 051620Z 05004KT 020V080 0700 R21/1000V1600N FZFG OVC002 M01/M01 Q1028 KBDU 051615Z AUTO 23010KT 10SM SCT070 OVC110 10/M06 A2963 RMK AO2 UKWW 051600Z 24005MPS CAVOK M05/M07 Q1025 R31/991034 NOSIG ULOO 051600Z 30008MPS P5000 BKN020CB OVC030 03/M01 Q0998 R19/290055 NOSIG RMK QFE745 CWIL 051600Z AUTO 02026KT M13/ A3022 RMK SLP245 KBFD 051553Z AUTO 27008KT 7SM UP BKN013 BKN019 OVC025 01/M01 A2997 RMK AO2 UPB50 SLP165 P0000 T00061006 CWHV 051600Z AUTO 14003KT M08/M10 RMK AO1 PRESFR SLP134 T10831095 58035 CWJD 051600Z AUTO 22003KT M03/M05 RMK AO1 SOG 06 1016 SLP085 T10251046 UMGG 051600Z 23009G14MPS 9000 DRSN OVC012 M02/M02 Q1014 R28/420545 NOSIG KAMW 051553Z AUTO 16008KT 7SM CLR 01/01 A2983 RMK AO2 SLP108 T00110011 NZAP 051600Z 03004KT 35KM SCT022 14/13 Q1021 RMK ALT VATSIM USE ONLY KBFF 051553Z AUTO 26010KT 10SM CLR 08/M05 A2955 RMK AO2 SLP008 T00831050 CXAF 051600Z AUTO 33012KT M19/M22 RMK AO1 PK WND 35023/1511 T11861223 TUPJ 051600Z 00000KT 9999 SCT016 BKN060 25/24 Q1016 RMK A3003 CXAG 051500Z AUTO 32015KT M17/M20 RMK AO1 PK WND 31025/1409 T11721204 CWIP 051600Z AUTO 27004KT M05/ RMK AO1 T1046 KAOH 051608Z AUTO 25007KT 10SM OVC014 01/M01 A3010 RMK AO2 T00111006 KANQ 051615Z AUTO 21005KT 10SM OVC014 01/M01 A3007 RMK CWJH 051600Z AUTO 00000KT M05/M05 RMK AO1 2PAST HR SOG 05 3017 SLP082 P0001 T10451048 50002 KBFI 051607Z 18006KT 1 1/2SM -SN BR BKN004 OVC022 01/01 A3010 RMK AO2 RAE02SNB02 P0003 T00110011 OPLA 051625Z 00000KT 4000 FU NSC 18/10 Q1018 A30.05 CWJI 051600Z AUTO 32020G27KT M11/M14 RMK AO1 SOG 10 3035 PK WND 31030/1507 SLP123 T11141136 50002 KAPA 051453Z 34008KT 10SM SCT100 BKN220 06/M07 A2961 RMK AO2 SLP032 T00561072 53009 PHBK 051556Z AUTO 00000KT 10SM CLR 21/19 A2988 RMK AO2 SLP119 T02110189 $ CXBA 051500Z AUTO 32017KT M16/M18 RMK AO1 PK WND 31023/1424 T11561184 CXAJ 051500Z AUTO 31014KT M18/M22 RMK AO1 SOG 03 PK WND 30019/1459 T11841222 CWIS 051600Z AUTO 01002KT M09/M10 RMK AO1 SOG 66 8021 SLP145 T10941104 EEKA 051550Z 32024G34KT 9999 SCT027 04/M00 Q1005 CXAK 051500Z AUTO 31019KT M17/M20 RMK AO1 PK WND 33027/1418 T11711201 KAPC 051554Z AUTO 00000KT M1/4SM FG VV002 07/06 A3011 RMK AO2 SLP188 T00720056 KBFL 051554Z 00000KT 6SM HZ CLR 07/01 A3009 RMK AO2 SLP188 T00720011 KBFM 051553Z 02005KT 3/4SM BR OVC003 17/16 A2991 RMK AO2 SLP129 T01670161 KBGD 051551Z AUTO 21014G20KT 10SM CLR 09/M04 A2969 RMK AO2 SLP048 T00941039 CWKD 051500Z AUTO 00000KT M14/M16 RMK AO1 SLP177 T11431156 58012 KBGE 051615Z AUTO 08005KT 2 1/2SM BR OVC002 15/15 A2996 RMK AO2 KANW 051615Z AUTO 26013G19KT 10SM CLR 11/M03 A2949 RMK AO2 T01071031 CWIW 051600Z AUTO 33015G20KT M09/M11 RMK AO1 SOG 04 3022 PK WND 32021/1502 SLP125 T10871113 EEKE 051550Z 33009KT 300V020 9999 FEW041 04/00 Q1007 R17/290095 KAPF 051553Z 16013G23KT 10SM SCT024 28/22 A3001 RMK AO2 SLP159 T02830217 KAOO 051553Z AUTO 29011G19KT 10SM BKN026 06/00 A3000 RMK AO2 SLP171 T00560000 KBGF 051615Z AUTO 01004KT 10SM OVC013 08/08 A3003 RMK CWIX 051500Z AUTO 08003KT M09/M11 RMK AO1 SLP168 T10881107 56020 CWJO 051600Z AUTO 07003KT M09/M11 RMK AO1 SLP170 T10871106 58023 NZCH 051600Z AUTO 08004KT 050V110 9999 NCD 12/12 Q1011 NOSIG KAPG 051558Z 29006KT 10SM FEW010 09/06 A3003 RMK AO2A SLP173 T00900059 NZCI 051600Z 25001KT 10KM SHRA SCT090 14/13 Q1020 RMK ALT NZNR VATSIM USE ONLY CWIY 051600Z AUTO 20002KT M10/M10 RMK AO1 SLP171 T10961103 58022 CWKG 051600Z AUTO 02002KT M01/M05 RMK AO1 8019 SLP164 T10081046 50016 CWIZ 051600Z AUTO 10006KT M02/M03 RMK AO1 7PAST HR SOG 06 M P0003 T10211029 50042 CWKH 051600Z AUTO M01/M01 RMK AO1 SLP145 T10061012 56010 CWJR 051600Z AUTO 08003KT M03/M10 RMK AO1 SOG 00 3019 SLP202 T10341101 50002 CXBI 051600Z AUTO 26010KT 01/00 RMK AO1 SOG 13 3022 SLP125 T00120000 50006 CXCA 051600Z AUTO 00000KT M00/M02 RMK AO1 SOG 03 1022 SLP081 T10041023 KBHB 051556Z AUTO 34003KT 10SM OVC110 M04/M06 A3008 RMK AO2 SLP189 T10391056 FZRANO NZCM 051455Z 31010G14KT 9999 SCT055 BKN070 BKN090 M04/M16 A2901 RMK VIRGA NW SLP826 SN DSNT SE-SW CWKK 051500Z AUTO 25006KT 01/M00 RMK AO1 1PAST HR SOG 09 3019 SLP062 P0000 T00061001 50014 CXAT 051500Z AUTO 12002KT M16/M18 RMK AO1 SOG 00 SLP181 T11591175 CXBK 051600Z AUTO 33022G27KT M08/M09 RMK AO1 SOG 05 3031 PK WND 33031/1543 SLP088 T10781091 CWJT 051600Z AUTO 05001KT M05/M06 RMK AO1 6016 SLP125 T10451055 50020 CWLB 051600Z AUTO 32008KT M18/M21 RMK AO1 2PAST HR SOG 07 3021 SLP239 P0001 T11751209 50002 KBHC 051615Z AUTO 02006KT 1SM BR OVC003 13/13 A3000 RMK AO2 PNO EDTL 051620Z 05001KT 0100 R21/0500N FZFG VV/// M02/M02 Q1028 CWLC 051600Z AUTO 02008KT 02/M01 RMK AO1 T00231007 CWJU 051600Z AUTO 07006KT 01/M00 RMK AO1 2023 SLP204 T00131003 50001 KBGM 051618Z 28009KT 5SM -RA BR OVC009 01/01 A2989 RMK AO2 CIG 006V013 P0001 T00110006 CXCD 051500Z AUTO 31009KT M20/M25 RMK AO1 PK WND 31018/1402 T12011249 CWJV 051600Z AUTO 10006KT M07/M10 RMK AO1 SLP211 T10731096 53008 CWKM 051600Z AUTO 09018KT A3089 KAPN 051554Z AUTO 24008KT 10SM OVC060 03/00 A2988 RMK AO2 SLP128 T00280000 KBFW 051614Z AUTO 00000KT 10SM OVC016 01/M02 A2977 RMK AO2 CWLE 051600Z AUTO 31021G26KT M12/M15 RMK AO1 SOG 00 2021 PK WND 31026/1550 SLP148 T11241150 CWJW 051600Z AUTO 01006KT M14/M18 RMK AO1 SOG 12 3014 SLP238 T11351182 VCRI 051510Z 30003KT 250V320 8000 FEW017 SCT080 26/22 Q1012 NOSIG CXBO 051600Z AUTO 06011KT RMK AO1 CWJX 051600Z AUTO 30015G20KT M15/M20 RMK AO1 PK WND 30022/1538 SLP199 T11521195 51025 CWKO 051600Z AUTO 32021G30KT M13/M14 RMK AO1 2PAST HR SOG 09 3035 PK WND 32031/1539 SLP114 P0001 T11291143 50012 UMII 051600Z 26007G13MPS 3400 -SNRA OVC006 01/00 Q1002 TEMPO 2100 BKN005 RMK QBB180 UNAA 051600Z 23011G16MPS CAVOK M00/M11 Q1015 R20/090065 NOSIG RMK QFE738 CWKP 051600Z AUTO 24012KT M27/ A3072 RMK SLP464 CXCH 051600Z AUTO M02/M08 RMK AO1 SOG 01 T10201075 KBGR 051553Z 00000KT 10SM BKN110 OVC150 M04/M07 A3007 RMK AO2 SLP186 T10441067 CXBR 051600Z AUTO 18004KT M15/M17 RMK AO1 T11461166 CWLI 051600Z AUTO ///// M1/4SM //// OVC015 M26/M28 A3094 KARA 051617Z 02006KT 1 1/4SM +RA BR SCT005 BKN035 OVC050 12/11 A2984 RMK AO2 LTG DSNT E AND S P0009 T01220111 KARB 051553Z 21006KT 10SM OVC023 03/00 A3004 RMK AO2 SLP181 T00280000 KBHK 051551Z AUTO 31024G35KT 10SM OVC017 M06/M09 A2965 RMK AO2 PK WND 31039/1530 SLP071 T10561089 CXDB 051600Z AUTO 33012KT M17/M19 RMK AO1 PK WND 34018/1536 T11691189 CXCK 051600Z AUTO 36001KT M18/M21 RMK AO1 SOG 22 1001 SLP390 T11831214 NZDN 051600Z 29003KT 90KM BKN100 16/04 Q1009 RMK ALT VATSIM USE ONLY KBHM 051618Z 31004KT 1 3/4SM +RA BR OVC007 10/09 A3004 RMK AO2 RAB1554 PRESRR P0002 T01000094 KBID 051606Z AUTO 22008KT 10SM -RA BKN010 BKN017 OVC030 08/07 A2997 RMK AO2 CIG 008V013 P0000 CWLM 051600Z AUTO 26009KT 02/02 RMK AO1 5006 SLP165 T00240017 50014 KBIE 051615Z AUTO 18015G19KT 10SM CLR 07/01 A2972 RMK AO2 T00710013 EDVE 051620Z VRB01KT CAVOK 01/M05 Q1026 CXBW 051500Z AUTO 33008KT M14/M18 RMK AO1 T11441180 CWME 051600Z AUTO 04020KT 02/M01 RMK AO1 8PAST HR M PK WND 04023/1552 P0003 T00201012 50026 CXDE 051600Z AUTO 32013G19KT M29/M33 RMK AO1 SOG 13 3009 PK WND 31021/1532 SLP455 T12911327 CWKW 051600Z AUTO ///// M11/ A2968 RMK SLP099 KBIF 051558Z AUTO VRB03KT 10SM CLR 05/01 A2994 RMK AO2 SLP123 T00450008 $ KAQO 051615Z AUTO 00000KT 3SM BR BKN005 BKN013 OVC045 09/09 A2995 RMK AO2 CWKX 051600Z AUTO 04002KT M23/M26 RMK AO1 SOG 07 1015 SLP355 T12311262 KARG 051615Z AUTO 08005KT 10SM SCT015 05/02 A3004 RMK AO1 KD95 051614Z AUTO 26008KT 10SM OVC028 03/00 A3000 RMK AO2 T00340003 KAQP 051624Z AUTO 13010KT 10SM CLR 02/M01 A2960 RMK AO2 OPNH 051600Z 13502KT 4000M FU NSC 24/09.Q1016 NOSIG KAPY 051615Z AUTO 32009KT 10SM OVC010 12/10 A2994 RMK AO2 T01210098 EDTY 051620Z 09005KT 0550 0150E R28/0800N FZFG OVC001 M01/M01 Q1027 CXCP 051600Z AUTO 34015KT M15/M19 RMK AO1 PK WND 34023/1501 T11451191 CWLP 051600Z AUTO 03003KT 02/ RMK AO1 6PAST HR 3002 SLP162 P0002 T0018 50034 KBIH 051556Z AUTO 32004KT 10SM CLR 05/M09 A2996 RMK AO2 SLP136 T00501089 TSNO $ UNBB 051600Z 24009MPS 9999 DRSN BKN020 M09/M12 Q1021 R24/390137 NOSIG RMK QFE744 KAQR 051615Z AUTO 15003KT 10SM CLR 06/06 A2994 RMK AO2 CXDI 051600Z AUTO 27006KT 03/01 RMK AO1 SLP157 T00340005 51021 OPMT 051555Z 00000KT 3000 FU NSC 19/13 Q1016 TEMPO 2500 KBIJ 051615Z AUTO 07004KT 2 1/2SM BR OVC004 15/13 A2997 RMK AO2 CXCS 051500Z AUTO 32021KT M16/M19 RMK AO1 4PAST HR M PK WND 31030/1409 P0002 T11641193 50004 CXEA 051600Z AUTO 25003KT M01/M02 RMK AO1 SOG 07 3019 SLP073 T10121015 50007 CWMJ 051600Z AUTO 11002KT M04/M05 RMK AO1 SOG 05 8007 SLP114 T10381047 50030 CWLS 051600Z AUTO 26008G16KT 01/M00 RMK AO1 SOG 07 1025 PK WND 29017/1506 SLP140 T00111002 50008 CWNB 050200Z AUTO RMK AO1 EDVK 051620Z 11002KT CAVOK M02/M03 Q1026 CXDK 051600Z AUTO 36001KT M22/M24 RMK AO1 SLP418 T12201244 52014 KBIL 051553Z 34004KT 10SM SCT075 OVC090 M06/M13 A2985 RMK AO2 SLP142 T10611133 KBJC 051547Z 26014G19KT 50SM SCT080 BKN120 11/M06 A2963 KE11 051615Z AUTO 23006KT 10SM CLR 07/04 A2987 RMK AO2 T00690039 CWNC 051600Z AUTO 27011G16KT 04/M00 RMK AO1 2PAST HR 2031 PK WND 28018/1515 SLP121 P0001 T00371002 50002 CXEC 051600Z AUTO 32013G20KT M17/M20 RMK AO1 PK WND 31021/1539 SLP259 T11661204 53019 KASD 051553Z AUTO 04007KT 1SM BR OVC002 15/15 A2985 RMK AO2 LTG DSNT S SLP107 T01500150 KCAD 051615Z AUTO 27008KT 10SM BKN016 02/00 A2991 RMK AO2 T00241005 KAQV 051619Z AUTO 36007KT 5SM -RA BR OVC004 09/08 A2984 RMK AO2 PRESFR P0006 T00890083 KARM 051615Z AUTO 35004KT 5SM -RA OVC004 11/10 A2984 RMK AO2 T01050100 CWND 051600Z AUTO 15008KT M22/M24 RMK AO1 SLP464 T12171242 51003 DNMM 051600Z 18004KT 7000 SCT014 31/24 Q1011 NOSIG CWMM 051600Z AUTO 03006KT 01/M00 RMK AO1 0PAST HR 8008 SLP179 P0004 T00071001 50028 KASE 051453Z 31003KT 10SM BKN070 OVC090 M01/M09 A2974 RMK AO2 SLP050 T10061089 53002 KCAE 051556Z 00000KT 10SM SCT010 BKN150 BKN220 12/08 A3003 RMK AO2 SLP169 T01220083 KAQW 051501Z AUTO 08005KT 3SM -SN BR BKN019 OVC023 00/M02 A2993 RMK AO2 P0000 T00001022 CWNE 051600Z AUTO 01009KT M01/M06 RMK AO1 SLP149 T10121057 58014 KAQX 051615Z AUTO 33004G10KT 10SM OVC005 11/11 A3001 RMK AO2 KASG 051548Z 10006KT 6SM BR SKC 02/02 A2995 VEBI 050600Z 14006KT 6000 FEW020 23/11 Q1019 CWLX 051600Z AUTO 33002KT M24/ A2990 RMK SLP151 KCAG 051453Z AUTO 28012KT 10SM OVC055 M01/M09 A2974 RMK AO2 PRESRR SLP096 T10111094 53013 CXEG 051600Z AUTO M17/M20 RMK AO1 SOG 05 T11721200 50003 CXDP 051600Z AUTO 29012KT M18/M21 RMK AO1 PK WND 30018/1500 T11791212 CWLY 051600Z AUTO 01006KT 350V050 9SM FEW044 BKN180 M05/M08 A3015 RMK SLP222 KASH 051607Z 00000KT 1SM -SN BR BKN008 OVC012 M01/M02 A2998 RMK AO2 CIG 007V010 P0000 UMKK 051600Z 26006MPS 230V300 9999 OVC015 06/04 Q1015 R24/29//60 NOSIG RMK QFE760/1014 CWMQ 051600Z AUTO 30011G17KT M15/M19 RMK AO1 SOG 03 1026 PK WND 29019/1542 SLP209 T11451190 50002 CWNH 051600Z AUTO 13002KT M08/M10 RMK AO1 SOG 14 8017 SLP172 T10761097 ZSHC 051600Z 34008MPS 3500 BR SCT020 BKN033 12/08 Q1030 NOSIG VEAT 051430Z 00000KT 4000 BR NSC 19/18 Q1014 NOSIG KARR 051552Z 17008KT 3/4SM BR OVC002 00/M01 A3004 RMK AO2 SLP180 T00001006 KBJI 051613Z AUTO 10008KT 10SM OVC005 M02/M03 A2972 RMK AO2 T10251034 PFWS 051556Z AUTO 04013KT 5SM -SN BR OVC004 M19/M21 A3025 RMK AO2 SNB27 SLP250 P0000 T11891206 FZRANO KBIS 051622Z 30005KT 3/4SM -SN BR OVC006 M01/M02 A2959 RMK AO2 SNB1555 P0001 T10111022 RVRNO KASJ 051605Z AUTO 00000KT 10SM OVC009 09/07 A3002 RMK AO2 T00860073 KBJJ 051556Z AUTO 26007KT 10SM BKN018 OVC023 02/M01 A3010 RMK AO2 SLP202 T00221011 VECC 051600Z 03005KT 2200 BR NSC 21/18 Q1015 NOSIG KCAK 051551Z 27007KT 8SM OVC023 03/M01 A3009 RMK AO2 SLP198 T00281011 KBKB 051554Z AUTO 05004KT 10SM -RA OVC005 10/09 A2983 RMK AO2 SLP130 P0002 T01000094 KART 051556Z AUTO 27012KT 10SM -RA BKN018 BKN036 OVC048 03/02 A2984 RMK AO2 RAE28B54 SLP110 P0001 T00330017 VEBN 051530Z 00000KT 0500 R27/0900 FG NSC 16/15 Q1018 CWNK 051600Z AUTO 11010KT M02/M04 RMK AO1 T10151039 CWMT 051600Z AUTO 01012G20KT M16/M18 RMK AO1 PK WND 01020/1559 SLP324 T11621180 53023 KASL 051615Z AUTO 07004KT 7SM BKN007 OVC023 07/06 A2991 RMK AO1 T00720060 CWNL 051500Z AUTO 27016G21KT 04/02 RMK AO1 PK WND 27023/1409 SLP106 T00400024 53020 CWOC 051600Z AUTO 31004KT M03/M08 RMK AO1 SLP159 T10331083 58020 KBIV 051553Z AUTO 25010KT 10SM BKN022 04/M01 A3002 RMK AO2 SLP173 T00391006 KARV 051615Z AUTO 20005KT 10SM SCT009 01/M01 A2981 RMK AO2 T00111010 KBKD 051615Z AUTO 17004KT 10SM BKN012 OVC080 08/06 A2991 RMK AO2 T00840059 CWOD 051600Z AUTO 36003KT M13/M14 RMK AO1 5PAST HR SOG 27 8026 SLP150 P0002 T11251136 50005 CWNM 051600Z AUTO 23005KT M05/M07 RMK AO1 SOG 00 3014 SLP207 T10461072 ZSFZ 051600Z 02003MPS 9000 NSC 18/13 Q1024 NOSIG KBKE 051553Z AUTO 24005KT 10SM CLR M15/M16 A3008 RMK AO2 SLP236 T11501161 KARW 051615Z AUTO 02003KT 4SM BR OVC004 13/12 A3001 RMK AO2 KASN 051615Z AUTO 06005KT 10SM BKN006 OVC014 11/10 A2998 RMK AO2 T01060095 CWOE 051600Z AUTO 31021KT M16/M18 RMK AO1 SOG 00 3026 PK WND 32028/1500 SLP194 T11631184 CXDW 051600Z AUTO 11008KT M03/M03 RMK AO1 SOG 10 0001 SLP066 T10311031 KCAO 051555Z AUTO 26013KT 10SM CLR 12/M04 A2963 RMK AO2 SLP017 T01171044 KCBF 051615Z AUTO 19019G24KT 10SM CLR 06/M00 A2972 RMK AO2 KBKF 051558Z 01008KT 10SM SCT110 SCT220 09/M06 A2962 RMK AO2A SLP008 T00851062 KBIX 051558Z 04007KT 2SM BR OVC003 16/16 A2987 RMK SLP117 KCBG 051555Z AUTO 10003KT 7SM SCT100 01/M01 A2975 RMK AO2 CWNP 051600Z AUTO 09003KT M05/M07 RMK AO1 SLP202 T10461070 53012 VEBS 051600Z 00000KT 3000 HZ NSC 19/16 Q1016 NOSIG CWMZ 051500Z AUTO 28028G33KT 04/01 RMK AO1 PK WND 28033/1453 SLP100 T00440006 53014 CWNQ 051600Z AUTO 05006KT M05/M06 RMK AO1 SLP128 T10531055 56033 KCAR 051554Z AUTO 00000KT 4SM BR OVC005 M11/M12 A3001 RMK AO2 SLP178 I1002 T11061117 KCCA 051615Z AUTO 09004KT 10SM BKN014 BKN019 OVC120 06/04 A3003 RMK AO2 KAST 051555Z AUTO 18005KT 10SM FEW045 SCT065 SCT120 04/01 A3008 RMK AO2 PK WND 28026/1459 WSHFT 1455 RAB1457E23 SLP186 P0002 T00440006 KCBK 051615Z AUTO 32010KT 10SM CLR 08/M03 A2957 RMK AO2 CXET 051600Z AUTO 26005KT 02/M00 RMK AO1 8PAST HR SOG 15 2025 SLP126 P0003 T00181003 50018 KBKL 051553Z 23013KT 10SM BKN021 OVC028 04/00 A3008 RMK AO2 SLP190 T00390000 KATL 051617Z 12003KT 2SM BR SCT005 BKN060 OVC100 10/08 A3000 RMK AO2 SFC VIS 6 T01000083 EFET 051620Z AUTO 01004KT CAVOK M16/M18 Q1010 CWPC 051600Z AUTO 28027G33KT 04/M02 RMK AO1 PK WND 27033/1530 SLP157 T00421017 51022 VECO 050600Z 00000KT 4000 HZ NSC 27/18 Q1016 KCAV 051615Z AUTO 17017KT 10SM SCT110 02/01 A2978 RMK AO2 PWINO KCBM 051608Z AUTO 32004KT 3SM RA BR BKN004 OVC009 10/09 A3000 RMK AO2 VIS 2 RWY31C BKN V OVC $ VEDG 051100Z 33005KT 2000 FU NSC 24/15 Q1014 NOSIG CXFM 051600Z AUTO 29009KT M18/M21 RMK AO1 T11811207 CWPD 051600Z AUTO 00000KT M08/M08 RMK AO1 SLP150 T10831084 58023 KASW 051615Z AUTO 21003KT 10SM OVC011 00/M02 A3008 RMK AO2 CWPE 051600Z AUTO 06003KT M02/M06 RMK AO1 SOG 00 8029 SLP167 T10231059 KASX 051553Z AUTO 23004KT 10SM SCT015 01/M02 A2983 RMK AO2 SLP112 T00111022 KBLF 051552Z AUTO 35004KT 10SM OVC018 06/02 A3007 RMK AO2 SLP185 T00560017 KAUG 051625Z AUTO 00000KT 1SM -SN OVC022 M04/M07 A3001 RMK AO2 SNB13 P0000 T10391067 CWPF 051615Z AUTO 22009KT 03/01 RMK AO1 T00330012 KATP 051615Z AUTO 18016G35KT M1/4SM FG OVC006 25/24 A2982 RMK A01 KBLH 051452Z AUTO 24005KT 10SM CLR 04/M07 A2990 RMK AO2 SLP124 T00391067 53007 KAUH 051615Z AUTO 18010G18KT 10SM CLR 03/M01 A2964 RMK AO2 T00301009 PHHI 051503Z AUTO 00000KT 5SM BR CLR 19/19 A2990 RMK AO2 $ NZGS 051600Z 35002KT 15KM VCSH SCT090 15/14 Q1020 RMK ALT VATSIM USE ONLY CXGH 051600Z AUTO 02005KT M01/M03 RMK AO1 T10131030 CWNZ 051600Z AUTO 17003KT M04/M05 RMK AO1 SOG 19 1004 SLP079 T10411048 50002 KBLI 051553Z 12011KT 10SM -RA FEW018 BKN023 OVC044 02/01 A3004 RMK AO2 SLP182 P0000 T00220011 OPPS 051630Z 23004KT 2100 HZ FEW200 15/05 Q1018 NZHK 051600Z 10002KT 15KM VCSH SCT015 13/12 Q1019 RMK ALT VATSIM USE ONLY ULWC 051600Z 27008G13MPS 7000 -SHSN BKN013CB M00/M03 Q0979 R21/590735 TEMPO 0700 +SHSN BKN002 BKN010CB RMK QFE724/0966 CXFR 051600Z AUTO 27008KT M22/M24 RMK AO1 T12161244 KATS 051555Z AUTO 30003KT 10SM CLR 03/03 A2984 RMK AO2 KCDA 051615Z AUTO 00000KT 1SM -SN OVC009 M05/M05 A2989 RMK AO2 T10471052 KE38 051615Z AUTO 24013G21KT 10SM SCT120 06/05 A2997 RMK AO2 T00560054 KBKS 051615Z AUTO 32006G09KT 10SM OVC016 13/10 A2991 RMK AO1 T01320096 PFYU 051549Z 04005KT 10SM SKC M35/ A3082 CXHA 051600Z AUTO 25007KT 04/M00 RMK AO1 SOG 00 0013 SLP180 T00411002 UMMM 051430Z 26008G11MPS 4000 -SHSN BLSN OVC007CB 01/M00 Q1011 NOSIG RMK QFE739 EFHA 051620Z AUTO 32011KT 9999 FEW024 M05/M10 Q1003 KATT 051606Z AUTO 00000KT 1 1/2SM -RA BR FEW005 BKN009 OVC014 10/09 A2992 RMK AO2 CIG 007V010 P0001 T01000089 KBKT 051615Z AUTO 00000KT 10SM OVC006 08/06 A3003 RMK AO1 T00780059 UNEE 051600Z 22008MPS 2700 -SHSN DRSN BKN015CB M12/M14 Q1015 R23/453030 NOSIG RMK QFE738 CWPK 051600Z AUTO 11003KT M08/M10 RMK AO1 SOG 20 6019 SLP128 T10751097 KCDC 051553Z AUTO 13005KT 10SM CLR 04/M08 A2992 RMK AO2 SLP120 T00441078 KAVC 051616Z AUTO 32003KT 10SM BKN007 08/07 A3008 RMK AO2 T00790066 KBMC 051615Z AUTO 35011KT 10SM M03/M13 A3005 RMK AO1 T10261130 NZHN 051600Z 00000KT 25KM SKC 14/14 Q1021 RMK ALT NZTG VATSIM USE ONLY KAUM 051616Z AUTO 15007KT 2 1/2SM BR OVC002 00/M01 A2978 RMK AO2 KBKV 051555Z 18014KT 10SM SCT018 26/21 3002 KCDD 051547Z AUTO 00000KT 10SM OVC014 M02/M03 A2980 RMK AO2 KBLM 051556Z AUTO 27009KT 10SM OVC008 07/05 A3000 RMK AO2 CIG 007V013 SLPNO T00670050 $ CXHD 051500Z AUTO 32021KT M17/M20 RMK AO1 PK WND 32028/1414 T11711195 KBKW 051551Z AUTO 29007KT 10SM OVC022 06/01 A3007 RMK AO2 SLP198 T00560006 KATW 051545Z 22008KT 10SM OVC009 01/00 A2991 KAUN 051615Z AUTO 00000KT 10SM CLR 06/02 A3009 RMK AO1 EDXW 051520Z 29010KT 9999 BKN026 06/02 Q1025 KAUO 051456Z AUTO 04006KT 7SM OVC003 09/09 A3000 RMK AO2 SLP188 60000 T00940094 53004 KCCO 051615Z AUTO 06003KT 7SM OVC003 09/09 A3000 RMK AO2 T00920092 KBKX 051601Z AUTO 16009KT 10SM SCT100 01/M01 A2953 RMK AO2 SLP029 T00111011 FZRANO DNPO 051600Z VRB02KT 8000 SCT011 31/25 Q1009 NOSIG CWPO 051600Z AUTO 09005KT M04/M05 RMK AO1 SOG 07 8008 SLP058 T10431049 KATY 051553Z AUTO 14008KT 10SM BKN110 01/M02 A2953 RMK AO2 SLP019 T00061022 KBMG 051453Z 12004KT 10SM OVC012 02/M02 A3010 RMK AO2 SLP198 T00171017 53010 EFHF 051620Z 32011G24KT 9999 BKN030 01/M03 Q1001 CWOY 051600Z AUTO 33006KT M08/M09 RMK AO1 SOG 03 3022 SLP107 T10821093 UMMS 051600Z 25006G10MPS 220V280 9999 OVC009 01/00 Q1010 R31/610355 NOSIG KCDH 051615Z AUTO 04003KT 10SM -RA OVC006 07/05 A2997 RMK AO2 NZHS 051600Z 25001KT 10KM SHRA SCT090 14/13 Q1020 RMK ALT NZNR VATSIM USE ONLY CWQH 051600Z AUTO 11004KT M03/M04 RMK AO1 SOG 02 T10251039 50010 KCCR 051553Z 12003KT 6SM BR OVC007 09/07 A3012 RMK AO2 SLP185 T00890067 KCDI 051604Z AUTO 00000KT 10SM OVC024 04/M01 A3012 RMK AO2 T00351015 KBMI 051556Z 19010KT 1SM R20/6000VP6000FT BR OVC001 01/00 A3005 RMK AO2 SLP205 T00060000 NZHT 051600Z 12002KT 10KM SKC 10/10 Q1017 RMK ALT VATSIM USE ONLY CWPR 051600Z AUTO 00000KT M12/M13 RMK AO1 SLP212 T11191130 53004 KBNA 051553Z 07007KT 10SM OVC008 07/04 A3007 RMK AO2 SLP184 T00670044 KAUS 051601Z 31004KT 1 1/2SM R17L/4500VP6000FT -RA BR SCT007 OVC015 10/09 A2991 RMK AO2 SFC VIS 2 1/2 P0000 T01000094 KCDJ 051552Z AUTO 14006KT 01/01 A2993 RMK AO1 SLP150 P0001 T00110011 ZSJN 042112Z 08002MPS 040V110 0900 R01/0550N FG NSC 04/04 Q1018 NOSIG CWPS 051500Z AUTO 23018G25KT 04/M00 RMK AO1 PK WND 23029/1408 SLP157 T00411003 51028 CWRA 051600Z AUTO 34016KT RMK AO1 PK WND 32020/1543 58012 KAVK 051615Z AUTO 18016KT 10SM CLR 06/03 A2979 RMK AO2 CXIB 051600Z AUTO 31002KT M02/M07 RMK AO1 SOG 02 8005 SLP134 T10191072 50002 CWQK 051600Z AUTO 29011KT 04/02 RMK AO1 SLP168 T00370023 55003 KBML 051619Z AUTO 34003KT 3/4SM -SN VV017 M06/M08 A2990 RMK AO2 P0000 T10561083 KBLU 051552Z AUTO 00000KT 10SM CLR 03/M04 A3007 RMK AO2 SLP169 T00331044 TSNO KAVL 051617Z 35009KT 10SM BKN017 12/07 A3003 RMK AO2 T01220067 EFHK 051620Z 32018KT 9999 BKN032 01/M05 Q1001 NOSIG KCCU 051524Z AUTO OVC005 M05/M09 A2973 RMK AO2 PWINO KCEC 051556Z AUTO 06003KT 10SM CLR 02/01 A3024 RMK AO2 SLP241 T00170006 EEPU 051350Z 29012KT 9999 SCT025 04/01 Q1002 KBLV 051558Z AUTO 14006KT 10SM OVC012 04/03 A3006 RMK AO2 SLP186 T00400028 OPRN 051430Z 00000KT 1500 HZ FEW200 17/07 Q1018.2/30.07 CXHM 051600Z AUTO 26008G17KT 05/02 RMK AO1 PK WND 25017/1554 SLP139 T00450018 51019 PGRO 050950Z 09017KT 7SM BKN012 27/23 A2991 RMK LAST KAUW 051554Z AUTO 22008KT 10SM OVC009 00/M02 A2987 RMK AO2 SLP133 T00001017 KCEF 051619Z 00000KT 4SM BR OVC007 00/M02 A2994 RMK AO2A RVRNO $ PHJH 051600Z 36005KT 15SM SCT040 21/19 A2990 CWQO 051600Z AUTO 34003KT M05/M08 RMK AO1 T10471083 CWRF 051600Z AUTO ///// A3001 CWPX 051623Z AUTO 36030KT 1/2SM //// OVC003 M25/M29 A3041 KAVP 051625Z AUTO 22011KT 10SM FEW008 OVC039 04/02 A2995 RMK AO2 T00390022 KCCY 051615Z AUTO 15013G19KT 1/4SM FG OVC003 00/00 A2983 RMK AO2 KAWG 051615Z AUTO 18015KT M1/4SM FG OVC003 00/00 A2996 RMK AO2 CWQP 051600Z AUTO 28030G38KT 05/01 RMK AO1 SOG 00 3027 PK WND 28038/1553 SLP120 T00480010 50002 CXHP 051600Z AUTO 28010KT M20/M23 RMK AO1 T12021232 KBMQ 051626Z AUTO 33005KT 4SM -RA BR SCT005 BKN009 OVC030 08/07 A2991 RMK AO2 P0002 T00830072 KAVQ 051615Z AUTO 11009KT 10SM CLR 08/M06 A2996 RMK AO2 T00841063 CWPZ 051600Z AUTO 10005KT M08/M12 RMK AO1 SOG 11 3022 SLP249 T10751117 CWRH 051600Z AUTO ///// M08/ A2975 RMK SLP115 KCDR 051453Z AUTO 29004KT 10SM SCT018 00/M04 A2957 RMK AO2 SLP042 T00001039 53024 CXHR 051600Z AUTO 33017KT M18/M20 RMK AO1 PK WND 31028/1514 T11751199 CWQR 051600Z AUTO 34012KT M05/ RMK AO1 T1047 KCDS 051553Z AUTO 21008KT 10SM CLR 07/03 A2984 RMK AO2 SLP106 T00720028 PNO OPSK 051630Z 00000KT 4000 HZ NSC 20/13 Q1015 NOSIG KAXA 051615Z AUTO 16015KT 10SM CLR 03/01 A2972 RMK AO2 CWRJ 051600Z AUTO 31016G22KT M12/M16 RMK AO1 SOG 00 3019 PK WND 31025/1529 SLP162 T11221156 CWQS 051600Z AUTO 08005KT 02/M00 RMK AO1 3021 SLP189 T00181001 50002 CWSA 051600Z AUTO 31018G23KT 9SM OVC029 02/M03 A2991 RMK SLP130 EGAA 051620Z 09003KT 8000 BKN018 06/05 Q1022 KBMT 051615Z AUTO 07008KT 10SM -DZ OVC024 12/11 A2983 RMK AO2 T01150105 CWRK 051600Z AUTO 00000KT M02/M04 RMK AO1 SOG 06 3014 SLP111 T10241036 50007 ORBD 051555Z 34007KT 9000 HZ SCT180 14/06 A3014 RMK SLP204 WND DATA/ALSTG/SLP ESTMD EGAC 051620Z 00000KT 9999 SCT022 BKN026 07/05 Q1022 UMOO 051300Z 24008G13MPS 5000 -SN DRSN OVC006 M00/M02 Q1010 R31/950255 NOSIG RMK QBB190 KAWM 051553Z AUTO 10008KT 9SM OVC010 06/04 A3003 RMK AO2 SLP168 T00610039 PGSN 051554Z 08015G22KT 10SM FEW027 SCT044 BKN110 28/23 A2989 RMK AO2 SLP144 T02780228 KCFD 051610Z AUTO 35004KT 4SM -RA OVC007 A2987 RMK AO2 CWRM 051600Z AUTO 32010G15KT M16/M19 RMK AO1 SOG 07 3016 PK WND 32019/1519 SLP249 T11591186 CWSD 051500Z AUTO 31009KT M01/M06 RMK AO1 SOG 00 0000 SLP163 T10121056 CWQV 051600Z AUTO 10008KT M07/M09 RMK AO1 T10651091 KCDW 051600Z 25007KT 8SM BKN009 OVC055 04/03 A2998 RMK AO2 T00440033 KCFE 051614Z AUTO 08007KT 10SM OVC090 00/M01 A2972 RMK AO2 T00031006 EGAE 051620Z 10005KT 9999 SCT022 05/03 Q1021 CWRN 051600Z AUTO 32016G21KT 01/M02 RMK AO1 PK WND 32022/1544 SLP136 T00061019 58005 KBNO 051553Z AUTO 00000KT 10SM CLR M12/M14 A3010 RMK AO2 SLP236 T11221139 KAVX 051551Z AUTO 00000KT 10SM CLR 12/09 A2998 RMK AO2 SLP142 T01220089 TSNO KAWO 051615Z AUTO 14010KT 10SM BKN021 OVC026 02/M03 A3009 RMK AO1 CWRO 051600Z AUTO 04014KT 02/ RMK AO1 3018 PK WND 03018/1554 SLP192 T0020 50011 CWSF 051600Z AUTO 32012KT M03/M07 RMK AO1 PK WND 32020/1509 SLP154 T10301071 58011 NZKI 051600Z 02007KT 40KM SCT004 12/10 Q1012 RMK ALT VATSIM USE ONLY CWSG 051600Z AUTO 20002KT M03/M06 RMK AO1 SLP164 T10311057 58010 PHJR 051553Z AUTO 00000KT 10SM FEW049 21/19 A2991 RMK AO2 SLP136 T02060189 TSNO $ ORBI 051600Z 33005KT 9999 OVC030 17/06 Q1020 NOSIG KAXH 051615Z AUTO 05003KT 10SM OVC005 12/11 A2982 RMK AO2 T01170111 CYAH 051620Z AUTO 11007KT 9SM -SN CLR M11/M13 A2994 RMK SLP169 KBOI 051553Z 10003KT 10SM CLR M06/M09 A3014 RMK AO2 SLP230 T10561089 PGUA 051503Z AUTO 08016KT 10SM SCT014 27/24 A2990 RMK AO2 $ NZKK 051600Z 05003KT 15KM SKC 15/14 Q1020 RMK ALT NZAA VATSIM USE ONLY KCFJ 051615Z AUTO 17008KT 10SM OVC011 01/01 A3011 RMK AO2 T00060006 OPST 051600Z 05004KT 3500 FU NSC 16/10 Q1018 NOSIG RH69 CXKA 051600Z AUTO 15005KT M04/M05 RMK AO1 2PAST HR SOG 12 3002 SLP082 P0001 T10421050 50007 KBOK 051556Z AUTO 00000KT 10SM BKN060 01/00 A3023 RMK AO2 SLP254 T00060000 CYBB 051600Z 02015G21KT 10SM -SN DRSN FEW012 OVC025 M11/M14 A3014 RMK ST2SC6 SLP209 CWSK 051600Z AUTO 02002KT M01/M02 RMK AO1 SOG 00 5002 SLP183 T10061023 CWRT 051600Z AUTO 15009G16KT M15/M17 RMK AO1 T11501172 EGBB 051620Z 00000KT 4000 BR NSC 03/03 Q1024 KCEU 051554Z AUTO 00000KT 10SM OVC006 10/07 A3005 RMK AO2 SLP174 T01000072 KCGC 051615Z AUTO 18004KT 10SM SCT025 28/21 A2999 RMK AO2 KBPC 051615Z AUTO 10SM CLR 09/M03 A2969 RMK AO2 CWRU 051600Z AUTO 01006KT 03/ RMK AO1 5000 SLP148 T0027 50006 CWSL 051600Z AUTO 21002KT M07/M09 RMK AO1 SOG 01 3012 SLP219 T10701086 CYBC 051600Z AUTO 32003KT 270V060 9SM CLR M04/M08 A3002 RMK SLP170 CYBD 051600Z 07006KT 030V100 15SM FEW035 FEW100 M02/M06 A3010 RMK SC1AC1 SC TR SLP197 VDPP 051600Z VRB03KT 8000 SCT017 SCT040 25/24 Q1012 KCEW 051553Z AUTO 09004KT 10SM OVC004 18/17 A2993 RMK AO2 SLP134 T01830172 KAXN 051553Z AUTO 11011KT 10SM CLR M01/M02 A2965 RMK AO2 SLP056 T10061022 CYAM 051600Z 26009KT 15SM SCT016 BKN081 02/M01 A2982 RMK CU4AC3 SLP109 PHKO 051553Z 03017KT 10SM RA SCT050 BKN090 OVC110 21/20 A2988 RMK AO2 SLP117 P0012 T02110200 $ KBNW 051555Z AUTO 17011KT 10SM CLR 02/00 A2980 RMK AO2 EFIV 051620Z 00000KT CAVOK M29/M32 Q1011 KCGE 051614Z AUTO 30004KT 10SM OVC009 07/05 A3002 RMK AO1 KCGF 051545Z 25010KT 12SM BKN018 OVC025 04/02 A3007 EGBE 051620Z 06003KT 3500 HZ NSC 04/03 Q1024 CXKE 051600Z AUTO 07001KT M01/M02 RMK AO1 2PAST HR SOG 12 8003 SLP101 P0001 T10121022 50021 EFKE 051620Z AUTO 01008KT CAVOK M13/M14 Q1009 KCEY 051615Z AUTO 09009G14KT 10SM OVC013 04/02 A3006 RMK AO1 EFJO 051620Z AUTO 34012KT 310V010 9999 -SN OVC015 M07/M10 Q0998 KBPG 051615Z AUTO 16006KT 7SM 07/06 A2989 RMK AO2 T00710056 CWTG 051600Z AUTO 35003KT M05/M07 RMK AO1 SLP167 T10481068 58010 CWSP 051600Z AUTO 27009G16KT 02/02 RMK AO1 2PAST HR 8007 PK WND 26022/1544 SLP167 P0001 T00240019 50046 CWRY 051600Z AUTO 34019G25KT M15/M18 RMK AO1 SOG 00 1018 PK WND 35025/1558 SLP216 T11481180 50002 CYBG 051600Z 06003KT 25SM BKN010 OVC180 M09/M11 A2998 RMK ST5AS3 SUN DIMLY VISBL SLP165 ZSNB 051600Z 35006MPS 320V020 5000 HZ FEW033 14/08 Q1028 NOSIG KCEZ 051453Z AUTO 12003KT 10SM OVC100 M04/M06 A2989 RMK AO2 SLP139 T10391056 56009 PHLI 051553Z AUTO 27003KT 10SM CLR 19/17 A2990 RMK AO2 SLP122 T01890172 TSNO VEGT 051600Z 00000KT 3000 BR NSC 18/17 Q1017 NOSIG CWRZ 051600Z AUTO 33006KT M03/M07 RMK AO1 SLP149 T10321068 58013 KBPI 051553Z AUTO 33012KT 10SM FEW060 SCT075 M11/M17 A2982 RMK AO2 PK WND 33028/1508 SLP126 T11061172 KCGI 051553Z 10011KT 10SM FEW013 04/02 A3005 RMK AO2 SLP178 T00440017 CXKI 051600Z AUTO M05/M05 RMK AO1 2PAST HR SOG 03 4000 SLP100 P0001 T10471053 50007 CWSR 051600Z AUTO 32016G23KT M13/M17 RMK AO1 SOG 04 3027 PK WND 32023/1559 SLP144 T11301167 KCHA 051553Z 01006KT 3SM BCFG BR BKN010 OVC021 10/08 A3003 RMK AO2 SFC VIS 4 SLP170 T01000078 EFKI 051620Z AUTO 34004KT 2800 BR SKC M12/M14 Q1003 KBOS 051601Z 15010KT 6SM -RA BR BKN007 OVC019 02/02 A2999 RMK AO2 P0000 T00220022 KCFS 051615Z AUTO 22008KT 10SM BKN032 02/01 A2998 RMK AO2 T00200006 KAXS 051615Z AUTO 00000KT 1/2SM FG OVC001 04/03 A2990 RMK AO2 T00400032 NZMC 051600Z 12002KT 10KM SKC 10/10 Q1017 RMK ALT NZHT VATSIM USE ONLY CYAS 051600Z 32010KT 15SM -SN OVC025 M10/M12 A2986 RMK SC8 SLP127 EGBJ 051620Z 00000KT 5000 HZ NSC 02/02 Q1024 CWSS 051600Z AUTO 29002KT M05/M07 RMK AO1 SLP175 T10481070 58022 KBPK 051622Z AUTO 15010KT 10SM FEW006 OVC010 04/04 A2999 RMK AO2 T00390039 KE80 051615Z AUTO 00000KT 10SM CLR 02/M07 A2993 RMK AO2 T00191070 CXLB 051600Z AUTO 29007KT 01/M06 RMK AO1 SLP168 T00051055 58014 CWST 051600Z AUTO 12009KT M08/M12 RMK AO1 SOG 15 8020 SLP160 T10811115 CYCB 051600Z 02030G38KT 1/8SM +BLSN OVC020 M23/M26 A3043 RMK BLSN4SC4 SLP311 CYBK 051600Z 05005KT 8SM -SN BKN019 OVC033 M08/M10 A3007 RMK SC5SC3 SLP186 CYAT 051627Z AUTO 16004KT 9SM -SN FEW009 OVC032 M05/M05 A2983 RMK SLP105 EFKK 051620Z 03004KT 9999 OVC020 M06/M09 Q1007 PGUM 051554Z 08011KT 10SM FEW024 28/25 A2988 RMK AO2 SLP108 T02830250 $ KAZC 051615Z AUTO 00000KT 10SM CLR 01/M03 A2997 RMK AO2 KCHD 051447Z 07004KT 10SM FEW150 04/M03 A2992 CYBL 051624Z 05003KT 350V140 3/4SM R12/P6000FT/D -SN BR OVC003 00/M00 A3001 RMK SN4SF4 SLP170 KCFV 051552Z AUTO 16003KT 6SM BR FEW003 04/04 A2992 RMK AO2 SLP136 T00440044 EGCC 051620Z 10002KT 8000 NSC 03/02 Q1023 KAXV 051613Z AUTO 21005KT 7SM OVC014 02/01 A3011 RMK AO2 NZMF 051600Z 06002KT 60KM BKN085 12/05 Q1012 RMK ALT NZQN VATSIM USE ONLY CXKM 051600Z AUTO 33020KT M17/M20 RMK AO1 PK WND 34027/1507 T11661201 50004 CYCD 051600Z VRB02KT 1SM BR VCFG OVC004 00/00 A3002 RMK SF8 CIG RAG SLP168 VEGY 051600Z 00000KT 0050 FG VV/// 12/12 Q1018 KBOW 051550Z 17012KT 10SM BKN019 26/21 A3002 KAZE 051615Z AUTO 00000KT 1/2SM FG OVC002 13/13 A2999 RMK AO2 T01260126 CWSW 051621Z 11015G21KT 5SM -SHSN BKN030 BKN055 M11/M15 A2992 RMK SC5SC2 SLP199 CYAW 051600Z 30008KT 15SM FEW025 OVC220 M01/M08 A3002 RMK SC0CS8 DA-1907FT HALO SLP167 CWTN 051600Z AUTO 26002KT M03/M06 RMK AO1 SLP159 T10301055 58027 CYBN 051600Z AUTO 27007KT 9SM OVC018 OVC052 OVC059 02/01 A2989 RMK SLP132 EETN 051620Z 32018G28KT 9999 OVC026 03/M02 Q1002 R08/19//95 TEMPO 32018G30KT KAXX 051615Z AUTO 24016G23KT 10SM CLR 02/M10 A2986 RMK AO2 T00241105 ZSNJ 051600Z 02004MPS 4000 HZ OVC033 08/03 Q1033 NOSIG CYCG 051600Z 13004KT 15SM FEW180 SCT290 M06/M09 A3009 RMK AC2CI2 SLP215 CYAY 051600Z AUTO 31013G19KT 9SM OVC050 M04/M08 A2973 RMK SLP071 EFJY 051620Z AUTO 34014KT 9000 -SN BKN015 M08/M11 Q1003 CYAZ 051618Z 06003KT 030V100 15SM BCFG FEW008 FEW020CB SCT025 SCT130 00/00 A3002 RMK SF1CB2SC1AC1 SF TR AC TR VIS E-S 1 IN FG SLP167 CYBQ 051600Z AUTO 10003KT 2 1/2SM -SN OVC034 M10/M11 A2978 RMK VIS VRB 2-3 SLP110 CYBR 051600Z 10013KT 1/2SM -SN BR DRSN OVC002 M05/M06 A2964 RMK ST8 SLP065 PHMK 051554Z 34006KT 10SM -RA SCT015 BKN020 22/20 A2991 RMK AO2 SLP131 P0000 T02170200 $ KAYS 051615Z AUTO 23006KT 10SM OVC008 24/24 A2998 RMK AO2 T02400235 KCGS 051618Z AUTO 33003KT 10SM CLR 08/05 A3001 RMK AO1 CYDA 051600Z 00000KT 20SM SKC M33/M36 A3068 RMK SLP444 VEIM 051300Z 33002KT 4000 BR FEW020 18/13 Q1019 BECMG 3000 BR KBPT 051624Z 01011KT 10SM OVC010 11/09 A2982 RMK AO2 RAE10 CIG 006V012 P0001 T01060094 EFKS 051620Z AUTO 32005KT 9999 -SHSN SKC M15/M17 Q1005 EFMA 051620Z AUTO 32013KT CAVOK 04/M01 Q1009 KBQK 051615Z AUTO 23009KT 10SM OVC011 23/22 A3000 RMK AO2 KCHK 051615Z AUTO 14004KT 02/02 A2989 RMK AO2 SKY OBSCURED PWINO KF00 051615Z AUTO 11008KT 10SM BKN012 OVC095 08/06 A2992 RMK AO2 CXKT 051600Z AUTO 31002KT M01/M07 RMK AO1 8012 SLP170 T10141070 50002 CWTT 051600Z AUTO 07002KT M04/M04 RMK AO1 T10381043 CYDB 051618Z 00000KT 15SM BKN015 OVC035 M30/M33 A3036 RMK SC7SC1 SLP390 ZSOF 051600Z 33003MPS 2000 BR NSC 03/02 Q1034 NOSIG EFKT 051620Z 30004KT CAVOK M16/M18 Q1010 CYCK 051600Z AUTO 29010KT 9SM OVC030 04/M01 A3002 RMK SLP174 KCIC 051551Z 32005KT 6SM BKN150 00/00 A3013 RMK PTCHY GF VSBY 3SM W-N CYDC 051600Z 00000KT 25SM FEW010 FEW050 FEW160 BKN250 M11/M12 A3004 RMK ST1SC1AS1CI4 ST TR SC TR SLP215 CXLL 051600Z AUTO 00000KT M20/M22 RMK AO1 SOG 19 1014 SLP405 T11981221 CYBU 051610Z AUTO 29011G18KT 9SM OVC016 M07/M09 A2977 RMK SLP114 CWTU 051600Z AUTO ///// M12/ A2960 RMK SLP074 EETU 051550Z 30016G27KT 9999 OVC030 03/M02 Q1000 KBRD 051620Z AUTO VRB06KT 1 1/2SM BR OVC002 M02/M02 A2973 RMK AO2 T10221022 KCID 051620Z 15011G17KT 1/4SM FZFG VV002 M01/M01 A2991 RMK AO2 T10061006 $ EFKU 051620Z AUTO 31014KT 9999 -SN OVC027 M09/M11 Q1002 CXMD 051600Z AUTO 12011KT M03/M04 RMK AO1 SOG 06 0003 SLP068 T10291039 CWVD 051600Z AUTO 33021KT M19/ A2971 RMK SLP132 PHNG 050157Z 22003KT 6SM -RA BKN110 A2986 RMK A02 SLP108 CYBW 051600Z AUTO 35017G22KT 9SM OVC060 M14/M18 A2996 RMK SLP232 KCHO 051627Z 00000KT 10SM FEW004 08/06 A3002 RMK AO2 T00830056 KAZO 051553Z 21010KT 7SM OVC018 02/M01 A3004 RMK AO2 SLP181 T00221006 EGCN 051620Z 25001KT 0550 R20/0350 FZFG FEW000 M00/M01 Q1026 CYCO 051600Z 36020KT 4SM BLSN FEW025 M21/M24 A3071 RMK SC1 SLP404 CYDF 051600Z 29006KT 240V330 12SM -SN BKN028 M04/M10 A2981 RMK SC7 SLP098 CYBX 051600Z 32013KT 15SM BKN025 M05/M11 A2978 RMK SC7 SLP089 CWVF 051615Z AUTO 09019KT 01/ RMK AO1 PK WND 08022/1607 T0014 KF05 051615Z AUTO 20005KT 10SM SCT001 06/04 A2989 RMK AO1 T00620044 KBQP 051615Z AUTO 00000KT 4SM RA OVC004 08/08 A2994 RMK AO2 P0002 T00770075 CYCP 051600Z VRB02KT 15SM FEW003 OVC043 M08/M10 A3007 RMK ST2SC6 FROIN SLP232 CXMG 051500Z AUTO 30005KT M21/M24 RMK AO1 T12131241 CWTY 051600Z AUTO 05005KT M05/M06 RMK AO1 SLP135 T10501058 56033 CWUP 051600Z AUTO 32012KT M17/ A2983 RMK SLP149 EFLP 051620Z AUTO 32013KT 270V020 9999 -SHSN BKN021 M07/M10 Q0998 CYCQ 051625Z 06006KT 030V120 10SM FEW035 BKN085 OVC100 M18/M25 A3042 RMK SC1AC4AS3 SLP364 CWVH 051600Z AUTO 11004KT A3088 CXMI 051600Z AUTO 33004KT M01/M07 RMK AO1 SLP165 T10051074 58013 CWVI 051600Z AUTO 32016G22KT M17/M20 RMK AO1 SOG 00 1023 PK WND 32024/1522 SLP242 T11661203 ZSPD 051600Z 35009G15MPS 8000 BKN013 11/08 Q1029 BECMG TL1630 BKN016 EFMI 051620Z AUTO 32009KT 240V040 8000 -SN OVC016 M08/M11 Q1001 KCHS 051556Z 35005KT 4SM BR BKN005 OVC015 13/11 A3002 RMK AO2 SLP164 T01280106 KDAA 051603Z AUTO 00000KT 10SM SCT010 08/04 A3003 RMK AO2 CYCS 051600Z 05014KT 10SM -SN OVC016 M08/M10 A3002 RMK SC8 VIS W 5 SLP168 CWWA 051600Z AUTO 07005KT 01/M01 RMK AO1 3PAST HR SOG 02 8007 SLP170 P0005 T00081008 50062 CWUS 051600Z AUTO 29007KT M07/M10 RMK AO1 SLP215 T10661099 53009 KDAB 051553Z 20012G17KT 10SM FEW025 FEW150 FEW250 27/21 A3000 RMK AO2 SLP157 T02670211 PHNL 051553Z 00000KT 10SM FEW024 BKN100 20/19 A2990 RMK AO2 SLP125 T02000189 CWWB 051600Z AUTO 24008KT 05/01 RMK AO1 PK WND 25017/1538 SLP143 T00460006 51020 KBRL 051553Z AUTO 19010KT 1/4SM FG VV002 00/00 A2999 RMK AO2 SLP163 I1003 T00000000 EGEC 051620Z 12007KT 9999 BKN022 06/03 Q1022 CYDL 051600Z AUTO 06003KT 010V090 9SM CLR M23/M25 A3032 RMK SLP337 CXMM 051600Z AUTO 29012G17KT M16/M19 RMK AO1 2PAST HR SOG 22 3022 PK WND 29017/1552 SLP219 P0001 T11641188 50006 EGDM 051550Z 08006KT CAVOK 06/04 Q1022 BLU CYED 051600Z 32011G18KT 5SM -SN DRSN FEW009 SCT014 BKN039 M17/M20 A3012 RMK SF2SC2SC3 DA-1446FT VIS HIER S SLP257 KCIN 051615Z AUTO 18011KT 10SM CLR 04/01 A2975 RMK AO2 NZNP 051600Z 17005KT 7000 SKC 10/09 Q1020 RMK ALT VATSIM USE ONLY CWVN 051600Z AUTO 33019G25KT M14/M18 RMK AO1 SOG 04 1037 PK WND 32027/1528 SLP157 T11401176 CWWE 051600Z AUTO 29005KT M00/M04 RMK AO1 SLP174 T10021040 58015 CYDN 051625Z AUTO 30005KT 1/2SM FZFG OVC002 M07/M08 A2971 RMK SLP084 KBRO 051553Z 30007KT 10SM -RA FEW014 OVC060 13/10 A2993 RMK AO2 RAB48 SLP133 P0000 T01280100 PHOG 051554Z 36003KT 10SM CLR 22/19 A2990 RMK AO2 SLP129 T02170194 KBQX 051615Z AUTO 34012G18KT 10SM OVC007 14/13 A2984 RMK A01 NZOH 051600Z 03001KT 10KM SHRA SCT027 11/10 Q1019 RMK ALT NZPM VATSIM USE ONLY CXMO 051500Z AUTO 34016KT M17/M21 RMK AO1 PK WND 35026/1406 T11701209 CWWF 051600Z AUTO 35020KT M07/M08 RMK AO1 3PAST HR SOG 12 2029 PK WND 35025/1546 SLP069 P0001 T10691079 50015 CWUX 051600Z AUTO 08002KT M08/M11 RMK AO1 SLP161 T10821107 58023 CYCX 051600Z 36002KT 15SM BKN080 M07/M09 A3002 RMK AC6 DA-2567FT FROIN SLP171 VDSR 051600Z 03004KT 9000 NSC 26/22 Q1012 KDAG 051550Z AUTO 30007KT 10SM CLR 10/M06 A2995 RMK AO2 SLP136 T01001056 NZNR 051600Z 25001KT 10KM SHRA SCT090 14/13 Q1020 RMK ALT VATSIM USE ONLY CYDP 051600Z 27007KT 15SM FEW029 M09/M14 A2986 RMK SC1 SC TR SLP112 VEJS 051100Z 00000KT 3500 HZ NSC 26/11 Q1014 CWVP 051600Z AUTO 32017G29KT M20/M22 RMK AO1 SOG 04 2017 PK WND 31032/1530 SLP137 T11981215 50004 CYCY 051600Z 31016KT 25SM IC SG BKN017 M15/M17 A2999 RMK SC7 SLP160 CYEG 051600Z 31012G21KT 7SM -SN DRSN FEW014 BKN026 BKN060 OVC220 M17/M21 A3011 RMK SF1SC4SC2CI1 SLP262 ORER 051600Z 28008KT 9000 SCT050 10/07 Q1022 NOSIQ NZNS 051600Z 14003KT 40KM SKC 12/10 Q1018 RMK ALT VATSIM USE ONLY CWVQ 051600Z AUTO 06005KT M03/M03 RMK AO1 9PAST HR SOG 05 7023 SLP114 P0004 T10261026 50035 CYDQ 051603Z AUTO 29005KT 5SM -SN OVC044 M20/M23 A3037 RMK SLP354 KCIR 051615Z AUTO 09009KT 10SM OVC015 05/02 A3007 RMK AO2 T00460024 KF17 051615Z AUTO 07010G14KT 10SM -RA OVC005 09/08 A2987 RMK AO2 P0001 T00860080 UNKL 051600Z 25006G15MPS 220V290 0550 0400W R29/P2000D +SHSN VV003 M02/M03 Q1006 R29/390135 TEMPO 0500 +SHSN RMK QFE729 ZSQD 051600Z 32002MPS 290V360 CAVOK 00/M04 Q1031 NOSIG EGDR 051550Z 14005KT 7000 HZ FEW006 BKN008 11/10 Q1020 GRN NOSIG PGWT 050953Z 07011KT 7SM SCT015 26/25 A2989 RMK LAST KBTA 051615Z AUTO 17018G23KT 10SM CLR 04/00 A2971 RMK AO2 T00380000 TVSV 051600Z 09010KT 9999 FEW022 31/25 Q015 CWXA 051600Z AUTO 00000KT M14/M16 RMK AO1 SLP205 T11371158 51018 KCKB 051553Z 31005KT 10SM CLR 07/02 A3007 RMK AO2 SLP181 T00720017 NZNV 051600Z 36009KT 70KM BKN095 13/05 Q1007 RMK ALT VATSIM USE ONLY CWWK 051600Z AUTO 06004KT 01/01 RMK AO1 4PAST HR 7009 SLP177 P0002 T00140014 50016 CWVT 051600Z AUTO 32016G25KT M15/M18 RMK AO1 SOG 06 3022 PK WND 33025/1559 SLP185 T11471176 50003 CYFB 051600Z 32013KT 30SM IC DRSN SKC M22/M25 A2993 RMK SLP141 CYEK 051622Z 09009KT 10SM FEW011 SCT017 BKN028 M05/M06 A2992 RMK ST2SC2SC3 SLP133 KCIU 051556Z AUTO 25007KT 220V290 10SM OVC075 01/00 A2982 RMK AO2 UPE1459B16E20RAB20E21SNB1459E16 SLP125 P0000 T00060000 FZRANO KDAL 051553Z VRB06KT 8SM OVC010 09/07 A2988 RMK AO2 PRESFR SLP118 T00940067 KCKC 051554Z AUTO 25005KT 10SM OVC009 M03/M05 A2974 RMK AO2 VEKO 051200Z 00000KT 6000 NSC 23/13 Q1015 CWWL 051600Z AUTO 04003KT 02/M00 RMK AO1 SLP173 T00211001 52012 CWXC 051600Z AUTO 00000KT M10/M13 RMK AO1 SLP152 T10991131 56018 CWVU 051600Z AUTO 35003KT 01/M04 RMK AO1 SLP180 T00061035 58025 CYFC 051600Z AUTO 11002KT 9SM CLR M07/M09 A3003 RMK SLP173 CXNM 051600Z AUTO 31012G18KT M06/ RMK AO1 SOG 51 PK WND 31020/1526 T1062 50008 KDAN 051553Z AUTO 00000KT 10SM OVC003 07/07 A3004 RMK AO2 SLP170 T00670067 NZPG 051555Z 33006KT 9999 FEW030 BKN060 BKN080 M06/M11 A2902 RMK SLP828 LSR12 SN DSNT GRID SW-NW-NE GRID14006KT SDP/HDG HDP GRID SW-NW CYEN 051600Z 36007KT 1/2SM SN OVC008 M06/M07 A2958 RMK SC8 /S10/ SLP056 PHNY 051556Z AUTO 30003KT 10SM SCT080 OVC100 19/18 A2997 RMK AO2 SLP132 T01940183 KCKF 051615Z AUTO 00000KT 7SM OVC002 13/13 A3001 RMK AO2 T01310127 EGEO 051550Z 12006KT CAVOK 04/M01 Q1023 EGDX 051550Z 07010KT 4000 BR OVC005 05/04 Q1022 YLO1 EGFF 051620Z AUTO 07010KT 5000 BR OVC005 05/04 Q1023 CXMY 051600Z AUTO M01/M06 RMK AO1 T10101060 CXNP 051600Z AUTO 33003KT M03/M07 RMK AO1 SOG 02 8016 SLP168 T10341067 EGDY 051550Z 11004KT 7000 HZ FEW008 BKN070 08/07 Q1022 WHT BECMG SCT008 GRN KCKI 051555Z AUTO 33003KT 10SM OVC006 10/08 A3004 RMK AO2 KCJR 051615Z AUTO 00000KT 10SM OVC006 07/05 A3005 RMK AO2 T00650053 CYER 051627Z AUTO 21003KT 190V250 9SM -SN BKN015 OVC023 M05/M05 A2981 RMK SLP099 KDCA 051552Z VRB04KT 10SM FEW014 08/06 A3004 RMK AO2 SLP171 T00830056 CXPA 051600Z AUTO 30011KT M21/M24 RMK AO1 T12061240 CWWS 051600Z AUTO 23002KT M00/M04 RMK AO1 SLP077 T10011036 51018 NZPM 051600Z 03001KT 10KM SHRA SCT027 11/10 Q1019 RMK ALT VATSIM USE ONLY CYET 051600Z AUTO 30010KT 9SM -SN OVC046 M19/M24 A3016 RMK SLP298 KBTL 051553Z 21010KT 9SM OVC020 02/01 A3004 RMK AO2 SLP181 T00170006 CWWU 051600Z 35016KT 15SM SCT031 BKN037 BKN047 M01/M06 A2969 RMK SC3SC2SC2 SLP054 CXOL 051500Z AUTO 32018KT M17/M19 RMK AO1 PK WND 31023/1444 T11681191 CXPC 051600Z AUTO 02/01 RMK AO1 5PAST HR 3015 SLP102 P0002 T00230009 50011 CWXL 051600Z AUTO 31008KT M17/M20 RMK AO1 T11741204 KBTM 051553Z AUTO 32007KT 10SM BKN055 M10/M17 A2987 RMK AO2 SLP174 T11001167 KCKM 051635Z AUTO 04009KT 10SM OVC007 07/07 A3001 RMK A01 VELP 050800Z 36003KT 6000 NSC 27/19 Q1011 NOSIG CYEV 051600Z 08005KT 3SM BR OVC003 M26/M29 A3099 RMK FG4ST4 SLP510 EGGD 051620Z AUTO 08008KT 2000 BR OVC002 05/04 Q1022 KDAW 051551Z AUTO 00000KT 1/2SM SN FZFG VV017 M02/M04 A2998 RMK AO2 SLP155 P0003 T10221039 KCLE 051551Z 26009KT 10SM BKN022 OVC027 04/M01 A3011 RMK AO2 SLP201 T00441006 KCKN 051614Z AUTO 11013KT 4SM BR OVC004 M02/M03 A2969 RMK AO2 KDBN 051615Z AUTO 02003KT 7SM -DZ OVC004 10/08 A3004 RMK AO2 NZPP 051600Z 05007KT 20KM SCT018 14/12 Q1019 RMK ALT VATSIM USE ONLY CYGE 051600Z 30002KT 20SM FEW020 FEW045 SCT080 SCT130 BKN240 M11/M12 A3001 RMK SF1SC2AC2AC1CI1 SF TR AC TR SLP211 KBUF 051554Z 25016G24KT 10SM FEW025 OVC032 04/M02 A2996 RMK AO2 PK WND 28028/1539 SLP152 T00391017 CYFO 051600Z 25004KT 8SM -SG OVC015 M04/M06 A2971 RMK ST8 SLP083 VELR 051000Z 09003KT 6000 FEW100 26/18 Q1014 CWWX 051600Z AUTO 31024KT 05/02 RMK AO1 PK WND 31028/1543 SLP107 T00480020 51017 KBTP 051615Z AUTO 23007KT 10SM OVC031 03/M01 A3008 RMK AO1 KCKP 051615Z AUTO 18015G20KT 10SM CLR 05/01 A2967 RMK AO2 T00500006 KDAY 051556Z 24004KT 10SM OVC015 02/M01 A3012 RMK AO2 SLP205 T00221011 KDBQ 051553Z 18013KT M1/4SM R36/0700V1000FT -SN FZFG VV002 M01/M01 A2993 RMK AO2 SLP149 P0000 T10061006 CYGH 051600Z 15002KT 15SM BKN007 M36/M39 A3099 RMK ST5 SLP512 CWWZ 051600Z AUTO 25008KT 04/01 RMK AO1 SLP149 T00440011 51026 KBTR 051553Z 01010KT 4SM RA BR BKN005 OVC038 12/12 A2986 RMK AO2 SLP111 P0012 T01220117 KCLI 051615Z AUTO 24007KT 10SM OVC012 01/M01 A2991 RMK AO2 CYFR 051600Z 35013G18KT 2 1/2SM -SN BLSN OVC018 M08/M11 A3013 RMK SC8 SLP219 CWXR 051600Z AUTO 29020KT M23/ A3082 RMK SLP453 KCMA 051555Z 00000KT 10SM CLR 09/02 A2996 RMK AO2 SLP154 T00940022 NZRC 051600Z 36009KT 70KM BKN095 13/05 Q1007 RMK ALT NZNV VATSIM USE ONLY CYHA 051600Z 34015G20KT 15SM -SN DRSN OVC015 M08/M11 A2986 RMK SC8 CIG RGD SLP116 CWZA 051600Z AUTO 09002KT 01/M00 RMK AO1 SLP184 T00131004 55006 CWYJ 051600Z AUTO 25002KT 01/01 RMK AO1 5007 SLP165 T00130008 50023 CYFS 051618Z 33020G27KT 2SM -SN DRSN OVC060 M20/M24 A3063 RMK SN3SC5 SLP398 KCLK 051635Z AUTO 17010KT OVC001 03/02 A2985 RMK AO2 PWINO CYGK 051600Z 26012KT 15SM SCT008 OVC018 02/M00 A2984 RMK SF3SC5 SLP112 CYFT 051600Z 25012KT 15SM BKN025 M08/M12 A2983 RMK SC5 SLP108 VEMN 050930Z 09004KT 6000 SCT100 28/15 Q1014 NOSIG CWYK 051600Z AUTO ///// M11/ A2960 RMK SLP091 KCLL 051626Z 01008KT 2 1/2SM RA BR OVC007 09/08 A2986 RMK AO2 CIG 005V010 P0004 T00940083 KDDC 051552Z AUTO 19018G22KT 10SM CLR 05/M01 A2965 RMK AO2 SLP050 T00501011 NZQN 051600Z 06002KT 60KM BKN085 12/05 Q1012 RMK ALT VATSIM USE ONLY CXPL 051500Z AUTO 32014KT M15/M18 RMK AO1 PK WND 31026/1426 T11481177 CWYL 051600Z AUTO 08003KT M17/M18 RMK AO1 SOG 29 3013 PK WND 33034/1503 SLP178 T11671184 CYGL 051600Z 11007KT 15SM FEW012 OVC140 M11/M13 A2990 RMK SC1AC8 SC TR SLP145 KCLM 051553Z AUTO 24009KT 10SM BKN050 02/M01 A3002 RMK AO2 SLP170 T00171006 KCKV 051627Z AUTO 08009KT 10SM OVC011 04/02 A3009 RMK AO2 T00440017 EFOU 051620Z AUTO 35005KT 330V030 CAVOK M13/M15 Q1007 R12/39//95 KBTV 051626Z 16007KT 3SM -SN BR BKN010 BKN021 OVC034 M01/M02 A2986 RMK AO2 CIG 007V012 VIS SE 2 1/2 P0001 T10061022 KDCM 051615Z AUTO 34003KT 10SM SCT006 OVC080 10/07 A3004 RMK AO2 KCMD 051615Z AUTO 05004KT 4SM -RA OVC005 09/09 A3001 RMK AO2 P0003 T00910085 CWYM 051600Z AUTO 06006KT M14/ A2968 RMK SLP114 CYHD 051622Z AUTO 24005KT 9SM SCT010 BKN014 OVC026 M01/M02 A2971 RMK SLP084 KBVE 051551Z AUTO 06008KT 4SM BR OVC007 18/18 A2984 RMK AO2 SLP103 T01780178 $ EGHE 051620Z 15009KT 9999 BKN019 12/10 Q1020 CYHE 051600Z AUTO 10006KT 070V130 9SM OVC085 01/M00 A3009 RMK SLP192 KF44 051615Z AUTO 08006KT 1 1/2SM DZ OVC008 08/08 A2987 RMK AO2 P0001 VEMR 050600Z 00000KT 3000 HZ FEW020 23/17 Q1017 CXOX 051600Z AUTO 28008KT M12/M15 RMK AO1 SOG 08 2025 SLP118 T11231147 50002 EFPO 051620Z AUTO 33009KT 300V010 9999 FEW028/// BKN042/// OVC072/// 02/M03 Q1006 CWZG 051600Z AUTO 03004KT M13/M15 RMK AO1 SOG 04 2017 SLP199 T11331151 CXOY 051600Z AUTO 31018KT M17/M19 RMK AO1 PK WND 31025/1517 T11651194 CYGP 051600Z 30005KT 15SM -SN OVC030 M04/M08 A2997 RMK SC8 SLP152 EGGP 051620Z 14006KT 110V170 7000 NSC 03/02 Q1023 KCMH 051551Z 10SM OVC021 03/M01 A3012 RMK AO2 SLP205 T00281006 PNO $ KDDH 051609Z AUTO VRB04KT 10SM OVC033 03/M01 A2988 RMK AO2 T00281011 KCKZ 051615Z AUTO 24006KT 10SM OVC006 05/05 A3000 RMK AO2 KF46 051615Z AUTO 10008G14KT 10SM OVC012 09/07 A2990 RMK AO2 T00930072 KBVI 051547Z 26006KT 10SM SCT019 OVC029 03/M01 A3007 EGHH 051620Z 09004KT 7000 MIFG FEW047 07/06 Q1023 CYGQ 051623Z 26004KT 230V320 3/4SM BR OVC003 M03/M03 A2970 RMK FG3SF5 CIG RAG SLP080 KCMI 051553Z AUTO 16009KT 10SM OVC008 01/M01 A3008 RMK AO2 SLP192 T00111006 KBUR 051553Z 00000KT 10SM CLR 09/M01 A2996 RMK AO2 SLP139 T00891011 CYHI 051600Z 03019KT 15SM DRSN SKC M25/M30 A3081 RMK SLP442 CYGR 051600Z 33011KT 20SM BKN023 M03/M08 A2993 RMK SC7 CU ASOCTD SLP139 EGHI 051620Z VRB02KT 9999 FEW018 07/05 Q1023 KCLS 051555Z AUTO 18006KT 5SM BR FEW007 SCT021 BKN032 01/01 A3010 RMK AO2 KCLT 051552Z 35004KT 10SM FEW005 SCT200 BKN250 09/06 A3005 RMK AO2 SLP176 T00890061 KCNB 051614Z AUTO 00000KT 10SM SCT100 SCT120 01/00 A2959 RMK AO2 T00080000 CYGT 051600Z 27006KT 15SM -SN FEW007 BKN016 M16/M18 A3002 RMK ST1SC7 ST TR SLP173 CXRB 051600Z AUTO 34007KT M30/M34 RMK AO1 SOG 01 3015 PK WND 35018/1500 SLP302 T13041335 CYHK 051623Z AUTO 02014KT 6SM -SN OVC043 M13/M14 A3019 RMK SLP231 KDCU 051553Z AUTO 03006KT 7SM -RA OVC005 09/09 A3002 RMK AO2 RAB48 SLP166 P0000 T00890089 KDEC 051554Z 19009KT 10SM OVC008 02/00 A3007 RMK AO2 SLP189 T00170000 KCNC 051555Z AUTO 18015KT 10SM 04/02 A2987 RMK AO2 KBUU 051615Z AUTO 19005KT 3SM BR OVC004 00/00 A2999 RMK AO2 T00031001 CWZL 051600Z AUTO 29010KT 01/M00 RMK AO1 1017 SLP187 T00111002 50004 KBWD 051615Z AUTO 19005KT 10SM OVC013 08/06 A2993 RMK AO2 KDED 051615Z AUTO 18010KT 10SM SCT023 SCT027 27/21 A3000 RMK AO2 NZRO 051600Z 00000KT 25KM SKC 14/14 Q1021 RMK ALT NZTG VATSIM USE ONLY CYGV 051600Z AUTO 33005KT 9SM OVC031 M05/M10 A2995 RMK SLP147 CYHM 051600Z 26015G23KT 15SM FEW015 BKN022 BKN038 03/01 A2994 RMK CU1SC4SC2 SLP150 KCLW 051615Z AUTO 16010G16KT 10SM BKN017 BKN100 25/21 A2999 RMK AO2 KBVN 051615Z AUTO 19011G15KT 10SM CLR 04/M01 A2961 RMK AO2 T00411015 PHSF 051456Z AUTO 00000KT 1/2SM -RA FG BKN003 12/12 A3018 RMK AO2 SHRAE36RAB36 CIG 003V034 BKN V FEW SLP118 P0006 60013 T01190116 55006 $ CWZN 051500Z AUTO 33009KT M01/M06 RMK AO1 SLP070 T10131056 58006 KBVO 051616Z AUTO 16006KT 3SM BR OVC002 04/03 A2993 RMK AO2 T00390033 EGGW 051620Z AUTO 10005KT 7000 FEW046 04/03 Q1024 CYGW 051600Z AUTO 15004KT 120V200 9SM OVC011 M06/M07 A2996 RMK SLP146 CWZO 051600Z AUTO 24010KT RMK AO1 CYGX 051600Z 06003KT 030V120 15SM FEW008 BKN017 BKN081 OVC220 M09/M10 A2978 RMK ST2SC3AS2CI1 SLP099 ZSSS 051600Z 01010MPS 9999 BKN020 11/07 Q1029 NOSIG KBWG 051553Z AUTO 06010KT 10SM OVC011 05/02 A3011 RMK AO2 SLP196 T00500022 KBUY 051554Z AUTO 00000KT 10SM CLR 10/07 A3004 RMK AO2 SLP173 T01000072 KDCY 051615Z AUTO 10005KT 10SM BKN015 04/01 A3012 RMK AO2 T00350007 CWYY 051600Z AUTO 15002KT M05/M08 RMK AO1 SOG 00 1015 SLP220 T10531079 KDEH 051615Z AUTO 16009KT M1/4SM FZFG OVC002 M00/M00 A2986 RMK AO2 EGHQ 051620Z 15011KT 6000 BKN006 11/10 Q1020 CWZQ 051620Z AUTO 31015G21KT M01/M04 RMK AO1 T10081035 UNNT 051600Z 25008MPS 9000 -SHSN DRSN OVC023CB M12/M15 Q1018 R25/820255 R16/820252 NOSIG RMK QFE753/1004 CXRH 051600Z AUTO 34001KT M05/ RMK AO1 T1052 KBWI 051554Z VRB06KT 10SM FEW011 SCT090 09/06 A3002 RMK AO2 SLP164 T00940061 KCNI 051615Z AUTO 00000KT 7SM OVC001 10/08 A3001 RMK AO2 KBXA 051615Z AUTO 03005KT 1SM OVC002 15/13 A2991 RMK AO2 LTG DSNT SE T01450128 KBVS 051615Z AUTO 13005G11KT 10SM OVC015 03/01 A3006 RMK A01 EGJA 051620Z 14008KT CAVOK 10/08 Q1022 CWZS 051600Z AUTO 17002KT M06/M09 RMK AO1 SLP162 T10551089 58015 EFSA 051620Z AUTO 31011KT 8000 -SN OVC019 M08/M11 Q0998 KCNK 051455Z AUTO 17014KT 10SM CLR 04/M01 A2971 RMK AO2 SLP068 T00391006 56018 EGJB 051620Z 14012KT CAVOK 10/08 Q1021 KBVU 051615Z AUTO 00000KT 10SM 07/M10 A2996 RMK AO2 CXSC 051600Z AUTO 30018KT M16/M19 RMK AO1 PK WND 29024/1550 T11591188 UNOO 051600Z 25007MPS CAVOK M14/M18 Q1016 R25/810550 NOSIG RMK QFE754 CXRL 051600Z AUTO 31010KT M19/M22 RMK AO1 PK WND 32019/1508 T11891217 CYHU 051628Z AUTO 05004KT 1SM R24R/P6000FT/D -SN BKN007 BKN013 OVC018 M03/M04 A2986 RMK SLP113 KCNM 051553Z AUTO 11005KT 1/4SM FZFG VV002 M02/M02 A2985 RMK AO2 SLP108 T10171017 TSNO KCOD 051556Z AUTO 03008KT 10SM BKN026 M10/M13 A2979 RMK AO2 SNE23 SLP136 P0000 T11001128 FZRANO CWZV 051600Z AUTO 03013G23KT 03/M00 RMK AO1 PK WND 03023/1556 SLP162 T00281002 53008 KDEN 051453Z 30003KT 10SM FEW060 SCT120 SCT220 05/M09 A2960 RMK AO2 SLP016 VIRGA DSNT SW-NW T00501089 52009 KCOE 051556Z AUTO 19003KT 10SM CLR M07/M08 A3006 RMK AO2 SLP228 T10671083 FZRANO NZTG 051600Z 00000KT 25KM SKC 14/14 Q1021 RMK ALT VATSIM USE ONLY CWZW 051600Z AUTO 05002KT M27/M30 RMK AO1 SOG 15 3009 SLP383 T12731299 CXSE 051600Z AUTO 28008KT M30/M33 RMK AO1 SOG 25 3012 SLP396 T12991329 CYIN 051600Z AUTO VRB02KT 9SM CLR M24/M26 A2995 RMK SLP247 KCNO 051553Z 00000KT 10SM SCT200 09/04 A2999 RMK AO2 SLP155 T00890044 KCMX 051553Z AUTO 28012KT 10SM BKN021 BKN027 BKN033 02/M02 A2978 RMK AO2 SLP096 T00221022 KBVX 051615Z AUTO 07010KT 040V100 10SM BKN008 04/03 A3005 RMK AO1 NZSP 051550Z 07006KT 9999 FEW004 BKN014 M25/ A2901 RMK CLN AIR 06006KT ALL WNDS GRID SDF/HDG KCOF 051558Z AUTO 16011KT 10SM CLR 26/22 A3000 RMK AO2 SLP163 T02610222 $ CYJF 051600Z 00000KT 7SM BKN084 BKN110 M22/M25 A3067 RMK AC6AC1 SLP413 KBVY 051605Z 00000KT 1 3/4SM -RA BR BKN004 BKN009 OVC015 01/00 A2998 RMK AO2 P0001 I1000 T00060000 CYIO 051600Z 16005KT 15SM IC SCT009 SCT036 M25/M28 A3003 RMK SC3SC1 FROIN -21.9/-26.1/37 MUCH LOOSE SLP182 EFRO 051620Z AUTO 34008KT CAVOK M16/M18 Q1008 KBWP 051615Z AUTO 09008KT 10SM CLR 00/M02 A2961 RMK AO1 KCMY 051615Z AUTO 15006KT 5SM BR OVC005 01/00 A2990 RMK AO2 P0002 T00080002 CYHY 051606Z 31021G30KT 5/8SM -SN BLSN DRSN OVC010 M17/M19 A3033 RMK SN7SC1 SLP294 ZUCK 051600Z 19002MPS 160V230 1400 R20R/P2000N R20L/P2000N BR SCT008 BKN030 09/07 Q1034 NOSIG KDEQ 051603Z AUTO 09009KT 10SM BKN014 08/07 A2994 RMK AO2 T00780067 CYHZ 051600Z 35008KT 320V040 15SM FEW022 BKN100 BKN260 M02/M07 A2997 RMK SC2AS4CS1 SLP159 KDFI 051616Z AUTO 22006KT 10SM OVC014 02/M01 A3010 RMK AO2 T00221011 EFSI 051620Z 35012KT 330V040 9999 SCT015 BKN020 M03/M06 Q1006 EGKA 051620Z VRB04KT 6000 NSC 06/04 Q1024 CYKA 051600Z 29003KT 40SM FEW021 SCT080 M09/M12 A3015 RMK SC1AC2 SLP234 EGJJ 051620Z 13011KT CAVOK 10/08 Q1022 NOSIG KDET 051553Z VRB06KT 10SM OVC026 04/00 A3004 RMK AO2 SLP178 T00390000 $ KF70 051615Z AUTO 00000KT 10SM CLR 08/M01 A2997 RMK AO1 KBXK 051615Z AUTO 08006KT 10SM CLR 09/M03 A2996 RMK AO1 EGKB 051620Z 09004KT 9000 NSC 06/03 Q1024 KCPC 051600Z AUTO 00000KT 10SM BKN005 10/08 A3001 RMK AO2 T00990084 KCNU 051622Z AUTO 15008KT 4SM BR OVC002 05/04 A2988 RMK AO2 T00500044 EHAK 051625Z AUTO ///10KT 9999 OVC021/// 06/01 Q1026 CXSL 051600Z AUTO 32014KT M19/M22 RMK AO1 PK WND 33021/1528 T11851221 50005 KCOM 051615Z AUTO 18004KT 10SM OVC011 08/06 A2992 RMK AO2 T00770055 CYKD 051600Z 16002KT 15SM VCFG FEW023 M26/M30 A3101 RMK SC2 SLP502 CYIV 051600Z 00000KT 12SM -SN BKN008 BKN250 M05/M06 A2971 RMK SC5CI2 SLP080 CXTD 051600Z AUTO 33010G15KT M01/M03 RMK AO1 PK WND 29021/1512 SLP154 T10141026 58002 KCON 051600Z AUTO 00000KT 3/4SM -SN BR FEW008 BKN021 OVC034 M01/M03 A2997 RMK AO2 P0000 T10111033 KCNW 051555Z 36004KT 10SM -RA OVC009 09/08 A2992 KDEW 051553Z AUTO 15004KT 10SM CLR M08/M11 A3007 RMK AO2 SLP209 T10781106 PHTO 051617Z 00000KT 2 1/2SM +RA BR BKN024 OVC035 21/20 A2991 RMK AO2 P0005 T02060200 $ KBWW 051535Z AUTO 32025G34KT 8SM OVC016 M04/M07 A2949 RMK AO2 EHAM 051625Z 10001KT CAVOK 00/M02 Q1026 NOSIG CZBF 051600Z 24005KT 220V310 15SM FEW020 FEW060 FEW100 BKN250 M05/M09 A3000 RMK CF1SC1AC1CS6 CF TR AC TR AC LENT CI CS ASOCTD SLP164 CYKF 051600Z AUTO 28017KT 9SM SCT019 OVC039 02/M01 A2992 RMK SLP145 KBYG 051610Z AUTO 34024G34KT 1/4SM +SN VV011 M07/M10 A2970 RMK AO2 PK WND 34036/1557 P0000 T10671100 KCNY 051553Z AUTO 35004KT 10SM CLR M02/M07 A2986 RMK AO2 SLP135 T10221072 KBYH 051555Z 09010G17KT 10SM OVC014 06/03 A3003 CYKG 051600Z 33022KT 2SM -SN DRSN OVC010 M09/M11 A2984 RMK SN2SC6 SLP123 CXSP 051500Z AUTO 30013KT M18/M21 RMK AO1 PK WND 31018/1449 T11761210 KCOQ 051554Z AUTO 16004KT 10SM BKN009 M01/M03 A2976 RMK AO2 CXTH 051600Z AUTO 31019KT M18/M21 RMK AO1 PK WND 30026/1551 T11781210 VEPT 051430Z 00000KT 1200 BR NSC 15/14 Q1016 NOSIG KBYI 051553Z AUTO 26016G24KT 10SM CLR M06/M11 A3006 RMK AO2 SLP199 T10611106 VERC 051500Z 00000KT 3000 HZ NSC 17/10 Q1019 NOSIG CXSR 051600Z AUTO 32012G18KT M24/M26 RMK AO1 SOG 25 2014 PK WND 32020/1523 SLP309 T12421255 50002 KCOS 051554Z 07012KT 10SM FEW120 SCT240 09/M10 A2964 RMK AO2 SLP034 T00891100 NZTU 051600Z 36002KT 15KM VCSH BKN100 08/08 Q1010 RMK ALT VATSIM USE ONLY CYLA 051600Z 30007KT 15SM -SN BKN027 M09/M12 A2990 RMK SC7 SLP130 CYKJ 051621Z AUTO 29006KT 9SM -SN OVC065 M11/M12 A2975 RMK SLP115 KCOT 051607Z AUTO 32006KT 10SM OVC012 12/09 A2994 RMK AO2 T01170094 KCQB 051615Z AUTO 16010KT 10SM CLR 06/06 A2991 RMK AO2 KCPK 051615Z AUTO 31007KT 10SM BKN006 OVC012 10/08 A3000 RMK AO2 T01040083 CYJT 051600Z 01007KT 10SM -SHSN BKN010 OVC020 M04/M09 A2983 RMK SC6SC2 SLP105 EGKK 051620Z 08005KT 6000 NSC 05/03 Q1024 KCOU 051554Z 15008KT 1/4SM FG VV002 01/01 A2999 RMK AO2 SLP161 I1000 T00060006 EHBK 051625Z AUTO 13002KT 9999 NCD 02/M00 Q1025 NOSIG KCQC 051553Z AUTO 28019KT 10SM CLR 02/M11 A2985 RMK AO2 SLP110 T00171106 KBYL 051615Z AUTO 06003KT 10SM FEW010 OVC017 07/07 A3009 RMK AO1 EGLC 051620Z AUTO 09007KT 7000 NCD 06/04 Q1025 CYKL 051600Z AUTO 30006KT 9SM -SN OVC035 M08/M10 A2982 RMK SLP140 CYLD 051614Z 20006KT 15SM -SN OVC014 M02/M03 A2971 RMK SC8 SLP092 KDFW 051553Z 08006KT 10SM OVC011 09/06 A2989 RMK AO2 SLP119 T00940061 CXTN 051600Z AUTO 06004KT M30/M34 RMK AO1 SLP455 T13041335 53010 KCQF 051615Z AUTO 06004KT 7SM OVC005 18/18 A2988 RMK AO2 CYKO 051500Z 13017KT 15SM OVC025 M12/M13 A2995 RMK SC8 SLP146 EGLF 051620Z 12003KT 6000 NSC 04/02 Q1024 CXTO 051600Z AUTO 05/02 RMK AO1 SLP133 T00460022 51024 CXTP 051600Z AUTO 33006KT M04/M07 RMK AO1 SOG 01 8012 SLP055 T10361070 50006 CYKP 051628Z AUTO 11005KT 060V150 6SM -SN FEW026 OVC040 M06/M07 A2974 RMK SLP087 OSDI 051600Z 18003KT CAVOK 12/06 Q1022 EFTP 051620Z AUTO 34012KT 9999 SCT017 BKN021 OVC026 M01/M05 Q1005 CYKQ 051600Z 12007KT 15SM FEW014 OVC085 M07/M09 A2989 RMK SC1AS7 SLP126 KCPR 051602Z 32011KT 1/4SM R03/2600V3000FT +SN FZFG VV007 M04/M06 A2966 RMK AO2 P0001 T10441056 CYLH 051612Z AUTO 05004KT 6SM -SN OVC036 M07/M08 A2973 RMK SLP087 NZWB 051600Z 14003KT 40KM SKC 12/10 Q1018 RMK ALT NZNS VATSIM USE ONLY KCPS 051553Z 13006KT 10SM OVC013 05/02 A3007 RMK AO2 SLP184 T00500017 KBYS 051555Z AUTO 09002KT 10SM CLR 06/M12 A2996 RMK AO2 SLP164 WND DATA ESTMD T00631116 PWINO $ CYLJ 051600Z 30012KT 15SM DRSN FEW015 FEW090 SCT240 M14/M18 A2995 RMK CF1AC1CI2 CF TR SLP181 CYMA 051600Z VRB02KT 20SM OVC060 M24/M27 A3057 RMK SC8 SLP422 EFVA 051620Z AUTO 01011KT 9999 -SN FEW014/// BKN016/// OVC023/// M02/M04 Q1007 KCPT 051615Z AUTO 00000KT 10SM OVC010 09/08 A2992 RMK AO2 CYLK 051600Z 03014G24KT 4SM -SN OVC016 M08/M11 A3007 RMK SC8 -6.5/-8.0/2.0/13 MUCHLOOSE SLP201 NZWD 051555Z 24009KT 9999 BKN055 BKN080 M04/M11 A2901 RMK SLP822 SN DSNT GRID W-N-NE AND S GRID05009KT SDP/HDG HDF GRID W-N CZDB 051600Z AUTO 33006KT M02/M06 RMK AO1 SLP162 T10211058 58016 ORMM 051600Z 30004KT CAVOK Q1018 NOSIQ KCPU 051615Z AUTO 00000KT 10SM CLR 04/02 A3008 RMK AO2 T00360021 CYLL 051600Z 32019G26KT 15SM DRSN FEW018 BKN080 M17/M20 A2996 RMK SC1AC6 SLP202 EGMC 051620Z 04003KT 8000 MIFG NSC 05/03 Q1025 EFTU 051620Z AUTO 34008KT CAVOK 01/M03 Q1005 R08/19//95 EGLL 051620Z AUTO 07004KT 7000 NCD 06/03 Q1024 TEMPO 4500 BR KCQM 051555Z AUTO 27004KT 10SM OVC013 M02/M04 A2977 RMK AO2 CXTV 051600Z AUTO 16002KT M26/M28 RMK AO1 SLP501 T12571283 51003 VERP 051500Z 02004KT 4000 HZ NSC 23/16 Q1017 NOSIG EGMD 051620Z 09007KT 9000 NSC 08/06 Q1024 KCRE 051619Z 36003KT 10SM SCT006 OVC100 12/11 A3000 RMK AO1 T01170106 KDGW 051602Z AUTO 33009KT 1/4SM +SN FZFG VV007 M03/M04 A2963 RMK AO2 P0000 T10331044 KDHN 051600Z 07006KT 5SM BR OVC004 14/14 A2999 RMK AO2 T01440144 PNO KCPW 051615Z AUTO 20008KT 10SM CLR M09/M12 A2994 RMK AO2 KBZN 051556Z 25004KT 10SM FEW050 BKN080 OVC095 M07/M11 A2991 RMK AO2 SLP172 T10671106 KCRG 051553Z 21012KT 10SM CLR 25/20 A2998 RMK AO2 SLP151 T02500200 KBYY 051615Z AUTO 28005KT 10SM OVC010 12/12 A2984 RMK AO2 T01270124 CYKY 051600Z 31019KT 15SM DRSN BKN040 M15/M18 A2992 RMK SC6 SLP183 ORNI 051600Z 00000KT 6000 SCT040 17/05 Q1020 NOSIQ CYKZ 051600Z 26006G18KT 220V280 15SM BKN022 BKN045 04/00 A2991 RMK SC5SC2 SLP136 CYMH 051628Z AUTO 30013G22KT 9SM OVC039 M05/M09 A2970 RMK SLP061 NZWK 051600Z 00000KT 25KM SKC 14/14 Q1021 RMK ALT NZTG VATSIM USE ONLY CZCR 051600Z AUTO 24007KT M06/M09 RMK AO1 SOG 12 8018 SLP169 T10571092 KDIJ 051556Z AUTO 09006KT 10SM CLR M12/M18 A2989 RMK AO2 SLP173 T11221183 CYMJ 051600Z 31022G28KT 4SM -SN DRSN BKN013 OVC023 M09/M12 A2979 RMK SC6SC2 SLP124 CYNA 051600Z AUTO 36008KT 9SM FEW028 M07/M12 A2992 RMK SLP135 KCQT 051547Z AUTO 00000KT 10SM CLR 11/03 A2997 RMK AO2 SLP148 T01060033 KDHT 051553Z AUTO 23010KT 10SM CLR 04/M02 A2966 RMK AO2 SLP048 T00441022 KDIK 051556Z AUTO 29025G34KT 4SM BR OVC009 M04/M07 A2956 RMK AO2 PK WND 29035/1524 SLP038 T10441067 CYLT 051600Z 14006KT 15SM SKC M26/M32 A3011 RMK SLP201 CXWB 051500Z AUTO 04008KT M10/M13 RMK AO1 SLP189 T11001129 53007 EFUT 051620Z AUTO 34013KT 310V010 9999 FEW026 M05/M10 Q1000 CYNC 051600Z 13006KT 090V150 15SM SCT010 BKN130 OVC300 M10/M13 A2992 RMK SC3AS2CS3 SF ASOCTD SLP137 CYLU 051600Z 16007KT 15SM -SN FEW029 BKN034 BKN040 M09/M12 A2990 RMK SC2SC3SC2 SLP132 EGNC 051620Z 06008KT 9999 FEW010 SCT035 02/01 Q1023 NZWN 051600Z AUTO 35016KT 9999 OVC014/// 15/12 Q1018 TEMPO SCT015 TXKF 051555Z 03008KT 360V080 9999 FEW038 FEW060 FEW300 20/10 Q1019 EHDL 051625Z AUTO 13003KT 090V160 9999 FEW110 M02/M04 Q1026 BLU CYND 051600Z 07010KT 3SM -SN DRSN BKN009 OVC015 M03/M05 A2985 RMK SF7SC1 SLP113 CXVM 051500Z AUTO 33013KT M16/M20 RMK AO1 PK WND 34021/1424 T11611198 CYMM 051600Z AUTO 29012G18KT 1 1/4SM -SN OVC022 M16/M19 A3010 RMK SLP230 KCQW 051555Z AUTO 35004KT 10SM CLR 10/08 A3004 RMK AO2 NZWP 051600Z 05003KT 15KM SKC 15/14 Q1020 RMK ALT NZAA VATSIM USE ONLY CXVN 051600Z AUTO 24011KT 04/01 RMK AO1 SOG 00 1025 PK WND 24019/1537 SLP145 T00390006 CYNE 051615Z AUTO 30003KT 220V320 9SM BKN005 OVC015 M02/M03 A2972 RMK SLP082 CYLW 051600Z AUTO 20002KT 9SM BKN055 M06/M07 A3009 RMK SLP215 KCQX 051505Z AUTO 15005KT 10SM BKN022 OVC045 04/01 A3005 RMK AO2 T00440006 CYMO 051615Z AUTO 14006KT 9SM -SN FEW010 OVC037 M04/M06 A2984 RMK SLP107 KCSG 051551Z 09005KT 10SM OVC007 11/09 A3000 RMK AO2 SLP157 T01060089 KCRP 051551Z 33015KT 10SM FEW009 SCT012 OVC026 12/11 A2990 RMK RAE24 SLP124 P0000 T01170106 NZWR 051600Z 05003KT 15KM SKC 15/14 Q1020 RMK ALT NZAA VATSIM USE ONLY KCRQ 051553Z AUTO 05003KT 10SM OVC010 12/07 A2997 RMK AO2 SLP149 T01170067 NZWS 051600Z 17002KT 20KM SCT019 13/12 Q1019 RMK ALT VATSIM USE ONLY EGNH 051620Z 11007KT 7000 NSC 03/02 Q1023 EHEH 051625Z AUTO 10004KT 080V170 9999 NCD 02/M02 Q1026 BLU VRB02KT CAVOK KCRS 051553Z AUTO 04006KT 5SM -RA BR OVC007 09/08 A2991 RMK AO2 SLP129 P0002 T00940083 $ KEBA 051615Z AUTO 00000KT 10SM OVC005 10/09 A3004 RMK AO2 T00950090 NZWU 051600Z 03001KT 10KM SHRA SCT027 11/10 Q1019 RMK ALT NZPM VATSIM USE ONLY CZFA 051600Z 23002KT 30SM BKN085 M24/M26 A3044 RMK AC5 SLP397 CYOA 051600Z 01026G31KT 1 1/2SM BLSN BKN085 M18/M20 A3017 EGNJ 051620Z 00000KT 3500 BR NSC 02/02 Q1025 KCTB 051556Z AUTO 33016KT 5SM HZ OVC037 M14/M17 A2997 RMK AO2 PK WND 35028/1503 SLP211 T11441172 KDKB 051615Z AUTO 18012KT M1/4SM FZFG OVC002 M01/M01 A3002 RMK AO2 T10071010 CYMT 051600Z AUTO 11005KT 9SM FEW140 M14/M16 A2987 RMK SLP151 CYOC 051600Z 00000KT 15SM IC MIFG FEW004 FEW038 M39/M43 A3088 RMK ST1SC1 FROIN SLP508 CYMU 051600Z 14008KT 15SM -SN OVC010 M07/M09 A2999 RMK SC8 SLP162 CZEL 051600Z AUTO 26015G20KT 01/M01 RMK AO1 SOG 02 1019 PK WND 28020/1534 SLP140 T00131010 50023 KCSM 051553Z 19012KT 10SM CLR 06/03 A2984 RMK AO2 SLP108 T00610033 CZEM 051600Z 12007KT 15SM FEW030 BKN090 M09/M12 A2992 RMK SC1AC6 SC TR SLP133 CXWM 051600Z AUTO 33012KT M15/M18 RMK AO1 T11501180 CYOD 051600Z 30014KT 7SM DRSN FEW040 BKN100 M17/M21 A3002 RMK SC2AC3 VIS LWR W QUAD SLP213 CYNM 051624Z AUTO 12007KT 7SM -SN BKN026 OVC034 M08/M09 A2983 RMK SLP124 EGNM 051620Z VRB02KT 2000 0800SE R32/P1500 PRFG NSC 00/00 Q1024 KCRW 051554Z 18004KT 10SM CLR 09/01 A3010 RMK AO2 SLP193 T00940011 EHDV 051625Z AUTO 11007KT 9999 NCD 08/02 Q1026 EHFD 051625Z AUTO VRB03G15KT 9999 FEW023/// 08/02 Q1026 KEAN 051615Z AUTO 34012G23KT 10SM SCT009 SCT033 BKN100 00/M03 A2963 RMK AO2 T00011031 EGMW 051620Z 05001KT CAVOK 06/04 Q1025 CXVW 051500Z AUTO 25008KT M21/M24 RMK AO1 T12091240 CXWN 051600Z AUTO 10002KT M01/M04 RMK AO1 SLP077 T10091037 51009 KCRX 051615Z AUTO 04005KT 9SM -DZ OVC005 08/06 A3000 RMK AO2 EGNO 051620Z 11006KT 080V140 8000 FEW035 03/01 Q1023 CYMX 051600Z 06009KT 020V100 1 1/2SM -SN DRSN BKN009 OVC017 M05/M06 A2987 RMK SN4SF2SC2 SLP122 KEBG 051615Z AUTO 31008KT 10SM OVC014 15/11 A2993 RMK AO2 T01450109 KCSQ 051555Z AUTO 18015KT 9SM CLR 03/02 A2983 RMK AO2 UNTT 051600Z 22006G12MPS 9000 -SHSN DRSN SCT020CB M13/M16 Q1011 NOSIG RMK QFE744 KEAR 051615Z AUTO 20010KT 10SM CLR 04/M03 A2961 RMK AO1 EGNR 051620Z 15010KT 5000 HZ BKN004 03/02 Q1024 KCTJ 051615Z AUTO 11003KT 10SM OVC004 10/10 A3002 RMK AO2 T00960096 CYPA 051600Z 31015KT 10SM -SN OVC025 M10/M14 A2983 RMK SC8 SLP136 CYOJ 051600Z 32007G16KT 280V350 3SM -SN DRSN OVC035 M19/M22 A3035 RMK SC8 /S01 AFT 05 UTC/ SLP318 EGPA 051620Z 00000KT 9999 FEW040 03/02 Q1025 KCUB 051625Z AUTO VRB03KT 10SM SCT012 13/09 A3003 RMK AO2 T01280089 KDKK 051617Z AUTO 28012G21KT 10SM SCT025 BKN030 OVC037 05/01 A3000 RMK AO2 PK WND 28026/1603 T00500006 EGNS 051620Z 10011KT 9999 BKN012 07/05 Q1022 NOSIG KEAT 051555Z AUTO 08004KT 10SM CLR M05/M07 A3007 RMK AO2 SLP198 T10501072 EGPB 051550Z 00000KT 9999 FEW043 04/02 Q1025 EGNT 051620Z 00000KT 6000 NSC M00/M00 Q1025 KEAU 051556Z 15007KT 3SM BR OVC002 M01/M01 A2984 RMK AO2 SLP114 I1002 T10061006 CYPC 051600Z 32009KT 15SM IC FEW017 SCT090 M24/M27 A3097 RMK SC2AS1 SLP490 ZUGY 051600Z 36004MPS 9000 SCT016 OVC033 09/05 Q1032 NOSIG EGPC 051620Z 00000KT 9999 MIFG FEW015 01/M00 Q1025 KCSV 051553Z AUTO 06007KT 6SM BR OVC004 07/06 A3004 RMK AO2 SLP173 T00670061 CZFM 051600Z 20003KT 10SM OVC020 M24/M27 A3100 RMK SC8 SLP503 EGNV 051620Z 16002KT 2500 BR MIFG NSC M00/M01 Q1025 CZEV 051600Z AUTO 12002KT M26/M30 RMK AO1 SOG 20 1005 SLP511 T12621295 EGOM 051550Z AUTO 05006KT 4500 BR NCD 00/00 Q1023 CYPD 051600Z AUTO 34007G15KT 310V020 9SM SCT028 OVC034 M01/M05 A2991 RMK SLP135 EGPD 051620Z 01001KT CAVOK M02/M03 Q1025 NOSIG CZFN 051600Z 27009G17KT 20SM FEW080 M25/M28 A3091 RMK AC2 -24.8/-25.2/2.8/12 MUCH LOOSE SLP485 CYPE 051600Z 27005KT 8SM -SN OVC046 M21/M26 A3032 RMK SC8 SLP327 EGPE 051620Z 00000KT 0350 FZFG VV/// M02/M02 Q1025 KDLF 051558Z 30007KT 10SM BKN008 BKN016 10/08 A2995 RMK AO2A SLPNO ALSTG ESTMD T00980082 $ CYOO 051600Z AUTO 25011KT 9SM SCT050 03/01 A2990 RMK SLP131 EGPF 051620Z 00000KT 0150 R23/0450 FZFG VV/// M01/M01 Q1024 EGNX 051620Z 07006KT 4000 BR NSC 01/01 Q1024 KECG 051554Z 33005KT 10SM SCT008 12/10 A3000 RMK AO2 SLP158 T01220100 CYPG 051600Z 12008KT 12SM OVC007 M03/M04 A2972 RMK SF8 SLP078 EGOP 051550Z AUTO 11005KT 9999 // BKN050/// 08/06 Q1022 KDLH 051555Z 00000KT 10SM SCT010 M01/M03 A2977 RMK AO2 SLP099 T10061028 EHGG 051625Z AUTO 05001KT 2300 BR NCD M04/M05 Q1027 TEMPO MIFG KCUH 051615Z AUTO 20006KT 5SM BR BKN003 05/05 A2990 RMK AO2 T00540054 CXYH 051600Z AUTO M19/M22 RMK AO1 SOG 15 1013 SLP398 T11921223 CYPH 051600Z AUTO 32002KT 9SM OVC014 M04/M06 A2994 RMK SLP144 EGPH 051620Z 25002KT 6000 MIFG NSC M02/M02 Q1024 KDKR 051610Z AUTO 04007KT 7SM -RA OVC005 08/07 A2988 RMK AO2 EGPI 051620Z 12009KT 9999 SCT022 06/03 Q1022 KEBS 051555Z AUTO 16013KT 10SM CLR 01/01 A2977 RMK AO2 KDMA 051558Z AUTO 13007KT 10SM CLR 10/M05 A2998 RMK AO2 SLP143 T00961049 CHINO RWY30 $ EGQA 051250Z 00000KT 0000 FZFG OVC004 M01/// Q1025 RED EGOS 051550Z 14003KT 4500 HZ FEW050 BKN220 03/01 Q1024 GRN BECMG 3500 BR BKN010 YLO1 CZFS 051600Z AUTO 34018G26KT M20/M23 RMK AO1 SOG 07 1015 PK WND 34026/1551 SLP394 T11971233 CYQA 051628Z AUTO 22008KT 9SM SCT007 SCT021 SCT031 OVC043 01/01 A2983 RMK SLP116 EHFS 051555Z AUTO 15005KT 130V190 9999 NSC 05/01 Q1025 KCVB 051615Z AUTO 32008KT 10SM -RA BKN008 BKN027 OVC048 11/10 A2993 RMK AO2 T01050098 CYQB 051600Z 08010G20KT 20SM FEW006 FEW015 SCT058 OVC080 M06/M08 A2994 RMK SF1SC1SC4AC4 SF TR SC TR PRESFR SLP145 KEDC 051555Z AUTO 32008KT 4SM -RA BKN008 09/09 A2991 RMK AO2 KCUL 051615Z AUTO 10010KT 10SM OVC011 04/02 A3009 RMK AO2 T00350019 KCVC 051615Z AUTO 00000KT 10SM BKN006 OVC065 10/08 A3000 RMK AO2 KDLL 051615Z AUTO 18006KT 2SM BR OVC002 00/00 A2991 RMK AO2 T00030000 EGPK 051620Z VRB02KT 9999 SCT045 02/M01 Q1024 CYPL 051600Z 00000KT 10SM -SN OVC013 M06/M07 A2970 RMK SC8 SLP082 CXZC 051600Z AUTO 14005KT M04/M06 RMK AO1 SOG 23 8005 SLP109 T10351059 50006 EGPL 051620Z VRB02KT 9999 FEW030 02/M01 Q1023 CYQD 051600Z 23006KT 10SM OVC010 M06/M08 A2973 RMK ST8 BLN DSAPRD 1000FT SLP088 VGEG 051600Z 00000KT 4000 HZ NSC 24/20 Q1013 NOSIG EGPM 051620Z VRB03KT 9999 FEW014 05/04 Q1025 KEDE 051605Z AUTO 00000KT 10SM BKN007 13/10 A3000 RMK AO2 T01250100 KDLN 051553Z AUTO 24014KT 10SM BKN075 OVC090 M09/M18 A2989 RMK AO2 SLP171 T10891178 EGOV 051550Z 09001KT CAVOK 04/03 Q1022 BLU NOSIG EGOW 051550Z 12008KT 8000 HZ BKN250 04/01 Q1023 BLU EGPN 051620Z 31001KT 9999 SCT015 01/00 Q1025 CYOW 051600Z 05008KT 2 1/2SM -SN BKN008 OVC020 M03/M04 A2984 RMK SN2SF5SC1 SLP111 KDKX 051615Z AUTO 00000KT 10SM BKN013 OVC025 10/09 A3006 RMK A01 CYQF 051600Z 33017G23KT 8SM DRSN FEW060 SCT080 BKN250 M16/M21 A3006 RMK SC2AC2CI3 OCNL BLSN SLP256 EGPO 051620Z 00000KT CAVOK 02/M00 Q1023 KCVG 051552Z 00000KT 10SM OVC017 03/M01 A3012 RMK AO2 SLP203 T00331006 CYPO 051600Z AUTO 16005KT 130V190 9SM OVC011 M07/M09 A2983 RMK SLP107 KECP 051553Z 05003KT 10SM OVC005 22/20 A2992 RMK AO2 SLP144 T02170200 KCTY 051610Z AUTO 20017G22KT 10SM OVC014 26/22 A2998 RMK AO2 CYQG 051600Z 24009KT 15SM OVC026 04/00 A3004 RMK SC8 SLP180 CYOY 051600Z 02007KT 15SM FEW010 SCT065 OVC085 M08/M10 A2991 RMK SF0SC3AC5 DA-2129FT PRESFR SLP142 KCTZ 051605Z AUTO 33003KT 10SM CLR 11/09 A3003 RMK AO2 T01120087 KCVH 051610Z AUTO 00000KT 10SM OVC016 10/08 A3012 RMK AO1 KDMH 051554Z AUTO 09/04 A3003 RMK AO1 SLP168 T00940044 CYQH 051600Z 00000KT 20SM -SN OVC110 M26/M29 A3046 RMK AC8 SLP395 CYPQ 051600Z AUTO 27011KT 9SM SCT024 BKN040 03/00 A2986 RMK SLP122 EHFZ 051625Z AUTO 12004KT 9999 NCD 07/00 Q1026 KEDJ 051535Z AUTO 21003KT 10SM OVC013 00/00 A3011 RMK AO1 CYPR 051600Z AUTO 06006KT 9SM CLR M01/M02 A3008 RMK SLP189 CYQI 051600Z 07005KT 15SM BKN022 OVC230 M00/M02 A3001 RMK SC6CS2 PRESFR SLP165 KDLS 051553Z AUTO 10007KT 10SM CLR 00/M03 A3016 RMK AO2 SLP214 T00001028 EHGR 051625Z AUTO 08001KT 9999 BKN340 M00/M01 Q1026 BLU KECS 051615Z AUTO 33020G28KT 10SM SCT004 SCT010 SCT013 M04/M07 A2962 RMK AO2 KCWA 051552Z 21008KT 10SM BKN006 00/M01 A2989 CYRA 051600Z 35015G20KT 10SM -SN BLSN SCT015 BKN030 M17/M21 A3048 RMK ST4SC3 SLP351 KCUT 051453Z AUTO 36008KT 10SM OVC090 M03/M08 A2947 RMK AO2 SLP993 T10281078 51007 KECU 050050Z AUTO 02009G17KT 5SM +RA BKN006 OVC010 07/06 A3001 RMK AO2 P0008 EGQK 051550Z AUTO 23003KT 9999 BKN001/// M03/M04 Q1025 CYRB 051600Z 36011KT 3SM IC BR SKC M30/M34 A3041 RMK SLP312 CYQK 051600Z 26004KT 240V310 15SM SCT006 OVC014 M01/M02 A2971 RMK SF3SC5 SLP083 KCWC 051615Z AUTO 14006KT 7SM OVC001 06/06 A2991 RMK AO2 T00560056 CYQL 051620Z 34009KT 3SM -SN SCT037 OVC047 M14/M18 A3008 RMK SC4SC4 SLP248 EGPU 051620Z 14015KT 9999 SCT028 07/02 Q1022 KEED 051556Z AUTO 00000KT 10SM CLR 11/M08 A2993 RMK AO2 SLP125 T01111078 EGQL 051550Z 31003KT 8000 BR SCT016 SCT150 M00/M01 Q1024 WHT CYQM 051600Z 22004KT 15SM FEW012 FEW035 BKN260 M06/M09 A3000 RMK CF1SC1CI6 CF TR SC TR SLP165 KDMN 051553Z AUTO 26006KT 10SM CLR 04/M01 A2997 RMK AO2 SLP137 T00391011 KCVN 051615Z AUTO 24018KT 10SM CLR 05/00 A2976 RMK AO1 EGQM 051550Z AUTO 19003KT 9000 HZ FEW017/// 03/02 Q1025 CYPW 051600Z 09006KT 2SM -SN FEW009 BKN015 OVC040 00/M01 A3001 RMK SF2SC3SC3 VIS W 6 SNOW WET SLP170 KDMO 051553Z AUTO 15008KT 10SM CLR 04/03 A2997 RMK AO2 SLP153 T00440028 KCVO 051615Z 23006KT 10SM 03/01 A3020 RMK AO1 KCWF 051555Z 04011KT 6SM -RABR OVC006 10/09 A2983 CYPX 051603Z AUTO 06006KT 1/4SM FZFG VV003 M10/M11 A2995 RMK ICG SLP148 CYPY 051616Z AUTO 29012G22KT 1 1/2SM -SN OVC031 M16/M19 A3009 RMK SLP216 KDLZ 051618Z AUTO 21003KT 10SM OVC017 02/00 A3011 RMK AO2 CYQQ 051600Z 28003KT 7SM -SHRA SCT008 BKN014 OVC035 01/01 A3002 RMK SF3SC4SC1 SLP166 KCWI 051456Z AUTO 15011KT 1/4SM UP FG OVC002 00/M01 A2998 RMK AO2 UPB22 SLP181 P0000 60000 T00001006 56002 FZRANO CYQR 051620Z 33019G27KT 15SM -SN OVC012 M08/M10 A2974 RMK SC8 SLP111 KCVS 051558Z AUTO 24012KT 10SM CLR 05/03 A2977 RMK AO2 SLP080 T00480032 $ CYRJ 051600Z 31007KT 8SM -SN OVC006 M11/M13 A2996 RMK SF8 CIG VRB 4-8 SLP162 EHJA 051625Z AUTO VRB10KT 9999 NSC 07/03 Q1025 EGQS 051554Z 22004KT 9999 2000W VCFG FEW000 M04/M05 Q1025 YLO2 TEMPO 1500 AMB CYSB 051600Z 19007KT 10SM -SN BKN007 OVC013 M03/M04 A2978 RMK SF6SC2 SLP105 CYQT 051600Z 25003KT 20SM BKN023 BKN035 00/M00 A2977 RMK SC6SC1 SLP093 OTBD 051600Z 33009KT CAVOK 24/19 Q1017 NOSIG KDNL 051608Z AUTO 35004KT 10SM BKN006 OVC080 12/08 A3003 RMK AO2 T01170078 KEDU 051615Z AUTO 36006KT 1 3/4SM SCT001 A3013 RMK AO1 CYRL 051600Z 30003KT 8SM -SN BKN007 OVC020 M01/M02 A2967 RMK SF6SC2 BR SLP070 EGSC 051620Z VRB01KT 6000 MIFG NSC 03/02 Q1025 KEFD 051550Z 05006KT 7SM BKN003 OVC020 13/13 A2982 CYSC 051614Z AUTO 05005KT 1SM -SN VV020 M06/M07 A2987 RMK SLP133 CYQU 051600Z 30011KT 20SM -SN DRSN SCT036 BKN070 M20/M25 A3034 RMK SC3AC3 SLP343 CXZV 051600Z AUTO 30004KT M06/M10 RMK AO1 SOG 13 8013 SLP166 T10551097 CYQV 051600Z AUTO 32008KT 9SM OVC075 M11/M12 A2969 RMK SLP092 KEEN 051626Z AUTO 00000KT 2 1/2SM UP BR SCT006 OVC014 M01/M01 A2993 RMK AO2 UPB09SNE09 FZRANO PNO $ KCVW 051620Z AUTO 02010KT 2 1/2SM BR BKN005 11/11 A2980 RMK A01 KCXE 051615Z AUTO 00000KT 10SM OVC003 07/06 A3004 RMK AO1 T00650057 KEDW 051558Z 13007KT 090V160 90SM FEW120 BKN230 12/M07 A2995 RMK AO2A PK WND 27026/1459 SLP134 T01171067 KDMW 051615Z AUTO 27003KT 10SM SCT090 07/04 A3000 RMK AO2 KDNN 051615Z AUTO 35003KT 10SM OVC006 10/10 A3001 RMK AO2 CYQW 051600Z AUTO 32020G26KT 9SM -SN OVC025 M13/M17 A2993 RMK SLP177 KEEO 051453Z AUTO 23012KT 10SM BKN070 OVC085 02/M08 A2974 RMK AO2 SLP064 T00171083 53003 KCVX 051615Z AUTO 25020G26KT 10SM BKN034 OVC043 05/00 A2991 RMK AO2 T00461004 EHHW 051625Z AUTO 11003KT 9999 NCD 06/M01 Q1026 CYQX 051600Z 32013KT 15SM -SHSN FEW007 SCT012 SCT025 OVC034 M05/M09 A2970 RMK SF1SC2SC1SC4 VIS LWR N-NE CVCTVCLD EMBD SLP066 CYSF 051626Z AUTO 32004KT 5SM -SN OVC049 M06/M08 A2983 RMK SLP122 OTBH 051558Z 34011KT 9000 HZ CLR 23/19 A3004 RMK AO2A SLP174 T02270191 $ CZHY 051600Z AUTO 31021G27KT M17/M18 RMK AO1 SOG 26 3016 PK WND 30031/1524 SLP291 T11681180 CYQY 051600Z 33008KT 15SM OVC027 M02/M07 A2990 RMK SC8 SLP130 CYRQ 051623Z AUTO 05008KT 1 3/4SM -SN OVC027 M06/M06 A2990 RMK SLP131 EGSH 051620Z 05001KT 7000 MIFG NSC 03/03 Q1025 TEMPO 4000 BR CYQZ 051608Z AUTO 33009KT 9SM -SN OVC014 M08/M10 A3014 RMK SLP252 KDPA 051552Z 19011KT 2 1/2SM BR OVC003 00/M02 A3003 RMK AO2 SLP176 T00001017 KDNS 051615Z AUTO 18017G24KT 10SM CLR 04/00 A2970 RMK AO2 CYSJ 051600Z 04003KT 340V070 15SM FEW120 BKN250 M04/M09 A3001 RMK AC1CI7 AC TR PRESFR SLP172 OSKL 051500Z 26004KT 8000 SCT026 BKN100 11/07 Q1020 KEET 051621Z AUTO 34004KT 3SM -RA BR OVC003 11/11 A2999 RMK AO2 P0009 T01060106 ORSU 051600Z VRB02KT 8000 NSC 08/08 Q1022 KEFK 051615Z AUTO 17006KT 1 3/4SM -SN OVC010 M04/M05 A2986 RMK AO2 T10361049 CYSK 051625Z 15007KT 15SM -SG OVC011 M03/M05 A2994 RMK SC8 SLP143 CYRT 051600Z 05012G18KT 8SM -SN DRSN OVC031 M08/M09 A2999 RMK SC8 SLP161 EGTC 051620Z 08006KT 2500 BR FEW045 04/03 Q1024 KDNV 051615Z AUTO 21010KT 10SM OVC009 01/00 A3006 RMK AO2 T00120000 KCWV 051615Z AUTO 00000KT 10SM OVC003 14/14 A3001 RMK AO2 T01360136 CZKD 051600Z AUTO 10004KT M07/M08 RMK AO1 3015 SLP082 T10721079 50002 CYRV 051600Z AUTO VRB02KT 9SM OVC065 M03/M06 A3007 RMK SLP207 CYSM 051600Z 29018KT 3SM -SN DRSN OVC040 M15/M18 A3008 RMK SC8 SLP210 EHKD 051625Z AUTO 13002KT 9999 NCD M00/M02 Q1026 BLU 11003KT CAVOK KEGE 051550Z 00000KT 10SM BKN060 00/M08 A2979 CYSN 051600Z 24015G24KT 15SM OVC035 04/00 A2996 RMK SC8 SLP151 EGTE 051620Z 10006KT 7000 BKN006 10/09 Q1022 CYTE 051600Z 35007KT 330V030 15SM -SN OVC019 M10/M13 A2998 RMK SC8 SLP158 KCXO 051553Z 03003KT 10SM OVC005 11/09 A2983 RMK AO2 SLP099 T01060094 KCXP 051615Z AUTO 06003KT 10SM CLR 01/M07 A3006 RMK AO2 CYSP 051600Z 00000KT 7SM VCSH SCT008 BKN011 BKN020 M01/M01 A2970 RMK SC3SC2SC2 CVCTV CLD EMBD SLP077 CYTH 051600Z 06003KT 5SM -SN BKN003 OVC008 M05/M06 A2973 RMK SC5SC3 SLP085 KEGI 051556Z 06004KT 10SM OVC005 20/19 A2992 RMK AO2A SLP133 T01950185 $ EHJR 051555Z AUTO VRB02G03KT //// ///////// 08/04 Q1025 W///H6 OSLK 051600Z 06006KT 9999 FEW030 SCT100 14/09 Q1022 KEHA 051608Z AUTO 27008KT 07/M05 RMK AO1 /PK WND 44 M T00671050 EGSS 051620Z AUTO 09005KT 060V140 4700 HZ NCD 05/04 Q1025 KEFT 051615Z AUTO 19012KT M1/4SM -SN OVC003 00/00 A2995 RMK AO2 EGTK 051620Z 04003KT 6000 NSC 03/03 Q1023 EGUB 051550Z 02004KT 7000 HZ BKN250 04/02 Q1023 WHT BECMG 4000 BR GRN CYUB 051600Z 16005KT 10SM -SN OVC018 M25/M27 A3102 RMK SC8 SLP508 KDPL 051605Z AUTO 36007KT 10SM CLR 11/08 A3002 RMK AO2 KEHC 051615Z AUTO 12013KT 5SM HZ CLR A2976 RMK A01 KCXU 051615Z AUTO 00000KT 3SM OVC002 15/15 A2998 RMK AO2 T01510150 CYTL 051600Z AUTO 12003KT 070V150 9SM OVC007 M04/M05 A2973 RMK SLP085 KDOV 051618Z AUTO 28007KT 10SM OVC011 08/08 A3000 RMK AO2 $ KCXY 051556Z 30004KT 10SM BKN010 07/04 A3002 RMK AO2 SLP167 T00670039 CYSY 051600Z 01004KT 10SM -SN OVC018 M25/M28 A3090 RMK SC8 SLP483 KDQH 051615Z AUTO 04006KT 5SM -RA OVC003 13/13 A3001 RMK AO2 VGHS 051600Z 35003KT 3500 HZ NSC 23/18 Q1014 NOSIG CYTQ 051625Z 20007KT 6SM -SN BKN032 M10/M11 A2991 RMK SC6 SLP135 CYTR 051610Z 27009KT 12SM BKN019 OVC073 03/00 A2988 RMK SC6AC2 SLP124 KCYS 051453Z 26015G23KT 10SM CLR 03/M08 A2956 RMK AO2 SLP996 T00331078 57005 KDRA 051555Z AUTO 00000KT 10SM CLR 03/M09 A2995 RMK AO2 SLP136 T00281089 CYTS 051600Z 15005KT 2SM -SN OVC014 M04/M06 A2974 RMK SF8 VIS VRB 1-3 SLP091 EHMA 051625Z AUTO VRB02KT 9999 NCD 03/M02 Q1026 EGVA 051558Z AUTO 07003KT 9999 CLR 04/04 A3022 RMK AO2 SLP242 T00370036 $ KCZL 051615Z AUTO 00000KT 7SM OVC004 10/08 A3001 RMK AO2 T01010082 EICK 051600Z 12009KT 0200 R17/0700D R35/0500D FG -DZ BKN001 BKN003 09/09 Q1019 NOSIG CYVC 051600Z 27009KT 6SM -SN DRSN BKN031 BKN250 M12/M15 A2981 RMK SC6CI1 SLP124 CYUL 051621Z 04004KT 1 1/4SM R06L/5000VP6000FT/U -SN BKN006 OVC015 M03/M04 A2986 RMK SF6NS2 SLP113 EGUL 051558Z AUTO 00000KT 9999 FEW230 02/02 A3025 RMK AO2 VIS 4000 RWY24 SLP248 T00210021 KEGV 051615Z AUTO 24007KT 10SM SCT012 00/M03 A2982 RMK AO2 T00011028 CZMD 051600Z AUTO 04002KT 9SM -SN OVC050 M06/M06 A2970 RMK SLP080 EHKV 051625Z AUTO VRB02KT 9999 NSC 07/04 Q1025 KEHO 051605Z AUTO 00000KT 10SM SCT004 08/07 A3004 RMK AO2 T00800071 EGUN 051558Z AUTO 06004KT 9999 FEW230 04/04 A3026 RMK AO2 SLP251 T00400040 EGUO 051350Z 07005KT 6000 OVC006 04/03 Q1023 YLO1 EHMG 051625Z AUTO 12006KT 9999 NCD 06/M02 Q1026 CYTZ 051600Z AUTO 25016G23KT 9SM FEW022 05/01 A2992 RMK SLP137 KEHR 051615Z 09008KT 10SM OVC015 04/00 A3009 RMK AO1 KDRI 051615Z AUTO 00000KT 10SM RA BKN005 OVC026 10/09 A2988 RMK AO2 P0002 T01000092 CZMJ 051500Z AUTO 32021G28KT M08/M11 RMK AO1 SOG 00 3024 PK WND 32033/1420 SLP114 T10821109 CYWA 051622Z AUTO 16003KT 090V180 3SM -SN OVC009 OVC035 M02/M03 A2985 KEIK 051614Z AUTO 25021G27KT 10SM BKN100 12/M08 A2963 RMK AO2 T01161081 KCZT 051615Z AUTO 32006KT 10SM OVC012 11/09 A2993 RMK AO2 P0001 CYUT 051600Z 34006KT 20SM -SN OVC035 M10/M13 A3007 RMK SC8 SLP188 EIDL 051600Z 15009KT CAVOK 06/03 Q1021 EGWC 051250Z 22002KT 3200 BR BKN200 03/01 Q1024 YLO1 CYVL 051627Z AUTO 36007KT 9SM SCT006 SCT009 M32/M35 A3084 RMK SLP493 KDRM 051613Z AUTO 27003KT 10SM OVC070 02/00 A2983 RMK AO2 T00180003 CYVM 051600Z 00000KT 4SM -SN BKN012 M15/M17 A2995 RMK SC5 SLP144 CYWE 051600Z AUTO 03013G21KT 9SM -SN OVC050 M18/M20 A3029 RMK SLP303 EHLW 051625Z AUTO 09004KT 9999 NCD M03/M05 Q1027 BLU KFAF 051608Z AUTO 32008KT 10SM OVC007 10/07 A3000 RMK AO2 KDRO 051453Z AUTO 11004KT 10SM CLR M07/M09 A2990 RMK AO2 SLP169 T10671089 56007 EGVN 051550Z 05004KT 8000 HZ FEW180 BKN250 05/02 Q1023 BECMG 6000 HZ EGUW 051550Z 09003KT 7000 HZ FEW150 BKN220 05/03 Q1025 WHT BECMG 3000 BR YLO1 CYVO 051600Z 15007KT 10SM -SN FEW012 BKN030 OVC160 M05/M07 A2980 RMK SF2SC4AS2 SLP119 CYUX 051600Z 34007KT 4SM BR OVC010 M13/M14 A3004 RMK ST8 SLP176 EGVO 051550Z 09006KT 7000 HZ FEW120 SCT250 04/02 Q1023 WHT BECMG 4000 BR GRN KEHY 051615Z AUTO 26034G40KT 1SM -SN BKN030 SCT038 SCT046 M06/M10 A2963 RMK AO2 EGVP 051550Z 07005KT 7000 HZ FEW050 BKN300 07/04 Q1023 WHT BECMG 4000 BR GRN CYWG 051600Z 11003KT 090V160 15SM OVC012 M01/M03 A2972 RMK SC8 SLP079 CYVP 051600Z 36005KT 12SM -SN OVC034 M10/M12 A2993 RMK SC8 WND ESTD SLP141 CYUY 051611Z 15005KT 110V180 3SM -SHSN FEW017 OVC034 M05/M07 A2979 RMK SC1SC7 CVCTV CLD ASOCTD SLP111 KCZZ 051552Z AUTO 05003KT 05/M03 A2994 RMK AO1 SLP133 T00501033 KEIR 042030Z AUTO 04021KT 4SM BR SCT006 OVC011 20/19 A2983 RMK A01 CYVQ 051600Z 29009KT 30SM IC FEW010 FEW180 SCT220 M26/M29 A3096 RMK ST1AC1CI2 SLP496 CYWH 051600Z 25005KT 15SM FEW004 FEW017 SCT050 BKN120 03/02 A3002 RMK SF1CU1SC1AC4 SLP167 CYVR 051626Z 07015KT 7SM -SN FEW006 SCT012 OVC016 01/00 A3003 RMK SC2SC2SC4 SLP169 KDTA 051615Z AUTO 01014G18KT 10SM BKN047 OVC080 00/M11 A3002 RMK AO1 CYWJ 051600Z 32015G22KT 7SM VCBLSN BKN100 M29/M33 A3074 RMK AS5 SLP448 KDRT 051553Z AUTO 30005KT 10SM SCT013 BKN022 OVC085 11/09 A2993 RMK AO2 SLP131 T01110089 CYVT 051600Z 33022G28KT 1 1/2SM -SN DRSN OVC025 M15/M18 A2992 RMK SN3SC5 VIS VRB 1-2 OCNL BLSN SLP173 CZMT 051620Z 00000KT 15SM BCFG SCT008 BKN050 M01/M02 A3012 RMK CF3SC3 FROIN SLP201 CYWK 051600Z 27005KT 15SM -SN BKN033 M09/M11 A2986 RMK SC7 SLP155 CZMU 051500Z AUTO 31017KT M17/M21 RMK AO1 PK WND 33028/1411 T11741211 CYWL 051626Z 34003KT 2 1/2SM -SN BR BKN003 OVC100 M13/M15 A3002 RMK ST6AC2 VIS VRB 2-3 SLP240 CYXC 051600Z 23003KT 20SM FEW005 FEW045 SCT090 M10/M11 A2995 RMK SF1SC2AC1 SF TR SLP190 KDSM 051554Z 17010KT 8SM FEW110 SCT210 SCT250 04/02 A2985 RMK AO2 SLP114 T00390017 KFAM 051624Z AUTO 12007KT 10SM SCT010 04/02 A3002 RMK AO2 EGXC 051615Z 09003KT 1500 VCFG FEW170 BKN200 03/02 Q1025 AMB CYVV 051600Z 27010G16KT 15SM SCT010 OVC020 03/01 A2987 RMK SF3SC5 SLP124 EGXE 051550Z 24002KT 4000 0500N BCFG BR FEW200 BKN300 M00/M01 Q1025 RED TEMPO 2000 YLO2 CYXE 051600Z 32013G21KT 15SM -SN OVC020 M10/M14 A2986 RMK SC8 SLP151 EIDW 051600Z VRB03KT 9000 FEW012 BKN017 06/04 Q1021 BECMG BKN012 KFBG 051556Z AUTO 36005KT 10SM CLR 11/08 A3001 RMK AO2 SLP166 T01130076 $ CYXH 051600Z 29012KT 15SM FEW028 FEW110 BKN270 M16/M19 A3006 RMK SC1AC1CI5 SC TR SLP228 KFAR 051553Z 05007KT 10SM CLR M03/M05 A2964 RMK AO2 SLP049 T10281050 KDUA 051615Z AUTO 13008KT 10SM SCT011 OVC110 07/07 A2992 RMK AO2 KELA 051615Z AUTO 34005KT 10SM OVC006 12/11 A2984 RMK AO2 T01180111 CYXJ 051600Z 31009KT 10SM -SN SCT035 OVC070 M20/M24 A3036 RMK SC3AC5 SLP355 KFAT 051621Z 16004KT 2 1/2SM BR BKN150 OVC200 04/03 A3010 RMK AO2 TWR VIS 3 MTNS OBSC DSNT N-E-SE T00440028 KDUB 051615Z AUTO 28028G34KT 10SM SCT080 M11/M20 A2970 RMK AO2 CYYB 051600Z 13005KT 1 1/2SM -SN OVC015 M04/M05 A2978 RMK SC8 SLP108 KFBL 051614Z AUTO 14010KT 10SM SCT080 02/00 A2975 RMK AO2 KDTL 051554Z AUTO 09004KT 10SM CLR M03/M03 A2967 RMK AO2 KDUC 051615Z AUTO 15011KT 08/06 A2989 RMK AO2 PWINO TSNO KEKM 051550Z 21006KT 10SM OVC010 00/M01 A3006 RMK AO2 CZOL 051500Z AUTO 32010KT M16/M20 RMK AO1 T11631198 CYXL 051600Z 26003KT 220V280 15SM -SHSN FEW008 OVC032 M01/M02 A2970 RMK SF2SC6 CU EMBD SLP079 CYYC 051600Z 35009KT 20SM FEW035 FEW070 SCT160 BKN250 M15/M20 A2999 RMK SC1AC1AC3CI3 SC TR SLP242 EGWU 051550Z 05003KT 8000 HZ FEW050 BKN250 06/03 Q1024 BECMG 6000 BR KELD 051553Z AUTO 05010KT 5SM -RA BR OVC006 07/06 A2995 RMK AO2 RAB04 CIG 004V009 SLP143 P0002 T00670061 KDSV 051554Z AUTO 29008G18KT 10SM OVC034 05/M01 A2995 RMK AO2 SLP156 T00501011 CZPC 051628Z AUTO 13006KT 2 1/4SM -SN BKN034 OVC047 M15/M17 A3001 RMK SLP243 EGYD 051550Z 06003KT 3000 MIFG BKN250 01/01 Q1025 YLO1 BECMG 0500 FG BKN000 RED CYYD 051600Z 00000KT 20SM -SN OVC050 M08/M09 A3014 RMK SC8 SLP239 KEKN 051551Z AUTO 31007KT 10SM SCT023 OVC028 07/02 A3005 RMK AO2 SLP190 T00670022 KDTN 051553Z VRB03KT 10SM OVC009 08/07 A2996 RMK AO2 RAE43 CIG 007V013 SLP143 P0002 T00830067 CYXN 042100Z 14008KT 15SM BKN016 M04/M06 A2989 RMK SC7 -4.1/-6.7/0/0 LAST STFD OB/NXT 051300Z SLP125 EGYE 051450Z 11004KT 2800 BR BKN250 ///// Q1024 YLO1 CYYE 051600Z 31009KT 10SM -SN OVC044 M18/M22 A3056 RMK SC8 SLP391 KDTO 051553Z 11008KT 10SM OVC015 08/07 A2991 RMK AO2 SLP126 T00830067 KEKO 051556Z AUTO 25003KT 10SM OVC070 M03/M10 A3006 RMK AO2 SLP196 T10331100 CYYF 051600Z VRB02KT 15SM FEW040 FEW100 BKN200 M08/M10 A3011 RMK SC1AC1CI5 SC TR FROIN SLP220 OTHH 051600Z 33010KT CAVOK 24/18 Q1017 NOSIG KFAY 051553Z AUTO 02005KT 10SM CLR 11/08 A3002 RMK AO2 SLP162 T01110078 KDUG 051456Z AUTO 00000KT 10SM CLR M03/M04 A3002 RMK AO2 SLP165 T10281044 53006 CYWY 051600Z 34011G19KT 290V010 15SM DRSN BKN065 M24/M29 A3081 RMK SC7 SLP458 CYXP 051600Z 00000KT 14SM FEW020 M18/M20 A2990 RMK SC1 SC TR SLP129 EGXP 051550Z AUTO 05004KT 2400 // NCD 01/00 Q1024 CYYG 051600Z 33007KT 310V020 15SM -SHSN OVC024 M01/M07 A2996 RMK SC8 CVCTV CLD EMBD PCPN VRY LGT SLP151 KDUH 051614Z AUTO 24004KT 10SM OVC026 04/00 A3009 RMK AO2 T00380000 KEKQ 051556Z AUTO VRB04KT 10SM OVC014 07/04 A3011 RMK AO2 SLP223 T00670044 EHPG 051625Z AUTO 15005KT 100V200 9999 NSC 07/04 Q1025 KFCH 051615Z AUTO 3SM BR OVC014 06/04 A3010 RMK A01 CYXQ 042200Z 18002KT 30SM BKN050 OVC100 M23/M26 A3040 RMK SC5AS3 SLP377 EGYH 051550Z 08006KT 6000 HZ BKN200 03/02 Q1025 WHT CYYH 051600Z 06005KT 15SM -SN FEW020 BKN045 M16/M19 A3022 RMK SC1SC7 SC TR PRESRR SLP239 KFCI 051555Z AUTO 32004KT 10SM OVC006 07/M02 A3005 RMK AO1 KFBR 051615Z AUTO 25004KT 10SM CLR M11/M19 A2992 RMK AO2 T11131191 CYXR 051622Z AUTO 13006KT 7SM FEW012 BKN030 BKN035 OVC044 M04/M05 A2979 RMK SLP105 KDTS 051624Z AUTO 09007KT 10SM SCT014 BKN070 23/20 A2989 RMK AO2 T02280200 KDUJ 051605Z AUTO 27008KT 10SM FEW009 SCT013 OVC029 02/M01 A2999 RMK AO2 T00221006 KEKS 051615Z AUTO 29013G22KT 10SM FEW022 BKN040 OVC055 M08/M18 A2993 RMK A01 EGXS 051550Z AUTO 31002KT 9000 // NCD 04/03 Q1025 CYXS 051600Z AUTO 01012KT 9SM OVC065 M13/M17 A3014 RMK SLP262 CYYJ 051600Z 00000KT 10SM FEW005 BKN010 BKN080 01/01 A3001 RMK SF1SC5AC2 SF TR SLP164 KELK 051615Z AUTO 19011G15KT 10SM CLR 07/04 A2982 RMK AO2 T00660041 EGXT 051550Z AUTO 06005KT 2700 BR BKN210/// 01/00 Q1024 CYXT 051600Z 36020G29KT 20SM FEW009 FEW055 SCT097 BKN180 M03/M07 A3013 RMK SF1SC2AC2AC2 SF TR SLP217 EGXU 051550Z 32002KT 2000 0600N MIFG OVC210 01/00 Q1025 RED CYXU 051600Z 27014KT 15SM BKN027 04/M00 A2997 RMK SC7 SLP159 KELM 051605Z 30004KT 10SM SCT027 OVC035 06/01 A2992 RMK AO2 T00560006 KFCM 051553Z 09010KT 8SM OVC090 01/M01 A2972 RMK AO2 SLP075 T00111011 CYYL 051628Z AUTO 33002KT 2 1/2SM -SN BKN004 OVC013 M04/M04 A2970 RMK SLP086 KDTW 051553Z 23010KT 8SM FEW015 OVC025 04/01 A3006 RMK AO2 SLP184 T00390006 KELN 051553Z AUTO 03003KT 10SM SCT110 M02/M06 A3005 RMK AO2 SLP194 T10221056 EGYM 051619Z 08002KT 4000 MIFG BR BKN200 03/02 Q1025 GRN BECMG 2000 BR YLO2 EGXV 051550Z AUTO 00000KT 5000 BR NCD 01/01 Q1025 CYYN 051624Z AUTO 31025G30KT 5SM BR FEW008 BKN015 OVC044 M15/M17 A2983 RMK SLP156 CYZE 051621Z AUTO 28013KT 9SM FEW013 SCT019 SCT024 OVC065 02/01 A2983 RMK SLP110 KEKX 051615Z AUTO 06006KT 10SM OVC014 04/02 A3011 RMK AO2 T00420016 KELO 051613Z AUTO 28005KT 10SM OVC012 M02/M03 A2977 RMK AO2 EHQE 051625Z AUTO 15004KT 120V180 //// // NSC 06/02 Q1026 RE// EGXW 051550Z 06003KT 3500 MIFG FEW170 BKN250 02/02 Q1025 YLO1 BECMG 1500 AMB CYZF 051600Z 36017G22KT 10SM -SN DRSN SCT080 OVC120 M13/M16 A3022 RMK AC4AC4 SLP259 CYXX 051613Z 06007KT 1 1/4SM -SN VV014 01/00 A3006 RMK SN8 SLP181 KELP 051551Z 15004KT 10SM FEW220 06/00 A2994 RMK AO2 SLP116 T00560000 KEKY 051607Z AUTO 31005KT 3SM -RA BR OVC003 10/10 A3001 RMK AO2 LTG DSNT W P0003 CYZG 042200Z 25006KT 12SM -SN OVC020 M11/M13 A2987 RMK SC8 SNW CVR MUCH LOOSE LAST STFD OBS/NEXT 051300 UTC SLP139 CYXY 051600Z VRB02KT 12SM -SN BKN018 OVC030 M18/M22 A3043 RMK SC7SC1 SLP382 EGYP 051550Z 14010KT 9999 FEW023 11/04 Q1009 BLU NOSIG CYXZ 051620Z 00000KT 12SM SCT005 BKN020 BKN050 00/M00 A2973 RMK ST4SC2SC1 SLP083 EGXZ 051550Z AUTO 00000KT 0900 FG FEW240/// M01/M01 Q1025 CYYQ 051624Z VRB02KT 3SM -SN BKN011 OVC017 M05/M06 A2984 RMK ST6SC2 SLP108 CYZH 051600Z AUTO 28019G26KT 1 3/4SM -SN OVC022 M18/M22 A3020 RMK VIS VRB 3/4-3 SLP284 CYYR 051600Z 28006KT 15SM FEW020 BKN048 M09/M14 A2991 RMK SC0SC7 SLP134 KFCS 051558Z AUTO 02006KT 10SM CLR 07/M09 A2961 RMK AO2 SLP050 T00691091 $ CZPS 051500Z AUTO 32016KT M18/M21 RMK AO1 PK WND 32026/1405 T11841209 KEMK 051615Z AUTO 21018KT 10SM FEW034 BKN090 26/21 A2975 RMK A01 KDVK 051615Z AUTO 09005KT 10SM OVC012 05/02 A3011 RMK AO2 KFDK 051547Z 24005KT 10SM SCT007 08/07 A3006 CYYT 051600Z 34013G21KT 15SM BKN040 M02/M10 A2964 RMK SC7 TCU ASOCTD SLP047 KDVL 051556Z AUTO 11013KT 5SM -SN BR OVC003 M04/M05 A2961 RMK AO2 SNB54 SLP065 P0000 T10441050 FZRANO CYYU 051600Z 16004KT 3SM -SN FEW008 BKN056 OVC068 M04/M06 A2974 RMK SF1SC4AC3 SLP087 KEND 051558Z 16008KT 10SM FEW100 06/04 A2983 RMK AO2A SLP111 T00580044 $ KEMM 051000Z AUTO 25020G26KT 1 1/2SM -SN M02/M03 A2966 RMK AO2 KDVN 051609Z AUTO 16013KT 3SM BR OVC002 M01/M01 A2997 RMK AO2 T10061006 EHRD 051625Z AUTO 12002KT 9999 NCD 00/M02 Q1026 NOSIG CYYW 051513Z AUTO 31002KT 9SM BKN011 OVC029 M06/M06 A2969 RMK SLP078 KDUX 051615Z AUTO 24018G25KT 10SM CLR 07/M04 A2965 RMK AO2 T00651045 KDVO 051615Z AUTO 00000KT M1/4SM FG OVC002 09/08 A3012 RMK AO2 KDVP 051626Z AUTO 18013KT 10SM SCT070 OVC085 02/M01 A2958 RMK AO2 T00201007 KELY 051553Z AUTO 18005KT 10SM FEW045 M06/M09 A2998 RMK AO2 SLP172 T10611094 KEMP 051553Z AUTO 17012KT 7SM FEW005 03/03 A2983 RMK AO2 SLP112 T00330028 CYZP 051627Z AUTO 32016G21KT 9SM -RA FEW007 BKN013 BKN021 BKN042 01/M00 A3010 RMK SLP194 CYYY 051600Z 16004KT 15SM OVC014 M05/M08 A3001 RMK SC8 SLP169 KELZ 051556Z AUTO 27012G18KT 10SM BKN015 OVC022 02/M01 A2994 RMK AO2 PK WND 28026/1524 SNE1457 SLP156 P0000 T00221011 KDWH 051553Z 05008KT 10SM OVC006 11/10 A2982 RMK AO2 SLP096 T01110100 CYYZ 051600Z 26015G21KT 15SM FEW020 BKN030 BKN075 04/01 A2992 RMK CF2SC4AC1 AC TR SLP139 KFDR 051627Z AUTO 18005KT 1 1/4SM BR OVC002 06/06 A2986 RMK AO2 T00560056 CYZR 051600Z AUTO 27012KT 9SM SCT026 OVC031 04/M00 A3000 RMK SLP168 KFFA 051605Z AUTO 35008G14KT 10SM OVC009 12/12 A2996 RMK AO2 T01160115 KEMT 051545Z 00000KT 10SM CLR 07/02 A3000 EHSA 051555Z AUTO 14006G07KT 9999 ///////// 07/03 Q1025 W10/H4 CYZS 051600Z 03010KT 15SM -SN BKN030 M11/M12 A2999 RMK SC7 SLP164 KDVT 051553Z AUTO 11003KT 10SM CLR 11/M05 A2993 RMK AO2 SLP127 T01061050 CYZT 051620Z 20002KT 8SM FEW012 BKN035TCU BKN110 00/M00 A3001 RMK SF2TCU3AC1 SLP165 KFFC 051553Z AUTO 08004KT 5SM BR OVC004 08/08 A3002 RMK AO2 SLP167 T00830078 KENL 051615Z AUTO 00000KT 4SM BR OVC011 04/02 A3006 RMK AO2 T00350016 EHSC 051555Z AUTO 17007G08KT 9999 ///////// 05/02 Q1025 W10/H4 CYZU 051600Z 31016G23KT 12SM DRSN SCT020 BKN070 BKN200 M20/M24 A3018 RMK SF3AC3CI1 SLP295 KEMV 051615Z AUTO 27004KT 10SM OVC010 08/06 A3004 RMK AO2 CYZV 051600Z 30004KT 30SM FEW020 FEW070 M06/M11 A3001 RMK CU1AC1 CU TR SLP168 KFDW 051635Z AUTO 00000KT 10SM SCT008 10/08 A3002 RMK AO1 KEOE 051615Z AUTO 00000KT 10SM BKN006 09/07 A3006 RMK AO2 CYZW 050100Z 31009KT 10SM -SN OVC050 M18/M22 A3020 RMK SC8 CLIMAT -16.8//TR CM/TR MM MWE/44015/LAST STFD OBS/NXT 051700 UTC SLP299 CYZX 051600Z 29005KT 15SM SCT020 BKN250 M01/M04 A3004 RMK SC3CI3 WNDY HILL 32007KT SLP175 KFDY 051553Z AUTO 22008KT 9SM OVC019 02/M01 A3010 RMK AO2 CIG 011V023 SLP196 T00221011 KFEP 051615Z AUTO 17013KT 1/4SM FZFG OVC003 M01/M01 A3000 RMK AO2 T10101012 CZRP 051600Z AUTO 30018KT M29/M32 RMK AO1 PK WND 31024/1543 SLP389 T12941323 53004 CYZY 051600Z AUTO 00000KT 9SM BKN120 M18/M23 A3027 RMK SLP313 KDYA 051615Z AUTO 35005KT 10SM A2998 RMK AO2 CZSJ 051606Z AUTO 00000KT 6SM -SN BKN033 M05/M05 A2969 RMK SLP076 KDYB 051555Z AUTO 35003KT 10SM OVC003 A3003 RMK AO1 KEOK 051615Z AUTO 17008KT M1/4SM FG OVC002 01/01 A2999 RMK AO2 KFET 051615Z AUTO 15012G17KT 10SM CLR 03/00 A2969 RMK AO2 T00341001 CZTB 051600Z AUTO 24003KT M00/M01 RMK AO1 SOG 04 2021 SLP090 T10011007 KDWU 051615Z AUTO 00000KT 10SM BKN030 08/02 A3010 RMK AO1 KFFL 051615Z AUTO 16014KT 1/4SM FG OVC003 00/00 A2994 RMK AO2 PWINO KENV 051615Z AUTO 02008KT 10SM FEW090 M01/M16 A3006 RMK AO1 KFFM 051614Z AUTO 11009G16KT 10SM CLR 01/M03 A2966 RMK AO2 CZSM 051600Z AUTO 25010G16KT M15/M16 RMK AO1 2PAST HR SOG 35 3015 PK WND 26018/1500 SLP207 P0001 T11461163 50004 KENW 051617Z 23006KT 3SM BR OVC004 00/M01 A3000 RMK AO2 T00001011 KFEW 051610Z AUTO 29031G38KT 10SM -RASN CLR 03/M04 A2964 RMK AO2 RAB08E10 PRESRR $ KDWX 051615Z AUTO 27010KT 10SM OVC050 M04/M11 A2984 RMK AO2 T10411107 KFFO 051558Z 20002KT 10SM OVC017 03/00 A3012 RMK AO2A SLP209 T00331002 VHHH 051600Z 04010KT 9999 FEW040 25/15 Q1020 NOSIG PLCH 051600Z 14010KT 9999 SCT020 26/21 Q1010 CZSP 051600Z AUTO 34007KT M01/M05 RMK AO1 SOG 00 8006 SLP154 T10091054 50002 KEPH 051553Z AUTO 34004KT 10SM CLR M06/M10 A3008 RMK AO2 SLP202 T10561100 KDXR 051406Z 00000KT 3SM BR BKN006 OVC010 01/00 A2999 RMK AO2 T00060000 ZUUU 051600Z VRB01MPS 7000 NSC 09/06 Q1032 NOSIG KH78 051510Z 14018KT 08SM BKN040 25/24 A2985 RMK SEAS 4-6 KEQA 051555Z AUTO 19014G20KT 10SM CLR 08/05 A2981 RMK AO2 KFFT 051453Z AUTO 07004KT 10SM OVC016 04/00 A3010 RMK AO2 SLP196 T00440000 53007 KDZB 051615Z AUTO 34003KT 4SM -DZ OVC005 09/08 A2991 RMK AO2 T00860083 KFHB 051615Z AUTO 22011KT 10SM CLR 26/21 A2997 RMK AO1 CZST 051600Z 05003KT 15SM SKC M07/M08 A3025 RMK SLP245 KDYL 051554Z AUTO 27008KT 10SM OVC008 06/04 A3000 RMK AO2 CIG 006V012 SLP164 T00610044 FABL 051600Z 02008KT 9999 FEW060TCU 30/09 Q1016 NOSIG KFGN 051613Z AUTO 21004KT 10SM OVC017 M01/M04 A2974 RMK AO2 EIKN 051600Z 12009KT 4800 BR FEW021 04/04 Q1018 BECMG BKN010 KDXX 051614Z AUTO 13008KT 10SM CLR 02/02 A2960 RMK AO2 KFFX 051613Z AUTO 27005KT 10SM SCT021 03/M02 A2998 RMK AO2 T00311020 KFFZ 051447Z 05008KT 40SM 250SCT A2989 PKMJ 051156Z 05015KT 15SM FEW015 SCT050 BKN300 28/23 A2977 KDYR 051615Z AUTO 12006KT 10SM OVC015 A3003 RMK AO1 KDYS 051621Z AUTO 15007KT 10SM SCT013 BKN065 BKN080 OVC095 08/05 A2988 RMK AO2 DZB12E21 $ KDYT 051613Z AUTO 00000KT 10SM OVC016 01/M01 A2981 RMK AO2 VIAG 050130Z 00000KT 0800 FG SKC 09/09 Q1018 TEMPO 0600 CZUM 051611Z AUTO 32005KT 9SM -SN OVC030 M08/M12 A2983 RMK SLP137 EIME 051600Z 03001KT 9000 FEW012 SCT018 BKN021 06/04 Q1021 KFGX 051615Z AUTO 00000KT 10SM SCT022 06/00 A3012 RMK AO2 T00640003 KFIG 051554Z AUTO 28008G16KT 10SM BKN022 BKN027 OVC033 03/00 A3002 RMK AO2 SLP176 T00280000 EIKY 051600Z 12007KT 9999 BKN016 10/09 Q1018 PKMR 051551Z 04010KT 15SM FEW015 SCT050 BKN300 28/22 A2974 RMK SLP073 T02800224 KERI 051604Z 27013G24KT 10SM FEW024 SCT028 OVC037 06/M01 A3003 RMK AO2 T00561006 KFHR 051553Z AUTO 17006G14KT 10SM BKN020 OVC026 04/01 A3003 RMK AO2 RAB12E32 SLP170 P0000 T00440011 FACT 051600Z 21012KT CAVOK 22/14 Q1011 NOSIG KESC 051556Z AUTO 24006KT 10SM OVC039 03/00 A2988 RMK AO2 SLP144 T00280000 EHVK 051625Z AUTO 06001KT 9999 NCD M01/M02 Q1026 BLU KFHU 051558Z AUTO 03002KT 10SM CLR 09/M05 A3002 RMK AO2 SLP146 T00851055 CZVL 051600Z AUTO 30015G21KT 9SM OVC100 M17/M21 A3012 RMK SLP262 KGAD 051456Z AUTO 06007KT 10SM OVC005 09/08 A3002 RMK AO2 SLP186 T00890078 51002 EHVL 051625Z AUTO 12007KT 9999 NCD M01/M02 Q1026 BLU FACV 051048Z 17003KT CAVOK 33/M01 Q1017 KFIN 051350Z 17010KT 5SM BR SCT007 21/21 A3000 RMK WINDS ARE ESTIMATED. KGAF 051615Z AUTO 14006KT 4SM BR OVC003 M03/M03 A2973 RMK AO2 KESF 051553Z AUTO 07006KT 10SM -RA OVC004 09/09 A2987 RMK AO2 SLP116 P0005 T00940094 VIAR 051600Z 00000KT 3200 BR NSC 14/12 Q1018 BECMG 3000 BR KEQY 051553Z AUTO VRB03KT 10SM CLR 10/06 A3003 RMK AO2 SLP185 T01000061 KGAG 051553Z AUTO 19020KT 10SM CLR 07/01 A2974 RMK AO2 PK WND 18027/1539 SLP078 T00670011 KI16 051615Z AUTO 10SM BKN024 OVC032 09/03 A3013 RMK AO2 T00920025 KGAI 051615Z AUTO 30010G15KT 10SM CLR 09/04 A3005 RMK AO1 KFKA 051614Z AUTO 16012KT 1 1/2SM BR OVC003 00/M01 A2982 RMK AO2 T10051009 KFIT 051619Z AUTO 00000KT 1SM -SN BR OVC019 M02/M03 A2996 RMK AO2 P0001 T10171033 KI19 051612Z AUTO 21003KT 10SM OVC018 04/00 A3013 RMK AO2 T00380000 KETB 051615Z AUTO 22007KT 7SM OVC008 00/00 A2997 RMK AO2 FAEL 051600Z 06012KT 9999 FEW018 21/15 Q1019 KGBD 051456Z AUTO 18018KT 10SM CLR 04/M01 A2969 RMK AO2 SLP062 T00441006 56028 KERV 051615Z AUTO 36005KT 5SM DZ BKN006 BKN010 OVC035 08/08 A2990 RMK AO2 T00830076 The resource requested could not be found on this server! VICG 051330Z VRB02KT 2000 HZ SKC 17/12 Q1017 NOSIG KESN 051555Z 32007KT 10SM BKN009 08/05 A3006 KGAO 051615Z AUTO 06007KT 5SM BR OVC003 18/17 A2980 RMK AO2 LTG DSNT NW THRU E T01830168 EINN 051600Z 09003KT 7000 -RA BKN015 08/07 Q1019 BECMG BKN012 FAEO 050958Z 08005KT 9999 BKN012 20/13 Q1027 VIBR 050600Z 00000KT 3000 HZ NSC 12/M01 Q1021 KERY 051614Z AUTO 24011G16KT 10SM BKN012 01/00 A2983 RMK AO2 T00080000 KGBG 051615Z AUTO 16009G16KT 2SM BR OVC003 01/01 A2999 RMK AO2 T00050005 EHWO 051625Z AUTO 06001KT 9000 BR BKN220 OVC280 M01/M02 Q1026 BLU FADY 050633Z 11011KT CAVOK 23/07 Q1021 KETH 051624Z AUTO 12007KT 10SM CLR A2962 RMK AO2 VIDD 051300Z 00000KT 3000 HZ NSC 18/13 Q1016 NOSIG KEST 051552Z AUTO 17013KT 10SM FEW070 OVC090 02/00 A2968 RMK AO2 SLP063 T00170000 KGBK 051610Z AUTO 16015KT 10SM BKN018 BKN023 25/24 A2980 RMK A01 KGCC 051625Z AUTO 34017KT 6SM UP BR FEW014 BKN022 OVC049 M07/M08 A2970 RMK AO2 PK WND 34026/1555 UPB1559SNE1559 P0001 T10671078 KFKL 051615Z 28007KT 10SM 03/M01 A3003 RMK AO1 KFLD 051553Z AUTO 20007KT 10SM OVC008 01/M01 A2994 RMK AO2 SLP149 T00111011 KGCD 051615Z AUTO 33004KT 10SM CLR M05/M08 A3008 RMK AO2 T10471081 KFKN 051615Z AUTO 28004KT 10SM BKN007 OVC011 09/07 A3003 RMK AO2 T00870068 KEUF 051558Z AUTO 01004KT 10SM OVC004 13/12 A2997 RMK AO2 RAB12E25 SLP148 P0000 T01280117 KEUG 051554Z 16008KT 10SM FEW006 OVC010 02/01 A3021 RMK AO2 SLP233 T00220006 KI35 051615Z AUTO 00000KT 10SM OVC024 09/05 A3007 RMK AO1 KFLG 051557Z 23008KT 10SM CLR 02/M10 A2999 RMK AO2 SLP135 T00221100 FAGG 051600Z 11020KT 9000 FEW030 21/15 Q1015 KFKR 051615Z AUTO 22006KT 10SM OVC010 03/00 A3011 RMK AO2 T00270001 KFKS 051612Z AUTO 26007KT 10SM BKN027 OVC033 04/00 A2994 RMK AO2 T00430000 KEVB 051547Z 19013KT 10SM SCT013 26/21 A3001 KGCK 051554Z 22009KT 10SM CLR 03/M02 A2961 RMK AO2 SLP037 T00331017 $ KGDB 051612Z AUTO 11009KT 7SM CLR 02/00 A2962 RMK AO2 T00190002 VIDN 051230Z 05004KT 2000 HZ NSC 19/14 Q1016 KFLL 051553Z 15014G23KT 10SM FEW020 BKN150 BKN250 27/22 A3003 RMK AO2 SLP167 T02720222 KEUL 051556Z AUTO 14004KT 10SM CLR M06/M09 A3017 RMK AO2 SLP242 T10611089 FZRANO KGCM 051615Z AUTO 15007KT 10SM SCT002 04/04 A2995 RMK AO2 FAGM 051600Z 05006KT CAVOK 22/12 Q1024 VIDP 051600Z 00000KT 1500 R28/P2000 R29/P2000 FU NSC 17/09 Q1017 NOSIG KGCN 051554Z 23010KT 10SM CLR 02/M08 A2997 RMK AO2 SLP149 T00171083 $ KFME 051618Z AUTO 28005KT 10SM CLR 09/05 A3003 RMK AO1 KFLO 051553Z 04004KT 10SM OVC006 09/08 A3004 RMK AO2 SLP171 T00940083 KFLP 051615Z AUTO 12004KT 10SM OVC005 04/02 A2998 RMK AO1 KFMH 051555Z 6SM BR 04/03 A3000 RMK AO2 PWINO FZRANO TSNO WIND E00000KT KGDJ 051615Z AUTO 00000KT 10SM OVC016 09/06 A2993 RMK AO2 T00900062 CZZJ 051600Z AUTO 29004KT M19/M24 RMK AO1 SOG 10 3023 SLP299 T11941237 KEWB 051553Z 12005KT 4SM -RA BR BKN007 OVC014 06/04 A2997 RMK AO2 CIG 005V010 PRESFR SLP148 P0007 T00560044 KFNB 051553Z AUTO 17012KT 10SM CLR 05/02 A2980 RMK AO2 SLP097 T00500022 URFF 051600Z 18005MPS CAVOK M08/M12 Q1033 R19/810295 NOSIG KEVM 051614Z AUTO 35004KT 10SM OVC012 M01/M04 A2978 RMK AO2 T10111040 KGED 051624Z AUTO 31008KT 10SM BKN011 OVC015 08/06 A3002 RMK AO2 CIG 008V013 T00830061 KFMM 051615Z AUTO 00000KT 10SM CLR 02/M07 A2961 RMK AO2 T00221075 KFMN 051553Z 13008KT 10SM CLR M03/M07 A2991 RMK AO2 SLP155 T10331067 KGDP 051619Z AUTO 23018KT 3/4SM BR VV001 01/01 A2990 RMK AO2 T00110011 $ KGEG 051553Z 15006KT 10SM FEW040 FEW110 BKN200 M07/M08 A3005 RMK AO2 SLP204 T10671078 KFLY 051615Z AUTO 27017G24KT 10SM CLR 09/M10 A2966 RMK AO2 T00931105 KGFA 051558Z AUTO 36008KT 10SM BKN048 M10/M13 A3000 RMK AO2 SLP224 T11031131 TSNO $ KFOA 051615Z AUTO 13007KT 10SM OVC011 04/01 A3010 RMK AO2 T00350012 FAHS 051600Z AUTO 18011KT //// // ////// 27/15 Q1017 KEWK 051456Z AUTO 17013KT 10SM CLR 03/00 A2980 RMK AO2 SLP098 T00330000 58013 FAJB 051600Z AUTO 02002KT //// // ////// 25/12 Q1021 KFNL 051615Z AUTO 23013G22KT 10SM CLR 10/M06 A2962 RMK AO1 KEVV 051554Z 09008KT 10SM OVC013 04/01 A3012 RMK AO2 SLP203 T00390006 KFOD 051615Z 17011G15KT 10SM SCT110 03/M01 A2977 RMK AO1 KGDV 051556Z AUTO 32013G24KT 9SM OVC017 M06/M09 A2974 RMK AO2 PK WND 31029/1518 SNE53 SLP103 P0000 T10611089 FZRANO DRRM 051600Z 08012KT CAVOK 31/M03 Q1015 VIGG 051000Z 24003KT 5000 HZ NSC 21/10 Q1018 KEVW 051553Z AUTO 29016KT 10SM FEW065 M10/M23 A2987 RMK AO2 SLP138 T11001228 KFOE 051553Z 17012KT 10SM CLR 06/03 A2983 RMK AO2 SLP108 T00610033 KEWN 051609Z 32006KT 10SM SCT008 10/08 A3001 RMK AO2 T01000083 KI63 051615Z AUTO 17007KT 1/4SM FG OVC003 00/00 A3001 RMK AO2 T00000000 DRRN 051600Z 06006KT 360V130 8000 NSC 35/M01 Q1012 NOSIG KFMY 051553Z 16010KT 10SM CLR 28/22 A3000 RMK AO2 SLP162 T02830217 EISG 051500Z 12005KT 090V160 9000 SCT020 OVC027 06/03 Q1020 EKAH 051620Z AUTO 28011KT 9999NDV NCD 05/02 Q1021 KEWR 051612Z 26013G21KT 10SM SCT014 BKN050 07/04 A2998 RMK AO2 T00720044 KI67 051615Z AUTO 00000KT 10SM BKN020 03/M01 A3015 RMK AO1 FAIR 041823Z 07023G37KT 9999 -TSRA BKN030 FEW035CB 23/12 Q1021 KGFK 051553Z 12010KT 1SM R35L/P6000FT BR OVC002 M03/M04 A2968 RMK AO2 SLP064 T10281039 KFNT 051553Z 25006KT 10SM OVC025 03/00 A3002 RMK AO2 SLP173 T00280000 KFOK 051622Z 27007KT 10SM FEW007 SCT017 OVC033 07/05 A2997 RMK AO2 T00670050 KI69 051615Z AUTO 04003KT 10SM OVC017 04/00 A3013 RMK AO2 T00381001 KGEU 051547Z 00000KT 10SM SCT180 BKN250 08/00 A2995 DRRT 051500Z 08012KT CAVOK 33/01 Q1013 KGFL 051520Z AUTO 00000KT 2 1/2SM -SN BKN008 OVC014 M01/M04 A2992 RMK AO2 CIG 007V013 P0000 T10111039 KGEV 051615Z AUTO 34005KT 10SM CLR 07/03 A3002 RMK AO2 T00700031 KGGE 051435Z AUTO 32003KT 10SM RA SCT003 BKN010 OVC025 10/10 A3002 RMK AO2 KEYE 051453Z AUTO 21005KT 10SM OVC013 02/M02 A3009 RMK AO2 SLP196 T00171017 51010 KEYF 051605Z AUTO 03004KT 10SM SCT011 12/10 A3002 RMK AO2 T01170095 VIGR 051500Z 00000KT 1500 HZ NSC 15/11 Q1018 KGEY 051553Z AUTO 32015KT 10SM SCT110 M04/M11 A2976 RMK AO2 PK WND 34027/1501 SLP112 T10391111 KGGG 051553Z 07012KT 10SM -RA OVC009 08/08 A2988 RMK AO2 PRESFR SLP119 P0002 T00830078 KI75 051615Z AUTO 17009G17KT 5SM BR CLR 05/03 A2985 RMK AO2 T00470029 KGEZ 051453Z AUTO 22004KT 10SM OVC015 03/M01 A3010 RMK AO2 SLP198 T00281011 53012 KGGI 051615Z AUTO 15010KT 1/2SM FG OVC002 00/00 A2988 RMK AO2 T00010000 EKBI 051620Z 26009KT 9999 BKN027 05/04 Q1023 FALA 051600Z 06010KT 9999 FEW045 26/13 Q1021 NOSIG KFPK 051614Z AUTO 21006KT 7SM SCT008 OVC024 02/01 A3001 RMK AO2 P0001 T00220008 KFOT 051615Z AUTO 14006KT 10SM CLR 01/01 A3022 RMK AO1 KGHB 051615Z AUTO 16010G17KT 3SM BR SCT009 BKN015 BKN019 25/25 A2979 RMK A01 KFQD 051605Z AUTO 18003KT 10SM CLR 09/08 A3004 RMK AO2 T00920078 FAKM 051600Z 22010KT CAVOK 37/03 Q1013 FAKN 051600Z 14008KT 9999 FEW015 BKN020 23/14 Q1020 NOSIG KEXX 051605Z AUTO 00000KT 10SM BKN005 09/07 A3004 RMK AO2 T00870069 FALE 051600Z VRB02KT 9999 FEW023 OVC028 21/17 Q1021 NOSIG KEZF 051615Z AUTO 00000KT 10SM OVC007 07/07 A3004 RMK AO2 T00660066 KGHG 051615Z AUTO VRB06KT 5SM -UP OVC015 04/03 A2997 RMK AO2 KGGP 051615Z AUTO 19007KT 10SM OVC010 00/M01 A3011 RMK AO2 KFOZ 051612Z AUTO 00000KT 10SM OVC010 M02/M04 A2975 RMK AO2 WAAA 051600Z 18006KT 8000 FEW018CB SCT019 25/25 Q1010 NOSIG EKCH 051620Z 29012KT 9999 BKN027 06/04 Q1021 TEMPO BKN012 KFPR 051553Z 18010G17KT 10SM SCT025 29/22 A3002 RMK AO2 SLP166 T02890217 PKWA 051620Z AUTO 07014KT 10SM SCT021 SCT026 SCT032 28/23 A2978 RMK AO2 T02750228 KGIC 051615Z AUTO 22008G16KT 10SM CLR M04/M10 A3005 RMK AO1 KEZM 051615Z AUTO 00000KT 10SM OVC004 13/13 A3003 RMK AO2 T01260125 KEYW 051553Z 13014KT 10SM CLR 27/24 A3001 RMK AO2 SLP163 T02720239 KGGW 051616Z AUTO 31023G31KT 2SM -SN OVC026 M10/M13 A2985 RMK AO2 PK WND 30033/1605 P0000 T11001128 KGIF 051606Z AUTO 18013KT 10SM BKN023 27/20 A3002 RMK AO2 T02720200 KFRG 051553Z 26009KT 10SM BKN016 OVC022 07/05 A2998 RMK AO2 SLP152 T00720050 URKA 051600Z 33003MPS 9999 BKN029 M03/M06 Q1033 R04/290255 RMK QFE771/1028 KFRI 051558Z AUTO 20012KT 10SM CLR 07/01 A2978 RMK AO2 SLP089 T00740013 KEZS 051615Z AUTO 24006KT 10SM OVC012 03/00 A2991 RMK AO2 T00261002 EKEB 051620Z AUTO 30008KT 9999NDV BKN025/// 06/04 Q1024 VIJO 050630Z 08003KT 6000 SKC 26/07 Q1019 NOSIG KFRM 051556Z AUTO 16011KT 10SM FEW055 OVC075 02/M01 A2970 RMK AO2 RAB1459E09 SLP074 T00221006 FZRANO PNO $ KFSD 051556Z 16013G19KT 10SM OVC100 04/M01 A2954 RMK AO2 SLP014 VIRGA OHD T00391011 VIJP 051600Z VRB02KT 2000 FU NSC 18/06 Q1019 NOSIG KHAE 051615Z AUTO 16006KT 1/2SM UP OVC001 01/00 A3000 RMK AO2 FAMM 051600Z 36008KT 9999 SCT040 32/09 Q1017 NOSIG KGHW 051613Z AUTO 09011KT 10SM CLR 01/M01 A2963 RMK AO2 KFSE 051554Z AUTO 08008KT 2 1/2SM BR OVC003 M03/M04 A2969 RMK AO2 FALW 051600Z AUTO 22010KT //// // ////// 28/07 Q1010 PMDY 051556Z AUTO 07013KT 10SM FEW016 SCT022 OVC028 19/17 A3000 RMK AO2 RAB28E49 SLP157 P0000 T01940172 KHAF 051555Z AUTO 34008KT 6SM BR OVC014 11/09 A3013 RMK AO2 EIWF 051600Z 09005KT 4000 -RA BR SCT006 BKN017 08/08 Q1020 URKK 051600Z 27002MPS 8000 NSC M08/M09 Q1033 R23C/290050 TEMPO 0600 FZFG RMK QFE771 KHAI 051615Z AUTO 21008KT 7SM BKN009 OVC013 01/00 A3006 RMK AO2 T00120000 KFRR 051615Z AUTO 00000KT 10SM BKN044 BKN049 11/04 A3000 RMK AO1 KFSI 051626Z AUTO VRB03KT M1/4SM R35/1000FT FG VV001 04/04 A2987 RMK AO2 VIJU 051230Z VRB01KT 1500 HZ FEW200 17/12 Q1016 NOSIG USCC 051600Z 20002MPS 6000 NSC M16/M18 Q1011 R27/420250 NOSIG RMK QFE739 VILD 051000Z 34002KT 1500 HZ NSC 25/11 Q1015 FAOB 051600Z AUTO 15015G26KT //// // ////// 22/13 Q1014 VIKO 050500Z 00000KT 2500 HZ NSC 21/11 Q1020 NOSIG KFSM 051616Z 09009KT 10SM SCT006 SCT009 BKN110 06/04 A2999 RMK AO2 T00610044 KHBE 051615Z AUTO 00000KT 10SM OVC015 03/00 A3013 RMK AO2 VILH 051130Z VRB02KT 6000 FEW150 06/M17 Q1029 NOSIG RMK AC KHAO 051453Z AUTO 00000KT 10SM OVC020 03/M02 A3014 RMK AO2 SLP210 T00331017 53011 KFSO 051615Z AUTO 16004KT 1 1/4SM -SN OVC010 M01/M02 A2985 RMK AO2 T10131022 KFTG 051547Z 32004KT 10SM FEW100 SCT200 07/M06 A2962 KHBG 051605Z AUTO 03006KT 1 3/4SM BR OVC004 12/12 A2993 RMK AO2 T01220117 VILK 051530Z VRB02KT 0800 R27/2000 FG NSC 14/13 Q1017 NOSIG KHBI 051605Z AUTO 00000KT 10SM CLR 09/08 A3006 RMK AO2 T00850075 KGKJ 051617Z AUTO 25009KT 10SM OVC012 02/M01 A3002 RMK AO2 T00171006 WADD 051600Z 34003KT 300V010 8000 FEW017 26/24 Q1007 NOSIG USCM 051600Z 24004MPS 8000 NSC M14/M17 Q1011 R19/090060 TEMPO 2000 SN VV005 RMK QFE721 KFST 051553Z AUTO 20007KT 10SM OVC100 08/07 A2988 RMK AO2 SLP101 T00780072 $ KFTK 051613Z AUTO 07006KT 10SM OVC017 04/00 A3009 RMK AO2 PRESFR KGJT 051453Z 07005KT 10SM CLR M03/M07 A2984 RMK AO2 SLP123 T10331067 53007 KHCD 051559Z AUTO 13006KT 10SM SCT110 01/00 A2970 RMK AO2 KGLD 051553Z AUTO 32005KT 10SM CLR 06/M07 A2956 RMK AO2 SLP012 T00561072 URMG 051600Z 34005MPS 9999 SCT031CB BKN049 01/M07 Q1029 R26/000070 NOSIG RMK QFE757/1010 KGLE 051615Z AUTO 11005KT 10SM BKN009 BKN019 OVC095 07/06 A2992 RMK AO2 T00710058 KFSW 051615Z AUTO 16007KT M1/4SM FG OVC002 00/00 A2999 RMK AO2 KFTN 051615Z AUTO 31007KT 10SM OVC012 11/10 A2994 RMK A01 FAPE 051600Z 09014G24KT CAVOK 21/15 Q1018 NOSIG KGLH 051553Z 03006KT 5SM -RA BR OVC009 08/06 RMK AO2 CIG 006V011 SLPNO P0000 T00830061 $ KHBR 051627Z AUTO 18009KT 2SM BR OVC002 06/06 A2987 RMK AO2 T00610056 URML 051600Z 01007MPS 9999 -RA OVC035 03/01 Q1028 R14/290155 BECMG 33006G13MPS RMK QFE771/1028 FAOR 051630Z 01010KT CAVOK 22/14 Q1023 NOSIG WADL 051630Z VRB01KT 6000 FEW015CB SCT016 25/25 Q1008 NOSIG RMK CB TO NE DRZA 051600Z 10010KT CAVOK 29/M02 Q1016 URMM 051600Z 27007MPS 7000 -SHSN OVC060CB M05/M06 Q1029 R30/490137 NOSIG RMK QFE743/0991 KGKT 051555Z AUTO 03004KT 10SM BKN009 OVC016 08/08 A3005 RMK URMN 051600Z 35003MPS 2000 -SHSN BR BKN004 BKN020CB M05/M06 Q1028 R24/210250 NOSIG RMK QBB130 MT OBSC OBST OBSC QFE734 FBFT 051600Z 11013KT 9999 FEW030 SCT070 27/16 Q1016 KFUL 051553Z 00000KT 10SM SCT009 BKN013 12/00 A2997 RMK AO2 SLP150 T01170000 KHDC 051615Z AUTO 03007KT 1 1/4SM BR OVC003 13/12 A2985 RMK AO2 LTG DSNT S AND SW URMO 051600Z 01004MPS 2400 -SHSN BKN018CB M04/M05 Q1028 RESHSN R09/010070 TEMPO 0800 +SHSN BKN003 OVC013CB RMK QFE727/0969 KHBV 051615Z AUTO 32009KT 10SM OVC009 11/09 A2992 RMK AO2 T01070092 ZWSH 051600Z 29003MPS 4000 FU NSC 01/M03 Q1026 NOSIG KFTW 051553Z 14004KT 10SM OVC014 10/06 A2990 RMK AO2 SLP124 T01000056 KFVE 051453Z AUTO 00000KT 4SM BR OVC007 M09/M11 A3000 RMK AO2 SLP176 I1001 I3001 T10941111 58010 KHDE 051615Z AUTO 21006KT 10SM CLR 04/M03 A2961 RMK AO2 T00381030 FAPN 051500Z AUTO 03007KT //// // ////// 33/09 Q//// KHCO 051614Z AUTO 10007KT 10SM OVC007 M02/M03 A2971 RMK AO2 KFTY 051553Z 00000KT 9SM OVC006 14/07 A3002 RMK AO2 SLP165 T01440072 KGKY 051553Z 11004KT 10SM OVC009 09/07 A2992 RMK AO2 CIG 007V012 SLP128 T00890067 $ FAPP 051600Z 05009KT 8000 FEW035 21/15 Q1019 NOSIG URMT 051600Z 30005MPS 9999 SCT030 M09/M11 Q1027 R25/350039 NOSIG RMK QFE732 KGLR 051553Z AUTO 24016KT 10SM FEW012 BKN034 OVC041 02/M01 A2986 RMK AO2 SLP126 T00171011 FAPR 051558Z 05005KT 9999 FEW035 FEW045CB 24/13 Q1020 KGLS 051552Z 03016KT 10SM OVC010 12/11 A2982 RMK AO2 RAE1456B04E20 CIG 007V012 SLP098 P0002 T01220111 KFWA 051611Z 21004KT 10SM OVC013 01/M02 A3009 RMK AO2 T00111017 KGMJ 051615Z AUTO 14003KT 10SM CLR 07/05 A2994 RMK AO2 KGNA 051556Z AUTO VRB04KT 02/M02 A2979 RMK AO1 SLP098 T00171017 KFWB 051615Z AUTO 12008G16KT M1/4SM FG OVC002 03/03 A2996 RMK AO2 KGNC 051615Z AUTO 22007KT 10SM CLR 08/03 A2986 RMK AO2 T00770032 KFWC 051615Z AUTO 07005KT 10SM OVC011 03/01 A3009 RMK AO1 T00320011 KHDN 051615Z AUTO 31015G22KT 10SM BKN033 BKN050 M04/M09 A2981 RMK AO1 KGLW 051615Z AUTO 09007KT 10SM OVC010 05/04 A3010 RMK AO2 T00470039 KHDO 051625Z AUTO 35008KT 9SM BKN010 BKN040 OVC047 11/10 A2991 RMK AO2 T01110100 PNO KHEF 051545Z 00000KT 10SM OVC006 06/06 A3004 KGLY 051555Z AUTO 15008KT 10SM CLR 04/04 A2996 RMK AO2 ZYCC 051600Z VRB01MPS CAVOK M14/M17 Q1024 NOSIG KHEI 051619Z AUTO 32025G31KT 2 1/2SM UP FEW014 OVC060 M04/M07 A2959 RMK AO2 PK WND 32031/1608 VIS 2V4 P0000 T10391067 DRZR 051500Z 04010KT CAVOK 31/04 Q1014 FASB 050845Z 12006KT CAVOK 31/M06 Q1019 KGMU 051625Z 00000KT 10SM SCT006 BKN070 11/08 A3003 RMK AO2 T01110078 KHFD 051627Z 00000KT 3SM -SN BKN005 OVC015 01/00 A2996 RMK AO2 P0000 T00060000 KFWN 051603Z AUTO 22006KT 10SM OVC005 02/02 A2996 RMK AO2 CIG 004V010 T00220017 KFXE 051553Z 15013G21KT 10SM SCT030 SCT100 26/21 A3004 RMK AO2 SLP174 T02610211 KHFF 051556Z AUTO 01005KT 10SM CLR 11/08 A3003 RMK AO2 SLP186 T01110083 $ KFVX 051615Z AUTO 00000KT 10SM OVC002 08/07 A3002 RMK AO2 T00750069 KHEQ 051615Z AUTO 23008KT 10SM CLR 05/M05 A2961 RMK AO2 KGNR 051556Z AUTO 13005KT M07/M09 A2992 RMK AO1 SLP158 T10721094 KFWS 051546Z 09004KT 10SM OVC013 09/06 A2993 KHFJ 051610Z AUTO 13010KT 10SM OVC003 03/03 A2993 RMK AO2 DTKA 051600Z VRB02KT 9999 SCT020 SCT100 18/09 Q1018 NOSIG EKKA 051620Z AUTO 28009KT 9999NDV FEW026/// 04/03 Q1022 KGOK 051553Z AUTO 17006KT 6SM BR CLR 05/04 A2988 RMK AO2 SLP124 T00500039 KGNT 051615Z AUTO 31009G17KT 10SM CLR M02/M06 A2996 RMK AO2 T10161065 FCBB 051600Z 00000KT 9999 FEW019 FEW030CB 28/23 Q1010 NOSIG KGNV 051553Z 21006KT 10SM FEW015 26/21 A2999 RMK AO2 SLP153 T02560206 KGON 051617Z 00000KT 2 1/2SM -RA BR SCT010 BKN015 OVC033 06/04 A2995 RMK AO2 P0001 T00560044 USHH 051600Z 26005MPS 8000 -SN SCT019 M16/M19 Q0999 R24/420550 TEMPO 2000 SN OVC006 RMK QFE746 FBKE 051600Z 35007KT 310V110 9999 SCT030 29/16 Q1013 KGOO 051615Z AUTO 00000KT 9SM CLR 06/ A3009 RMK AO1 KHEY 051553Z AUTO 07006KT 10SM OVC004 15/15 A2996 RMK AO2 SLP032 T01500150 $ KFYG 051615Z AUTO 00000KT 10SM FEW006 OVC015 03/03 A3003 RMK AO2 KGOP 051615Z AUTO 32004KT -RA OVC010 08/08 A2993 RMK AO2 KGPH 051615Z AUTO 15007KT 10SM BKN006 03/03 A2990 RMK AO2 KHEZ 051615Z AUTO 35005KT 10SM BKN004 OVC019 10/08 A2990 RMK AO1 P0001 FATH 050620Z 25003KT 6000 -RA OVC015 22/19 Q1021 REDZ KGPI 051555Z 21007KT 9SM OVC044 M06/M09 A2996 RMK AO2 SNE23B35E55 SLP179 P0000 T10561089 KFYJ 051615Z AUTO 34004KT 10SM OVC005 07/07 A3005 RMK AO2 T00730069 KGOV 051615Z AUTO 26007KT 10SM BKN040 03/00 A2990 RMK AO2 T00290002 KGPM 051550Z 08005KT 10SM OVC010 09/06 A2992 KFYM 051615Z AUTO 03007KT 7SM OVC004 08/08 A3002 RMK A01 KHHF 051615Z AUTO 20014G19KT 10SM CLR 10/M01 A2972 RMK AO2 T01001007 KHFY 051615Z AUTO 19008KT 10SM OVC012 03/00 A3012 RMK AO2 T00270001 KFZG 051615Z AUTO 06003KT 1SM BR OVC003 13/13 A3002 RMK AO2 T01260126 KHHG 051615Z AUTO 22005KT 10SM OVC011 00/M01 A3010 RMK AO2 T00011015 KFXY 051615Z AUTO 15010KT 10SM SCT080 01/01 A2977 RMK AO2 WAHS 051500Z 14002KT 6000 FEW016 27/25 Q1008 NOSIG UTAA 051600Z 24003KT 9000 SCT100 BKN230 10/M00 Q1023 R30L/CLRD70 NOSIG KHGR 051553Z 00000KT 10SM CLR 08/04 A3001 RMK AO2 SLP174 T00830044 KGPT 051600Z 04005KT 5SM BR OVC003 16/16 A2987 RMK AO2 T01610156 KGRB 051553Z 22005KT 10SM OVC014 02/00 A2993 RMK AO2 SLP142 T00220000 KHIB 051553Z AUTO VRB03KT 10SM OVC012 M02/M04 A2976 RMK AO2 SLP098 T10221044 DTMB 051600Z 12002KT 8000 FEW026 17/15 Q1021 NOSIG KFYV 051553Z 00000KT 1/4SM FZFG VV002 M01/M01 A2995 RMK AO2 SLP149 I1000 T10061006 $ KGRD 051607Z AUTO 04003KT 10SM FEW007 10/07 A3004 RMK AO2 T01000067 KK02 051615Z AUTO 14009KT 10SM SCT012 05/02 A3004 RMK AO2 T00510021 KHIE 051622Z AUTO 00000KT 1SM -SN BR BKN020 OVC031 M03/M05 A2987 RMK AO2 P0000 T10281050 KGRF 051624Z 16006KT 10SM -RA BKN026 BKN034 02/02 A3007 RMK AO2A RAB19 CIG 026V034 BKN026 V FEW KHIF 051558Z 34008KT 10SM SCT095 M04/M16 A3002 RMK AO2A SLP175 T10451159 URRR 051600Z 28004MPS 250V310 8000 NSC M07/M10 Q1030 R22/820053 NOSIG RMK QFE764/1019 FAUP 051600Z 23013KT CAVOK 37/M01 Q1012 NOSIG WAJJ 051500Z 00000KT 9999 FEW013 25/24 Q1008 KGPZ 051556Z AUTO 13004KT 10SM OVC010 M02/M04 A2977 RMK AO2 SLP102 T10171039 FZRANO UTAK 051600Z 35004KT CAVOK 04/02 Q1024 R34/CLRD70 NOSIG KGRI 051602Z 22012KT 10SM CLR 04/M02 A2964 RMK AO2 WSHFT 1542 T00391017 KHHR 051553Z 00000KT 7SM CLR 12/10 A2998 RMK AO2 SLP151 T01220100 KHII 051615Z AUTO 00000KT 10SM CLR 09/M04 A2994 RMK AO2 UTAM 051600Z 28004KT 6000 OVC100 12/02 Q1023 NOSIG RMK SC07 ZWWW 051600Z 32001MPS 1600 BR NSC M05/M06 Q1033 NOSIG VISM 050700Z 27005KT 4000 HZ NSC 20/03 Q1022 KGSB 051558Z AUTO 35004KT 10SM FEW010 11/10 A3001 RMK AO2 SLP166 T01110102 VISNO RWY08 CHINO RWY08 $ KIAB 051558Z AUTO 19014KT 10SM CLR 06/03 A2981 RMK AO2 SLP103 T00570030 KGRK 051558Z 33008KT 3SM -RA BR OVC007 08/07 A2989 RMK AO2A RAB20 SLP124 P0001 T00790074 FAUT 051600Z 09010KT 9999 SCT015 OVC020 18/13 Q1021 FAWB 051600Z AUTO 05006KT //// // ////// 28/13 Q1019 KIAD 051552Z 00000KT 10SM FEW006 FEW015 SCT200 08/05 A3003 RMK AO2 SLP169 T00830050 KHHV 051620Z AUTO 27018KT 9SM SCT018 BKN075 25/21 A2977 RMK A01 KHHW 051615Z AUTO 10009KT 10SM SCT010 OVC100 09/06 A2992 RMK AO2 T00860057 FBMN 051600Z 16006KT 9999 SCT030 36/12 Q1012 KHIO 051553Z 17008KT 7SM -RA BKN008 OVC021 02/01 A3013 RMK AO2 SLP206 P0007 I1000 T00220011 VISR 050930Z 32003KT 1300 FU FEW200 13/-01 Q1025 NOSIG KIAG 051553Z 24014G24KT 10SM FEW024 OVC033 04/M01 A2996 RMK AO2 SLP155 T00441006 KFZY 051554Z AUTO 25015G21KT 10SM OVC019 03/00 A2988 RMK AO2 SLP124 T00330000 URSS 051600Z 35003MPS 9999 SCT033CB M00/M07 Q1030 WS ALL RWY R02/190060 R06/190060 NOSIG RMK R06/35002G05MPS MT OBSC QFE771 ZYHB 051600Z 26003MPS 6000 NSC M17/M19 Q1023 NOSIG KIAH 051553Z 04008KT 7SM -RA OVC005 12/10 A2982 RMK AO2 RAB1459 SLP098 P0001 T01170100 KGSH 051553Z AUTO 20008KT 10SM OVC012 01/M02 A3007 RMK AO2 SLP192 T00061022 KHJH 051615Z AUTO 19010KT 10SM CLR 04/M01 A2969 RMK AO2 T00371006 DTNH 051600Z AUTO VRB02KT 9999NDV BKN025 16/14 Q1022 UTAT 051600Z 34010KT CAVOK 04/02 Q1023 R26CLRD70 NOSIG KGRR 051553Z 24009KT 10SM BKN024 03/00 A3001 RMK AO2 SLP170 T00280000 KHKA 051553Z AUTO 09008KT 10SM OVC014 06/03 A3003 RMK AO2 SLP172 T00610033 UTAV 051600Z 35004KT 7000 FEW200 12/04 Q1021 NOSIG KGTB 051625Z 25006KT 10SM -RASN BKN009 OVC014 02/00 A2982 RMK AO2A RAB1558E05DZB05E09 FAWK 051600Z AUTO 05007KT //// // ////// 26/14 Q1021 EKOD 051550Z 28011KT 9999 FEW013 SCT019 BKN031 06/05 Q1023 R06/19//95 FAVV 051600Z AUTO /////KT //// // ////// 25/// Q1019 KGTF 051553Z 32010KT 10SM FEW036 OVC070 M11/M13 A2997 RMK AO2 SLP216 T11061133 KHJO 051553Z AUTO 00000KT 1 1/2SM BR OVC028 04/04 A3011 RMK AO2 SLP199 T00390039 KGSO 051554Z VRB03KT 10SM FEW008 SCT250 11/08 A3004 RMK AO2 SLP171 T01110078 KGSP 051553Z 00000KT 5SM BR OVC005 08/07 A3003 RMK AO2 SLP169 T00780067 KGRY 051615Z AUTO 17012KT 4SM BR FEW028 FEW034 BKN055 25/24 A2981 RMK A01 WALL 051600Z 03002KT 8000 FEW020 BKN100 24/23 Q1010 NOSIG UTDD 051600Z 06003MPS 9999 FEW066 13/02 Q1024 R09/CLRD// NOSIG RMK QFE699/0932 KHLC 051553Z AUTO 20011KT 10SM CLR 05/M03 A2960 RMK AO2 SLP035 T00501028 KGUC 051556Z AUTO 00000KT 10SM FEW100 M09/M13 A2986 RMK AO2 SLP190 T10941128 FZRANO KIBM 051615Z AUTO 25008KT 10SM SCT095 09/M03 A2959 RMK AO2 T00851028 KHLG 051553Z 30009KT 10SM OVC021 03/M01 A3010 RMK AO2 SLP203 T00281011 URWA 051600Z 29002MPS CAVOK M02/M05 Q1028 R27/010060 NOSIG RMK QFE773/1030 UTDK 051600Z 02005MPS 8000 NSC 13/05 Q1024 R01/09//70 RMK QFE710/0947 KGTR 051550Z 31004KT 3SM BR OVC004 09/07 A2997 UTDL 051600Z 36003MPS 1100 R08/1500D BR BKN200 06/04 Q1024 88CLRD70 TEMPO 1200 BR RMK QFE728/0971 KIDA 051553Z 21006KT 10SM CLR M07/M14 A2998 RMK AO2 SLP181 T10671144 KHKS 051553Z 00000KT 3SM RA BR OVC005 10/09 A2995 RMK AO2 CIG 004V009 SLP138 P0020 T01000094 WAMM 051600Z VRB01KT 9000 FEW022 24/23 Q1010 NOSIG KGTU 051550Z 33004KT 08SM -RA OVC006 08/07 A2991 KICL 051615Z AUTO 20013KT 10SM 05/03 A2982 RMK AO2 PWINO KGUL 051615Z AUTO 27016KT 6SM HZ CLR 25/22 A2977 RMK A01 KHLN 051601Z 25005KT 5SM -SN BKN037 OVC048 M07/M10 A2995 RMK AO2 P0000 T10721100 KGVE 051615Z AUTO 00000KT 10SM SCT009 07/06 A3003 RMK AO1 T00730057 URWI 051600Z AUTO 27005MPS 9999 // NCD M08/M10 Q1028 KGUP 051553Z AUTO 00000KT 10SM CLR M01/M06 A2995 RMK AO2 SLP176 T10111061 KHKY 051553Z 00000KT 5SM BR OVC002 07/07 A3003 RMK AO2 SLP161 T00720067 UTDT 051600Z 01002MPS 9999 BKN150 12/07 Q1022 35CLRD70 RMK QFE727/0969 KICR 051553Z AUTO 27016KT 10SM CLR 09/M02 A2946 RMK AO2 PK WND 26026/1542 SLP985 T00891022 KIDI 051615Z AUTO 31012KT 280V340 10SM OVC028 04/M00 A3007 RMK A01 KGUR 051615Z AUTO 32014G21KT 1SM -SN BKN007 BKN013 OVC021 03/01 A2965 RMK AO2 T00320008 KHLR 051358Z AUTO 02007KT M M BKN008 OVC014 07/07 M RMK AO2 CIG 008V014 SLPNO $ KGUS 051558Z 21005KT 10SM OVC010 01/M01 A3008 RMK AO2A SLP198 T00081006 KICT 051553Z 18016G21KT 10SM FEW220 06/03 A2980 RMK AO2 SLP097 T00610033 KHNB 051615Z 11006KT 10SM OVC013 04/01 A3011 RMK AO2 SLP302 PWINO FZRANO RVRNO KGWB 051615Z AUTO 21003KT 10SM OVC012 01/M01 A3009 RMK AO2 USNN 051600Z 24007MPS 9000 -SN DRSN NSC M17/M19 Q0999 R21/411542 NOSIG RMK QFE744 KGVL 051607Z AUTO 14003KT 6SM BR OVC004 09/09 A3001 RMK AO2 T00940089 UTFF 051600Z 24005KT 3300 BR NSC 05/03 Q1023 R18/CLRD70 KHND 051556Z 21006KT 10SM CLR 06/M09 A2995 RMK AO2 SLP149 T00611094 KHMN 051558Z AUTO 00000KT 10SM CLR 01/M04 A2998 RMK AO2 SLP139 T00141038 $ KHLX 051615Z AUTO 33013G16KT 10SM CLR 08/03 A3001 RMK AO2 T00810034 KGUY 051553Z AUTO 20013KT 10SM CLR 06/M02 A2960 RMK AO2 SLP025 T00611017 KIDP 051615Z AUTO 16005KT 7SM SCT004 06/05 A2990 RMK AO2 KHMP 051615Z AUTO 00000KT 5SM BR OVC004 09/09 A3001 RMK AO2 T00930093 WBGB 051600Z 11002KT 9999 FEW016 SCT150 25/25 Q1010 KGXA 051455Z AUTO 34012G23KT 320V020 10SM CLR 10/M07 A2994 RMK AO2 SLP136 WND DATA ESTMD T00971075 54000 TSNO $ KIFA 051635Z AUTO 15013KT 10SM CLR 01/01 A2984 RMK AO2 T00130010 KHOB 051450Z 21005KT 10SM SKC 01/01 A2986 KGVT 051615Z AUTO 09007KT 10SM OVC085 09/05 A2991 RMK AO2 UTFN 051600Z 32005KT 6000 NSC 09/04 Q1023 R28/CLRD70 NOSIG URWW 051600Z 26003MPS 9999 BKN015 M10/M11 Q1025 R24/850250 NOSIG EKSB 051620Z 27008KT 240V300 9999 BKN020 05/04 Q1024 EKRK 051620Z AUTO 29015KT 9999NDV SCT020/// 05/04 Q1021 WAOO 051600Z AUTO 07005KT 9999NDV FEW160 24/23 Q1010 WBGG 051600Z 20003KT 9999 FEW020 BKN300 26/25 Q1010 NOSIG KIEN 051552Z AUTO 36011G15KT 10SM OVC014 01/M01 A2958 RMK AO2 SLP035 T00111011 KHOE 051615Z AUTO 19004KT 7SM OVC005 22/22 A2998 RMK AO2 KGXF 051559Z 02004KT 10SM CLR 08/M06 A2994 RMK SLPNO DATA ESTMD EKRN 051620Z AUTO 28018KT 9999NDV OVC016/// 07/05 Q1020 KGWO 051621Z AUTO 06004KT 3SM RA BR BKN007 OVC050 09/08 A2997 RMK AO2 P0010 T00890078 KHMZ 051615Z AUTO 31012G19KT 10SM SCT033 A3000 RMK AO2 KGWR 051615Z AUTO 08009KT 00/M01 A2958 RMK AO1 KHNR 051615Z AUTO 19014G20KT 10SM CLR 05/02 A2978 RMK AO2 KIER 051615Z AUTO 33007KT 10SM OVC006 08/08 A2992 RMK AO2 T00780078 DTTA 051600Z 15010KT 9999 SCT023 17/12 Q1021 NOSIG KGYB 051615Z AUTO 36005KT 10SM -DZ BKN005 BKN009 OVC019 09/09 A2990 RMK AO2 P0001 T00920087 DTTB 051600Z 12010KT 9999 SCT020 17/13 Q1020 FBSK 051600Z 02008KT 350V060 9999 FEW035 32/19 Q1015 NOSIG WAPP 051500Z 02003KT 9999 SCT019 26/24 Q1009 NOSIG USPP 051600Z 19003MPS 9999 -SN NSC M15/M18 Q1008 R21/410355 NOSIG RMK QFE745 DTTD 051600Z 10004KT 050V130 9999 FEW026 21/00 Q1020 KGWW 051610Z AUTO 34005KT 10SM CLR 11/09 A3002 RMK AO2 T01080087 KHON 051555Z AUTO 10SM OVC120 01/M02 A2950 RMK AO2 SLP000 T00111017 PNO $ EKSN 051350Z 29013KT 9999 FEW015 07/04 Q1018 WBGR 051600Z 08003KT 9999 FEW016 BKN150 26/25 Q1010 DTTF 051600Z 01004KT 9999 SCT026 18/08 Q1020 NOSIG KHOP 051558Z AUTO 09009KT 10SM OVC010 04/02 A3007 RMK AO2 SLP187 T00420022 KIFP 051615Z AUTO 00000KT 10SM CLR 10/M02 A2995 RMK AO2 WBGS 051600Z 05002KT 9999 SCT018 BKN150 25/25 Q1010 DTTG 051600Z 08009KT 9999 SCT030 18/06 Q1020 NOSIG FBSP 051600Z 07010KT CAVOK 27/18 Q1017 EKSP 051620Z 28007KT 9999 SCT012 BKN030 05/04 Q1024 KHNZ 051605Z AUTO 30004KT 10SM SCT006 08/06 A3003 RMK AO2 T00810056 KGYH 051547Z 00000KT 7SM BKN004 08/07 A3004 KGYI 051615Z AUTO 13008KT 10SM OVC016 08/07 A2992 RMK AO2 T00830072 DTTJ 051600Z 12007KT 8000 FEW020 19/09 Q1020 NOSIG KHOT 051616Z AUTO 09008KT 10SM SCT014 OVC100 07/04 A2998 RMK AO2 T00720044 DTTK 051600Z 00000KT 9999 SCT023 SCT030 17/11 Q1022 KHOU 051601Z 06009KT 10SM OVC006 12/12 A2981 RMK AO2 T01220117 KGYL 051615Z AUTO 11008KT 7SM OVC100 02/02 A2968 RMK AO2 T00200015 DTTL 051600Z 15006KT 110V210 9999 SCT020 SCT030 18/13 Q1022 KIGM 051551Z AUTO 17003KT 10SM CLR 06/M10 A2995 RMK AO2 SLP116 T00611100 WBGY 051600Z 00000KT 9999 FEW022 SCT150 BKN300 25/24 Q1010 KHPN 051556Z 28010KT 10SM BKN012 06/03 A2995 RMK AO2 SLP148 T00560028 DTTN 051600Z 20004KT 9999 SCT020 SCT030 17/13 Q1020 KGXY 051556Z AUTO 26018G28KT 10SM CLR 09/M05 A2959 RMK AO2 PK WND 26028/1551 SLP031 T00941050 KHQG 051615Z AUTO 24010KT 10SM CLR 07/M03 A2962 RMK AO2 T00681031 KGZH 051553Z AUTO 07006KT 10SM OVC005 16/14 A2994 RMK AO2 SLP135 T01610144 KIGQ 051615Z AUTO 21009KT 7SM OVC005 00/00 A3007 RMK AO2 T00000000 KGYR 051547Z 07006KT 10SM FEW220 SCT250 08/M03 A2996 KHQI 051615Z AUTO 20013KT 8SM SCT065 BKN075 26/23 A2975 RMK A01 DTTR 051600Z 11006KT 9999 SCT030 22/02 Q1019 KK88 051615Z AUTO 15009KT 5SM OVC002 04/04 A2990 RMK AO1 T00410041 KIIB 051555Z AUTO 15012KT 1/4SM FG OVC002 00/00 A2989 RMK AO2 KGZL 051555Z AUTO 11008KT 2SM BR OVC003 05/04 A2995 RMK AO2 KHQM 051553Z AUTO 01005KT 7SM -RA FEW013 BKN025 OVC035 02/02 A3007 RMK AO2 RAB22 SLP187 P0003 T00170017 KGZN 051600Z AUTO 16008KT 10SM OVC007 06/05 A2991 RMK AO2 EKVD 051620Z AUTO 27009KT //// ///////// 06/05 Q1024 KIGX 051556Z AUTO VRB04KT 10SM CLR 12/07 A3004 RMK AO2 SLP172 T01170072 WARR 051600Z 32003KT 290V350 6000 -RA SCT020 25/24 Q1007 NOSIG DTTX 051600Z 09006KT 9999 FEW030 18/14 Q1021 NOSIG USRR 051600Z 24005MPS 3000 -SN SCT035 M18/M21 Q0997 R25/390037 TEMPO 2000 SN RMK OBST OBSC QFE743 KGYY 051445Z 21004KT 5SM BR OVC006 01/00 A3005 EKVG 051620Z AUTO 34002KT 9999NDV OVC029/// 06/05 Q1024 DTTZ 051600Z 09010KT 9999 FEW033 20/06 Q1019 NOSIG KHRI 051553Z AUTO 24005KT 10SM CLR M01/M06 A3013 RMK AO2 SLP209 T10111056 KHSA 051553Z VRB05KT 2SM BR OVC001 15/13 A2987 UUBC 051600Z 23008MPS 1600 1400NW R31/1600D SN BLSN OVC010 M03/M04 Q1000 R31/491038 NOSIG RMK QFE733/0978 KHRJ 051605Z AUTO 32004KT 10SM CLR 12/08 A3003 RMK AO2 T01200083 KGZS 051615Z AUTO VRB04KT 10SM OVC007 08/07 A3003 RMK A01 EKVJ 051350Z 29010KT 9999 BKN025 07/05 Q1024 KHSB 051615Z AUTO 08011KT 10SM OVC012 03/02 A3008 RMK AO2 T00320016 KHRL 051552Z 33011KT 10SM BKN013 OVC070 13/12 A2991 RMK AO2 SLP126 T01330117 KJAC 051615Z 33009G18KT 10SM FEW035 SCT050 M10/M18 A2984 RMK AO1 KHQU 051615Z AUTO 00000KT 10SM OVC006 11/10 A3006 RMK AO1 T01100104 KIJD 051621Z AUTO 00000KT 3SM -RA BR OVC005 02/01 A2997 RMK AO2 CIG 004V009 P0001 T00170011 KHSD 051615Z AUTO 17008KT 10SM CLR 07/06 A2988 RMK A01 KHSE 051551Z AUTO VRB06KT 10SM OVC005 12/11 A2997 RMK AO2 SLP147 T01220111 TSNO KHRO 051623Z AUTO 14012G17KT 3SM BR OVC002 03/03 A2998 RMK AO2 T00280028 ELLX 051620Z 17002KT 0400 0100SW R24/P2000N FZFG SCT000 M03/M04 Q1026 NOSIG KHSG 051615Z AUTO 32012G18KT 10SM SCT014 BKN022 OVC042 M07/M10 A2979 RMK AO2 T10661102 USSS 051600Z 16003MPS 9000 NSC M18/M20 Q1010 R26R/450337 NOSIG RMK QFE737/0983 KHQZ 051550Z 05004KT 10SM SCT009 SCT014 OVC080 09/07 A2990 WBKK 051600Z 11005KT 070V130 9999 FEW013 SCT140 BKN270 26/23 Q1010 NOSIG NOSIG KHSI 051553Z AUTO 19010KT 10SM CLR 03/M02 A2964 RMK AO2 SLP047 T00331022 WBKL 051600Z 34001KT 9999 FEW012 SCT140 BKN290 27/24 Q1010 KL18 051615Z AUTO 00000KT 10SM SCT007 11/01 A2998 RMK AO2 KHRT 051556Z 08006KT 10SM SCT007 OVC013 22/20 A2989 RMK AO2A $ UUBP 051500Z 22008G13MPS 0800 R16/0800N +SN BLSN VV003 M04/M05 Q1008 R16/4960// NOSIG RMK QBB090 QFE738/0985 KJAN 051554Z 29003KT 5SM -RA BR OVC005 11/09 A2995 RMK AO2 SLP142 P0030 T01060094 KHRX 051615Z AUTO 23017G22KT 10SM CLR 08/00 A2973 RMK AO2 T00810003 USTR 051600Z 24005MPS CAVOK M19/M21 Q1010 R21/450160 NOSIG RMK QFE748/0997 KIKG 051615Z AUTO 31006KT 10SM BKN014 BKN032 14/12 A2991 RMK AO2 T01440117 KIIY 051615Z AUTO 00000KT 10SM OVC005 11/11 A3002 RMK AO2 KHSP 051615Z AUTO 29007KT 10SM BKN015 06/02 A2999 RMK AO2 WBKS 051600Z 21001KT 9999 FEW015 SCT140 BKN270 27/25 Q1010 KJAQ 051615Z AUTO 36006KT 10SM CLR 07/03 A3007 RMK AO1 T00700025 WATT 051500Z 14004KT 8000 FEW017CB SCT018 25/23 Q1010 NOSIG RMK CB TO N WBKT 051600Z 30001KT 9999 FEW015 SCT140 BKN270 25/25 Q1011 KHUA 051558Z AUTO 04006KT 10SM OVC005 09/09 A3001 RMK AO2 SLP164 T00930088 KJAS 051615Z AUTO 06006KT 10SM 11/10 A2985 RMK AO2 T01080103 KJCA 051615Z AUTO 00000KT 10SM SCT007 SCT020 10/08 A3001 RMK AO2 UUDD 051600Z 24010MPS 2100 -SN BLSN OVC013 M03/M04 Q0994 R32L/490393 TEMPO 0700 +SHSN BLSN BKN008CB KIKK 051615Z AUTO 19008KT 10SM OVC005 00/M01 A3008 RMK AO2 T00021007 KHST 051558Z AUTO 13013KT 10SM BKN020 BKN028 BKN038 27/23 A3003 RMK AO2 DZB47E53 SLP172 P0000 T02740232 UUBW 051600Z 24006G11MPS 2700 -SN BLSN OVC020 M03/M04 Q0995 R30/451035 TEMPO 0600 +SHSN BKN003 BKN010CB WBKW 051600Z 05002KT 9999 -RA FEW017 BKN150 25/25 Q1011 KHTL 051553Z AUTO 26011KT 10SM BKN034 02/M01 A2991 RMK AO2 SLP143 T00221011 KJAU 051615Z AUTO VRB05KT 10SM OVC025 09/07 A3009 RMK A01 KHSV 051553Z 02007KT 6SM -RA BR OVC005 10/09 A3001 RMK AO2 RAB51 SLP162 P0000 T01000089 KILE 051611Z AUTO 33006KT 6SM -RA BR OVC008 08/08 A2990 RMK AO2 P0002 KHUF 051453Z 20004KT 10SM OVC012 02/M01 A3010 RMK AO2 SLP198 T00171011 51008 KJAX 051556Z 19015G19KT 10SM SCT019 BKN130 BKN200 26/21 A2997 RMK AO2 SLP150 T02560211 $ KIJX 051615Z AUTO 17011G16KT 10SM OVC007 02/01 A3005 RMK AO2 T00240010 KHTO 051615Z AUTO 26008KT 1 1/2SM -DZ OVC006 07/06 A2996 RMK AO2 P0001 T00660058 KILG 051551Z 33006KT 10SM BKN010 OVC015 07/06 A3003 RMK AO2 CIG 009V014 SLP168 T00720056 KL35 051615Z AUTO 23009G15KT 10SM CLR 07/M09 A3003 RMK AO2 KJBR 051617Z AUTO 09008KT 10SM OVC014 06/04 A3004 RMK AO2 T00610039 UUDL 051600Z 20007MPS 8000 -SN BLSN OVC016 M03/M06 Q0985 R23/493093 NOSIG RMK QFE731 KHTS 051551Z 04003KT 10SM OVC028 08/03 A3011 RMK AO2 SLP198 T00830028 KL38 051615Z AUTO 4SM +TSRA OVC002 14/14 A2984 RMK AO2 LTG DSNT E THRU SW P0007 T01350135 KIKT 051615Z AUTO 16011G19KT 2SM BR BKN005 OVC055 26/24 A2984 RMK A01 UUEE 051600Z 22009MPS 1500 1400NE R24R/P2000D SN BLSN OVC008 M03/M04 Q0992 R24R/490530 NOSIG KHUL 051453Z AUTO 00000KT 10SM CLR M11/M12 A3004 RMK AO2 SLP182 I1000 I3000 T11061117 58017 KILM 051617Z AUTO 35004KT 10SM SCT007 11/10 A3000 RMK AO2 T01110100 KIKV 051615Z AUTO 17011KT 10SM CLR 03/ A2985 RMK AO2 KHUM 051550Z 35004KT 3SM -RA OVC003 16/16 A2982 RMK TSRAE1550 RAB1551 KJDD 051615Z AUTO 07005KT 10SM OVC011 09/07 A2990 RMK AO2 KIKW 051613Z AUTO 23007KT 10SM SCT016 SCT021 04/00 A2995 RMK AO2 T00350000 KILN 051554Z AUTO 00000KT 10SM OVC017 03/M01 A3012 RMK AO2 SLP219 T00281006 KHVE 051615Z AUTO 00000KT 10SM CLR M03/M08 A2991 RMK AO2 FCPP 051600Z 20008KT 9999 FEW013 FEW030CB 28/24 Q1010 NOSIG KHUT 051552Z 16014KT 10SM CLR 06/02 A2976 RMK AO2 SLP079 T00560022 KJCT 051615Z AUTO 11004KT 10SM OVC007 08/07 A2991 RMK AO2 CIG 004V011 T00780067 UTNN 051600Z 35009KT 9999 OVC008 03/01 Q1025 R33/CLRD60 NOSIG KIML 051453Z AUTO 27003KT 10SM OVC110 01/M08 A2958 RMK AO2 SLP033 T00061078 53001 EKYT 051620Z 29011KT 9999 FEW015 07/05 Q1020 KHWD 051554Z AUTO 10SM OVC016 12/08 A3010 RMK AO2 SLP203 T01170083 KIND 051554Z 16008KT 10SM OVC014 02/M01 A3011 RMK AO2 SLP203 T00221011 KJDN 051548Z AUTO 32019G26KT M07/M09 A2983 RMK AO1 PK WND 33026/1548 PRESRR SLP137 T10671089 KHVN 051606Z 00000KT 3SM BR SCT013 BKN042 BKN070 04/03 A2996 RMK AO2 T00390033 KJEF 051602Z 13007KT 5SM BR BKN003 00/00 A3001 RMK AO2 T00000000 KINF 051615Z AUTO 18013KT 10SM SCT018 27/22 A3000 RMK AO2 ZYTL 051600Z 25001MPS CAVOK M03/M11 Q1030 NOSIG KHVR 051605Z AUTO 31014KT 10SM FEW016 SCT025 M13/M17 A3003 RMK AO2 T11331172 UTNU 051600Z 32005KT 1500 R31/P2000 BR FU NSC 02/M01 Q1022 R31/CLRD70 TEMPO 1200 BR FU KHVS 051555Z AUTO 02004KT 10SM CLR 11/07 A3003 RMK AO2 KIMS 051611Z AUTO 11005KT 10SM SCT018 05/00 A3015 RMK AO1 KINJ 051615Z AUTO 02004KT 10SM OVC010 09/08 A2990 RMK AO2 T00920075 KINK 051553Z AUTO 18005KT 9SM CLR 05/04 A2987 RMK AO2 SLP110 T00500044 TSNO KIMT 051602Z AUTO 28007KT 10SM SCT024 02/M03 A2983 RMK AO2 T00171033 KIOB 051615Z AUTO 11005KT 10SM OVC019 06/01 A3013 RMK AO2 KINL 051555Z AUTO 22005KT 8SM OVC020 M02/M03 A2976 RMK AO2 SLP096 T10171033 KHXD 051450Z 35008KT 2SM BR OVC003 14/13 A3002 KHWO 051553Z 15012KT 10SM FEW026 BKN039 28/22 A3004 RMK AO2 SLP174 T02780217 OYAR 051500Z 06006KT CAVOK 18/04 Q//// KJER 051553Z AUTO 24010KT 10SM CLR M07/M09 A3009 RMK AO2 SLP219 T10721094 TSNO OYAT 051300Z 36016KT CAVOK 27/06 Q//// KHYA 051556Z 15006KT 10SM -RA OVC023 05/01 A2999 RMK AO2 RAB31 SLP156 P0000 T00500011 KINS 051558Z AUTO 31003KT 10SM CLR 01/M09 A2994 RMK AO2 SLP140 T00061087 $ KJES 051615Z AUTO 00000KT 7SM OVC007 20/20 A2999 RMK AO2 KJFK 051551Z 25011KT 10SM BKN015 BKN032 07/04 A2999 RMK AO2 SLP155 CIG 013V017 T00720044 $ KINT 051554Z 31004KT 10SM CLR 11/06 A3005 RMK AO2 SLP176 T01060061 ZYTX 051600Z 16002MPS 7000 NSC M10/M14 Q1028 NOSIG KHWV 051556Z AUTO 27009KT 10SM OVC011 07/05 A2999 RMK AO2 SLP154 T00670050 TSNO $ ENAL 051620Z 36007KT 300V030 9999 FEW028 SCT048 04/01 Q1023 KINW 051456Z AUTO 00000KT 10SM CLR M03/M08 A2994 RMK AO2 SLP162 T10281078 53005 ENAN 051620Z 02011KT 9999 FEW034 BKN049 02/M04 Q1012 KHWY 051615Z AUTO 00000KT 10SM OVC004 08/04 A3003 RMK AO2 T00770038 KJGG 051615Z AUTO 32007KT 10SM SCT012 10/09 A3003 RMK AO1 KHYI 051545Z 33009KT 1 1/2SM BR BKN006 OVC016 09/09 A2991 FDJR 051500Z AUTO 14009KT //// // ////// 21/13 Q1022 KIPJ 051620Z AUTO 00000KT 10SM SCT005 10/07 A3004 RMK AO2 T00950065 KIPL 051553Z AUTO 00000KT 10SM CLR 08/M04 A2990 RMK AO2 SLP122 T00831039 ENAT 051550Z 20007KT CAVOK M13/M16 Q1013 RMK WIND 700FT 17008KT KHZD 051615Z AUTO 08007KT 10SM OVC012 05/03 A3005 RMK A01 ENBL 051620Z 33008KT 9999 FEW025 03/01 Q1021 KIOW 051610Z AUTO 17009KT 1 1/4SM BR OVC002 00/00 A2997 RMK AO2 T00000000 KHZE 051615Z AUTO 27010KT 10SM OVC015 00/M01 A2960 RMK AO2 ENBN 051620Z 36010KT 330V030 9999 FEW020 SCT038 03/M01 Q1016 KJFX 051555Z AUTO 00000KT 4SM BR SCT006 11/11 A2999 RMK AO2 LTG DSNT SW PWINO ENBO 051620Z 01010KT 340V040 9999 VCSH FEW010 SCT015CB 01/M00 Q1014 TEMPO 32020G30KT 2000 SHSNRAGS VV008 UTSA 051600Z 12006KT 8000 NSC 08/02 Q1021 R25/CLRD70 NOSIG KJFZ 051615Z AUTO 00000KT 10SM OVC018 07/04 A3006 RMK AO2 T00650041 UTSB 051600Z 33001KT 6000 NSC 09/01 Q1021 R01/CLRD70 NOSIG WBSB 051600Z 20004KT 9999 FEW015 BKN300 26/25 Q1011 NOSIG KHYR 051553Z AUTO 15006KT 5SM BR OVC004 M01/M02 A2982 RMK AO2 SLP112 T10111022 ENBR 051620Z 01004KT 330V060 9999 FEW004 SCT012 05/04 Q1022 NOSIG RMK WIND 1200FT 34015KT KHYS 051456Z AUTO 19016KT 10SM CLR 03/M02 A2966 RMK AO2 SLP055 T00331022 56008 ENBS 051550Z 27003KT 0500 +SN VV004 M07/M08 Q1008 KIPT 051606Z 00000KT 10SM SCT009 OVC041 06/03 A2997 RMK AO2 T00610033 $ KHZL 051615Z AUTO 29009G15KT 10SM BKN009 OVC014 04/03 A2997 RMK AO2 ENBV 051550Z 23013KT 9999 FEW006 SCT025 M05/M06 Q1010 RESHSN KHYW 051615Z AUTO 00000KT 7SM BKN004 11/10 A3001 RMK AO2 KJHN 051615Z AUTO 25005KT 10SM CLR 07/M06 A2958 RMK AO2 T00671057 ENCN 051620Z 27004KT 220V330 CAVOK 07/01 Q1020 KHYX 051616Z AUTO 21009KT 10SM CLR 02/00 A2998 RMK AO2 UTSK 051600Z 11002KT 070V190 CAVOK 11/06 Q1021 R16/CLRD70 KHZR 051615Z AUTO 10003KT 7SM RA SCT005 SCT014 OVC100 11/11 A2987 RMK AO2 LTG DSNT SE P0005 T01110109 KM08 051625Z AUTO 05006KT 10SM OVC006 06/05 A3002 RMK A01 KIRK 051455Z AUTO 17005KT M1/4SM FG VV002 01/00 A2996 RMK AO2 SLP158 I1002 I3009 T00060000 51008 KJHW 051615Z AUTO 25013G18KT 10SM BKN019 OVC029 02/M02 A2997 RMK AO1 KHZX 051613Z AUTO 10004KT 7SM OVC003 M01/M02 A2976 RMK AO2 KHZY 051553Z AUTO 28007KT 10SM FEW020 FEW025 OVC036 04/01 A3005 RMK AO2 SLP183 T00440006 UTSS 051600Z 09002KT 6000 NSC 07/05 Q1022 R88/CLRD70 NOSIG UTST 051600Z 10003KT 7000 NSC 15/07 Q1021 R88/CLRD70 NOSIG VLLB 051300Z 04002KT 5000 BR SCT017 21/17 Q1016 NOSIG ENDR 051620Z AUTO 34016KT 05/M03 Q1020 KIRS 051614Z AUTO 20009KT 7SM OVC010 01/M01 A3006 RMK AO2 T00071012 KJKA 051615Z AUTO 08008G16KT 10SM OVC005 20/20 A2989 RMK AO2 LTG DSNT S T01970197 FDMS 051500Z 14008KT 9999 BKN035 24/14 Q1020 NOSIG KM19 051614Z AUTO 09007KT 10SM BKN013 06/04 A3005 RMK AO2 OYGD 050900Z 09008KT CAVOK 30/13 Q1014 ENEK 051620Z 31006KT 270V350 9999 BKN025 06/00 Q1027 W09/S3 ENFB 051620Z AUTO 04009KT 9999NDV BKN023/// 08/03 Q1024 W///S4 KM21 051615Z AUTO 05008KT 10SM OVC014 04/01 A3009 RMK AO2 T00350011 ENDU 051620Z 28010KT 9999 FEW035 SCT050 M02/M06 Q1010 NOSIG RMK WIND 1100FT 34017KT WIND 2200FT 32023KT KISM 051556Z 18012G17KT 10SM BKN015 27/22 A3002 RMK AO2 SLP167 T02670217 FDMV 051500Z AUTO 00000KT //// // ////// M51/M63 Q//// KISN 051550Z AUTO 32023G30KT 3SM BLSN CLR M05/M08 A2961 RMK AO2 PK WND 31033/1519 UPB28E29 SLP058 P0000 T10501083 KISO 051556Z 34005KT 10SM SCT009 11/09 A3003 RMK AO2 FEFF 051600Z 18006KT 9999 FEW016 26/24 Q1009 NOSIG KM25 051635Z AUTO 08007KT 10SM OVC013 05/02 A3007 RMK AO2 KISP 051556Z 27009KT 10SM FEW008 BKN014 OVC033 07/05 A2998 RMK AO2 SLP151 T00670050 LBBG 051600Z 10005KT CAVOK 02/M03 Q1035 NOSIG ENFG 051050Z 30011KT 9999 FEW025 SCT050 03/M03 Q1013 KISQ 051614Z AUTO 25005KT 10SM CLR 03/01 A2985 RMK AO2 T00280009 KITH 051556Z 27016G22KT 10SM OVC024 03/00 A2991 RMK AO2 SNE49 SLP137 P0000 T00330000 UTTT 051600Z 13003KT 4000 BR NSC 09/06 Q1022 R08R/CLRD70 NOSIG KJKJ 051614Z AUTO 08007KT 10SM CLR M01/M03 A2963 RMK AO2 KM30 051615Z AUTO 12006KT 10SM OVC016 05/02 A3009 RMK AO2 T00530023 OYHD 051000Z 17008KT CAVOK 30/24 Q//// VLLN 051200Z 00000KT 5000 BR FEW050 20/20 Q1018 NOSIG KJKL 051453Z AUTO 00000KT 10SM OVC018 07/03 A3009 RMK AO2 SLP191 T00670028 53008 ENFL 051620Z 36010KT 9999 FEW020 06/00 Q1023 ENGC 051620Z 04010KT 9999 FEW020 BKN080 07/02 Q1024 W07/S4 KM33 051450Z AUTO 04007KT 10SM OVC013 06/04 A3010 RMK A01 ENEV 051620Z 34006KT 300V010 9999 -SHRASN SCT040 BKN049 01/M02 Q1011 RMK WIND 1400FT 34016KT KISW 051554Z AUTO 20006KT 9SM OVC006 01/M01 A2990 RMK AO2 SLP138 T00061006 OYHJ 051300Z 28004KT 9999 FEW020 20/14 Q//// KITR 051453Z AUTO 24006KT 10SM CLR 01/M08 A2958 RMK AO2 SLP026 T00061083 56008 OYIB 051300Z 16007KT 9999 SCT030 22/06 Q1021 FEFT 051000Z 32016KT 9999 BKN020 25/22 Q1010 UUMO 051600Z 25009MPS 1800 R26/P2000 SN BLSN OVC009 M03/M04 Q0994 R26/551042 TEMPO 24015MPS 0800 +SHSN BLSN BKN007 BKN010CB RMK QFE731/0974 KJLN 051553Z 15012KT 10SM CLR 06/03 A2993 RMK AO2 SLP139 T00610033 ENGM 051620Z VRB01KT CAVOK M00/M03 Q1018 NOSIG ENHD 051620Z 29018KT 4000 -RADZ BKN003 08/07 Q1022 ENHE 051620Z 36025KT 9999 -SHRA FEW029 BKN038 02/M01 Q1020 W///S5 ENHF 051620Z 27004KT 170V340 CAVOK M08/M12 Q1011 RMK WIND 1254FT 20009KT FDPP 051200Z AUTO 17006KT //// // ////// 20/16 Q1025 UUOB 051600Z 23008MPS 9999 DRSN NSC M09/M12 Q1018 R29/850345 NOSIG KIWA 051547Z 09004KT 45SM SCT250 07/M03 A2994 ENHK 051520Z 09009KT 9999 SCT026 M04/M08 Q1010 KIWD 051613Z AUTO 22006KT 10SM SCT016 01/M02 A2982 RMK AO2 FZRANO